ENHM 300720Z 35029KT 9999 FEW018 BKN030 11/08 Q1007 W13/S5 UUOK 300600Z 14003MPS CAVOK 19/17 Q1012 R12/290050 NOSIG RMK QFE741/0988 KIWI 300757Z AUTO 00000KT 1 1/2SM BR OVC001 18/18 A2987 RMK AO2 T01830178 KJMR 300757Z AUTO 28006KT 10SM CLR 18/13 A2999 RMK AO2 KIXA 300755Z AUTO 00000KT 10SM CLR 21/21 A2996 RMK AO2 PPIT 300756Z AUTO 28003KT 10SM CLR 13/11 A2998 RMK AO2 SLP152 T01330111 KJMS 300756Z AUTO 28007KT 10SM CLR 16/12 A3004 RMK AO2 SLP169 T01610117 UUOO 300730Z 25003MPS 200V280 CAVOK 25/12 Q1013 R30/090070 NOSIG RMK QFE746 KIXD 300753Z AUTO 00000KT 10SM CLR 21/19 A3019 RMK AO2 SLP211 T02060189 ENHV 300650Z VRB10KT 9999 FEW012 11/07 Q1006 KM63 300752Z AUTO 02016KT 9SM FEW080 SCT130 BKN150 22/18 A3018 RMK AO2 LTG DSNT SE-S SHRAB01E22SHRAB32E52 PPIZ 300756Z AUTO 07008KT 10SM CLR 07/04 A3007 RMK AO2 TSNO T00660038 SLP187 $ KIYA 300735Z AUTO 00000KT 10SM CLR 25/24 A3000 RMK AO2 T02500240 ENKB 300750Z 34007KT 9999 -SHRA SCT008 BKN011 10/09 Q1005 REDZ FDSK 300800Z VRB02KT CAVOK 24/07 Q1014 NOSIG KJNX 300755Z AUTO 00000KT 10SM CLR 22/22 A2996 RMK AO2 KIZA 300735Z AUTO 00000KT 10SM CLR 16/13 A2999 RMK AO2 ENLA 300750Z AUTO 32034KT 9999NDV BKN021/// 12/09 Q1007 W///S5 KJOT 300755Z AUTO 27003KT 10SM CLR 19/16 A3004 RMK AO2 T01910157 KJQF 300755Z AUTO 00000KT 10SM SCT060 SCT080 24/22 A3001 RMK AO2 LBGO 300730Z AUTO 09004KT 050V120 9999 NCD 32/17 Q1007 NOSIG KIZG 300757Z AUTO 00000KT 3SM BR SCT002 BKN075 19/19 A2988 RMK AO2 T01890189 ENKR 300750Z 03010KT CAVOK 16/09 Q1004 RMK WIND 731FT 05016KT ENLK 300750Z 30015KT 9999 6000W FEW002 SCT004 BKN012 12/11 Q0998 KM91 300755Z AUTO 00000KT 9SM BKN016 24/24 A3003 RMK KN03 300755Z AUTO 00000KT 7SM SCT049 SCT055 20/19 A2990 RMK AO2 ENMH 300720Z 09013KT 9999 FEW012 12/08 Q1007 KLAA 300753Z AUTO 09005KT 8SM CLR 19/17 A3026 RMK AO2 SLP199 T01940172 TSNO ENNA 300750Z 01016KT CAVOK 18/11 Q1002 RMK WIND 1800FT 06019KT ENML 300750Z VRB01KT 9999 VCSH FEW010 SCT013 BKN023 11/09 Q1005 ENNE 300720Z 32020KT 9999 BKN016 09/06 Q1004 W///S4 KLAF 300754Z AUTO 25003KT 10SM CLR 17/16 A3004 RMK AO2 SLP167 T01670156 ENOA 300750Z 35033KT 9999 BKN015 11/08 Q1006 W///S5 ENMS 300720Z VRB02KT 8000 -RA SCT017 BKN020 11/09 Q0999 RMK WIND 412FT VRB04KT KLBB 300753Z 09004KT 10SM FEW130 FEW220 22/18 A3017 RMK AO2 SLP159 T02220178 ENNK 300750Z 36002KT 9999 -RA FEW006 SCT012 BKN020 14/13 Q0997 KLAL 300755Z AUTO 00000KT 7SM CLR 23/23 A2998 RMK AO2 KLAM 300735Z AUTO 25004KT 10SM -RA SCT060 OVC070 14/14 A3051 RMK AO2 P0004 T01420142 KLBE 300150Z 21008KT 10SM BKN050 27/23 A2996 RMK LAST KLAN 300753Z 26007KT 10SM CLR 19/14 A2994 RMK AO2 SLP133 T01890139 ENNM 300750Z 27006KT 210V340 9999 VCSH FEW008 BKN012 11/09 Q1002 KLBF 300753Z AUTO 00000KT 10SM CLR 14/12 A3025 RMK AO2 SLP224 T01390117 KJSO 300755Z AUTO 22003KT 10SM CLR 28/17 A3007 RMK AO2 T02910180 ENNO 300750Z 27004KT 9999 FEW050TCU SCT110 15/13 Q1000 LATI 300750Z 00000KT CAVOK 34/17 Q1008 NOSIG KLAR 300753Z AUTO 19003KT 10SM CLR 08/03 A3043 RMK AO2 SLP208 T00830028 VMMC 300730Z 16010KT 9999 FEW015 SCT030 29/25 Q1010 NOSIG KLAS 300756Z 20007KT 10SM FEW140 OVC170 33/11 A2994 RMK AO2 SLP105 T03280106 404000267 KJST 300754Z AUTO 22006KT 8SM CLR 22/19 A2997 RMK AO2 SLP131 T02170194 KLBL 300755Z AUTO 07006KT 10SM FEW006 21/18 A3023 RMK AO1 LTG DSNT SE ENOL 300750Z 33010KT 9999 -DZ SCT006 BKN015 12/11 Q1003 TEMPO BKN006 KJSV 300755Z AUTO 06005KT 10SM CLR 27/23 A3008 RMK AO2 KLAW 300753Z AUTO 11003KT 10SM SCT090 27/19 A3007 RMK AO2 SLP167 T02670189 TSNO KLAX 300753Z VRB04KT 10SM FEW012 SCT160 SCT200 20/17 A2999 RMK AO2 SLP153 T02000172 402330183 $ KLCG 300735Z AUTO 19003KT 10SM CLR 16/15 A3017 RMK AO2 T01580146 KLCH 300753Z AUTO 28003KT 10SM CLR 28/24 A2999 RMK AO2 SLP162 T02780244 KLCI 300755Z AUTO 00000KT 10SM FEW080 21/19 A2987 RMK AO1 KN38 300755Z AUTO 00000KT 5SM BR CLR 21/20 A2995 RMK AO2 ENQA 300750Z AUTO 36035KT 9999NDV FEW024/// OVC026/// 12/08 Q1005 W11/S5 KLBT 300754Z AUTO 00000KT 10SM CLR 23/21 A2995 RMK AO2 SLP140 T02330206 KLCK 300755Z AUTO 35005KT 10SM SCT047 SCT055 OVC065 22/18 A2997 RMK AO2 T02240181 ENQC 300750Z AUTO 35029KT 9999NDV BKN020/// BKN042/// 12/08 Q1005 W///S5 ENOV 300650Z VRB03KT 9999 -RA FEW010 SCT047 10/10 Q1005 RMK WIND 2175FT 01010KT KLBX 300753Z AUTO 00000KT 5SM BR CLR 26/25 A3002 RMK AO2 SLP164 T02560250 KLCQ 300735Z AUTO 23004KT 10SM SCT002 22/22 A2995 RMK AO2 VLVT 300730Z 09002KT 9999 SCT020 BKN040 30/24 Q1009 NOSIG KKLS 292215Z 02007KT 10SM CLR 34/10 A3009 RMK AO1 KLDJ 300755Z AUTO 00000KT 10SM SCT100 28/24 A2994 RMK AO2 T02750238 ENRA 300750Z 31002KT 9999 -SHRA FEW010 SCT020 BKN035 11/09 Q0998 KLEB 300753Z AUTO 00000KT 6SM BR CLR 18/16 A2988 RMK AO2 SLP107 T01780161 KJVL 300755Z AUTO 28005KT 10SM CLR 18/13 A3001 RMK AO2 KLDM 300755Z AUTO 26008KT 10SM CLR 22/16 A2990 RMK AO2 T02230161 KLEE 300753Z AUTO 00000KT 9SM CLR 24/23 A2998 RMK AO2 SLP149 T02390228 KJWG 300755Z AUTO 36003KT 10SM SCT065 24/22 A3015 RMK AO2 T02350220 ENQR 300750Z AUTO 35026KT 9999NDV FEW033/// 10/06 Q1008 W///S4 KN60 300752Z AUTO 27007KT 14/11 A3008 RMK AO1 SLP179 T01440111 UUWW 300730Z 21004MPS 170V240 CAVOK 21/13 Q1009 R19/000070 R24/000070 NOSIG ENSB 300750Z 26007KT CAVOK 13/07 Q1019 NOSIG RMK WIND 1400FT 11009KT ENSD 300750Z 29008KT 9999 -RA FEW007 SCT023 BKN028 12/10 Q1004 RMK WIND 1138FT 29009KT UWGG 300730Z 28002MPS 200V360 9999 BKN020 23/16 Q1008 R18R/090070 NOSIG RMK QFE749 ENRM 300720Z 33008KT 5000 -RADZ FEW005 SCT009 BKN015 10/09 Q1002 KJVW 300755Z AUTO 00000KT 5SM HZ CLR 24/22 A3000 RMK AO2 LCEN 300720Z 10004KT CAVOK 32/20 Q1006 NOSIG ENSE 300750Z AUTO 36022KT 9999NDV FEW021/// SCT040/// 11/06 Q1008 W///S5 ENRO 300750Z 33014KT 9999 BKN015 09/06 Q1002 ENSF 300750Z AUTO 34025KT 9999NDV FEW020/// BKN022/// 10/07 Q1008 W///S4 ENSG 300750Z 24005KT 9999 FEW010 SCT030 14/10 Q1002 RMK WIND 3901FT 35004KT ENSH 300750Z 36011KT 9999 -SHRA FEW009 SCT017 BKN035 12/11 Q0997 KJXI 300755Z AUTO 00000KT 10SM CLR 25/22 A3003 RMK AO2 T02450216 KLFI 300758Z AUTO 20004KT 10SM CLR 24/21 A2996 RMK AO2 SLP152 T02440214 TSNO KLGA 300751Z 22007KT 10SM FEW023 SCT100 SCT250 27/22 A2991 RMK AO2 SLP128 T02670217 $ ENRS 300720Z 32022KT 9999 -SHRA OVC003 09/09 Q1000 KLFK 300753Z AUTO 00000KT 10SM CLR 25/22 A3002 RMK AO2 SLP161 T02500222 KLGB 300753Z 32006KT 10SM CLR 22/18 A2998 RMK AO2 SLP151 T02170178 402890206 ENSK 300750Z VRB03KT 8000 SHRA SCT004 BKN006 12/12 Q0998 KLGC 300735Z AUTO 14003KT 7SM CLR 25/25 A2996 RMK AO2 T02520252 ENTC 300750Z 20007KT 9999 FEW008 SCT035 BKN110 14/12 Q0998 TEMPO RA RMK WIND 2600FT 09012KT ENSL 300750Z 33035KT 9999 SCT040 12/07 Q1009 W11/S5 KLGD 300755Z AUTO 26004KT 10SM CLR 16/01 A3018 RMK AO1 LBPD 300730Z AUTO 32006KT 280V020 9999 NCD 29/18 Q1010 NOSIG KLEW 300755Z 00000KT 1SM BKN120 19/18 A2986 RMK AO1 KJXN 300756Z 26005KT 10SM CLR 18/13 A2996 RMK AO2 SLP137 T01780133 ENSN 300750Z 26004KT CAVOK 16/13 Q1000 KLEX 300754Z 33009KT 10SM OVC039 23/22 A3001 RMK AO2 SLP153 T02330217 ENSO 300750Z 31014KT 9999 FEW002 BKN005 12/12 Q1003 KJYG 300755Z AUTO 23005KT 10SM CLR 17/14 A3009 RMK AO2 KJWY 300755Z AUTO 00000KT 10SM CLR 25/20 A3006 RMK AO2 T02450196 ENRY 300750Z 36006KT CAVOK 16/13 Q0999 NOSIG ENSR 300750Z VRB02KT 9999 BKN030 16/15 Q0999 WIND 1119FT 07005KT ENSS 300650Z 08008KT CAVOK 11/08 Q1008 RMK WIND 500FT 06021KT KLFT 300753Z 00000KT 10SM CLR 27/23 A3000 RMK AO2 SLP158 T02720228 KLHB 300755Z AUTO 00000KT 10SM CLR 25/22 A3005 RMK AO2 T02450216 ENST 300750Z VRB04KT 9999 -RADZ FEW005 SCT008 BKN012 11/10 Q1000 RMK WIND 300FT 31010KT KJYL 300735Z AUTO 00000KT 10SM CLR 25/24 A2997 RMK AO2 T02530242 KJYM 300755Z AUTO 29007KT 10SM CLR 19/14 A2998 RMK AO2 T01920138 UUYY 300730Z 20003MPS 9999 BKN014CB 19/17 Q1000 R19/29//51 NOSIG RMK QFE741/0988 KJYO 300735Z AUTO 20010KT 10SM CLR 25/24 A2993 RMK AO2 ENTO 300750Z 35010KT CAVOK 18/13 Q0999 KJZI 300755Z AUTO 31005KT 8SM CLR 25/25 A2993 RMK AO2 KJYR 300735Z AUTO 25006KT 10SM CLR 14/13 A3020 RMK AO2 EPDA 300730Z 22014G27KT 190V260 8000 -RA OVC011 13/12 Q1002 RMK 134 089 8/8 = ENVA 300750Z 29012KT 9999 -DZ FEW008 BKN018 13/10 Q1003 TEMPO BKN012 RMK WIND 670FT 28014KT FGBT 300600Z 15006KT 4000 DZ SCT010 OVC100 23/23 Q1015 TEMPO 6000 KLGU 300751Z AUTO 00000KT 10SM CLR 12/03 A3029 RMK AO2 SLP218 T01220033 TSNO KLIC 300755Z AUTO 13004KT 10SM CLR 14/12 A3036 RMK AO2 SLP214 T01390122 KLHM 300755Z AUTO 14003KT 10SM CLR 23/08 A2986 RMK AO1 ENVD 300750Z 06026G36KT 9999 FEW008 12/08 Q1005 KJZP 300735Z AUTO 00000KT 10SM CLR 24/16 A3003 RMK AO2 T02420161 EPBY 300730Z 23015G25KT 200V260 9999 BKN035 16/09 Q1006 KLHQ 300753Z AUTO 33006KT 10SM BKN045 OVC060 23/20 A2997 RMK AO2 SLP138 T02330200 ENVH 300750Z AUTO 31030KT 9999NDV BKN024/// 12/08 Q1008 W///S5 UWKD 300730Z 30006MPS 9999 SCT025 22/16 Q1008 R29/CLRD70 NOSIG RMK QFE745/0993 UWKE 300730Z 19004MPS 9999 -SHRA FEW033CB 21/17 Q1008 R21/210355 NOSIG RMK QFE739/0985 KMAE 300753Z AUTO 32006KT 10SM CLR 25/12 A2988 RMK AO2 SLP115 T02500117 404110178 KLHW 300658Z AUTO 03001KT 10SM CLR 25/23 A2993 RMK AO2 SLP138 T02450225 $ KLHX 300753Z AUTO 11005KT 10SM CLR 22/18 A3028 RMK AO2 SLP190 T02220178 KMAF 300753Z 16006KT 10SM FEW100 27/16 A3013 RMK AO2 SLP149 T02720156 KLJF 300753Z AUTO 25003KT 10SM CLR 18/13 A3004 RMK AO2 LBSF 300730Z VRB03KT CAVOK 30/17 Q1011 NOSIG DXNG 300600Z 21003KT 9999 FEW005 21/19 Q1017 NOSIG KLHZ 300755Z AUTO 00000KT 10SM CLR 21/21 A3000 RMK AO2 KMAI 300753Z AUTO 00000KT 10SM CLR 25/25 A2993 RMK AO2 SLP132 T02500250 VOCB 300730Z 20007KT 6000 FEW015 32/20 Q1012 NOSIG ENVR 300620Z 33010KT 240V010 9999 N5000 -RA OVC003 11/100 Q0999 VOBL 300730Z 28013KT 9999 SCT012 SCT018 31/20 Q1014 NOSIG KLIT 300753Z 06003KT 10SM FEW060 28/24 A3004 RMK AO2 SLP172 T02830239 KO22 300715Z AUTO 00000KT 10SM CLR 23/06 A2998 RMK AO1 KMAN 300715Z AUTO 10003KT 10SM 15/07 A3015 RMK AO1 KMAO 300755Z AUTO 00000KT 10SM CLR 22/21 A2996 RMK AO2 VOCI 300730Z 28010KT 7000 SCT015 31/24 Q1011 NOSIG KMBG 300752Z AUTO 00000KT 10SM CLR 13/13 A3011 RMK AO2 SLP189 T01330128 UWKS 300730Z 26004MPS 9999 BKN020CB 24/17 Q1008 R24/010060 NOSIG RMK QFE742 VNKT 300650Z 11007KT 9999 FEW020 FEW025TCU 29/20 Q1008 NOSIG VOCL 300730Z 30007KT 8000 SCT015 31/24 Q1011 NOSIG KMCB 300753Z AUTO 32004KT 8SM CLR 24/24 A3001 RMK AO2 SLP156 T02440239 KMBL 300755Z AUTO 26010G18KT 10SM CLR 22/14 A2988 RMK AO1 KMCC 300755Z AUTO 15007KT 10SM CLR 23/12 A2989 RMK AO2 KMCD 300754Z AUTO 24011G17KT 10SM SCT065 SCT110 21/17 A2976 RMK AO2 T02100166 EPGD 300730Z 23008KT 160V270 9999 BKN011 13/11 Q1003 KMCE 300753Z AUTO 29004KT 10SM CLR 26/13 A2987 RMK AO2 RAE09 SLP112 P0000 T02560128 404000178 KMBO 300755Z AUTO 00000KT 10SM CLR 24/21 A3001 RMK AO2 KMCF 300758Z AUTO 05001KT 10SM CLR 24/24 A2997 RMK AO2 SLP152 T02410241 KMCI 300753Z 00000KT 10SM FEW200 22/17 A3017 RMK AO2 SLP208 T02170172 KLKR 300755Z AUTO 00000KT 10SM CLR 25/24 A2997 RMK AO2 KMBS 300753Z 23007KT 10SM CLR 19/14 A2990 RMK AO2 SLP121 T01890139 KMCJ 300755Z AUTO 25007KT 9SM OVC001 28/24 A2999 RMK AO1 KLLJ 300755Z AUTO 00000KT 10SM CLR 14/05 A3033 RMK AO2 SLP213 T01390050 KMCK 300753Z AUTO 00000KT 10SM CLR 15/12 A3025 RMK AO2 SLP225 T01500117 LCLK 300730Z 21011KT 7000 FEW010 30/23 Q1005 NOSIG UWLW 300700Z 31003MPS 8000 SCT033CB BKN100 23/16 Q1008 R20/120055 NOSIG RMK QFE751 KLKU 300735Z AUTO 17003KT 10SM CLR 24/23 A2994 RMK AO2 KLKV 300755Z AUTO 00000KT 10SM CLR 16/M01 A3024 RMK AO1 KMDD 300735Z AUTO 00000KT 10SM SCT100 27/19 A3014 RMK AO2 T02710189 KMCN 300753Z AUTO 00000KT 9SM SCT065 25/24 A2995 RMK AO2 SLP137 T02500239 TSNO KMCO 300753Z 23003KT 8SM FEW005 BKN250 24/24 A2997 RMK SLP148 T02390239 KMDH 300752Z AUTO 00000KT 10SM CLR 21/18 A3009 RMK AO2 SLP185 T02060183 KLLQ 300753Z AUTO 00000KT 8SM CLR 27/26 A3001 RMK AO2 SLP159 T02670261 KMDJ 291455Z AUTO 36012KT 10SM CLR 31/24 A3008 RMK A01 KMEB 300752Z AUTO 00000KT 10SM CLR 23/21 A2996 RMK AO2 SLP143 T02280206 KLNC 300755Z AUTO 00000KT 10SM CLR 25/18 A3005 RMK AO2 T02490184 KLND 300753Z AUTO 25011KT 10SM CLR 16/M02 A3033 RMK AO2 SLP207 T01611022 KMCW 300753Z AUTO 26008KT 10SM CLR 17/15 A3011 RMK AO2 SLP184 T01720150 KLMO 300755Z AUTO 33003KT 10SM CLR 19/12 A3030 RMK AO2 T01870115 KMCX 300755Z AUTO 28004KT 10SM CLR 18/16 A3003 RMK AO2 T01770162 KO54 300735Z AUTO 02003KT 10SM CLR 17/02 A3004 RMK AO1 KMDQ 300755Z AUTO 00000KT 4SM BR CLR 23/21 A3001 RMK AO2 KMEH 300756Z AUTO 00000KT 10SM CLR 09/04 A3024 RMK AO2 SLP219 T00890039 402940022 KMEI 300658Z AUTO 21003KT 10SM CLR 24/22 A3001 RMK AO2 SLP156 T02390222 KMDS 300750Z AUTO 25005KT 10SM CLR 15/13 A3013 RMK AO2 KLMT 300753Z AUTO 00000KT 10SM CLR 13/07 A3019 RMK AO2 SLP182 T01330072 403280100 KLNK 300754Z AUTO 00000KT 10SM CLR 16/14 A3019 RMK AO2 SLP216 T01610144 KMDT 300756Z 14003KT 10SM FEW045 BKN250 24/22 A2989 RMK AO2 SLP119 T02440217 LDDU 300730Z 18006KT 140V240 CAVOK 30/17 Q1010 NOSIG KLNL 300735Z AUTO 26006KT 10SM CLR 18/12 A2988 RMK AO2 T01760115 UWOO 300730Z 30002MPS P5000 BKN240 30/07 Q1011 R26/CLRD65 NOSIG RMK QFE748/0998 KMFD 300752Z AUTO 28005KT 10SM CLR 21/16 A2998 RMK AO2 SLP140 T02060161 KMEM 300754Z 01004KT 10SM CLR 28/24 A3002 RMK AO2 SLP161 T02830239 KMFE 300753Z AUTO 14006KT 7SM CLR 27/24 A3001 RMK AO2 SLP160 T02670239 KMDW 300753Z 27008KT 10SM CLR 22/13 A3001 RMK AO2 SLP152 T02220133 ENZV 300750Z 33016KT 9999 BKN007 14/12 Q1002 NOSIG KLNN 300755Z AUTO 31007KT 10SM CLR 23/16 A2991 RMK AO1 T02320156 LBWN 300730Z 13009KT CAVOK 29/21 Q1009 NOSIG UWOR 300700Z 23004MPS CAVOK 31/07 Q1013 R25/CLRD65 NOSIG RMK QFE736/0982 KLNP 300737Z AUTO 00000KT 5SM BR SCT015 SCT055 22/22 A3010 RMK AO2 KMDZ 300735Z AUTO 26006KT 10SM SCT060 16/13 A2996 RMK AO2 T01620130 KMFI 300754Z AUTO 26007KT 10SM CLR 17/12 A2997 RMK AO2 SLP143 T01720117 KMER 300755Z AUTO RMK AO1 KLNR 300756Z AUTO 00000KT 10SM CLR 16/13 A3003 RMK AO2 SLP161 T01560128 EPIR 300730Z 24024G34KT 9999 FEW025 SCT045 BKN100 17/09 Q1007 RMK 167 060 4/ KLNS 300753Z 20004KT 10SM SCT029 SCT034 BKN047 25/23 A2991 RMK AO2 SLP125 T02500228 KO69 300755Z AUTO 31003KT 5SM OVC007 15/14 A2999 RMK AO1 DXSK 300600Z 00000KT 8000 FEW003 BKN120 22/21 Q//// KLOL 300753Z AUTO 14003KT 10SM CLR 16/M03 A3016 RMK AO2 SLP173 T01561028 403440122 KLPC 300755Z AUTO 00000KT 10SM CLR 16/12 A3000 RMK AO1 40230 0150 KMGC 300735Z AUTO 21004KT 10SM CLR 18/14 A3001 RMK AO2 KMEV 300755Z AUTO 09008KT 10SM CLR 13/03 A3023 RMK AO2 KLOM 300735Z AUTO 21003KT 10SM SCT016 25/23 A2993 RMK AO1 KMGE 300658Z AUTO 07001KT 10SM CLR 26/24 A2998 RMK AO2 SLP140 T02610241 $ KMGG 300745Z AUTO 24004KT 10SM CLR 18/14 A3002 RMK AO2 KMEZ 300755Z AUTO 00000KT 10SM CLR 25/22 A3009 RMK AO2 LCPH 300730Z 13008KT 8000 FEW010 30/25 Q1006 KMFR 300753Z AUTO 00000KT 10SM CLR 25/06 A3000 RMK AO2 SLP142 T02500061 404000150 KLOR 300753Z AUTO 00000KT 6SM BR CLR 25/24 A2993 RMK AO2 SLP130 T02500239 KMGJ 300754Z AUTO 18004KT 8SM CLR 22/21 A2991 RMK AO2 SLP125 T02220211 TSNO KLOT 300755Z AUTO 26005KT 10SM CLR 17/14 A3004 RMK AO2 T01710143 EPLB 300730Z 27014KT 9999 FEW034 19/09 Q1011 EPKK 300730Z 25012KT 9999 FEW040 18/08 Q1013 KLOU 300753Z AUTO 33006KT 10SM CLR 24/18 A3003 RMK AO2 SLP161 T02440183 KMGM 300753Z AUTO 00000KT 8SM OVC060 26/24 A2996 RMK AO2 SLP141 T02610239 KMFV 300730Z AUTO 21003KT 10SM CLR 23/23 A2996 RMK AO2 KMHE 300753Z AUTO 00000KT 10SM FEW120 16/13 A3012 RMK AO2 SLP193 T01560133 KMGN 300754Z AUTO 27007G15KT 10SM CLR 21/17 A2979 RMK AO2 T02150170 FHAW 300650Z 13017KT 9999 FEW015 22/18 Q1018 BLU TEMPO -SHRA SCT015 WHT VOHS 300540Z 27018KT 6000 FEW015 SCT025 29/20 Q1012 NOSIG KLOZ 300753Z AUTO 22004KT 10SM BKN019 23/20 A3003 RMK AO2 SLP154 T02330200 KO86 300750Z AUTO 27003KT 10SM CLR 18/02 A3008 RMK AO1 KLPR 300753Z AUTO 27004KT 10SM CLR 19/17 A2995 RMK AO2 SLP135 T01890172 TSNO KMGR 300735Z AUTO 00000KT 7SM -DZ CLR 25/23 A2996 RMK AO2 KMIA 300753Z 00000KT 10SM BKN200 27/23 A3000 RMK AO2 SLP159 98473 T02720233 LCRA 300750Z 22007KT 9999 FEW013 29/24 Q1006 NOSIG KMHK 300752Z AUTO 00000KT 10SM CLR 18/18 A3018 RMK AO2 SLP214 T01830178 KMIB 300758Z AUTO 29008KT 10SM BKN100 BKN120 15/14 A3005 RMK AO2 CIG 100 RWY11 SLP176 T01460139 $ EPKT 300730Z 24018KT CAVOK 17/08 Q1012 KMIC 300753Z AUTO 26009KT 10SM CLR 21/13 A2999 RMK AO2 SLP151 T02110128 TSNO EPLL 300730Z 26015KT 9999 FEW032 16/08 Q1010 KLRD 300756Z AUTO 14010KT 10SM CLR 27/22 A3005 RMK AO2 T02660222 SLP160 VOHY 300740Z 29011KT 6000 SCT010 BKN015 BKN100 31/17 Q1010 NOSIG KMIE 300753Z AUTO 29006KT 10SM CLR 18/15 A3002 RMK AO2 SLP156 T01830150 KMGW 300753Z AUTO 00000KT 8SM CLR 25/21 A2994 RMK AO2 SLP124 T02500211 TSNO KLRF 300658Z AUTO 04003KT 10SM CLR 28/25 A3005 RMK AO2 SLP175 T02760245 KMGY 300753Z AUTO 34005KT 10SM BKN045 23/18 A3000 RMK AO2 SLP150 T02280178 KMHR 300615Z 16005KT 10SM SKC 23/11 A2987 KMHS 300656Z AUTO 02003KT 10SM CLR 15/05 A3013 RMK AO2 SLP187 T01500050 KP08 300755Z AUTO 05011KT 10SM CLR 28/18 A3001 RMK AO2 KLRJ 300735Z AUTO 00000KT 10SM CLR 17/15 A3014 RMK AO2 LEAB 300700Z 17004KT 090V240 9999 FEW048CB 21/15 Q1014 TEMPO SHRA KMHT 300753Z 00000KT 10SM CLR 22/19 A2986 RMK AO2 SLP120 T02220194 KLSB 300735Z AUTO 07005KT 10SM -RA SCT095 BKN120 19/18 A3028 RMK AO2 P0005 KMHV 300740Z AUTO 32005KT 10SM CLR 27/13 A3006 RMK A01 KLSE 300753Z AUTO 28011KT 10SM CLR 22/12 A3001 RMK AO2 SLP152 T02220122 KLRO 300755Z AUTO 36003KT 7SM CLR 24/24 A2993 RMK AO2 KLSF 300658Z AUTO 28002KT 10SM CLR 25/25 A2994 RMK AO2 SLP139 T02510248 EPMO 300730Z 23015KT 200V260 9999 SCT030 17/09 Q1009 LEAG 300730Z AUTO VRB05KT CAVOK 26/19 Q1012 EPLY 300730Z 25016KT 9999 SCT035 17/08 Q1010 RMK 168 055 3/3= UWSS 300730Z 31004MPS CAVOK 27/14 Q1011 R30/010095 NOSIG RMK QFE745 LEBA 300700Z VRB01KT CAVOK 24/15 Q1011 KMIS 300755Z AUTO 36010KT 10SM FEW019 FEW040 BKN080 31/25 A2998 RMK A01 LEBB 300730Z 00000KT 9999 FEW020 BKN040 17/16 Q1018 NOSIG KNAK 300754Z AUTO 20006KT 10SM FEW070 26/22 A2991 RMK AO2 SLP130 T02560217 LEAL 300730Z VRB02KT 9999 VCTS FEW012 SCT016CB 27/25 Q1009 BECMG NSW KMKC 300754Z 00000KT 10SM CLR 21/19 A3017 RMK AO2 SLP208 T02110189 KNBC 300756Z AUTO 31005KT 10SM BR FEW009 BKN016 BKN030 27/26 A2994 RMK AO2 SLP139 T02670256 KLRU 300735Z AUTO 02009KT 7SM RA OVC110 19/18 A3025 RMK AO2 LTG DSNT SE AND S P0005 T01880180 LEAM 300730Z 12003KT 080V170 9999 SCT080 28/24 Q1009 KMIV 300754Z AUTO VRB03KT 10SM CLR 24/22 A2994 RMK AO2 SLP136 T02440222 KMIW 300753Z AUTO 27003KT 10SM 17/15 A3011 RMK AO2 SLP191 T01670150 $ KMKE 300752Z 26005KT 10SM CLR 21/12 A2997 RMK AO2 SLP145 T02110122 LEAO 300700Z 25003KT 180V290 CAVOK 24/12 Q1013 LEBG 300700Z 05013KT 020V080 9999 OVC005 12/11 Q1017 KNBG 300755Z AUTO 20005KT 7SM CLR 25/24 A2999 RMK AO2 SLP153 T02500244 $ KMKG 300755Z AUTO 28013G21KT 10SM CLR 23/09 A2993 RMK AO2 SLP131 T02330089 $ KMJQ 300754Z AUTO 22004KT 10SM CLR 16/13 A3012 RMK AO2 LEAS 300730Z 09009KT 9999 FEW015 BKN022 16/14 Q1018 NOSIG KNCA 300756Z 02003KT 10SM CLR 23/22 A2993 RMK AO2 SLP138 T02330217 KP28 300756Z AUTO 08007KT 23/21 A3016 RMK AO1 SLP198 T02330206 KLUA 300755Z AUTO 22004KT 10SM OVC120 25/25 A2993 RMK AO2 KMKJ 300735Z AUTO 00000KT M1/4SM FG OVC001 19/19 A3010 RMK AO2 T01910185 KMLB 300753Z AUTO 24006KT 6SM BR SCT013 24/24 A2997 RMK AO2 SLP147 T02440239 EPOK 300739Z 24012KT 7000 -SHRA BKN014CB BKN059 14/11 Q1002 RMK 135 087 7/6 = LEBL 300730Z 07010KT 040V100 9999 FEW020TCU BKN041 24/21 Q1012 NOSIG KMLC 300753Z AUTO 03003KT 10SM SCT070 27/22 A3007 RMK AO2 SLP171 T02720222 KMKL 300753Z AUTO 36004KT 10SM CLR 26/24 A3002 RMK AO2 SLP161 T02610239 KLSV 300658Z AUTO 19009KT 10SM CLR 34/11 A2995 RMK AO2 SLP112 T03380109 CHINO RWY03R $ KLUD 300735Z AUTO 17006KT 10SM CLR 29/16 A3007 RMK AO2 T02850160 KMKN 300755Z AUTO 16003KT 10SM CLR 25/18 A3008 RMK AO2 T02500183 KMLE 300735Z AUTO 00000KT 10SM CLR 17/16 A3017 RMK AO2 T01720156 KLUF 300658Z AUTO 13004KT 10SM CLR 31/17 A2996 RMK AO2 SLP131 KMKO 300753Z AUTO 36003KT 10SM CLR 26/24 A3009 RMK AO2 SLP180 T02610244 KMLF 300752Z AUTO 00000KT 10SM CLR 17/M08 A3024 RMK AO2 SLP171 T01721078 KMJX 300755Z AUTO 21005KT 10SM 23/22 A2994 RMK AO1 LECH 291600Z 10008KT 070V130 9999 FEW018 SCT022 FEW030CB 27/22 Q1012 KMLI 300752Z AUTO 22004KT 10SM CLR 18/15 A3008 RMK AO2 SLP183 T01780150 UWUU 300730Z 16004MPS 130V220 9999 SCT040 BKN100 27/15 Q1010 R14L/0///60 NOSIG RMK QFE747/0996 KMKS 300755Z AUTO 00000KT 7SM CLR 24/22 A2995 RMK AO2 KLTS 300758Z AUTO 10006KT 10SM FEW090 OVC170 27/19 A3008 RMK AO2 SLP167 T02730194 $ KMLJ 300735Z AUTO 00000KT 7SM SCT012 BKN070 OVC080 26/23 A2996 RMK AO2 VOML 300730Z 25010KT 8000 SCT012 SCT020 30/25 Q1011 NOSIG VOMM 300740Z 26007KT 7000 SCT020 SCT100 34/19 Q1007 NOSIG LEBT 300700Z AUTO 00000KT 9999 // FEW018/// SCT024/// 27/22 Q1011 KLUK 300753Z AUTO 32004KT 10SM OVC042 24/19 A2999 RMK AO2 SLP152 T02390194 KMKT 300755Z 25007KT 10SM CLR 17/12 A3006 RMK AO1 KNBT 300756Z AUTO 10SM FEW023 SCT040 A2992 RMK AO2 SLP138 PNO $ KLUL 300735Z AUTO 00000KT 10SM CLR 25/25 A3000 RMK AO2 T02460246 KLUM 300735Z AUTO 24008KT 10SM CLR 19/13 A2999 RMK AO2 T01900132 LECO 300730Z 02005KT 330V070 9999 BKN030 18/14 Q1016 NOSIG DXXX 300700Z 24008KT 9999 FEW010 24/22 Q1016 NOSIG EPPO 300730Z 25015KT 210V270 9999 BKN030 16/07 Q1008 KMLP 300753Z AUTO 00000KT 10SM CLR 16/M02 A3036 RMK AO2 SLP186 T01561022 402170100 KMKY 300755Z AUTO 30003KT 10SM FEW028 27/22 A2999 RMK AO1 LEBZ 300700Z 26009KT CAVOK 21/18 Q1013 KMMH 300755Z AUTO 00000KT 10SM CLR 14/M00 A3041 RMK AO1 KMMI 300755Z AUTO 00000KT 10SM FEW042 SCT049 BKN065 25/23 A3002 RMK EPPR 300730Z 24008KT 9999 BKN017 14/10 Q1004 RMK 139 078 7/7= KMLS 300753Z AUTO 16007KT 10SM CLR 13/08 A3016 RMK AO2 SLP199 T01330083 KLVJ 300753Z AUTO 00000KT 8SM CLR 27/24 A3003 RMK AO2 SLP167 T02670244 KLWA 300756Z AUTO 28007KT 10SM CLR 22/17 A2997 RMK AO2 T02180165 EPRA 300730Z 27012KT 9999 FEW040 18/07 Q1011 RMK 175 051 2/2= KMMK 300753Z AUTO 00000KT 3SM BR CLR 21/19 A2991 RMK AO2 SLP125 T02110194 TSNO KMLT 300753Z AUTO 00000KT 10SM CLR 15/14 A2990 RMK AO2 SLP126 T01500139 KLVK 300753Z AUTO 28006KT 10SM CLR 22/12 A2994 RMK AO2 SLP134 T02170117 404170189 KLWB 300735Z AUTO 00000KT 7SM SCT085 OVC100 22/20 A3005 RMK AO2 LTG DSNT NW T02150200 LEEC 300700Z VRB02KT CAVOK 24/16 Q1012 KMLU 300753Z AUTO 00000KT 10SM CLR 26/24 A3001 RMK AO2 SLP160 T02610244 KLWC 300752Z AUTO 33003KT 10SM CLR 18/17 A3018 RMK AO2 SLP214 T01830172 KMML 300755Z AUTO 24009KT 10SM CLR 17/11 A3009 RMK AO1 KLVL 300738Z AUTO 00000KT 10SM CLR 22/22 A2997 RMK AO2 LECV 300700Z 11004KT CAVOK 23/11 Q1014 KLVM 300753Z AUTO 00000KT 10SM CLR 09/05 A3031 RMK AO2 SLP232 T00940050 KLWD 300753Z AUTO 25005KT 10SM CLR 20/14 A3016 RMK AO2 SLPNO T02000144 KLVN 300748Z AUTO 25003KT 10SM CLR 16/13 A3003 RMK AO2 KP53 300756Z AUTO 22009KT 21/13 A2975 RMK AO1 SLP072 T02110128 KMNE 300735Z AUTO 00000KT 10SM CLR 26/23 A3003 RMK AO2 T02600231 EPPW 300730Z 26016KT 9999 SCT033 SCT100 16/08 Q1008 RMK 158 059 4/3 = KLUX 300755Z AUTO 18006KT 10SM CLR 23/23 A2997 RMK AO2 KMNH 291854Z AUTO 18019G30KT 10SM CLR 20/09 A3043 RMK AO2 P0008 KMNI 300755Z AUTO 00000KT 7SM CLR 22/18 A2995 RMK AO2 KP58 300751Z AUTO 23005KT 19/16 A2984 RMK AO1 SLP095 T01890156 KLVS 300753Z AUTO 00000KT 10SM -RA SCT090 OVC110 14/13 A3048 RMK AO2 SLP221 P0002 T01390128 KP59 300751Z AUTO 31014G30KT 21/12 A2969 RMK AO1 PK WND 31030/0751 SLP045 T02060117 KP60 300756Z AUTO 31003KT 04/01 A3053 RMK AO1 SLP284 T00390006 KMOB 300756Z AUTO 32003KT 8SM CLR 24/24 A2997 RMK AO2 SLP146 T02440239 KMMT 300758Z AUTO 00000KT 10SM CLR 24/22 A2995 RMK AO2 SLP142 T02380224 UWWW 300730Z 31004MPS 9999 SCT033CB OVC100 25/12 Q1009 R23/190055 NOSIG RMK QFE745/0994 KNEL 300700Z AUTO 22005KT 10SM CLR 23/22 A2994 RMK AO2 SLP137 T02330217 KMMU 300735Z AUTO 00000KT 7SM CLR 23/21 A2992 RMK AO2 EPSC 300730Z 23011KT 9999 -RA FEW017 BKN021 13/11 Q1004 KMOD 300753Z AUTO 35005KT 10SM CLR 27/08 A2987 RMK AO2 SLP112 T02670083 404110194 KMMV 300753Z AUTO 00000KT 10SM CLR 22/06 A3000 RMK AO2 SLP158 T02170061 403780128 KMNM 300755Z AUTO 26005KT 10SM CLR 19/12 A2985 RMK AO1 KLWM 300754Z AUTO 20003KT 10SM CLR 22/19 A2989 RMK AO2 SLP120 T02220194 KMNN 300753Z AUTO 31003KT 10SM CLR 21/17 A2998 RMK AO2 SLP145 T02060167 TSNO KNFE 300756Z AUTO 00000KT 7SM CLR 23/21 A2996 RMK AO2 SLP146 T02330206 PWINO $ KNFG 300754Z 23003KT 7SM BKN150 21/18 A2996 RMK AO2 SLP146 T02110178 402670172 $ KNDZ 300756Z AUTO 33004KT 9SM CLR 26/23 A2994 RMK AO2 SLP124 T02560233 $ LEGA 300700Z 00000KT 9999 FEW090 25/11 Q1015 KP68 300753Z AUTO 00000KT 12/M07 A3032 RMK AO1 SLP185 T01221067 403330050 KLWS 300756Z AUTO 14004KT 10SM CLR 21/01 A3011 RMK AO2 SLP185 T02110006 403440139 KP69 300752Z AUTO 32004KT 14/10 A3021 RMK AO1 SLP210 T01440100 403560094 KLWT 300754Z AUTO 16004KT 10SM CLR 12/06 A3026 RMK AO2 SLP219 T01170061 KLXL 300754Z AUTO 25004KT 10SM CLR 17/12 A2999 RMK AO2 KNFL 300756Z AUTO 00000KT 10SM CLR 17/M01 A3015 RMK AO2 SLP174 T01721011 403560089 FGSL 300700Z 22006KT 190V250 9999 FEW008 BKN050 25/22 Q1016 NOSIG KLWV 300753Z AUTO 31005KT 10SM CLR 19/17 A3007 RMK AO2 SLP179 T01890167 LEGE 300730Z 03012KT 360V060 9999 FEW050TCU SCT065 22/16 Q1013 KNEW 300753Z AUTO 36007KT 10SM CLR 27/24 A2999 RMK AO2 SLP148 T02670244 TSNO KLXN 300735Z AUTO 00000KT 10SM CLR 16/13 A3024 RMK AO2 T01600127 KMOP 300755Z AUTO 25004KT 10SM CLR 20/14 A2989 RMK AO2 T01950139 KLYH 300154Z 00000KT 10SM CLR 23/23 A3002 RMK AO2 SLP156 T02330228 KMNZ 300755Z AUTO 10SM CLR 25/18 A3008 RMK AO2 T02530180 EPRZ 300730Z 29008KT 240V320 CAVOK 17/10 Q1013 KMOR 300735Z AUTO 35003KT 10SM FEW040 24/23 A3002 RMK LDOS 300730Z 02007KT 9999 FEW040 20/16 Q1014 KMOT 300754Z AUTO 22007KT 10SM SCT110 16/11 A3005 RMK AO2 SLP169 T01610106 KLXT 300753Z AUTO 00000KT 10SM CLR 19/18 A3018 RMK AO2 SLP213 T01940178 KMQB 300755Z AUTO 28004KT 10SM CLR 18/16 A3013 RMK AO2 T01770162 LEHC 291600Z 29011KT 250V330 9999 FEW050 34/07 Q1011 LDPL 300730Z 08014KT CAVOK 27/18 Q1009 NOSIG KLXV 300753Z AUTO 05004KT 10SM CLR 08/07 A3065 RMK AO2 SLP200 T00780067 EPTM 300730Z 24012KT 9999 16/07 Q1011 RMK 161 056 2/2= KNFW 300752Z AUTO 00000KT 10SM CLR 29/18 A3005 RMK AO2 SLP157 T02940183 VISNO N $ KMQE 300754Z AUTO 23011KT 23/19 A2990 RMK AO1 SLP130 T02280189 KMPO 300753Z AUTO A2998 RMK AO2 SLPNO PWINO $ KMOX 300754Z AUTO 26008KT 10SM CLR 17/12 A3003 RMK AO2 KNGP 300756Z AUTO 19008KT 10SM CLR 27/25 A3001 RMK AO2 SLP160 T02670250 $ KLXY 300755Z AUTO 13013KT 10SM CLR 25/20 A3004 RMK AO2 T02480200 LEGR 300730Z VRB02KT 9999 FEW045 26/13 Q1014 KMQI 300755Z AUTO 07003KT 10SM CLR 25/24 A2995 RMK AO2 T02510235 KMQJ 300756Z AUTO 31005KT 10SM CLR 19/15 A3004 RMK AO1 LEGT 300700Z 04008KT CAVOK 23/13 Q1012 LEIB 300730Z 08011KT 9999 FEW014 BKN021 29/23 Q1010 NOSIG KMRB 300753Z AUTO 00000KT 5SM BR OVC095 23/23 A2990 RMK AO2 SLP121 T02330228 TSNO KNHK 300752Z AUTO 21006KT 10SM CLR 24/22 A2994 RMK AO2 SLP137 T02440222 KMRC 300755Z AUTO 00000KT 10SM CLR 24/24 A3001 RMK KNGU 300659Z 17004KT 10SM FEW260 24/21 A2997 RMK AO2 SLP149 T02440211 KP92 300753Z AUTO 00000KT 26/24 A2999 RMK AO1 SLP155 T02610244 KMPV 300751Z AUTO 00000KT 8SM CLR 18/17 A2992 RMK AO2 SLP125 T01830167 $ KLYV 300754Z AUTO 00000KT 10SM CLR 16/13 A3013 RMK AO2 KNID 300756Z AUTO 19008KT 10SM CLR 29/13 A3003 RMK AO2 SLP141 T02940133 404110178 $ KMRF 300755Z AUTO 02006KT 10SM BKN110 19/14 A3026 RMK AO1 KMRH 300658Z AUTO 03004KT 10SM CLR 26/25 A2993 RMK AO2 SLP134 T02560250 TSNO KMPZ 300735Z AUTO 25005KT 10SM CLR 18/16 A3012 RMK AO2 T01800155 LDRI 300730Z 07010KT 010V120 9999 FEW037 SCT052 25/17 Q1010 KMQS 300735Z AUTO 00000KT 9SM BKN010 BKN036 24/24 A2995 RMK AO2 KMRJ 300735Z AUTO 26006KT 10SM CLR 17/15 A3005 RMK AO2 EPWA 300730Z 24010KT 200V280 9999 SCT030 17/10 Q1009 NOSIG KLZU 300045Z 00000KT 10SM CLR 32/20 A2997 RMK CLOSING WX LL KMRN 300755Z AUTO 00000KT 3SM BR OVC110 22/22 A3004 RMK AO2 T02210221 KNIP 300753Z AUTO 30003KT 10SM CLR 26/23 A2993 RMK AO2 SLP131 T02560228 KMQY 300756Z AUTO 00000KT 10SM CLR 24/22 A3002 RMK AO2 T02440222 SLP169 KLZZ 300755Z AUTO 00000KT 10SM CLR 27/21 A3007 RMK AO2 T02700210 KOAJ 300755Z AUTO 00000KT 10SM CLR 21/18 A2994 RMK AO1 LFBA 300730Z AUTO 26004KT 230V290 CAVOK 17/12 Q1017 KOAK 300753Z 30008KT 10SM FEW007 17/14 A2997 RMK AO2 SLP148 T01670144 402610156 KMRT 300754Z AUTO 34004KT 10SM BKN055 21/16 A2999 RMK AO2 T02090162 KNJK 300756Z AUTO 05004KT 10SM CLR 30/18 A2987 RMK AO2 SLP132 T03000183 404000272 $ KMSL 300753Z AUTO 25003KT 10SM CLR 24/23 A3001 RMK AO2 SLP156 T02440228 KMTC 300758Z AUTO 25007KT 10SM CLR 19/15 A2988 RMK AO2 SLP118 T01930148 LFBC 300730Z AUTO 35006KT 320V030 9999 BKN047 18/12 Q1018 KNJM 300757Z AUTO 35006KT 10SM CLR 25/23 A2994 RMK AO2 SLP141 T02500228 LFBD 300730Z AUTO 02004KT 360V070 CAVOK 17/11 Q1018 KMSN 300753Z AUTO 27006KT 10SM CLR 20/13 A3000 RMK AO2 SLP155 T02000133 KOBE 300755Z AUTO 23004KT 23/23 A3000 RMK AO2 PWINO LFBE 300730Z AUTO VRB01KT CAVOK 17/12 Q1017 KMSO 300753Z AUTO 14004KT 10SM CLR 14/07 A3025 RMK AO2 SLP228 T01440067 $ VOTR 300740Z 30008KT 8000 FEW018 37/20 Q1008 NOSIG KMSP 300753Z 24006KT 10SM CLR 19/13 A3001 RMK AO2 SLP157 T01940133 KMRY 300754Z AUTO 00000KT 10SM OVC007 17/14 A3000 RMK AO2 SLP169 T01670139 402330122 LDSP 300730Z VRB03KT CAVOK 29/21 Q1009 NOSIG LFBG 300730Z AUTO 04009KT CAVOK 16/09 Q1018 LFAQ 300730Z AUTO 27008KT 250V310 9999 FEW014 14/12 Q1017 KMTH 300753Z AUTO VRB03KT 10SM CLR 29/24 A2999 RMK AO2 SLP156 T02890244 LFBH 300730Z AUTO 02008KT CAVOK 15/10 Q1019 LEJR 300800Z 24004KT 200V290 9999 FEW030 25/19 Q1013 LFBI 300730Z AUTO 02006KT CAVOK 14/10 Q1019 EPWR 300730Z 28012KT 9999 FEW036 18/07 Q1012 KMSS 300753Z AUTO 00000KT 10SM CLR 20/17 A2978 RMK AO2 SLP081 T02000167 KMTJ 300753Z AUTO 15005KT 10SM CLR 17/00 A3034 RMK AO2 SLP187 T01720000 VOTV 300740Z 25012KT 6000 FEW018 SCT090 31/24 Q1010 NOSIG LFAT 300730Z AUTO 32010KT 280V340 9999 SCT019 BKN047 BKN056 15/10 Q1017 LELC 300700Z 07006KT 020V120 9999 SCT012 28/25 Q1009 NOSIG KNLC 300756Z AUTO 26003KT 10SM CLR 27/06 A2988 RMK AO2 SLP114 T02670061 404170189 LFBL 300730Z AUTO 07005KT 030V100 CAVOK 15/08 Q1018 KMSV 300755Z AUTO 00000KT 4SM SCT010 BKN075 18/18 A2997 RMK AO1 LFBM 300730Z AUTO VRB02KT CAVOK 17/12 Q1018 KMTN 300739Z AUTO 17004KT 10SM CLR 26/24 A2993 RMK AO2 KMTO 300753Z AUTO 30007KT 10SM CLR 18/14 A3008 RMK AO2 SLP178 T01780144 TSNO KOCF 300755Z AUTO 19003KT 3/4SM OVC002 23/22 A2997 RMK AO1 LFBO 300730Z AUTO 28006KT 9999 -RA BKN007/// BKN013/// BKN060/// ///TCU 16/15 Q1017 KMSY 300753Z 29005KT 10SM FEW020 SCT250 26/23 A2999 RMK AO2 SLP159 T02560233 KMTP 300754Z AUTO 22007KT 24/23 A2993 RMK AO1 SLP134 T02440228 LFBP 300730Z AUTO 21003KT 9999 -RA BKN033/// BKN062/// BKN078/// ///TCU 13/11 Q1018 KOCH 300755Z AUTO 00000KT 10SM CLR 23/22 A3003 RMK AO1 KMUI 300758Z AUTO 00000KT 10SM OVC018 24/23 A2991 RMK AO2 SLP127 T02380230 $ KNKT 300754Z 02006KT 10SM FEW018 26/24 A2994 RMK AO2 SLP137 T02560239 LFBT 300730Z AUTO 20003KT 9999 -RA BKN034/// OVC040/// ///CB 12/11 Q1018 LFCK 300730Z AUTO 27005KT 9999 -RA FEW021/// BKN046/// BKN084/// ///TCU 15/14 Q1018 LELL 300730Z 05001KT 9999 FEW030 SCT040 FEW060TCU 26/19 Q1013 LFBU 300730Z AUTO 04010KT CAVOK 16/09 Q1018 LEMD 300730Z 06004KT 010V120 CAVOK 25/14 Q1013 NOSIG KMTV 300735Z AUTO 00000KT 3SM BR CLR 22/22 A3001 RMK AO2 T02150215 LELN 300700Z VRB01KT 8000 -DZ FEW020 BKN035 15/13 Q1017 KMVE 300754Z AUTO 27006KT 10SM CLR 16/12 A3007 RMK AO2 KMTW 300756Z AUTO 10SM CLR 20/13 A2992 RMK AO2 SLP141 T02000133 PNO $ LELO 300700Z 29006KT 260V320 9999 FEW020 SCT040 BKN070 17/13 Q1017 KMUO 300658Z AUTO 30005KT 10SM CLR 17/00 A3016 RMK AO2 SLP192 T01710003 403150089 $ KNKX 300755Z 28003KT 10SM BKN020 22/17 A2998 RMK AO2 SLP145 T02220172 402830206 $ LEMG 300730Z 28014KT CAVOK 33/14 Q1009 NOSIG LFBY 300700Z 00000KT 9999 FEW004 SCT033 BKN130 16/13 Q1018 EPZG 300730Z 24018G31KT 9999 SCT033 15/08 Q1010 LEMH 300730Z 04020KT 010V070 9999 FEW020 26/19 Q1011 KOCQ 300755Z AUTO 25005KT 10SM CLR 18/14 A2988 RMK AO1 T01790135 LFBZ 300730Z AUTO VRB03KT 9999 SCT044 OVC130 16/13 Q1018 LFCR 300730Z AUTO 34004KT 300V010 CAVOK 14/10 Q1017 KMWA 300735Z AUTO 01003KT 10SM CLR 22/18 A3010 RMK AO2 KOEB 300754Z AUTO 24003KT 10SM CLR 16/13 A2998 RMK AO2 T01610131 KMUT 300735Z AUTO 00000KT 10SM CLR 19/15 A3010 RMK AO2 KMVL 300754Z AUTO 00000KT 7SM SCT002 19/17 A2989 RMK AO2 SLP116 T01940172 TSNO KMWC 300735Z AUTO 25007KT 10SM CLR 19/11 A2998 RMK AO2 KNMM 300756Z AUTO 29003KT 8SM CLR 24/23 A3000 RMK AO2 SLP165 T02390228 CHINO SOUTH $ KMVN 300755Z AUTO 00000KT 10SM CLR 18/14 A3010 RMK AO1 KOCW 300755Z AUTO 00000KT 10SM CLR 21/21 A2995 RMK AO2 T02120205 KODO 300753Z AUTO 17006KT 10SM CLR 29/11 A3015 RMK AO2 SLP152 T02890111 LEMO 300800Z 24008KT 180V270 CAVOK 27/18 Q1012 NOSIG KMWH 300752Z AUTO 01003KT 10SM CLR 17/07 A3008 RMK AO2 SLP178 T01720072 403330100 KMWK 300735Z AUTO 00000KT 4SM BR SCT001 SCT022 SCT110 23/22 A3002 RMK AO2 T02260215 KMWL 300753Z AUTO 12005KT 10SM CLR 24/19 A3005 RMK AO2 SLP159 T02440189 KMWM 300754Z AUTO 00000KT 10SM CLR 16/13 A3011 RMK AO2 KMWN 300752Z 27021KT 1/16SM FG VV001 13/13 RMK KODX 300753Z AUTO 00000KT 10SM CLR 14/12 A3020 RMK AO2 SLP219 T01440117 KMWO 300755Z AUTO 00000KT 10SM BKN044 BKN055 OVC065 24/22 A3001 RMK AO2 T02360219 KMXF 300658Z AUTO 24002KT 10SM OVC180 26/25 A2995 RMK AO2 SLP143 T02560246 KOFF 300758Z AUTO 20001KT 10SM CLR 15/14 A3016 RMK AO2 SLP211 T01490144 $ KOEO 300735Z AUTO 26005KT 10SM CLR 19/14 A3001 RMK AO2 T01860135 KMVY 300753Z AUTO 23006KT 5SM BR OVC006 23/22 A2992 RMK AO2 SLP130 T02280217 KNOG 300756Z AUTO 00000KT 1/4SM FG VV002 23/23 A3004 RMK AO2 SLP149 T02280228 TSNO $ LEPA 300730Z 07016KT 050V110 9999 FEW018 28/22 Q1011 NOSIG LFGA 300730Z AUTO 19004KT 150V250 CAVOK 15/08 Q1016 PTKK 300750Z 28010KT 15SM FEW014 BKN120 OVC280 28/25 A2977 RMK SLP084 T02810253 KNPA 300756Z AUTO 33004KT 7SM FEW050 25/23 A2993 RMK AO2 SLP138 T02500233 KOGA 300735Z AUTO 00000KT 10SM CLR 15/10 A3026 RMK AO2 T01540102 KMWT 300753Z AUTO 00000KT 10SM SCT065 BKN090 25/23 A3006 RMK AO2 SLP162 T02500233 KOGB 300753Z AUTO 00000KT 10SM CLR 25/23 A2996 RMK AO2 SLP142 T02500233 KOFK 300756Z AUTO 00000KT 10SM CLR 17/13 A3017 RMK AO2 SLP207 T01720133 KOGD 300753Z 18003KT 10SM CLR 17/01 A3025 RMK AO2 SLP193 T01720006 KMYF 300753Z AUTO 32004KT 10SM CLR 21/17 A2999 RMK AO2 SLP149 T02110172 402610194 TSNO KMXO 300735Z AUTO VRB03KT 10SM CLR 17/15 A3008 RMK AO2 KOFP 300754Z AUTO 18007KT 10SM CLR 24/22 A2997 RMK AO2 SLP145 T02390217 PTKR 300754Z 27008KT 15SM FEW018CB SCT120 OVC300 29/24 A2976 RMK CB N AND E MOV E SLP079 T02940242 KNQA 300755Z AUTO 36003KT 10SM CLR 27/26 A3003 RMK LDZA 300730Z 05007KT 010V100 9999 -RA FEW010 OVC035 16/14 Q1015 NOSIG LFGJ 300730Z AUTO VRB01KT CAVOK 15/12 Q1017 KMYL 300751Z AUTO 00000KT 10SM CLR 11/04 A3031 RMK AO2 SLP228 T01060039 LDZD 300730Z VRB02KT 9999 SCT033 29/20 Q1009 NOSIG KNOW 300735Z AUTO 27007KT 10SM CLR 16/11 A3011 RMK AO2 T01580113 LEPP 300730Z 33006KT 8000 SHRA FEW015 SCT020TCU 13/12 Q1017 ESCF 300750Z 24006KT 9999 BKN008 BKN011 14/13 Q0997 KMYP 300755Z AUTO 20008KT 10SM CLR 08/03 A3090 RMK AO2 KMZG 300755Z AUTO 19007KT 10SM 29/25 A3001 RMK A01 KMZH 300754Z AUTO 24004KT 10SM CLR 17/13 A2992 RMK AO2 KMYR 300755Z AUTO 00000KT 10SM CLR 24/21 A2996 RMK AO1 KNQI 300756Z AUTO 20004KT 9SM CLR 24/24 A3002 RMK AO2 SLP162 T02440239 TSNO $ GABS 300730Z VRB03KT 9999 FEW026 23/23 Q1017 NOSIG KNRB 300752Z AUTO 00000KT 10SM CLR 25/23 A2993 RMK AO2 SLP133 T02500233 TSNO $ KMYV 300753Z AUTO 13004KT 10SM CLR 25/12 A2986 RMK AO2 SLP116 T02500122 404170178 ESDF 300750Z 27003KT 240V310 9999 SCT020 15/11 Q0999 FJDG 300755Z 11016G22KT 9999 FEW020 31/26 A2991 RMK SLP125 T03070256 KMYZ 300735Z AUTO 00000KT 10SM CLR 17/16 A3020 RMK AO2 LERI 300700Z VRB03KT 9999 FEW015 BKN025 27/24 Q1010 NOSIG WIBB 300730Z 20006KT 5000 FU FEWO1532/23 Q100 LESA 300730Z VRB01KT CAVOK 17/14 Q1015 KOJA 300755Z AUTO 04004KT 10SM CLR 22/20 A3014 RMK AO2 KOJC 300753Z AUTO 00000KT 10SM CLR 20/18 A3018 RMK AO2 SLP208 T02000183 LGAD 300750Z 34006KT CAVOK 30/21 Q1007 KPAE 300753Z AUTO 03005KT 10SM CLR 19/09 A3012 RMK AO2 SLP196 T01940094 402890144 KNSE 300756Z AUTO 33005KT 9SM CLR 25/23 A2994 RMK AO2 SLP124 T02500228 $ KNQX 300753Z AUTO 28003KT 10SM CLR 29/24 A3000 RMK AO2 SLP157 T02890244 $ KPAH 300753Z AUTO 01007KT 10SM CLR 24/18 A3007 RMK AO2 SLP175 T02390183 FIMP 300800Z 13011KT 9999 SCT020 25/18 Q1022 KMZZ 300735Z AUTO 27004KT 10SM CLR 16/15 A3003 RMK AO2 T01610145 KNSI 300757Z AUTO 27008KT 9SM BKN007 A2999 RMK AO2 SLPNO PNO $ LERS 300730Z 08003KT 050V130 9999 FEW018 SCT020 BKN040 26/20 Q1013 KNRS 300756Z AUTO 30006KT 9SM BKN016 A2998 RMK AO2 SLP153 $ FIMR 300700Z 12011KT 9999 FEW020 26/19 Q1021 LERT 300700Z VRB01KT 9999 FEW040 24/19 Q1012 NOSIG KOKB 300752Z AUTO 00000KT 9SM CLR 21/18 A2996 RMK AO2 SLP146 T02110178 402610178 LFKB 300730Z VRB03KT 9999 FEW008 29/23 Q1009 NOSIG KOKC 300752Z 36007KT 10SM SCT075 SCT250 26/21 A3011 RMK AO2 SLP176 T02610211 LGAL 300750Z 08008KT CAVOK 33/20 Q1006 LFJL 300730Z AUTO 27005KT 240V310 CAVOK 15/07 Q1017 LFKC 300730Z 22012KT 180V240 CAVOK 32/10 Q1009 NOSIG KPAM 300658Z AUTO 26007KT 10SM CLR 28/26 A2994 RMK AO2 CIG 180 RWY14 SLP142 T02810256 $ KNTD 300756Z AUTO 03003KT 8SM CLR 21/17 A2999 RMK AO2 SLP155 T02060167 402500183 $ KPAN 300755Z AUTO 00000KT 10SM FEW120 19/17 A3027 RMK AO2 KPAO 300347Z 34010KT 10SM SKC 20/17 A2993 RMK LAST LESO 300730Z VRB01KT 9999 BKN048 17/15 Q1018 KPBF 300753Z AUTO 02005KT 10SM SCT060 28/25 A3003 RMK AO2 SLP164 T02830250 $ LFKF 300730Z AUTO 25014KT 9999 NCD 32/14 Q1009 KPBG 300753Z AUTO 00000KT 4SM BR BKN075 19/18 A2982 RMK AO2 SLP096 T01890183 KPBH 300755Z AUTO 25004KT 10SM CLR 17/12 A2993 RMK AO2 T01680121 KPBI 300753Z 23006KT 10SM BKN150 BKN250 26/23 A2999 RMK AO2 SLP155 T02560233 $ LFJR 300730Z AUTO 35005KT 310V020 CAVOK 14/10 Q1020 LFKJ 300730Z VRB02KT 9999 FEW046 27/18 Q1010 NOSIG WIDD 300730Z 12010KT 100V200 9999 SCT014 32/23 Q1011 LFLB 300730Z 01009KT 9999 FEW036 18/12 Q1016 NOSIG LEST 300730Z 06005KT 010V110 9999 OVC014 16/13 Q1016 NOSIG KOKK 300755Z AUTO 28007KT 10SM CLR 18/13 A3003 RMK AO1 KNUC 300056Z 27006KT 10SM BKN012 20/16 A2996 RMK SLP143 LAST T02000156 LETL 300730Z AUTO 20001KT 9999 OVC021/// 20/14 Q1016 LGBL 300750Z 07004KT CAVOK 32/17 Q1007 LFLC 300730Z AUTO VRB01KT CAVOK 16/07 Q1018 PTPN 300350Z 30018KT 15SM SCT018 BKN130 OVC300 31/25 A2969 RMK LAST LGAV 300750Z 06008KT 010V100 CAVOK 33/17 Q1007 NOSIG KOKM 300735Z AUTO 35005KT 10SM SCT060 25/25 A3009 RMK AO2 T02530245 KOLE 300755Z AUTO 20004KT 10SM BKN037 BKN047 OVC060 21/19 A2993 RMK AO2 LETO 300700Z 06010KT CAVOK 23/13 Q1013 NOSIG KOLF 300753Z AUTO 00000KT 10SM BKN100 17/12 A3013 RMK AO2 RAE12 PRESRR SLP195 P0000 T01670117 KOLG 300735Z AUTO 22004KT 10SM CLR 13/11 A2992 RMK AO1 ESGG 300750Z 25008KT 9999 VCSH RA SCT013CB BKN026 OVC049 14/11 Q0998 KNUI 300753Z AUTO 17006KT 10SM CLR 26/22 A2994 RMK AO2 SLP136 T02560222 KOMA 300752Z 14003KT 10SM CLR 19/16 A3016 RMK AO2 SLP206 T01940156 LFKS 300730Z AUTO 05006KT 020V080 CAVOK 30/23 Q1009 ESGJ 300750Z 23006KT 9999 -RA FEW006 BKN023 12/12 Q0998 REDZ WIEE 300730Z 21006KT 180V260 8000 FEW020 31/24 Q1009 LEVC 300730Z 10005KT 050V130 9999 SCT018 FEW020TCU 29/23 Q1011 NOSIG KNTU 300756Z 00000KT 10SM FEW250 24/21 A2995 RMK AO2 SLP144 T02390211 KPDC 300735Z AUTO 35004KT 10SM CLR 19/14 A3005 RMK AO2 T01910138 LFMC 300700Z 26014KT CAVOK 25/12 Q1010 LFLL 300730Z 36005KT 330V030 9999 FEW010 SCT240 17/12 Q1017 NOSIG LEVD 300730Z 06013KT CAVOK 16/12 Q1015 KOLM 300754Z AUTO 00000KT 10SM CLR 15/08 A3008 RMK AO2 SLP186 T01500078 403280094 TSNO KPCM 300755Z AUTO 00000KT 5SM BR CLR 25/25 A2999 RMK AO2 KOKV 300755Z AUTO 19004KT 10SM OVC095 25/23 A2992 RMK AO2 LFMD 300730Z AUTO 19005KT 170V230 CAVOK 27/13 Q1008 LFLN 300730Z AUTO 29003KT 210V340 CAVOK 14/10 Q1018 KPBX 300755Z AUTO 26005KT 7SM BKN021 BKN065 23/23 A3001 RMK AO2 LTG DSNT NE T02340228 LFLP 300730Z AUTO VRB02KT CAVOK 16/11 Q1017 ESGP 300750Z 27009KT 9999 SCT011 BKN017 OVC045 15/13 Q0998 KNUQ 300756Z AUTO 32003KT 10SM CLR 18/16 A2997 RMK AO2 SLP152 T01830161 402940178 TSNO KOKZ 300735Z AUTO 00000KT 10SM SCT050 SCT060 BKN085 25/24 A2996 RMK AO2 T02500240 KOMH 300735Z AUTO 00000KT 10SM CLR 23/22 A2996 RMK AO2 LFMH 300730Z VRB01KT CAVOK 14/09 Q1018 NOSIG PTSA 292150Z 26015KT 10SM SCT014 BKN130 OVC300 28/25 A2975 LFMI 300730Z AUTO 33018KT CAVOK 22/08 Q1013 ESGR 300750Z AUTO 23005KT 190V260 9999 BKN007/// OVC017/// 14/13 Q0997 KONA 300754Z AUTO 00000KT 10SM CLR 17/13 A3002 RMK AO2 KOLS 300754Z AUTO 00000KT 10SM CLR 21/18 A3017 RMK AO2 SLP150 T02060183 KPEA 300735Z AUTO 26008KT 10SM CLR 20/17 A3014 RMK AO2 T01950167 LFLS 300730Z AUTO 01004KT 300V070 CAVOK 17/11 Q1017 LFMK 300730Z AUTO 27011KT 9999 FEW033/// OVC100/// ///TCU 17/14 Q1016 KOMK 300753Z AUTO 28007KT 10SM CLR 19/02 A3008 RMK AO2 SLP179 T01940022 403500100 KPDK 300753Z 12003KT 10SM CLR 25/23 A2996 RMK AO2 SLP121 T02500233 LFLU 300730Z AUTO 35013KT CAVOK 18/13 Q1015 ESGT 290950Z 15012KT 9999 VCSH FEW010CB SCT020 BKN060 17/14 Q0994 ESIB 300750Z AUTO 35008KT 9999 BKN009/// BKN018/// OVC037/// 15/14 Q0997 KOLU 300755Z AUTO 00000KT 10SM CLR 15/12 A3019 RMK AO1 LFML 300730Z 32016KT CAVOK 22/10 Q1012 TEMPO 33020G30KT KOLV 300755Z AUTO 35003KT 10SM 26/26 A3003 RMK A01 P000 KOMN 292250Z 09003KT 10SM SKC 29/24 A2993 RMK LAST LFLW 300730Z AUTO VRB02KT 1000 R15/1400D BCFG VV/// 11/11 Q1017 PTRO 300752Z 26008KT 13SM VCSH SCT016TCU BKN120 BKN300 29/25 A2973 RMK VCSH NE TCU VC N-E KPCW 300752Z AUTO 28008KT 10SM CLR 23/18 A2993 RMK AO2 T02270177 $ KNUW 300756Z 00000KT 10SM CLR 15/11 A3015 RMK AO2 SLP208 T01500106 402390128 VISNO $ LFMN 300730Z 12010KT 9999 FEW014 SCT150 BKN200 27/21 Q1008 NOSIG LFMO 300730Z AUTO 33016KT CAVOK 20/11 Q1014 LFLX 300730Z 02004KT 350V060 CAVOK 15/10 Q1019 NOSIG KOLY 300735Z AUTO 31003KT 10SM CLR 17/16 A3008 RMK AO2 LFLY 300730Z AUTO 35007KT 330V040 CAVOK 18/07 Q1017 LFMP 300730Z AUTO 30010KT 9999 OVC062 20/12 Q1015 KPCZ 300755Z AUTO 23004KT 10SM CLR 19/13 A2995 RMK AO2 T01900126 KOLZ 300735Z AUTO RMK AO2 PNO PWINO LEVS 300730Z VRB02KT CAVOK 26/13 Q1013 KOOA 300735Z AUTO 26004KT 10SM CLR 16/15 A3013 RMK AO2 T01600146 LFOA 300730Z AUTO 33003KT 280V020 CAVOK 16/08 Q1018 LEVT 300730Z 36003KT 330V040 9999 SCT014 BKN028 14/12 Q1018 KPDT 300753Z AUTO 10006KT 10SM CLR 18/01 A3008 RMK AO2 SLP169 T01780011 403440111 LFMT 300730Z 34005KT CAVOK 20/13 Q1014 NOSIG LFOB 300730Z AUTO 27007KT 250V310 9999 FEW015 SCT062 15/11 Q1018 LGEL 300750Z 17004KT CAVOK 34/16 Q1007 KONL 300755Z AUTO 23005KT 10SM CLR 17/12 A3019 RMK AO2 T01700123 LFOC 300730Z AUTO 31006KT CAVOK 15/10 Q1019 LFMU 300730Z AUTO 28007KT CAVOK 18/14 Q1015 KONM 300735Z AUTO 17004KT 10SM RA SCT044 SCT060 OVC100 19/17 A3035 RMK AO2 LTG DSNT W P0001 T01860169 LFMV 300730Z AUTO 35016KT 320V040 CAVOK 20/10 Q1013 ETAD 300758Z AUTO 24006KT 9999 CLR 13/09 A3001 RMK AO2 SLP150 T01320086 $ LFOE 300730Z AUTO 27005KT 240V310 CAVOK 15/11 Q1018 LEVX 300730Z 00000KT 0900 R20/0550U R02/P2000 -DZ BCFG BKN002 18/18 Q1014 TEMPO 1500 KPDX 300753Z 26004KT 10SM CLR 23/11 A3001 RMK AO2 SLP160 T02330106 403610161 KPEO 300753Z AUTO 21007KT 7SM CLR 24/20 A2986 RMK AO2 SLP101 T02390200 KONO 300753Z AUTO 28003KT 10SM CLR 16/04 A3015 RMK AO2 SLP199 T01560039 KNXF 300756Z AUTO 28005KT 6SM HZ BKN012 21/18 A2996 RMK AO2 SLP231 T02110183 402560194 $ RCKH 300730Z 24009KT 9999 FEW022 31/23 Q1011 NOSIG RMK A2986 KONP 300755Z AUTO 00000KT 5SM BR CLR 11/09 A3003 RMK AO2 LFMY 300730Z AUTO 32011KT 270V340 CAVOK 20/11 Q1013 KPEQ 300735Z AUTO 12007KT 10SM CLR 28/11 A3009 RMK AO2 T02750105 LFOH 300730Z AUTO 32009KT 9999 SCT025 SCT034 14/08 Q1018 LEXJ 300730Z 11003KT 9999 BKN035 18/13 Q1018 KPGA 300753Z AUTO 08005KT 10SM CLR 26/13 A3020 RMK AO2 SLP153 T02560128 TSNO LFOJ 300730Z AUTO 33004KT 270V010 CAVOK 14/10 Q1019 KONT 300753Z 26003KT 10SM SCT160 22/17 A2999 RMK AO2 SLP137 T02170167 403610183 LFOK 300730Z AUTO 24005KT 200V290 9999 FEW018 15/10 Q1017 LFPB 300730Z AUTO 27004KT 200V330 CAVOK 15/09 Q1018 KNYC 300751Z AUTO 00000KT 10SM CLR 27/22 A2994 RMK AO2 SLP129 T02670217 LFPC 300730Z AUTO 27006KT 240V310 CAVOK 15/11 Q1017 KPGD 300753Z AUTO 21003KT 10SM CLR 25/25 A3000 RMK AO2 SLP157 T02500250 WIHH 300700Z 07011KT 6000 SCT018 33/20 Q1011 NOSIG KOPF 300753Z AUTO 00000KT 10SM CLR 27/24 A3000 RMK AO2 SLP160 T02720239 KPEX 300753Z AUTO 22005KT 10SM CLR 13/12 A3003 RMK AO2 T01300120 PTTP 300752Z 29003KT 15SM SCT018 BKN130 OVC300 27/26 A2976 RMK SHRAB12E22 SLP076 T02680257 KONX 300755Z AUTO 00000KT 10SM CLR 22/20 A2996 RMK AO2 T02220203 VQPR 300750Z 29004KT 8000 RA SCT030 OVC050 21/14 Q1013 NOSIG KNYG 300756Z 22009KT 10SM FEW055 26/23 A2993 RMK AO2 SLP136 T02610228 KNXP 300756Z VRB03KT 10SM BKN090 26/22 A3010 RMK AO2 SLP152 T02560217 403830250 $ LFPG 300730Z 29006KT 9999 FEW020 15/10 Q1018 NOSIG LFOP 300730Z AUTO 28007KT 250V320 9999 FEW015 14/10 Q1018 KONZ 300754Z AUTO 26004KT 10SM CLR 20/16 A2991 RMK AO2 KPEZ 300755Z AUTO 10003KT 10SM CLR 23/22 A3005 RMK AO2 T02330215 ETAR 300758Z AUTO VRB06KT 9999 CLR 16/07 A3000 RMK AO2 SLP160 T01640071 $ LFQA 300730Z AUTO 26005KT 230V310 9999 FEW020 BKN074 15/10 Q1017 LFQB 300730Z AUTO 31007KT CAVOK 16/10 Q1018 LFOT 300730Z AUTO 35005KT 310V030 CAVOK 15/09 Q1019 KNYL 300757Z AUTO 00000KT 10SM CLR 33/18 A2989 RMK AO2 SLP118 T03280183 KOPL 300735Z AUTO 00000KT 25/24 A3000 RMK AO2 T02540236 PWINO LFPM 300730Z AUTO 29004KT 240V330 CAVOK 16/10 Q1018 LFOV 300730Z AUTO 35003KT CAVOK 15/10 Q1019 KPHD 300753Z AUTO 32009KT 10SM FEW020 SCT031 SCT041 24/20 A2994 RMK AO2 SLP132 T02390200 KOPN 300735Z AUTO 14003KT 10SM OVC090 25/25 A2998 RMK AO2 LFPN 300730Z AUTO 28007KT CAVOK 16/11 Q1018 ESKN 300750Z 24008KT 9999 BKN009 14/13 Q0996 KPHF 300754Z 21006KT 10SM CLR 24/22 A2996 RMK AO2 SLP145 T02440222 LFPO 300730Z 31004KT 270V350 9999 FEW026 16/10 Q1018 NOSIG LFQG 300730Z AUTO 33003KT 280V010 CAVOK 15/10 Q1018 LEZG 300730Z 30019KT 9999 BKN066 19/11 Q1015 WIII 300730Z 04020KT 8000 SCT022 32/21 Q1010 NOSIG LGHI 300750Z VRB03KT CAVOK 28/24 Q1005 KPIA 300754Z 28004KT 10SM CLR 20/16 A3010 RMK AO2 SLP187 T02000156 LFPT 300730Z AUTO 32005KT 280V010 9999 FEW017 15/11 Q1018 KORB 300753Z AUTO 28007KT 10SM CLR 16/10 A2984 RMK AO2 KPIB 300755Z AUTO 00000KT 10SM CLR 24/22 A3000 RMK AO1 LFRB 300730Z 32005KT 290V350 9999 FEW022 15/11 Q1021 NOSIG GAMB 300600Z 00000KT CAVOK 25/24 Q1014 LEZL 300730Z 29001KT CAVOK 26/14 Q1012 NOSIG KPHL 300754Z 20007KT 10SM SCT180 SCT250 26/22 A2993 RMK AO2 SLP135 T02560222 $ KORC 300735Z AUTO 00000KT 10SM CLR 16/14 A3014 RMK AO2 LFRC 300730Z AUTO 31006KT 280V350 9999 BKN020 14/10 Q1019 LFRD 300730Z AUTO 35010KT 9999 SCT028 BKN037 BKN043 16/10 Q1020 KORD 300751Z 27007KT 10SM CLR 21/14 A3001 RMK AO2 SLP158 T02060139 KPGV 300755Z AUTO 00000KT 7SM CLR 22/21 A2997 RMK AO2 LFPV 300730Z AUTO 31008KT 280V350 CAVOK 14/10 Q1018 KORE 300752Z AUTO 00000KT 9SM CLR 18/17 A2991 RMK AO2 SLP124 T01830172 KPIE 300753Z AUTO 00000KT 10SM CLR 24/24 A2996 RMK AO2 SLP146 T02440239 KPHN 300755Z AUTO 00000KT 10SM CLR 15/14 A2989 RMK AO2 KORF 300751Z AUTO 20004KT 10SM CLR 23/21 A2995 RMK AO2 SLP143 T02330206 TSNO RCMQ 300730Z 31011KT 9999 FEW010 FEW014CB SCT025 BKN200 31/23 Q1011 NOSIG RMK A2987 CB E STNRY KORG 300755Z AUTO 00000KT 10SM SCT120 27/27 A3002 RMK AO2 T02730273 KPHP 300755Z AUTO 25003KT 10SM CLR 13/11 A3017 RMK AO2 SLP198 T01330111 LFRG 300730Z AUTO 33006KT 300V010 9999 BKN024 BKN031 15/10 Q1019 GAKY 291800Z 28008KT 9999 SCT030 SCT250 31/23 Q1012 LFRH 300730Z AUTO 35006KT CAVOK 14/10 Q1021 KPIH 300753Z AUTO 00000KT 10SM CLR 08/06 A3029 RMK AO2 SLP222 T00830056 KORH 300754Z AUTO 26009KT 10SM CLR 22/18 A2993 RMK AO2 SLP126 T02220183 LFQQ 300730Z AUTO 29005KT 260V320 9999 FEW009/// OVC076/// ///TCU 14/11 Q1016 LFRI 300730Z AUTO 01006KT CAVOK 15/11 Q1020 KOSA 300735Z AUTO 04003KT 10SM CLR 25/23 A3005 RMK AO1 T02510230 LFRJ 300730Z AUTO 33003KT 290V360 CAVOK 14/12 Q1021 LFSB 300730Z 14005KT 050V170 9999 FEW026 15/10 Q1017 NOSIG KOQT 300753Z AUTO 00000KT 10SM CLR 26/23 A3001 RMK AO2 SLP141 T02560228 KPHT 300755Z AUTO 36004KT 10SM FEW026 24/23 A3005 RMK LFRK 300730Z AUTO 30009KT CAVOK 15/11 Q1019 KOQU 300250Z 25012KT 15SM SKC 25/20 A2992 RMK LAST ESMK 300750Z 32004KT 280V020 9999 FEW016 SCT019 16/11 Q1000 KPIL 300753Z AUTO 17003KT 7SM CLR 25/24 A3001 RMK AO2 SLP160 T02500239 KORL 300753Z AUTO 21003KT 10SM FEW045 24/24 A2997 RMK AO2 SLP150 T02440239 KOSC 300753Z AUTO 23008KT 10SM CLR 17/12 A2983 RMK AO2 T01800127 ETEB 300658Z AUTO 23006KT 9999 OVC075 13/09 A3000 RMK AO2 SLP167 T01290089 $ LFRL 300730Z AUTO 34005KT CAVOK 15/12 Q1021 RCNN 300730Z 24007KT 9999 FEW014 SCT200 31/23 Q1010 NOSIG RMK A2985 LFSD 300730Z AUTO VRB02KT CAVOK 17/07 Q1017 LFRM 300730Z AUTO VRB02KT CAVOK 15/09 Q1019 LFRN 300730Z AUTO VRB03KT 9999 FEW031 14/11 Q1020 LFRO 300730Z AUTO 33004KT 270V010 9999 BKN020 BKN026 16/11 Q1020 KPHX 300751Z 14006KT 10SM SCT180 BKN220 OVC270 31/16 A2996 RMK AO2 SLP124 T03060161 LGIO 300720Z VRB02KT CAVOK 29/18 Q1011 LFSG 300730Z AUTO VRB02KT CAVOK 15/07 Q1017 KNZY 300752Z 33005KT 10SM FEW014 FEW080 BKN160 BKN220 21/18 A2997 RMK AO2 SLP149 T02060178 402440194 $ LFRQ 300730Z AUTO 34007KT CAVOK 14/11 Q1021 ESNG 300750Z 09011KT 9999 5000E SCT003 BKN010 BKN013 17/16 Q0993 KOSH 300753Z 25007KT 10SM CLR 20/12 A2995 RMK AO2 SLP127 T02000117 LGIR 300750Z 01003KT CAVOK 32/17 Q1007 NOSIG PTYA 300757Z VRB03KT 12SM SCT016 SCT130 BKN300 30/24 A2974 RMK SLP071 T02990244 ESMQ 300750Z 24006KT 9999 FEW017 16/11 Q0999 KPIR 300753Z AUTO 20005KT 10SM CLR 15/09 A3012 RMK AO2 SLP188 T01500094 LFSI 300730Z AUTO 30005KT 260V350 CAVOK 16/08 Q1017 KORS 300755Z AUTO 00000KT 10SM CLR 16/12 A3009 RMK AO2 KQAJ 300755Z AUTO 00000KT 9999 FEW180 47/M02 A2952 RMK AO2 LTG DSNT S SLP980 T04741020 $ LFRS 300730Z 01004KT 310V050 CAVOK 15/10 Q1020 NOSIG LFRT 300730Z AUTO 31006KT 280V340 CAVOK 14/11 Q1020 KPIT 300751Z 28006KT 5SM HZ FEW030 SCT080 OVC200 24/21 A2992 RMK AO2 RAE02 SLP126 P0000 T02440211 ESMS 300750Z 29004KT 260V360 9999 FEW021 SCT029 16/11 Q1000 KPKB 300753Z AUTO 00000KT 6SM BR CLR 24/22 A2997 RMK AO2 SLP138 T02390222 LFRU 300730Z AUTO VRB03KT 9999 FEW019 14/11 Q1020 LGKC 300750Z /////KT CAVOK 34/20 Q1010 ESNK 300750Z AUTO 34002KT 9999 DZ BKN006/// OVC010/// 15/14 Q0996 REDZ ESMT 300750Z 24010KT 210V270 9999 FEW014 SCT025 16/12 Q0999 LHBC 300545Z 36003KT 9999 FEW020TCU BKN083 17/16 Q1012 LFSL 300730Z AUTO 02007KT 340V040 CAVOK 16/08 Q1017 LFRV 300730Z AUTO 36008KT CAVOK 14/11 Q1020 ESNL 300750Z AUTO 28007KT 240V310 9999 FEW021/// BKN025/// 15/10 Q0993 KPKD 300753Z AUTO 26006KT 10SM CLR 16/13 A2997 RMK AO2 SLP143 T01610128 LFSN 300730Z AUTO VRB02KT 9999 FEW049 BKN056 15/09 Q1017 ESNN 300750Z 29003KT 9999 -DZ FEW047 SCT068 15/14 Q0996 ESOE 300750Z 03004KT 9999 FEW007 SCT013 BKN034 16/15 Q0996 REDZ LGKF 300750Z 00000KT CAVOK 31/20 Q1008 KQBF 300655Z AUTO 28002KT 10SM SCT050 25/21 A3017 RMK AO2 SLP202 T02480210 LFSO 300730Z AUTO VRB03KT CAVOK 16/08 Q1017 ESNO 300750Z AUTO 23004KT 9999 -RA BKN039/// OVC051/// 14/13 Q0995 ESMX 300750Z AUTO 25006KT 210V280 9999 FEW006/// 13/11 Q0999 KOTG 300755Z AUTO 23007KT 10SM CLR 16/12 A3013 RMK AO1 LFTH 300730Z AUTO 27007KT CAVOK 27/11 Q1010 LFRZ 300730Z AUTO 36006KT 330V030 CAVOK 14/11 Q1020 KOTH 300755Z 00000KT 5SM CLR 13/12 A2999 RMK AO1 ESNQ 300750Z 06011KT 3000 DZ BR VV003 15/15 Q0995 GANR 300600Z 24004KT CAVOK 27/24 Q//// LFST 300730Z AUTO VRB02KT CAVOK 14/09 Q1016 ESPA 300750Z 15012KT 9999 SCT009 BKN023 16/14 Q0993 ESNS 300750Z 18005KT 160V230 9999 FEW025 OVC038 15/14 Q0994 ESOK 300750Z AUTO 33006KT 9999 FEW008/// SCT012/// 15/13 Q0997 KOSU 300753Z AUTO 31005KT 10SM BKN048 21/18 A2998 RMK AO2 SLP142 T02110178 LGKL 300750Z 00000KT 9999 FEW030 34/19 Q1006 ESNU 300750Z 20005KT 9999 -RA FEW007 BKN046 14/13 Q0995 KOTM 300753Z AUTO 26005KT 10SM CLR 17/15 A3011 RMK AO2 SLP193 T01670150 ESNV 300650Z AUTO 29007KT 260V340 9999 +RA FEW020/// SCT027/// 14/09 Q0995 ESPE 300750Z AUTO 11007KT 9999 SCT007/// BKN012/// BKN021/// OVC240/// 15/14 Q0993 LGKO 300750Z 31007KT CAVOK 30/19 Q1006 LFSX 300730Z AUTO 00000KT 9999 FEW006/// OVC084/// 14/11 Q1017 ESNX 300750Z AUTO 30002KT 1900NDV BR NCD 13/13 Q0992 LGKP 300750Z 30020KT 9999 FEW016 29/24 Q1006 KQAY 300755Z AUTO VRB02KT 8000 HZ FEW210 46/00 A2949 RMK AO2 SLP981 T04611005 $ LHBP 300730Z 31008KT 9999 -RA SCT006 SCT030 OVC070 18/17 Q1014 NOSIG ETGG 300720Z 27029KT 4000 -DZ BR BKN008 14/13 Q1002 GRN LGKR 300750Z 15004KT CAVOK 31/24 Q1007 NOSIG ESNZ 300750Z 31016KT 9999 OVC013 11/08 Q0998 ETHA 300720Z 32004KT 9999 FEW010 SCT050 13/08 Q1017 BLU+BLU+ VRMM 300700Z 13003KT 9999 FEW018 SCT290 31/24 Q1012 WIMM 300730Z 11008KT 6000 SCT020 31/25 Q1009 KS39 300800Z AUTO 00000KT 10SM CLR 12/M05 A3018 RMK AO2 ETHB 300720Z 26013KT 9999 FEW018 BKN050 14/10 Q1011 BLU BLU+ TEMPO BLU KQCL 300755Z AUTO 06008KT 050V120 9999 CLR 33/18 A2974 RMK AO2 SLP995 T03290176 LHDC 300715Z 33005KT 9999 FEW020 BKN083 20/15 Q1013 NOSIG ETHC 300720Z 27014KT 9999 FEW020 BKN025 15/09 Q1010 BLU BLU+ TEMPO BLU KPMD 300753Z AUTO 14004KT 10SM CLR 26/20 A3006 RMK AO2 SLP142 T02610200 403780200 $ LGLM 300750Z 02010KT CAVOK 29/21 Q1007 LGKV 300750Z 13004KT CAVOK 32/23 Q1007 KPKV 300739Z AUTO 00000KT 10SM SCT090 25/24 A3002 RMK AO2 LFTW 300730Z AUTO 36010KT 9999 FEW044 OVC130 20/09 Q1014 KPLN 300754Z AUTO 26008KT 10SM CLR 22/15 A2979 RMK AO2 SLP082 T02220150 KOVE 300753Z AUTO 08006KT 10SM CLR 31/07 A2988 RMK AO2 SLP117 T03060072 404220194 KOUN 300755Z AUTO 10003KT 10SM CLR 26/21 A3011 RMK AO2 ETHE 300720Z 25011KT 9999 SCT020 SCT060 15/10 Q1013 BLU+ ESOW 300750Z 36008KT 9999 SCT006 14/14 Q0996 RERA ETHF 300720Z 25009KT 9999 SCT029 15/08 Q1014 BLU+BLU+ TEMPO BLU KQDG 300756Z AUTO 11004KT 9999 BKN038 26/22 A2978 RMK AO2 SLP086 T02600223 $ LGKZ 300750Z 17004KT 9999 FEW030 31/14 Q1011 ETGQ 300420Z AUTO 19002KT //// // ////// 11/07 Q1015 /// LGLR 300750Z 00000KT CAVOK 34/14 Q1007 BLU KOWA 300755Z AUTO 23006KT 10SM CLR 16/13 A3007 RMK AO2 KPNA 300735Z AUTO 29008KT 10SM CLR 06/00 A3046 RMK AO2 LGMK 300750Z 28004KT CAVOK 31/16 Q1007 KQEB 300755Z AUTO 11001KT 9999 FEW025 SCT085 18/11 Q1027 RMK AO2 SLP231 T01830106 KOWB 300756Z AUTO 35005KT 10SM CLR 23/19 A3006 RMK AO2 T02330188 SLP174 KPNC 300753Z AUTO 09012KT 10SM FEW055 26/21 A3012 RMK AO2 SLP185 T02610206 KOVL 300753Z AUTO 25006KT 10SM CLR 13/11 A3005 RMK AO2 KPLU 300735Z AUTO 00000KT 10SM CLR 16/12 A3010 RMK AO2 ETHL 300720Z 23005KT 9999 SCT080 14/09 Q1016 BLU+BLU+ KOWD 300753Z AUTO 00000KT 7SM CLR 19/19 A2988 RMK AO2 SLP119 T01940189 ETIC 300758Z AUTO 25008KT 9999 CLR 16/06 A2997 RMK AO2 SLP146 KPNE 300754Z AUTO 21006KT 10SM FEW024 26/21 A2994 RMK AO2 SLP137 T02610211 TSNO $ ETHN 300720Z 23007KT 9999 FEW024 BKN073 13/07 Q1016 BLU BLU LFVP 300800Z 01028G43KT 4200 -RA BR BKN006 BKN026 13/12 Q1004 NOSIG KPMP 300753Z AUTO 24004KT 10SM CLR 27/23 A2999 RMK AO2 SLP156 T02720233 KQEI 300750Z AUTO 17002KT 9999 SCT048 32/22 A2977 RMK A02 TSNO ETIH 300758Z AUTO 27008KT 210V320 9999 SCT075 17/07 A3000 RMK AO2 SLP157 KQEJ 300750Z AUTO 22006KT 9999 FEW048 32/22 A2971 RMK A02 TSNO KOVS 300753Z AUTO 23003KT 10SM CLR 17/14 A3004 RMK AO2 SLP170 T01670144 PWAK 300758Z AUTO 09015KT 9999 SCT070 28/25 A2981 RMK AO2 RAB14E30 SLP101 P0006 T02770249 $ ETHS 300720Z 28014KT 9999 BKN020 14/10 Q1009 WHT BLU TEMPO WHT KOXB 300753Z AUTO 22008KT 10SM FEW018 26/22 A2996 RMK AO2 SLP143 T02560222 TSNO ESSA 300750Z 28006KT 9999 -DZ SCT007 BKN017 16/15 Q0995 NOSIG KQFB 300750Z AUTO 25003KT 9999 CLR 36/21 A2981 RMK A02 TSNO LGMT 300750Z VRB03KT CAVOK 29/21 Q1006 KPOB 300758Z AUTO M 10SM CLR 24/21 A2995 RMK AO2 SLP143 T02390209 $ KPOC 300347Z 26010KT 10SM CLR 24/16 A2999 RMK LAST KQEL 300750Z AUTO 20003KT 9999 CLR 32/23 A2976 RMK A02 TSNO ESSB 300750Z 25008KT 220V280 9999 +RA BR BKN010 BKN019 OVC024 14/13 Q0996 KOXC 300755Z 22003KT 8SM CLR 22/18 A2995 RMK AO1 ETIK 300658Z AUTO M 9999 OVC080 15/08 A3000 RMK AO2 SLP157 T01520084 $ WIOO 300600Z 21004KT 9999 FEW011CB SCT012 29/25 Q1011 NOSIG KPNM 300754Z AUTO 23005KT 10SM CLR 18/13 A2999 RMK AO2 KPMV 300735Z AUTO 22005KT 10SM CLR 19/14 A3017 RMK AO2 T01880137 ESSD 300750Z AUTO 27003KT 240V330 9999 SCT017/// 16/11 Q0996 KQEN 300750Z AUTO / // FEW030 / / RMK A02 TSNO KPOE 300658Z AUTO 35003KT 10SM CLR 27/24 A3001 RMK AO2 SLP160 T02710240 KPOF 300753Z AUTO 02006KT 10SM CLR 23/20 A3007 RMK AO2 SLP176 T02330200 KQEP 300750Z AUTO 21001G12KT 9999 CLR 33/22 A2968 RMK A02 TSNO KQFG 300755Z AUTO VRB05KT 9999 CLR 37/18 A2959 RMK AO2 SLP966 T03660177 KOWP 300755Z AUTO 05007KT 10SM CLR 26/22 A3012 RMK AO2 T02630224 KQEQ 300750Z AUTO 22008G18KT 8000 HZ CLR 30/24 A2959 RMK A02 TSNO RCSS 300730Z 11004KT 9000 4000S -TSRA FEW012 FEW018CB BKN028 BKN050 28/24 Q1011 TEMPO 3000 TSRA RMK TS SSE-S-WSW MOV NE A2988 KQER 300750Z AUTO 8000 /OVC023 32/23 A2971 RMK A02 TSNO KOXI 300755Z AUTO 27006KT 10SM CLR 17/14 A3001 RMK AO1 KQES 300750Z AUTO 9999 CLR 29/24 A2978 RMK A02 TSNO KPNS 300753Z AUTO 35005KT 10SM CLR 26/23 A2994 RMK AO2 SLP138 T02560233 LGPA 300750Z 31008KT CAVOK 33/15 Q1007 KPPA 300755Z AUTO 07006KT 10SM CLR 21/20 A3022 RMK AO2 T02080195 ESTA 300750Z 22005KT 9999 SCT012 15/11 Q1000 KPNT 300735Z AUTO 27006KT 10SM CLR 18/17 A3008 RMK AO2 T01800170 ESSL 300750Z AUTO 24006KT 9999NDV FEW008/// BKN010/// 14/13 Q0997 RERA KQEV 300750Z AUTO 26006KT 9999 CLR 33/23 A2975 RMK A02 TSNO WIPP 300730Z 17006KT 9999 BKN013 34/21 Q1010 NOSIG FKKD 300700Z 00000KT 1400 RADZ SCT003 BKN009 FEW010CB OVC100 24/23 Q1015 TEMPO 3000 -RADZ KQEW 300750Z AUTO 23003KT 9999 CLR 34/22 A2974 RMK A02 TSNO RCTP 300753Z 21006KT 150V270 9999 VCSH FEW020CB BKN035 BKN200 39/23 Q1011 RETS NOSIG RMK CB SE A2988 KPPF 300752Z AUTO 00000KT 10SM BKN110 24/19 A3016 RMK AO2 SLP201 T02440194 KQEX 300750Z AUTO 02003KT 9999 CLR 35/21 A2977 RMK A02 TSNO LGNX 300750Z 33010KT CAVOK 31/21 Q1006 KQEY 300750Z AUTO 25006KT 9999 CLR 34/21 A2979 RMK A02 TSNO ESSP 300750Z 23006KT 9999 BKN009 BKN019 14/13 Q0997 KQFQ 300755Z AUTO VRB05KT 7SM FEW040 32/25 A2970 RMK AO2 SLP052 T03160251 $ KOXR 300751Z AUTO 00000KT 9SM FEW009 19/16 A2998 RMK AO2 SLP151 T01890161 402280183 KOZA 300735Z AUTO 16007KT 10SM CLR 26/13 A3013 RMK AO2 KQFT 300750Z AUTO 18006KT 9999 FEW017 33/23 A2970 RMK A02 TSNO ESST 300750Z AUTO 32004KT 290V360 9999 FEW038/// BKN055/// 14/13 Q0998 KQFU 300750Z AUTO 03006G12KT 9999 CLR 31/23 A2974 RMK A02 TSNO KPOU 300753Z 00000KT 10SM CLR 21/19 A2989 RMK AO2 SLP119 T02110194 FKKL 300700Z 26008KT CAVOK 27/23 Q1013 KQFV 300750Z AUTO 1200 /CLR 31/19 / RMK A02 TSNO ESTL 300750Z AUTO 00000KT 9999NDV FEW015/// SCT020/// 14/11 Q1000 KPOV 300725Z AUTO 29005KT 10SM SCT032 23/15 A2995 RMK AO2 KOXV 300735Z AUTO 25006KT 10SM CLR 18/14 A3012 RMK AO2 ESUD 300750Z AUTO 28010KT 9999 OVC020/// 12/10 Q0993 ESSV 300750Z 24010KT 9999 FEW011 SCT043 15/14 Q0998 FKKN 300700Z 00000KT 9999 BKN016 19/19 Q1019 KQFX 300750Z AUTO 21002KT 9999 FEW017 33/23 A2974 RMK A02 TSNO KPPO 300755Z AUTO 27003KT 10SM CLR 16/16 A3002 RMK AO2 T01600160 KPOY 300755Z AUTO 28007KT 10SM CLR 15/00 A3032 RMK AO2 KPPQ 300735Z AUTO 00000KT 10SM CLR 20/17 A3014 RMK AO2 T01990165 KPQI 300755Z AUTO 00000KT 10SM FEW002 FEW060 11/09 A2989 RMK AO1 LFYR 300730Z AUTO VRB02KT CAVOK 16/09 Q1019 FKKR 300700Z 26008KT 9999 FEW020 27/23 Q1012 NOSIG KPRB 300753Z AUTO 28004KT 10SM CLR 18/13 A2998 RMK AO2 SLP144 T01830133 403670139 TSNO KPQL 300753Z AUTO 00000KT 8SM CLR 24/24 A2996 RMK AO2 SLP147 T02440239 TSNO KPRC 300753Z 23003KT 10SM FEW110 21/14 A3026 RMK AO2 SLP158 T02110139 KQGV 300755Z VRB02KT 9999 BKN140 45/00 A2952 RMK SLP980 QNH0999 PA +845 KPQN 300755Z AUTO 00000KT 10SM CLR 15/12 A3013 RMK AO2 KQHN 300658Z 11006KT 9999 SCT120 BKN150 31/14 A2968 RMK SLP954 Q1005 DA6356 KQGX 300758Z AUTO 27008KT 9999 FEW200 44/16 A2953 RMK AO2 SLP001 T04380156 $ KPRG 300735Z AUTO 29007KT 10SM CLR 18/16 A3008 RMK AO2 T01760160 LGPZ 300750Z VRB03KT CAVOK 32/23 Q1008 KOZR 300658Z AUTO 24002KT 9SM BKN120 BKN170 25/25 A2996 RMK AO2 SLP144 T02490246 LGSA 300750Z VRB03KT CAVOK 35/19 Q1007 KOZS 300755Z AUTO 00000KT 10SM CLR 20/17 A3017 RMK AO2 VTBD 300730Z 21007KT 9999 FEW020 SCT120 BKN300 32/23 Q1009 NOSIG ESUT 300750Z AUTO 31011KT 9999 -DZ BKN022/// OVC031/// 11/08 Q0996 KPSC 300753Z AUTO 00000KT 10SM CLR 16/11 A3004 RMK AO2 SLP169 T01560111 403560089 KRAC 300753Z AUTO 26006KT 10SM CLR 19/12 A3000 RMK AO2 SLP153 T01940122 ETML 300720Z AUTO 26018G35KT //// // ////// 14/13 Q1002 /// ETND 300720Z 26013KT 9999 FEW017 SCT060 14/10 Q1011 BLU+BLU TEMPO WHT KOZW 300755Z AUTO 26005KT 10SM CLR 18/14 A2994 RMK AO2 T01750140 KPRN 300656Z AUTO 00000KT 8SM CLR 25/23 A2997 RMK AO2 SLP142 T02500233 ETMN 300720Z 28019KT 9999 SCT019 BKN038 14/10 Q1007 BLU BLU TEMPO WHT KPSF 300754Z AUTO 00000KT 4SM BR CLR 17/17 A2993 RMK AO2 SLP106 T01720167 KPRO 300755Z AUTO 26006KT 10SM CLR 16/15 A3014 RMK AO2 T01640151 LGRP 300750Z 26009KT CAVOK 30/22 Q1005 NOSIG KQHY 300756Z AUTO 35003KT 10SM SCT049 26/24 A2995 RMK AO2 LTG DSNT S SLP144 T02550239 KQL5 300655Z 07008KT 9000 HZ FEW080 36/22 A2957 RMK SLP968 T03620218 ETNG 300750Z 23007KT 9999 -RA FEW015 BKN050 13/11 Q1016 TEMPO -SHRA ETNH 300742Z 26021KT 5000 -RA BR FEW010 BKN016 BKN042 13/12 Q1005 RERA WHT WHT TEMPO YLO KQIR 300758Z 22009KT 9999 CLR 44/13 A2950 RMK AO2A SLP990 T04400134 $ LIBA 300655Z 25002KT 9999 FEW030 30/20 Q1008 RMK FEW VIS MIN 9999 WIND THR29 26004KT BLU VTCC 300730Z 20005KT 9999 FEW020 BKN032 28/21 Q1011 A2985 NOSIG KPRS 300735Z AUTO 00000KT 10SM CLR 25/18 A3008 RMK AO2 LTG DSNT W T02510182 LGSK 300750Z /////KT CAVOK 31/23 Q1008 KT20 300755Z AUTO 00000KT 10SM BKN007 25/24 A3004 RMK AO2 LTG DSNT N T02500243 KPSK 300735Z AUTO 00000KT 4SM BR 21/21 A3006 RMK AO2 T02050205 KPTB 300735Z AUTO 00000KT 10SM CLR 23/23 A2997 RMK AO2 T02310231 LIBC 300650Z VRB02KT CAVOK 32/16 Q1010 KRAL 300753Z AUTO 26003KT 10SM CLR 22/17 A3000 RMK AO2 SLP139 T02220172 403610189 ETNL 300720Z 25015KT 9999 FEW008 BKN013 14/12 Q1003 GRN GRN VTBO 300700Z 17005KT 9999 FEW022 29/25 Q1011 LIBD 300750Z 08006KT CAVOK 32/18 Q1009 KRBD 300753Z 12003KT 10SM CLR 25/19 A3004 RMK AO2 SLP162 T02500189 LGSM 300750Z 02008KT CAVOK 30/19 Q1006 KPSM 300758Z 26004KT 10SM CLR 22/20 A2985 RMK AO2A SLP110 T02240195 $ LHKE 300745Z 33004KT 9999 FEW020 BKN070 18/16 Q1014 TEMPO -RA RMK BLU KPSN 300755Z AUTO 00000KT 10SM CLR 24/21 A3005 RMK AO2 T02460208 LIBF 300650Z VRB03KT CAVOK 31/16 Q1008 ETNN 300720Z 23002KT 9999 FEW015 SCT050 BKN080 13/11 Q1015 BLU BLU+ TEMPO WHT VTCH 300700Z 20004KT 2000 1000SE RA FEW012 BKN025 25/22 Q1009 A2979 INFO LGRX 300750Z 27004KT CAVOK 31/23 Q1007 LGSO 300750Z 08004KT CAVOK 31/19 Q1007 KPRX 300755Z 00000KT 10SM CLR 27/20 A3005 RMK AO1 KPSO 300755Z AUTO 00000KT 10SM BKN120 13/08 A3051 RMK AO2 T01340076 LIBG 300650Z 12003KT 090V240 CAVOK 30/19 Q1008 KRAP 300752Z AUTO 31007KT 10SM CLR 13/09 A3022 RMK AO2 SLP214 T01280089 KPSP 300753Z AUTO 31006KT 10SM CLR 34/18 A2991 RMK AO2 SLP123 T03390183 404060283 TSNO KRBG 300753Z AUTO 00000KT 10SM CLR 24/09 A2997 RMK AO2 SLP144 T02390089 403940156 LGTG 300750Z 00000KT CAVOK 34/13 Q1008 BLU LIBH 300655Z /////KT CAVOK 31/20 Q1008 RMK SKC QUK / QUL / VIS MAR 20 KM VIS MIN 9999 VTBS 300730Z 18010KT 150V210 9999 FEW020 SCT120 BKN300 31/23 Q1009 NOSIG LGSR 300750Z 26008KT CAVOK 34/14 Q1006 VTCL 300700Z 22009KT 9999 SCT020 BKN025 OVC120 30/22 Q1009 A2981 NOSIG INFO LICA 300650Z 25008KT 210V270 9999 SCT025 27/22 Q1011 VTBU 300730Z 21008KT 7000 FEW020CB SCT040 BKN120 29/23 Q1009 A2982 KRAS 300755Z AUTO 21003KT 10SM CLR 27/26 A3001 RMK AO2 T02670257 KRCA 300758Z AUTO 36004KT 10SM CLR 16/08 A3021 RMK AO2 SLP211 T01560082 $ ETNS 300720Z 27024G36KT 5000 -RADZ BR BKN010 13/12 Q1004 GRN LICB 300650Z VRB02KT CAVOK 27/13 Q1012 KPTK 300753Z AUTO 28008KT 10SM CLR 19/14 A2992 RMK AO2 SLP124 T01940139 $ KPUB 300753Z AUTO 09005KT 10SM CLR 20/09 A3029 RMK AO2 SLP188 T02000094 ETNT 300720Z 28015KT 9999 FEW022 BKN044 12/10 Q1009 BLU BLU TEMPO WHT VTCN 300700Z 16008G16KT 9999 SCT020 OVC100 26/20 Q1009 A2981 LICC 300750Z VRB01KT CAVOK 31/11 Q1011 KPUC 300753Z AUTO 00000KT 10SM CLR 16/M07 A3032 RMK AO2 SLP179 T01611072 TSNO KRBL 300754Z AUTO 32004KT 10SM CLR 24/06 A2988 RMK AO2 SLP113 T02390056 404330233 LICD 300650Z 34010KT CAVOK 28/24 Q1011 VTCP 300700Z 21008KT 9999 BKN022 OVC120 30/21 Q1008 A2979 RWY19 INFO C LIBN 300655Z VRB03KT CAVOK 30/25 Q1008 RMK SKC VIS MIN 9999 WIND THR14 VRB03KT BLU KPTN 300755Z AUTO 15003KT 5SM CLR 25/24 A3002 RMK AO1 KRCE 300735Z AUTO 06006KT 8SM 25/25 A3013 RMK AO2 ETNW 300720Z 27018KT 9999 SCT020 BKN070 15/09 Q1011 BLU BLU TEMPO WHT LICF 300655Z 01004KT 9999 FEW025 29/25 Q1010 RMK FEW QUK 1 QUL 0 VIS MAR 16 KM MON LIB NC VIS MIN 9999 KPSX 300753Z AUTO 26004KT 9SM CLR 27/25 A3001 RMK AO2 SLP162 T02670250 KRBO 300755Z AUTO 00000KT 5SM BR CLR 25/24 A3002 RMK AO2 T02450238 LICG 300655Z /////KT CAVOK 28/19 Q1011 RMK SKC VIS MIN 9999 WIND THR08 26006KT WIND THR21 21007KT BLU LIBP 300650Z 00000KT CAVOK 29/19 Q1009 LGSY 300750Z 36006KT CAVOK 29/22 Q1006 BLU KT35 300735Z AUTO 20008KT 10SM CLR 27/22 A3004 RMK AO2 T02730220 VTCT 300700Z 17008KT 9999 BKN025 BKN110 28/23 Q1009 A2982 LIBR 300745Z 34005KT CAVOK 30/22 Q1009 NOSIG LICJ 300750Z 33004KT CAVOK 29/21 Q1011 LGTS 300750Z 28005KT CAVOK 30/20 Q1007 NOSIG KPUJ 300755Z AUTO 32004KT 7SM CLR 26/26 A2998 RMK AO2 KPTS 300755Z AUTO 07006KT 10SM BKN120 25/19 A3015 RMK AO2 T02450194 KPTT 300755Z AUTO 10003KT 10SM VCTS BKN042 BKN048 OVC055 22/20 A3020 RMK AO2 LTG DSNT SW THRU N KPVB 300735Z AUTO 27007KT 10SM CLR 17/15 A3006 RMK AO1 T01700150 LICL 300655Z 00000KT CAVOK 28/18 Q1009 RMK SKC QUK 1 QUL 0 VIS MAR 18 KM VIS MIN 9999 KPVC 300755Z 22009KT 9SM CLR 22/18 A2989 RMK AO1 KQMC 300655Z AUTO 35002KT 10SM SCT049 24/19 A2813 RMK AO2 SLP522 T02360193 LIBV 300655Z 35004KT CAVOK 30/20 Q1010 RMK SKC VIS MIN 9999 WIND THR32 01004KT WIND THR14 02004KT BLU KPVD 300751Z AUTO 20004KT 8SM CLR 23/21 A2990 RMK AO2 SLP125 T02330211 KRDD 300753Z AUTO 35003KT 10SM CLR 27/04 A2989 RMK AO2 SLP114 T02670044 404390244 $ KPTV 300755Z AUTO 16006KT 10SM CLR 27/04 A2991 RMK AO1 40420 0210 ETOU 300758Z AUTO 26008KT 9999 CLR 17/08 A2998 RMK AO2 SLP152 T01680080 KRCM 300735Z AUTO 00000KT 10SM CLR 18/18 A3016 RMK AO2 GCGM 300700Z 25006KT 9999 FEW025 21/17 Q1016 RMK R09/28003KT ARP/28004KT KPVE 292135Z AUTO 00000KT 1/4SM 35/24 A2997 RMK GCFV 300730Z 36018KT 9999 FEW022 23/18 Q1015 KPTW 300754Z AUTO 17003KT 10SM FEW039 BKN070 24/23 A2994 RMK AO2 SLP132 T02440233 KRBW 300755Z AUTO 00000KT 10SM BKN008 BKN016 25/23 A2996 RMK AO2 KPVF 300755Z AUTO 08008KT 10SM OVC075 28/02 A3006 RMK AO1 LIBY 300655Z 24003KT CAVOK 30/18 Q1009 RMK SKC QUK 1 QUL 0 VIS MAR 30 KM VIS MAX 30 KM VIS MIN 9999 KPVG 300755Z AUTO 00000KT 5SM CLR 19/18 A2998 RMK AO1 KRDG 300754Z AUTO 18004KT 10SM SCT028 BKN038 26/22 A2990 RMK AO2 SLP127 T02560222 KQMH 300755Z AUTO VRB04KT 9999 FEW110 31/10 A2989 RMK AO2 SLP001 T03110098 LICR 300650Z 35014KT CAVOK 29/20 Q1010 KRCR 300735Z AUTO 26004KT 10SM CLR 19/15 A3002 RMK AO2 GCHI 300700Z 34020KT 9999 FEW017 23/19 Q1017 LIEA 300750Z 28006KT 240V320 CAVOK 29/19 Q1012 KPWA 300753Z AUTO 05008KT 9SM FEW070 27/23 A3011 RMK AO2 SLP177 T02670228 KPVJ 300755Z AUTO 00000KT 10SM CLR 24/21 A3007 RMK AO2 T02380205 LIEB 300655Z 34004KT CAVOK 26/23 Q1009 RMK SKC QUK 1 QUL 0 VIS MAR 30 KM MON LIB VIS MIN 9999 LICT 300655Z 19004KT 170V240 CAVOK 28/20 Q1010 RMK SKC VIS MIN 9999 WIND THR13 /////KT BLU KRDK 300735Z AUTO 00000KT 10SM CLR 16/16 A3017 RMK AO2 LIEC 300655Z 21004KT CAVOK 26/23 Q1010 RMK FEW FEW200 QUK 1 QUL 0 VIS MAR 30 KM VIS MIN 9999 KPWC 300753Z AUTO 00000KT 10SM CLR 17/13 A2999 RMK AO2 LIED 300655Z 33003KT CAVOK 24/22 Q1010 RMK FEW FEW200 VIS MIN 9999 WIND THR35 32003KT WIND THR17 30003KT BLU KRCV 300750Z AUTO 26006KT 10SM CLR 12/08 A3054 RMK AO2 T01190076 KRDM 300756Z AUTO 17004KT 10SM CLR 13/M01 A3017 RMK AO2 SLP193 T01331011 403330078 LIEE 300750Z VRB03KT CAVOK 26/20 Q1010 KPUW 300753Z AUTO 00000KT 10SM CLR 12/00 A3018 RMK AO2 SLP207 T01220000 403060083 FLHN 300700Z VRB02KT CAVOK 17/06 Q1022 KRCX 300755Z AUTO 24006KT 10SM CLR 18/13 A2997 RMK AO2 T01750128 KPWG 300755Z AUTO 21004KT 10SM CLR 27/18 A3005 RMK AO1 LICZ 300655Z 23002KT CAVOK 27/18 Q1010 RMK SKC VIS MIN 9999 WIND THR28 21002KT A2985 BLU KRCZ 300735Z AUTO 00000KT 10SM CLR 24/22 A2997 RMK AO2 T02370215 KRDR 300758Z AUTO 29006KT 10SM CLR 17/14 A2995 RMK AO2 SLP144 T01730140 ETSA 300720Z 28005KT 9999 FEW020 14/08 Q1017 BLU+BLU+ KPWK 300752Z AUTO 27006KT 10SM CLR 21/13 A3002 RMK AO2 SLP160 T02110128 ETSB 300720Z 25007KT 9999 FEW014 11/08 Q1016 BLACKBLU+ KRDU 300751Z 16003KT 10SM FEW090 SCT250 24/21 A2997 RMK AO2 SLP144 T02390211 $ KPVU 300755Z AUTO 12005KT 10SM CLR 16/01 A3028 RMK AO1 KPWM 300751Z AUTO 00000KT 8SM CLR 19/19 A2986 RMK AO2 SLP112 T01940189 KRFD 300754Z 25004KT 10SM CLR 18/14 A3005 RMK AO2 SLP170 T01830144 KPVW 300735Z AUTO 06003KT 10SM CLR 21/16 A3018 RMK AO2 T02130160 KPXE 300735Z AUTO 19003KT 7SM CLR 26/24 A2997 RMK AO2 T02610239 LIEO 300750Z 23008KT CAVOK 31/17 Q1010 KREO 300752Z AUTO 12004KT 17/M03 A3023 RMK AO1 SLP201 T01671028 403330067 KT65 300755Z AUTO 14005KT 7SM CLR 26/24 A3001 RMK AO2 T02580235 ETSH 300720Z 25020KT 9999 SCT033 15/07 Q1011 BLU+BLU+ TEMPO BLU KRFI 300735Z AUTO 00000KT 10SM CLR 24/23 A3005 RMK AO2 T02420225 ETSI 300720Z 27006KT 9999 FEW060 15/09 Q1016 BLU+BLU+ LHPA 300745Z 36002MPS 9999 -RA FEW017 OVC083 16/13 Q1016 NOSIG RMK BLU KPWT 300755Z AUTO 05005KT 10SM CLR 19/08 A3012 RMK AO1 ETSL 300720Z 25005KT 9999 SCT060 15/08 Q1016 BLU+BLU+ ETSN 300720Z 27004KT 9999 FEW070 15/09 Q1016 BLACKBLU+ LGZA 300750Z 33006KT CAVOK 33/22 Q1008 GCLA 300730Z 34010KT 310V010 9999 SCT030 23/16 Q1018 KRGK 300751Z AUTO 29003KT 10SM CLR 17/13 A3001 RMK AO2 FLKK 300700Z 12004KT 9000 -HZ 20/11 Q1024 NOSIG KPYM 300752Z AUTO 00000KT 8SM CLR 21/20 A2990 RMK AO2 SLP124 T02060200 KT82 300735Z AUTO 26003KT 10SM CLR 25/19 A3011 RMK AO2 T02480190 LHPP 300715Z 01006KT 9999 FEW010 SCT020 OVC083 18/14 Q1015 FMCH 300700Z 09010KT 060V120 9999 FEW022TCU 28/22 Q1018 NOSIG KRHI 300753Z AUTO 27013KT 10SM CLR 18/11 A2992 RMK AO2 SLP123 T01780111 LHPR 300715Z 30007KT CAVOK 16/14 Q1016 RERA AGGH 300700Z 23003KT 9999 HZ FEW017 SCT120 BKN350 28/23 Q1007 KRIC 300754Z 19004KT 10SM SCT250 24/21 A2995 RMK AO2 SLP145 T02390211 KPYX 292335Z AUTO 03013G21KT 10SM 32/20 A3014 RMK AO2 T03150202 KRHP 300737Z AUTO 00000KT 3SM BR CLR 19/19 A3003 RMK AO2 GCLP 300730Z 36021KT 9999 FEW020 23/17 Q1015 NOSIG KPZQ 300755Z AUTO 22006KT 10SM SCT075 20/15 A2980 RMK AO2 T01950146 KQRH 300756Z AUTO 07004KT 8000 M CLR 38/20 A2966 RMK AO2 SLP037 T03800197 $ KSAA 300755Z AUTO 16005KT 10SM CLR 07/M07 A3044 RMK AO2 KQSA 300655Z VRB05KT 9999 FEW080 SCT200 32/11 A2977 RMK AO2A SLP971 KRIL 300753Z AUTO 00000KT 10SM CLR 16/M02 A3032 RMK AO2 SLP195 T01561017 KSAC 300753Z AUTO 18003KT 10SM CLR 21/13 A2988 RMK AO2 SLP117 T02060133 404170178 KRHV 300448Z 28009KT 10SM SKC 22/13 A2997 RMK TOWER CLOSED UNTIL 0700L KSAD 300751Z AUTO 15007KT 10SM BKN110 23/18 A3015 RMK AO2 SLP153 T02280183 FMEE 300730Z 07015KT 9999 FEW030 26/18 Q1021 NOSIG KSAF 300753Z AUTO 32003KT 10SM -RA BKN085 OVC110 16/14 A3043 RMK AO2 SLP216 P0003 T01560139 KQSF 300755Z AUTO 03003KT 9999 FEW160 31/07 A2992 RMK AO2 SLP010 T03070074 KU16 300658Z AUTO 00000KT 10SM CLR 14/M07 A3023 RMK AO2 SLP852 T01441072 $ FMCZ 300730Z 15006KT 9999 SCT023TCU 28/20 Q1018 NOSIG KSBA 300753Z AUTO 00000KT 8SM OVC009 18/16 A2998 RMK AO2 SLP152 T01780156 402330167 TSNO $ KSBD 300250Z 23008KT 7SM BKN100 29/15 A2992 KRIV 300658Z AUTO 31005KT 10SM CLR 22/17 A3002 RMK AO2 SLP150 T02240174 KRKD 300755Z AUTO 00000KT 8SM CLR 16/15 A2985 RMK AO1 LHSM 300715Z 01004KT 9999 -RA OVC040 15/13 Q1016 NOSIG ETWM 300720Z 24010KT 9999 FEW012 14/10 Q1012 BLU+ KSAN 300751Z 30004KT 10SM FEW014 BKN150 BKN210 22/17 A2999 RMK AO2 SLP155 T02170172 402560206 LHSN 300745Z 34006KT 300V020 CAVOK 19/15 Q1013 NOSIG RMK BLU KRIW 300753Z AUTO 33010KT 10SM CLR 14/M01 A3034 RMK AO2 SLP218 T01441011 KQSN 300755Z AUTO VRB01KT 9999 CLR 29/09 A2989 RMK AO2 SLP999 T02870091 FMEP 300730Z AUTO 19004KT 130V250 9999 // FEW041/// 26/18 Q1021 KQTI 300755Z 33008G12KT 300V020 9999 FEW230 46/06 A2952 RMK AO2A SLP993 T04630062 $ KSAR 300755Z AUTO 34006KT 10SM CLR 21/16 A3011 RMK AO2 T02110159 KSAT 300751Z 19005KT 10SM FEW250 26/21 A3007 RMK AO2 SLP162 T02610206 KSAV 300753Z AUTO 00000KT 10SM CLR 25/23 A2994 RMK AO2 SLP138 T02500228 TSNO $ KSBM 300753Z AUTO 28011KT 10SM CLR 21/12 A2994 RMK AO2 SLP133 T02060122 KSCD 300755Z AUTO 10SM CLR 25/25 A2997 RMK AO2 T02490247 LHUD 300715Z 35006KT 9999 FEW010 SCT033 20/16 Q1013 KSBN 300754Z 24005KT 10SM CLR 17/14 A3001 RMK AO2 SLP157 T01720144 KSAW 300756Z AUTO 26010KT 10SM CLR 19/12 A2979 RMK AO2 T01850119 GBYD 300800Z 26012KT 9000 -RA BKN010 BKN100 24/24 Q1013 LJCE 300730Z 05004KT 020V080 9999 -DZ FEW007 BKN020 OVC035 16/14 Q1015 RMK WHT KSCF 300755Z AUTO 04009KT 10SM FEW026 FEW037 BKN065 30/26 A3001 RMK A01 KSBO 300735Z AUTO 00000KT 10SM SCT085 OVC120 A2996 RMK AO2 KRKP 300753Z AUTO 00000KT 8SM 27/24 A3001 RMK AO2 SLP164 T02670244 $ KSBP 300756Z AUTO 30004KT 9SM CLR 16/14 A2999 RMK AO2 SLP153 T01610144 402560150 KSCH 300153Z 00000KT 10SM CLR 27/18 A2990 RMK LAST KSAZ 300753Z AUTO 24005KT 10SM CLR 16/12 A2998 RMK AO2 KRKR 300755Z AUTO 01008KT 10SM CLR 27/23 A3006 RMK AO2 T02660225 LIMA 300700Z 05007KT 360V080 9999 FEW040 22/17 Q1010 KRKS 300754Z AUTO 23003KT 10SM CLR 14/M07 A3041 RMK AO2 SLP223 T01441072 KSBS 300755Z AUTO 00000KT 10SM CLR 08/00 A3043 RMK AO1 T00800000 KSDA 300735Z AUTO 00000KT 10SM 17/17 A3018 RMK AO2 KSDB 300748Z AUTO 27006KT 10SM CLR 25/12 A3020 RMK AO2 SLP154 T02500122 403560217 KSCK 300755Z AUTO 35007KT 10SM CLR 24/10 A2988 RMK AO2 SLP116 T02390100 404110172 LIMC 300750Z 09006KT 050V140 9999 SCT045 24/17 Q1010 NOSIG KU42 300755Z AUTO 24005KT 10SM CLR 17/00 A3027 RMK AO1 T01710001 LIME 300750Z 24004KT 200V010 9999 SCT050 23/18 Q1010 KRME 300753Z AUTO 09006KT 10SM BKN050 BKN100 23/18 A2985 RMK AO2 SLP103 T02280183 KQVF 300755Z AUTO 00000KT 28/21 A3014 RMK AO2 SLP205 T02750209 PWINO TSNO $ LIMF 300750Z 07007KT 030V100 CAVOK 23/17 Q1010 KSDF 300756Z 34012KT 10SM FEW039 SCT045 OVC250 24/17 A3002 RMK AO2 SLP159 T02440167 LIMG 300650Z VRB02KT 9999 BKN030 24/19 Q1008 KRMG 300753Z AUTO 35005KT 8SM CLR 24/23 A2997 RMK AO2 SLP135 T02440233 KSBY 300754Z AUTO 19006KT 10SM CLR 24/22 A2995 RMK AO2 SLP144 T02390222 LIMH 300655Z /////KT 9999 SCT030 01/M09 Q1022 RMK SCT MON LIB VAL CLD SCT VIS MIN 9999 KQTZ 300755Z 32007G13KT 290V360 9000 HZ CLR 46/04 A2953 RMK SLP994 WND DATA ESTMD ALSTG/SLP ESTMD KSCR 300735Z AUTO 17003KT 10SM SCT070 BKN110 25/22 A2998 RMK AO2 T02450216 LIMJ 300750Z VRB02KT 9999 FEW028 SCT045 27/18 Q1008 KSEA 300753Z 04010KT 10SM CLR 22/11 A3011 RMK AO2 SLP197 T02220111 403220144 FKYS 300700Z 22003KT 9999 SCT003 BKN006 20/19 Q1020 NOSIG LIML 300750Z 10007KT 060V140 9999 FEW020 SCT040 24/17 Q1010 NOSIG KSDL 300753Z 12006KT 10SM CLR 29/17 A2999 RMK AO2 SLP127 T02940167 KRNC 300755Z AUTO 00000KT 8SM CLR 22/22 A3003 RMK KSDM 300753Z AUTO 28003KT 10SM BKN014 20/18 A2999 RMK AO2 SLP149 T02000178 402610183 KRND 300758Z AUTO 22003KT 10SM CLR 25/22 A3006 RMK AO2 SLP170 T02530217 LIMN 300655Z /////KT 9999 BKN015 SCT060 22/19 Q1009 RMK BKN VIS MIN 9999 BLK WHT KRMN 300735Z AUTO 00000KT 7SM SCT032 23/22 A2997 RMK AO2 T02330220 KSEE 300735Z AUTO 29005KT 9SM CLR 21/18 A3000 RMK AO2 LIMP 300650Z 10007KT 060V120 9999 BKN050 23/18 Q1009 KSEG 300753Z AUTO 00000KT 5SM BR FEW013 SCT020 BKN075 23/22 A2989 RMK AO2 SLP118 T02280217 KRNH 300735Z AUTO 26006KT 10SM CLR 18/13 A2999 RMK AO2 T01770125 LIMS 300655Z 13008KT 9999 BKN040 SCT060 24/24 Q1008 RMK OVC VIS MIN 9999 WIND THR30 12008KT BLU KROA 300754Z 28003KT 10SM CLR 22/22 A3000 RMK AO2 SLP147 T02220217 KSFB 300753Z AUTO 25004KT 10SM CLR 24/23 A2996 RMK AO2 SLP145 T02390228 LIMU 300655Z 01014KT 9999 SCT016 24/21 Q1009 RMK BKN QUK 2 QUL 1 SE VIS MAR 15 KM VIS MIN 9999 KROC 300754Z 23006KT 10SM BKN065 OVC080 24/21 A2981 RMK AO2 SLP091 T02440206 $ KQWM 300655Z VRB01KT 9999 SCT180 47/01 A2951 RMK SLP963 WND DATA ESTMD ALSTG/SLP ESTMD QNH999 KRNM 300753Z 27004KT 10SM CLR 20/17 A3000 RMK AO2 SLP143 T02000167 403170161 KSEM 300800Z AUTO 00000KT 10SM BKN080 25/23 A2995 RMK AO2 LIMW 300750Z AUTO VRB02KT CAVOK 22/10 Q1012 VTPH 300700Z 36009KT 280V080 2000+TSRA FEW020CB SCT025 OVC100 24/22 Q1009 KSFF 300753Z AUTO 05004KT 10SM CLR 17/04 A3014 RMK AO2 SLP191 T01670044 403220117 KRNO 300755Z 26003KT 10SM CLR 23/02 A3021 RMK AO2 SLP166 T02330017 403500144 KRMY 300754Z AUTO 00000KT 10SM CLR 17/14 A2996 RMK AO2 T01650135 KSDY 300755Z 19003KT 10SM BKN120 13/10 A3011 RMK AO1 KRNP 300755Z AUTO 25005KT 10SM CLR 20/14 A2992 RMK AO2 T01950141 KSEP 300755Z AUTO 00000KT 10SM CLR 25/18 A3010 RMK AO2 T02500175 KROG 300757Z AUTO 10009KT 10SM CLR 25/22 A3015 RMK AO2 SLP191 T02500217 TSNO LIMZ 300650Z 34004KT 300V010 9000 FEW040 SCT070 22/17 Q1010 LIPA 300655Z 06009KT 9999 SCT050 SCT060 21/17 Q1010 RMK BKN VIS MIN 9999 WIND THR05 06010KT WIND THR23 14009KT A2984 BLU GCRR 300730Z 02015KT 340V060 9999 SCT020 24/19 Q1015 KU68 300755Z AUTO 30006KT 10SM CLR 15/00 A3027 RMK AO2 LIPB 300750Z VRB03KT 9999 FEW070 23/15 Q1011 KRNT 300753Z AUTO 34005KT 10SM CLR 22/13 A3008 RMK AO2 SLP192 T02220133 403110139 KSET 300754Z AUTO 30005KT 10SM CLR 22/17 A3011 RMK AO2 SLP190 T02220167 LIPC 300655Z 31005KT CAVOK 25/23 Q1008 RMK FEW FEW090 VIS MIN 9999 WIND THR11 31005KT WIND THR29 31005KT BLU FLSK 300700Z 00000KT CAVOK 20/11 Q1023 FNBC 300600Z VRB03KT 9000 MIFG FEW012 17/17 Q1018 VTPO 300700Z 17003KT 9999 SCT022 SCT300 31/23 Q1008 KSFM 300755Z AUTO 00000KT 4SM CLR 18/15 A2987 RMK AO1 KRNV 300755Z AUTO 00000KT 10SM SCT055 27/26 A2999 RMK AO2 T02660262 KRPD 300735Z AUTO 26005KT 10SM CLR 17/13 A2998 RMK AO2 T01680128 VTPP 300700Z 18009KT 9999 SCT025 SCT120 BKN300 31/22 Q1008 A2979 LIPE 300750Z VRB04KT 9999 FEW070 24/18 Q1009 LIPF 300655Z 01002KT 9999 SCT030 SCT070 23/19 Q1008 RMK BKN VIS MIN 9999 KSGF 300752Z 01003KT 10SM CLR 23/18 A3016 RMK AO2 SLP198 T02280183 KSFO 300756Z 30006KT 10SM FEW004 16/14 A2997 RMK AO2 SLP149 T01610139 402720139 FNBG 300700Z 01004KT 9999 OVC020 20/16 Q1019 KSGH 291956Z AUTO 20004KT 10SM FEW042 32/25 A2996 RMK AO2 T03220250 LTG DSNT SW-NW SLP136 LIPH 300715Z 06012KT CAVOK 25/18 Q1009 KSEZ 300735Z AUTO 02003KT 10SM CLR 22/14 A3025 RMK AO2 KRPH 300735Z AUTO 00000KT 10SM CLR 25/19 A3005 RMK AO2 T02500190 KSFQ 300735Z AUTO 00000KT 10SM CLR 21/21 A2997 RMK AO2 T02110207 LIPI 300655Z 07015KT 9999 SCT045 BKN050 20/15 Q1010 RMK OVC VIS MIN 9999 WIND THR06 /////KT BLU KROS 300755Z AUTO 27007KT 10SM SCT120 19/14 A2997 RMK AO2 T01920135 KSGJ 300758Z AUTO 23003KT 10SM CLR 23/23 A2995 RMK AO2 SLP141 T02330228 KRPJ 300735Z AUTO 00000KT 10SM CLR 15/14 A3006 RMK AO2 T01510142 LIPK 291550Z 22011KT CAVOK 33/15 Q1005 FNCA 300700Z 17004KT 9999 SCT023 20/20 Q1018 KQXT 300755Z 24005G13KT 8000 DU HZ BKN200 37/00 A2961 RMK SLP961 WND DATA ESTMD ALSTG/SLP ESTMD Q1002 KRQB 300755Z AUTO 27007KT 10SM CLR 19/14 A2991 RMK AO2 T01900135 LIQC 300655Z ///02KT CAVOK 25/23 Q1011 RMK SKC QUK 1 QUL 0 VIS MAR 20 KM VIS MIN 9999 LIPL 300655Z /////KT 9999 SCT060 23/19 Q1009 RMK SCT VIS MIN 9999 WIND THR31 15002KT BLU KSHD 300735Z AUTO 00000KT 7SM CLR 24/22 A2998 RMK AO2 T02420223 KRQE 291953Z AUTO 33006KT 10SM FEW032 FEW070 OVC100 22/09 A3039 RMK AO2 RAE43 SLP170 P0000 T02170089 TSNO KROW 300751Z AUTO 01016G22KT 10SM BKN110 23/18 A3021 RMK AO2 LTG DSNT N SLP157 T02280183 LIPO 300650Z 15007KT 9999 FEW050 23/17 Q1009 KROX 300754Z AUTO 27005KT 10SM CLR 15/12 A2990 RMK AO2 KSFY 300755Z AUTO 32003KT 10SM CLR 18/15 A3006 RMK AO2 T01830146 LIPQ 300750Z 07019KT 9999 SCT040 BKN060 20/16 Q1009 RERA KSFZ 300755Z AUTO 00000KT 5SM CLR 21/20 A2991 RMK AO1 LIPR 300745Z 33002KT CAVOK 29/23 Q1008 VTSB 300700Z 21002KT 8000 SCT020 BKN300 33/26 Q1009 A2981 KSGR 300753Z AUTO 00000KT 7SM CLR 26/24 A3002 RMK AO2 SLP165 T02560239 VTSC 300700Z 07007KT 030V120 9999 SCT022 31/26 Q1009 A2981 RWY20 INFO F LIPS 300655Z 07011KT 9999 FEW090 23/18 Q1009 RMK FEW VIS MIN 9999 WIND THR26 05011KT WIND THR08 06013KT BLU LIRA 300750Z 19005KT 130V280 9999 SCT020 29/21 Q1011 KSGS 300752Z AUTO 25007KT 10SM CLR 19/13 A3000 RMK AO2 T01920130 GCTS 300730Z 05008G19KT 340V130 CAVOK 24/17 Q1016 NOSIG KSGT 300755Z AUTO 02007KT 10SM CLR 27/23 A3003 RMK AO1 LIPU 300700Z 06009KT CAVOK 24/16 Q1009 KSGU 300755Z AUTO 19004KT 10SM CLR 28/01 A3006 RMK AO1 KSHL 300735Z AUTO 00000KT 10SM FEW100 13/12 A3012 RMK AO2 VTSF 300700Z VRB03KT 0200 TSRA SCT016 FEW017CB BKN300 25/24 Q1010 A2984 INFO I / RWY 19 KSHM 300656Z AUTO 02005KT 10SM BKN180 BKN210 17/11 A3041 RMK AO2 SLP230 T01660108 LIQN 291750Z 19008KT CAVOK 29/18 Q1009 LIRE 300655Z 15009KT 9999 SCT016 28/23 Q1011 RMK SCT VIS MIN 9999 WIND THR31 16007KT BLU VTSG 300700Z VRB01KT 9000 SCT020 BKN120 26/23 Q1012 A2989 KSHN 300753Z AUTO 00000KT 10SM CLR 13/08 A3007 RMK AO2 SLP180 T01330078 403390089 $ LIQO 300655Z 11005KT 0000 FG VV/// 21/21 Q1011 RMK VAL INVIS NC VIS MIN 0000 VTSH 300700Z 03006KT 7000 FEW020CB SCT120 BKN300 32/22 Q1009 A2982 CB S KRPX 300655Z AUTO 23003KT 40SM 14/04 A3012 RMK A01 T01440044 LIRF 300750Z 18008KT 130V220 9999 SCT018 27/21 Q1010 NOSIG LIPX 300750Z VRB02KT 9999 FEW015 BKN050 24/17 Q1009 KSIF 300755Z AUTO 00000KT 2SM BR SCT046 SCT050 22/22 A2997 RMK AO2 T02210221 LIRG 300655Z 13005KT CAVOK 27/19 Q1011 LIPY 300650Z 25007KT 220V280 CAVOK 28/18 Q1009 WMBA 300700Z 24007KT 9999 SCT025 SCT150 BKN280 31/26 Q1010 LIRH 300655Z 00000KT CAVOK 23/17 Q1011 LIPZ 300750Z 04017KT 9999 FEW030 SCT060 23/15 Q1009 LIRI 300710Z 00000KT CAVOK 27/20 Q1011 KSHR 300753Z AUTO 00000KT 10SM CLR 12/06 A3027 RMK AO2 SLP224 T01170056 FMMI 300800Z 00000KT 9999 FEW020 21/14 Q1025 NOSIG VTSM 300700Z 17008KT 8000 FEW020 BKN300 31/25 Q1011 A2986 LIRL 300655Z 11003KT 9999 FEW035 23/21 Q1010 KSJC 300753Z AUTO 00000KT 10SM CLR 19/16 A2997 RMK AO2 SLP146 T01890156 403170178 LIRM 300655Z 05002KT 8000 NSC 26/24 Q1010 KTAD 300754Z AUTO 26005KT 10SM BKN120 17/12 A3037 RMK AO2 SLP204 T01670122 KSHV 300756Z 00000KT 10SM CLR 28/22 A3001 RMK AO2 SLP157 T02780222 $ LIQW 300655Z 16004KT 9999 BKN025 25/21 Q1010 VTSP 300730Z VRB02KT 8000 FEW020 SCT120 BKN300 29/23 Q1011 A2987 NOSIG LIRN 300750Z VRB02KT 9999 SCT025 28/21 Q1011 VTSR 300300Z 17004KT 120V250 9000 FEW025 BKN200 29/25 Q1011 A2988 VOR/DME RWY02 INFO V LIRP 300745Z 24007KT 9999 FEW020 SCT040 27/21 Q1009 NOSIG VTSS 300730Z 26010KT 9999 FEW018CB SCT020 BKN300 32/24 Q1009 A2980 NOSIG LIRQ 300750Z VRB02KT 9999 SCT030 28/18 Q1009 VTST 300600Z 22005KT 8000 FEW018 BKN300 32/21 Q1010 RWY08 INFO G WMAU 300700Z 14009KT 9999 TS FEW017CB SCT140 BKN270 32/23 Q//// QFF1010 LIRS 300655Z 12005KT CAVOK 27/22 Q1009 KSKA 300658Z AUTO 10001KT 10SM CLR 20/02 A3014 RMK AO2 SLP194 T01980016 LIRT 300255Z 26014KT CAVOK 19/14 Q1015 RMK SKC MON INVIS VAL INVIS VIS MIN 9999 VTUD 300700Z 15004KT 080V210 9999 SCT022 BKN034 29/24 Q1010 A2982 KRRT 300754Z AUTO 26005KT 10SM CLR 14/12 A2989 RMK AO2 LIRU 300650Z 00000KT 9999 FEW015 BKN020 28/21 Q1011 FMMT 300700Z 24004KT 9999 FEW017 SCT033 BKN100 26/18 Q1021 NOSIG KRSL 300753Z AUTO 04005KT 10SM CLR 19/16 A3020 RMK AO2 SLP213 T01940156 LIRV 300655Z 04003KT 9999 FEW017 24/22 Q1011 FMNM 300700Z 10010KT CAVOK 29/13 Q1018 NOSIG KTAN 300752Z AUTO 22004KT 8SM CLR 23/21 A2989 RMK AO2 SLP120 T02330211 KSJN 300754Z AUTO 06005KT 10SM FEW060 BKN085 18/17 A3032 RMK AO2 SLP169 T01780167 KRSN 300755Z AUTO 00000KT 10SM CLR 26/24 A3005 RMK AO2 T02630241 FMNN 300600Z 21002KT 9999 SCT020 26/22 Q1018 LIRX 300655Z 09009KT 9999 FEW005 22/21 Q1010 RMK FEW VIS MIN 9999 VIS MAR 20 KM KSKF 300658Z AUTO 15003KT 10SM CLR 25/21 A3006 RMK AO2 SLP171 T02530214 $ VTUI 300200Z 14003KT 8000 -RA FEW020 SCT022 BKN080 25/25 Q1012 A2990 INFO D RWY23 KRSP 300706Z AUTO 4SM BR BKN003 BKN120 22/22 A2997 RMK AO2 $ KSIY 300753Z AUTO 06005KT 10SM CLR 23/M01 A3008 RMK AO2 SLP165 T02281006 403720133 TSNO LIRZ 300650Z VRB02KT 9999 FEW030 BKN045 25/19 Q1011 VTUK 300700Z 21006KT 9999 FEW025 BKN100 29/23 Q1009 A2982 RWY03 INFO I VTUL 300700Z 15004KT 080V190 9999 SCT012 BKN025 29/24 Q1010 A2983 KSJS 300755Z AUTO 27004KT 7SM BKN040 BKN050 OVC070 24/23 A2999 RMK AO2 T02400230 KSJT 300751Z 18009KT 10SM CLR 28/15 A3008 RMK AO2 SLP155 T02780150 KRST 300754Z 25009KT 10SM CLR 16/13 A3007 RMK AO2 SLP177 T01610128 KSLB 300735Z AUTO 24005KT 17/15 A3015 RMK AO2 KTCC 300753Z AUTO 27017G24KT 6SM VCTS -RA BR FEW009 SCT030 OVC060 19/17 A3031 RMK AO2 LTG DSNT ALQDS TSE19B22E37 SLP207 P0013 T01890172 KSLC 300753Z 16007KT 10SM FEW150 19/02 A3024 RMK AO2 SLP190 T01890022 VTUO 300700Z 21006KT 170V260 8000 SCT020 SCT120 BKN300 29/25 Q1011 A2986 INFO H RWY 22 KRSV 300755Z AUTO 00000KT 10SM CLR 19/16 A3008 RMK AO2 T01860157 KRSW 300753Z 00000KT 10SM CLR 25/24 A2999 RMK AO2 SLP154 T02500244 KRTN 300753Z AUTO 00000KT 10SM FEW011 SCT110 14/14 A3042 RMK AO2 SLP219 T01440139 KRUE 300753Z AUTO 00000KT 10SM CLR 27/23 A3007 RMK AO2 SLP172 T02670233 KSLE 300756Z AUTO 33005KT 10SM CLR 24/08 A2999 RMK AO2 SLP151 T02390083 403720161 KTBN 300758Z AUTO 36002KT 10SM FEW170 19/18 A3015 RMK AO2 SLP202 T01940178 KSJX 300756Z AUTO 26013G20KT 10SM SCT090 21/16 A2979 RMK AO2 T02050160 VVCR 300730Z 14010KT 9999 FEW015 34/23 Q1009 NOSIG GCXO 300730Z 29019KT 9999 FEW010 BKN013 18/16 Q1019 NOSIG KSLG 300755Z AUTO 00000KT 10SM CLR 24/19 A3013 RMK AO1 KSLH 300755Z AUTO 24006KT 10SM CLR 20/15 A2977 RMK AO2 T02000150 KTAZ 300735Z AUTO 29004KT 10SM CLR 18/16 A3010 RMK AO2 KSLI 300658Z AUTO 00000KT 10SM SCT170 21/19 A2997 RMK AO2 SLP152 T02090190 VVCT 300730Z 35006KT 9999 BKN015 FEW017TCU 29/25 Q1010 NOSIG KTBR 300735Z AUTO 00000KT 10SM CLR 24/22 A2995 RMK AO2 T02410218 FNGI 300700Z VRB02KT 9999 FEW026 15/M00 Q1022 VTUU 300700Z 15004KT 9999 BKN018 28/23 Q1010 A2984 NOSIG KRTS 300755Z AUTO 35006KT 10SM CLR 17/M03 A3025 RMK AO2 LJLJ 300730Z 13007KT 9999 -RA FEW005 BKN040 OVC070 15/14 Q1015 RERA NOSIG VTUV 300500Z 18006KT 9000 SCT018 OVC100 27/23 Q1012 A2989 INFO F RWY 18 KSLK 300751Z AUTO 00000KT 10SM CLR 14/13 A2988 RMK AO2 SLP109 T01440133 LJMB 300730Z 11004KT 060V140 4000 RA BR FEW007 BKN013 OVC033 15/14 Q1016 VTUW 300500Z 15004KT 9000 SCT018 BKN100 25/24 Q1010 A2983 INFO E RWY15 LIVC 300655Z 25024KT CAVOK 12/06 Q1019 RMK FEW FEW050 MON LIB VAL S CLD SCT VIS MIN 9999 VVDN 300730Z 19005KT 9999 SCT013 BKN050 27/22 Q1011 NOSIG KTCL 300753Z AUTO 29003KT 7SM CLR 24/23 A2998 RMK AO2 SLP150 T02390228 LIVD 300655Z 08010KT 7000 SCT020 14/10 Q1016 RMK BKN SCT070 VIS MIN 7000 KTCM 300658Z AUTO 00000KT 10SM CLR 17/10 A3009 RMK AO2 SLP192 T01720104 $ LIVE 300655Z /////KT 9999 FEW010 11/08 Q1016 RMK BKN SCT070 VIS MIN 9999 KSLN 300753Z AUTO 11003KT 10SM BKN070 23/18 A3019 RMK AO2 SLP212 T02280183 KSME 300735Z AUTO 27003KT 10SM SCT005 SCT026 21/21 A3003 RMK AO2 KSMF 300753Z 13007KT 10SM CLR 22/13 A2986 RMK AO2 SLP112 T02220133 404060178 $ KSKX 300755Z AUTO 00000KT 10SM OVC120 14/08 A3050 RMK AO1 KSLO 300755Z AUTO 00000KT 10SM CLR 19/16 A3010 RMK AO2 T01910162 KTDF 300735Z AUTO 00000KT 10SM SCT050 22/22 A3000 RMK AO2 KRUQ 300735Z AUTO 00000KT 7SM BKN039 OVC055 24/24 A2998 RMK AO2 P0005 T02350235 KSLR 300755Z AUTO 00000KT 10SM CLR 26/21 A3006 RMK AO2 T02550212 KSNA 300753Z AUTO 25003KT 10SM FEW012 21/18 A2998 RMK AO2 SLP149 T02110183 402610206 TSNO KTCS 300753Z AUTO 30009KT 9SM -RA OVC100 18/17 A3032 RMK AO2 SLP185 P0012 T01830167 TSNO EVRA 300750Z 23008KT 190V300 9999 SCT016CB BKN033 15/12 Q1002 NOSIG KTEB 300751Z 20004KT 10SM CLR 26/22 A2990 RMK AO2 SLP125 T02560217 KSNC 300735Z AUTO 23005KT 9SM CLR 23/23 A2993 RMK AO2 LIVM 300655Z 30004KT CAVOK 27/24 Q1008 RMK SCT SCT200 QUK 1 QUL 1 NE VIS MAR 25 KM VIS MIN 9999 LKCV 300700Z 26011KT 220V290 CAVOK 16/08 Q1014 NOSIG RMK BLU BLU KSMN 300755Z AUTO 00000KT 10SM CLR 12/07 A3028 RMK AO1 LIVO 300655Z 06005G15KT 9999 OVC013 13/11 Q1014 RMK OVC VIS MIN 9999 KSMO 300751Z AUTO 00000KT 10SM CLR 20/17 A2999 RMK AO2 SLP153 T02000172 402390189 KRWF 300753Z AUTO 24009KT 10SM CLR 18/12 A3006 RMK AO2 SLP173 T01830122 LIVP 292255Z 07009KT 0900 FG VV/// 09/06 Q1016 RMK MON INVIS VAL INVIS VIS MIN 0900 KSMQ 300753Z AUTO 00000KT 5SM BR SCT095 22/21 A2990 RMK AO2 SLP124 T02220211 KSNH 300755Z AUTO 00000KT 8SM CLR 24/00 A3002 RMK LIVR 300655Z 14007KT 9999 4000S BKN005 10/09 Q1017 RMK BKN MON CLD SCT VIS MIN 4000S KRWI 300753Z AUTO 00000KT 10SM CLR 22/21 A2996 RMK AO2 SLP143 T02170206 KTDR 300756Z AUTO 29004KT 10SM FEW160 BKN190 28/26 A2992 RMK AO2 LTG DSNT SW SLP135 T02830262 TSNO $ KRVS 300753Z AUTO 03005KT 10SM CLR 27/22 A3010 RMK AO2 SLP194 T02670222 KSMS 300755Z AUTO 00000KT 10SM 23/22 A2996 RMK AO2 KSOA 300735Z AUTO 17005KT 10SM CLR 27/18 A3015 RMK AO2 LIVT 300655Z 04014G35KT 9999 FEW025 SCT030 22/16 Q1008 RMK BKN QUK 3 QUL 1 NE VIS MAR 25 KM VIS MIN 9999 KSNK 300735Z AUTO 11005KT 10SM SCT085 SCT120 27/17 A3012 RMK AO2 T02710172 TSNO KRWL 300753Z AUTO 04004KT 10SM CLR 10/M10 A3041 RMK AO2 SLP211 T01001100 KSNL 300755Z AUTO 05003KT 26/24 A3012 RMK AO2 PWINO FNHU 300600Z 00000KT 8000 NSC 13/03 Q1026 FMSD 300700Z 09014KT 9999 FEW020 24/17 Q1017 KRXE 300753Z AUTO 06004KT 10SM CLR 09/06 A3033 RMK AO2 SLP241 T00940056 $ KSMX 300751Z AUTO 32003KT 6SM BR FEW006 BKN009 16/14 A2999 RMK AO2 SLP156 T01610144 402500156 TSNO KTDZ 300753Z AUTO 24005KT 10SM CLR 19/15 A2996 RMK AO2 SLP138 T01940150 KSNS 300753Z AUTO 31005KT 7SM OVC006 17/14 A2999 RMK AO2 SLP165 T01670144 402220144 TSNO KSPA 300755Z AUTO 00000KT 7SM 24/23 A2997 RMK AO2 KSPB 300753Z AUTO 32004KT 10SM CLR 26/06 A3000 RMK AO2 SLP158 T02560061 403610139 KSNT 300751Z AUTO 17006KT 07/01 A3043 RMK AO1 SLP220 T00720006 KSPD 300756Z AUTO 00000KT 17/17 A3030 RMK AO1 SLP202 T01720167 KRWV 300735Z AUTO 00000KT 10SM CLR 25/23 A3007 RMK AO2 KTEW 300751Z AUTO 26004KT 10SM CLR 18/13 A2995 RMK AO2 T01760132 KSPF 300735Z AUTO 00000KT 10SM CLR 13/05 A3028 RMK AO2 KTEX 300755Z AUTO 14004KT 10SM CLR 13/03 A3059 RMK AO2 T01280031 KSPG 300753Z AUTO 00000KT 10SM CLR 27/23 A2995 RMK AO2 SLP142 T02670233 $ KSNY 300753Z AUTO 20010KT 10SM CLR 17/09 A3028 RMK AO2 SLP206 T01670089 KSOP 300755Z AUTO 23004KT 10SM CLR 24/20 A2997 RMK AO1 KTFP 300735Z AUTO 19004KT 10SM CLR 27/25 A3001 RMK AO2 T02650249 KSPI 300752Z AUTO 28004KT 10SM CLR 17/16 A3011 RMK AO2 SLP190 T01720156 KTGI 300739Z AUTO 20015KT 10SM CLR 27/24 A2995 RMK AO1 KTHA 300755Z AUTO 00000KT 10SM CLR 24/20 A3004 RMK KSPL 300755Z AUTO 17003KT 3SM CLR 26/25 A3001 RMK AO1 KRYN 300245Z 08015KT 10SM CLR 28/22 A3004 RMK LTG DSNT NE-SE KSOW 300755Z AUTO 16004KT 10SM SCT090 SCT120 14/13 A3036 RMK AO2 KSQE 300755Z AUTO 32006KT 10SM CLR 29/24 A3000 RMK A01 KSQI 300755Z AUTO 25006KT 10SM CLR 17/14 A3006 RMK AO1 KSPR 300755Z AUTO 33008KT 10SM 30/25 A3000 RMK A01 KSPS 300752Z AUTO 09005KT 10SM CLR 25/19 A3005 RMK AO2 SLP161 T02500194 FNMA 300600Z 00000KT 0100 FG VV/// 15/15 Q1022 MBGT 292300Z 11011KT 9999 SCT012 28/22 Q1016 EVVA 300720Z AUTO 16008KT 9999 FEW020 SCT043 13/12 Q1000 KSRB 300755Z AUTO 00000KT 10SM CLR 22/22 A3003 RMK KRYT 300653Z AUTO 00000KT 10SM CLR 24/22 A2993 RMK AO2 SLP120 T02390222 $ KSQL 300755Z AUTO 36003KT 10SM CLR 18/15 A2998 RMK AO2 KRZL 300755Z AUTO 27004KT 10SM CLR 18/16 A3004 RMK AO2 KSRC 300756Z AUTO 34003KT 10SM CLR 27/24 A3007 RMK AO2 SLP181 T02670239 TSNO FNKU 300700Z VRB03KT CAVOK 17/01 Q1024 KRYV 300755Z AUTO 24005KT 10SM CLR 17/14 A2999 RMK AO2 T01700141 KSPW 300753Z AUTO 00000KT 10SM 14/12 A3013 RMK AO2 SLP197 T01440122 $ KRYW 300755Z AUTO 21004KT 10SM CLR 28/20 A3009 RMK AO2 T02770196 LIYW 300729Z AUTO 08011KT 9999 FEW060 BKN110 23/16 A2985 RMK AO2 DZB19E29 KRZN 300735Z AUTO 25005KT 10SM CLR 18/13 A2996 RMK AO2 T01800126 KTIF 300735Z AUTO 19007KT 10SM CLR 19/12 A3023 RMK AO2 T01850119 KRYY 300247Z 00000KT 10SM SCT070 28/23 A3002 WMKA 300700Z 26010KT 230V310 9999 FEW017CB SCT140 BKN280 31/26 Q1009 RETSRA LJPZ 300730Z 07008KT 030V100 9999 FEW050 BKN070 26/17 Q1008 WMKB 300700Z 21007KT 140V260 8000 FEW017CB BKN280 32/24 Q1009 NOSIG KRZR 300755Z AUTO 00000KT 10SM FEW034 24/22 A3001 RMK WMKC 300700Z 06009KT 020V100 8000 FEW017CB SCT018 BKN280 32/25 Q1009 WMKD 300700Z 11005KT 9999 SCT018 BKN280 33/25 Q1009 NOSIG KRZT 300754Z AUTO 36006KT 10SM BKN037 BKN048 OVC070 22/21 A2997 RMK AO2 LTG DSNT SE KTIK 300758Z AUTO 03004KT 10SM CLR 25/22 A3010 RMK AO2 SLP183 T02500223 $ WMKE 300700Z 13008KT 070V210 9000 SCT018 SCT140 BKN250 31/25 Q1009 KSSC 300658Z AUTO 22003KT 10SM CLR 25/22 A2995 RMK AO2 SLP141 T02530218 $ GEML 300730Z 27007KT 220V310 CAVOK 31/15 Q1011 FNLU 300500Z 13006KT 9999 FEW018 BKN023 20/18 Q1017 NOSIG KTHV 300753Z AUTO 00000KT 10SM CLR 23/22 A2991 RMK AO2 SLP124 T02330217 $ KW13 300755Z AUTO 00000KT 7SM CLR 22/22 A2998 RMK AO1 T02170215 KSSF 300753Z AUTO 00000KT 10SM CLR 25/22 A3004 RMK AO2 SLP157 T02500222 FNMO 291700Z 24011KT CAVOK 17/15 Q1017 WMKI 300700Z 25012KT 200V280 1500 TSRA FEW006 FEW017CB SCT020 BKN140 25/23 Q1010 KTIP 300735Z AUTO 29006KT 10SM CLR 18/17 A3007 RMK AO2 T01820167 WMKJ 300700Z 09003KT 9999 FEW016CB BKN280 33/24 Q1009 KSRQ 300753Z AUTO 00000KT 10SM CLR 26/24 A2996 RMK AO2 SLP144 T02560239 WMKK 300730Z 17010KT 110V220 9999 FEW017CB BKN280 32/24 Q1009 NOSIG KSSI 300753Z AUTO 33006KT 10SM CLR 25/23 A2992 RMK AO2 SLP134 T02500233 KSRR 300755Z AUTO RMK AO2 PWINO TSNO WMKL 300700Z 26004KT 9999 FEW017CB BKN280 29/25 Q1010 RETS WMKM 300700Z 19006KT 140V250 9999 FEW017CB BKN300 32/24 Q1010 LKKB 300700Z 26011KT 220V310 CAVOK 15/07 Q1014 NOSIG WMKN 300700Z 10004KT 9999 FEW018 BKN300 32/26 Q1009 KSTC 300753Z AUTO 25005KT 10SM CLR 17/13 A3000 RMK AO2 SLP161 T01720128 $ KTKC 300745Z AUTO 24007KT 10SM CLR 17/13 A3010 RMK AO2 KW22 300735Z AUTO 00000KT 5SM BR CLR 22/22 A2998 RMK AO2 WMKP 300730Z 20009KT 9999 FEW017CB BKN280 30/25 Q1010 NOSIG KTIW 300753Z AUTO 04003KT 10SM CLR 21/10 A3009 RMK AO2 SLP185 T02060100 403060139 KUBE 300735Z AUTO 27004KT 10SM CLR 16/12 A2997 RMK AO2 KSTE 300735Z AUTO 25007KT 10SM CLR 18/12 A2996 RMK AO2 T01800120 KTIX 300053Z 28012KT 7SM FEW045 26/24 A2996 RMK LAST KUAO 300753Z AUTO 03005KT 10SM CLR 24/07 A3001 RMK AO2 SLP161 T02390067 403670150 KSTF 300755Z AUTO 00000KT 2 1/2SM BR 22/22 A3000 RMK AO2 SKY OBSCURED LLBG 300750Z VRB03KT CAVOK 32/19 Q1007 NOSIG KTKI 300753Z AUTO 00000KT 10SM CLR 24/20 A3005 RMK AO2 SLP167 T02440200 KSTJ 300753Z AUTO 00000KT 10SM 17/17 A3017 RMK AO2 SLP209 T01720167 $ KSUA 300755Z AUTO 23003KT 24/23 A2999 RMK AO2 LTG DSNT E PWINO KSTK 300745Z AUTO 20007KT 10SM CLR 17/11 A3026 RMK AO2 KW29 300757Z AUTO 20008KT 10SM 26/22 A2992 RMK AO1 KSTL 300751Z 32006KT 10SM FEW250 22/17 A3012 RMK AO2 SLP185 T02220167 KW31 300755Z AUTO 00000KT 10SM CLR 22/22 A2997 RMK AO1 T02200215 KSUE 300755Z AUTO 26010KT 10SM CLR 21/12 A2990 RMK AO1 KSTP 300753Z AUTO 00000KT 10SM CLR 19/13 A3001 RMK AO2 SLP156 T01890133 KTLH 300753Z AUTO 13003KT 9SM CLR 26/24 A2994 RMK AO2 SLP136 T02560239 VVNB 300730Z 09005KT 050V130 9999 SCT017 BKN080 30/24 Q1005 NOSIG KSTS 300753Z AUTO 16005KT 10SM OVC006 16/14 A2996 RMK AO2 SLP139 T01560139 403560111 KTMA 300755Z AUTO 26003KT 10SM CLR 25/24 A2993 RMK AO2 T02470243 KTMB 300753Z 00000KT 10SM CLR 26/24 A3000 RMK AO2 SLP159 T02610244 LKKU 300700Z 19002KT 9999 FEW030 19/12 Q1014 KSVC 300755Z AUTO 35005KT 10SM -RA 18/15 A3036 RMK AO2 P0003 KTKV 300755Z AUTO 26006KT 10SM CLR 17/11 A2994 RMK AO2 T01700112 LKKV 300730Z 26009KT 9999 FEW026 13/06 Q1014 LKLN 300700Z AUTO 23005KT CAVOK 15/08 Q1015 KSUN 300755Z AUTO 31008KT 10SM CLR 12/02 A3035 RMK AO2 KTME 300755Z AUTO 25003KT 10SM 26/24 A3004 RMK AO2 KW43 300735Z AUTO 17008KT 10SM CLR 12/03 A3029 RMK AO2 KUDG 300755Z AUTO 00000KT 10SM CLR 24/20 A2997 RMK AO1 KUCP 300756Z AUTO 28007KT BKN015 24/23 A2993 RMK AO2 T02440227 SLP139 $ KSVH 300735Z AUTO 00000KT 5SM BR CLR 23/23 A2998 RMK AO2 T02290225 LKNA 300700Z 29010KT 250V320 9999 FEW025 14/08 Q1015 NOSIG RMK BLU BLU KSUS 300754Z AUTO 25003KT 10SM CLR 18/17 A3012 RMK AO2 SLP190 T01780172 KTMK 300755Z AUTO 00000KT 10SM CLR 13/11 A3004 RMK AO2 KTNB 300755Z AUTO 00000KT 4SM BR CLR 19/19 A3011 RMK AO2 T01900190 KSUT 300755Z AUTO 01003KT 10SM CLR 23/22 A2993 RMK AO2 T02280218 KSUU 300658Z AUTO 22023G26KT 10SM CLR 19/14 A2985 RMK AO2 PK WND 21029/19 SLP114 T01930139 21029 PWINO PNO $ KSVN 300758Z AUTO 26002KT 10SM CLR 25/25 A2991 RMK AO2 SLP131 T02460246 KSUW 300735Z AUTO 24007KT 10SM CLR 17/13 A2988 RMK AO2 T01740130 KSWF 300545Z 00000KT 10SM SKC 25/20 A2994 KSUX 300752Z 27005KT 10SM CLR 19/14 A3014 RMK AO2 SLP198 T01890144 KUCY 300755Z AUTO 36009KT 10SM BKN038 26/23 A3004 RMK VVPB 300730Z 32004KT 7000 -RA SCT020 BKN100 27/26 Q1011 NOSIG KTOA 300247Z 28010KT 10SM FEW015 22/19 A2993 RMK LAST WX FNSA 291600Z 00000KT CAVOK 29/10 Q1016 KTOB 300753Z AUTO 25006KT 10SM CLR 14/13 A3007 RMK AO2 LKMT 300730Z 23012KT 9999 SCT028 18/11 Q1014 NOSIG KTOC 300735Z AUTO 00000KT 10SM CLR 23/22 A2998 RMK AO2 T02300215 KW63 300755Z AUTO 18003KT 10SM SCT055 22/21 A2997 RMK AO1 KSWO 300753Z AUTO 07008KT 10SM SCT070 26/22 A3012 RMK AO2 SLP185 T02560217 TSNO KTOI 300753Z AUTO 00000KT 5SM BR CLR 25/24 A2995 RMK AO2 RAE15 SLP135 P0001 T02500244 KTPA 300753Z 00000KT 10SM FEW250 SCT300 25/23 A2997 RMK AO2 SLP149 T02500233 KUES 300735Z AUTO 26010G14KT 10SM CLR 19/11 A2999 RMK AO2 LLET 300750Z 05009KT CAVOK 37/12 Q1006 KTOL 300752Z AUTO 25006KT 10SM CLR 18/15 A2995 RMK AO2 SLP139 T01780150 TSNO KTNU 300735Z AUTO 26006KT 10SM CLR 17/16 A3012 RMK AO2 LKPD 300700Z 27011KT 230V310 9999 FEW030 16/08 Q1014 NOSIG RMK BLU BLU KSWW 300735Z AUTO 15007KT 10SM SCT110 28/15 A3013 RMK AO2 T02750152 VVPQ 300730Z VRB02KT 9999 SCT015 BKN040 29/24 Q1010 NOSIG KSYF 300755Z AUTO 16008KT 10SM CLR 17/12 A3028 RMK AO2 T01650117 KTPF 300755Z AUTO 00000KT 10SM CLR 26/25 A2997 RMK AO2 FNSO 300600Z 14005KT 9999 FEW012 BKN100 19/18 Q1018 KTOP 300753Z AUTO 00000KT 7SM CLR 19/19 A3018 RMK AO2 SLP213 T01940189 $ KW75 300755Z AUTO 19003KT 10SM CLR 24/22 A2995 RMK AO1 T02400220 KTPH 300756Z AUTO 01009KT 10SM CLR 21/M10 A3025 RMK AO2 SLP156 T02061100 403390150 KTOR 300753Z AUTO 10006KT 10SM CLR 17/09 A3024 RMK AO2 SLP196 T01670094 KSYI 300755Z AUTO 03004KT 9SM CLR 24/23 A3003 RMK LLHA 300750Z 35007KT CAVOK 30/21 Q1007 KSXS 300756Z AUTO 28002KT 7SM BKN120 BKN130 25/24 A2995 RMK AO2 SLP140 T02500236 KW78 300735Z AUTO 00000KT 1 1/4SM OVC049 22/21 A2997 RMK AO1 T02190210 KSXT 300756Z AUTO 01009KT 10SM CLR 23/06 A3016 RMK AO2 SLP141 T02330061 403280167 FNUB 300700Z 30006KT CAVOK 19/00 Q1027 KTPL 300755Z AUTO 17004KT 10SM CLR 26/18 A3005 RMK AO1 KW81 300755Z AUTO 19003KT 10SM CLR A2996 RMK AO1 FNSU 291700Z 20010KT 9999 OVC009 20/18 Q1018 KSYM 300750Z AUTO 00000KT 10SM BKN013 BKN020 OVC025 23/21 A3001 RMK AO2 KSYN 300753Z AUTO 20003KT 10SM CLR 17/13 A3003 RMK AO2 T01660131 KTQE 300754Z AUTO 00000KT 10SM CLR 18/15 A3015 RMK AO2 SLP199 T01780150 KUGN 300755Z AUTO VRB03KT 10SM CLR 20/13 A2999 RMK AO2 SLP144 T02000128 FNUE 300700Z 00000KT CAVOK 20/// Q1022 FNUG 300700Z 00000KT 9999 OVC014 18/15 Q1020 WMSA 300700Z 20009KT 9999 -SHRA FEW017CB SCT140 BKN260 30/25 Q1010 KTQH 300755Z AUTO 00000KT 10SM CLR 25/22 A3012 RMK AO2 KSYR 300754Z 21004KT 10SM SCT060 SCT075 26/20 A2981 RMK AO2 SLP088 SCT060 V BKN T02560200 LKPR 300730Z 24014KT 9999 FEW025 15/08 Q1014 NOSIG LLIB 300750Z 15006KT 080V200 CAVOK 30/17 Q1008 KSZL 300658Z AUTO 00000KT 10SM BKN220 19/18 A3015 RMK AO2 SLP205 T01930175 MBPV 292300Z 08008KT 9999 SCT015 29/24 Q1016 GFLL 300400Z 06004KT 9999 NSW BKN011 FEW027CB 25/24 Q1014 RMK CB-NE/SE KW96 300755Z AUTO 18004KT 10SM CLR 24/22 A2995 RMK AO1 T02350218 KTRI 300753Z 00000KT 7SM BKN043 23/22 A3002 RMK AO2 SLP137 T02280217 MDAB 292200Z 06010KT 9999 FEW022 32/27 Q1015 KSZT 300755Z AUTO 00000KT 10SM CLR 11/06 A3015 RMK AO2 KTRK 300735Z AUTO 00000KT 10SM CLR 11/03 A3035 RMK AO2 KW99 300735Z AUTO 00000KT 2 1/2SM BR CLR A2995 RMK AO2 LTG DSNT NW KUIL 300753Z AUTO 06003KT 10SM CLR 14/12 A3010 RMK AO2 SLP193 T01390117 402780122 KTRL 300753Z AUTO 00000KT 10SM CLR 26/21 A3004 RMK AO2 SLP165 T02560206 KTRM 300752Z AUTO 18003KT 10SM CLR 32/23 A2984 RMK AO2 RAE02 SLP107 P0000 T03220228 404060261 TSNO KVAD 300658Z AUTO 31004KT 10SM SCT130 BKN160 25/24 A2994 RMK AO2 CIG 130 RWY36 SLP139 T02500236 $ KUIN 300754Z AUTO 28004KT 10SM CLR 20/16 A3013 RMK AO2 SLP197 T02000156 KVAF 300755Z AUTO 28004KT 7SM CLR 29/24 A3001 RMK A01 KTTA 300755Z AUTO 00000KT 7SM CLR 22/22 A2996 RMK AO2 T02200220 LKTB 300730Z 29007KT 260V350 9999 FEW034 17/08 Q1015 NOSIG KTTD 300753Z AUTO 00000KT 10SM CLR 21/14 A2999 RMK AO2 SLP156 T02110139 403670139 KTTF 300752Z AUTO 27003KT 10SM CLR 18/15 A2993 RMK AO2 T01760151 KUKF 300735Z AUTO 00000KT 4SM BR OVC110 21/21 A3005 RMK AO2 KVBG 300658Z AUTO 36003KT 10SM CLR 15/15 A2998 RMK AO2 CIG 006 RWY12 SLP154 T01530152 TSNO $ KTSP 300755Z AUTO 13005KT 10SM CLR 20/12 A3017 RMK AO2 MDBH 292300Z 13014KT 9999 FEW022CB FEW024 BKN300 29/23 Q1016CB/NW FOOG 300700Z /////KT 9999 SCT008 BKN030 22/20 Q1018 VVTS 300730Z 05002KT 8000 SCT015 FEW017TCU 32/23 Q1009 NOSIG KUKI 300756Z AUTO 00000KT 10SM CLR 21/07 A2995 RMK AO2 SLP131 T02060072 404170128 KVCB 300753Z AUTO 21005KT 10SM CLR 23/12 A2988 RMK AO2 SLP115 T02280117 404220167 FOOL 291900Z 19004KT 150V220 9999 FEW011 24/21 Q1015 NOSIG KTTN 300753Z AUTO 19005KT 8SM CLR 24/22 A2992 RMK AO2 SLP124 T02390222 FOON 300700Z /////KT 9999 FEW020 21/19 Q1015 KVAY 300654Z AUTO 00000KT 6SM BR CLR 23/22 A2994 RMK AO2 SLP137 T02330222 KVBS 300755Z AUTO 31016KT 10SM 30/27 A2998 RMK A01 KTTS 300658Z AUTO 27005KT 10SM CLR 25/23 A2996 RMK AO2 SLP150 T02490232 $ KUKT 300755Z AUTO 19003KT 10SM BKN012 OVC038 24/23 A2994 RMK AO1 KVBT 300755Z AUTO 11006KT 10SM CLR 26/21 A3015 RMK AO1 KTVC 300753Z AUTO 23006KT 10SM CLR 22/13 A2983 RMK AO2 SLP097 T02170133 KTUL 300753Z 35005KT 10SM SCT250 26/23 A3010 RMK AO2 SLP183 T02610228 KULM 300753Z AUTO 25004KT 10SM CLR 15/13 A3007 RMK AO2 KVBW 300735Z AUTO 00000KT 4SM CLR 22/22 A2996 RMK AO2 T02200217 KVDF 300755Z AUTO 00000KT 7SM CLR 25/23 A2998 RMK AO2 P0001 KTVF 300755Z AUTO 27007KT 10SM CLR 16/13 A2993 RMK AO1 KTUP 300753Z AUTO 00000KT 8SM CLR 24/23 A3000 RMK AO2 SLP155 T02440233 RJAA 300730Z 14007KT 9999 FEW030 BKN120 29/23 Q1008 NOSIG KVDI 300755Z AUTO 00000KT 10SM +RA CLR 24/23 A2994 RMK AO2 KTVI 300735Z AUTO 00000KT 10SM CLR 24/23 A2996 RMK AO2 KTUS 300753Z 14009KT 10SM CLR 25/18 A3010 RMK AO2 SLP146 T02500178 KVCT 300751Z AUTO 18003KT 6SM BR CLR 25/25 A3003 RMK AO2 SLP165 T02500250 KTVK 300735Z AUTO 25006KT 10SM CLR 18/15 A3016 RMK AO2 KTVL 300753Z AUTO 00000KT 10SM CLR 13/03 A3036 RMK AO2 SLP214 T01280033 403060050 KVCV 300755Z AUTO 00000KT 10SM CLR 25/19 A3008 RMK AO2 RJAF 300700Z 35009KT 9999 FEW050 SCT080 31/20 Q1011 KTWF 300753Z AUTO 19010KT 10SM CLR 18/00 A3022 RMK AO2 SLP178 T01780000 MDCY 292300Z 09012KT 9999 FEW020 29/25 1015 RJAH 300700Z 08005KT 060V150 9999 FEW008 FEW035CB 28/22 Q1008 RJAI 300221Z 09004KT 9999 FEW025 SCT030 BKN080 31/22 Q1009 RMK 1CU025 4CU030 7AC080 A2980 KTVR 300753Z AUTO 19003KT 10SM CLR 26/23 A3001 RMK AO2 SLP166 T02560233 KUNI 300730Z AUTO 00000KT 10SM SCT029 BKN034 BKN043 23/21 A2994 RMK AO2 LTG DSNT E T02310207 RJAK 300136Z 10005KT 9999 FEW030 BKN080 33/21 Q1009 RMK 2CU030 6AC080 A2980 RJBB 300730Z VRB03KT 9999 FEW020 32/26 Q1008 NOSIG RJBD 300700Z 29010KT 9999 FEW035 33/24 Q1008 KVEL 300753Z AUTO 30003KT 10SM CLR 14/01 A3029 RMK AO2 SLP198 T01440011 RJBE 300700Z 24007KT 9000 FEW025 SCT090 30/27 Q1008 KTWM 300753Z AUTO 26008KT 231V291 10SM CLR 20/13 A2983 RMK AO2 SABE 300700Z 11016KT CAVOK 14/11 Q1019 KUNO 300753Z AUTO 05004KT 10SM CLR 21/18 A3015 RMK AO2 SLP192 T02110178 KTVY 300755Z AUTO 12003KT 10SM CLR 12/03 A3025 RMK AO2 SAAR 300700Z 09008KT 9999 SCT010 BKN100 OVC200 15/14 Q1017 RJCA 300650Z 23005KT 9999 -SHRA FEW025 BKN035 BKN100 27/19 Q1007 RMK 2CU025 5CU035 7AC100 A2974 KVER 300755Z AUTO 00000KT 4SM BR CLR 19/19 A3015 RMK AO2 T01860187 RJAT 300338Z 10003KT 9999 FEW008 SCT015 BKN020 27/21 Q1014 RMK 1ST008 3CU015 5CU020 A2994 RJCB 300700Z 06004KT 010V090 9999 FEW030 BKN120 28/21 Q1007 KVES 300735Z AUTO 31005KT 10SM BKN050 20/19 A3001 RMK AO2 RJCC 300730Z 16011KT 9999 FEW010 BKN110 24/20 Q1007 EYKA 300750Z 22010KT 180V260 9999 SCT028 BKN033 16/09 Q1004 KTXK 300753Z AUTO 00000KT 10SM CLR 26/21 A3003 RMK AO2 SLP163 T02610211 KUNU 300755Z AUTO 24006KT 10SM CLR 15/13 A3000 RMK AO2 T01530127 RJAW 300700Z 35006KT 300V020 9999 FEW020 SCT100 29/24 Q1008 RMK 2CU020 3AC100 A2979 KUNV 300755Z AUTO 25004KT 7SM CLR 22/22 A2992 RMK AO2 T02230215 RJCH 300700Z 22006KT 180V250 9999 FEW012 BKN045 25/22 Q1007 RJCK 300700Z 20005KT 9999 FEW003 SCT090 BKN120 23/20 Q1007 RJBT 300700Z 01007KT 330V050 9999 FEW020 29/23 Q1010 RJDC 300700Z 25008KT 9999 FEW030 33/26 Q1009 RJCM 300700Z 10003KT 060V150 9999 FEW010 SCT120 BKN150 25/21 Q1007 RJCN 300700Z 15003KT 9999 FEW015 BKN130 26/24 Q1007 RJCO 300333Z 09005KT 9999 FEW035 BKN120 BKN230 27/22 Q1008 RMK 2CU035 5AC120 5CI230 A2977 SADF 300700Z 09010KT CAVOK 13/11 Q1019 SACO 300700Z 00000KT 9999 SCT015 BKN020 13/11 Q1019 KUOX 300735Z AUTO 00000KT 8SM CLR 25/24 A3003 RMK AO2 PWINO PNO KTYQ 300755Z AUTO 29003KT 10SM CLR 18/15 A3006 RMK AO2 T01830148 FQCH 300700Z /////KT CAVOK 19/16 Q1021 KTYR 300753Z AUTO 00000KT 10SM CLR 27/21 A3004 RMK AO2 SLP163 T02720206 RJCT 300234Z 36001KT 9999 FEW030 SCT040 BKN100 25/22 Q1008 RMK 2CU030 3CU040 7AC100 A2978 W/E FQBR 300700Z 33012KT CAVOK 22/18 Q1016 RJEB 300700Z VRB02KT 9999 FEW030 BKN070 BKN/// 23/20 Q1006 KTYS 300753Z 36003KT 10SM FEW023 SCT035 BKN055 26/23 A2999 RMK AO2 SLP143 T02610228 RJEC 300700Z VRB02KT 9999 SCT030 FEW030CB BKN070 27/21 Q1007 KVGT 300753Z 27007KT 10SM CLR 33/11 A2997 RMK AO2 SLP133 T03280106 403890244 RJCW 300726Z 20013KT 9999 FEW006 SCT009 BKN025 23/21 Q1006 RMK 1ST006 4ST009 6CU025 A2971 KVIH 300753Z AUTO 00000KT 10SM CLR 18/17 A3014 RMK AO2 SLP196 T01830167 KTZR 300735Z AUTO 32003KT 10SM SCT043 SCT049 BKN060 22/19 A2999 RMK AO2 T02150191 RJDT 300700Z 26006KT 170V320 9999 FEW025 30/24 Q1009 MDJB 292300Z 00000KT 9999 FEW020 30/23 Q1015 RJFE 290933Z 20007KT 7000 FEW006 SCT008 BKN015 27/26 Q1009 RMK 1ST006 3ST008 5CU015 A2981 LLSD 300750Z 27007KT CAVOK 28/22 Q1006 RJFF 300730Z 31007KT 270V340 9999 FEW025 31/24 Q1009 KUSE 300755Z AUTO 26005KT 10SM CLR 16/16 A2996 RMK AO2 RJFG 300700Z 29016KT 9999 FEW007 29/26 Q1012 KVJI 300735Z AUTO 00000KT 10SM BKN040 23/21 A3006 RMK AO2 T02260206 RJFK 300700Z 21010KT 190V260 9999 FEW030 32/24 Q1011 KUTA 300755Z AUTO 34004KT 10SM CLR 26/24 A3002 RMK AO2 TSNO KVIS 300755Z AUTO 00000KT 10SM CLR 24/16 A2986 RMK AO1 40420 0190 KY19 300735Z AUTO 25005KT 10SM CLR 12/10 A3011 RMK AO2 RJFM 300700Z 14009KT 9999 FEW035 32/23 Q1009 KWAL 300754Z AUTO 22005KT 10SM CLR 24/23 A2996 RMK AO2 SLP143 T02440233 RJFO 300700Z 17004KT 140V200 8000 FEW035 30/25 Q1009 KY23 300735Z AUTO 25003KT 10SM CLR 19/13 A2996 RMK AO2 T01890133 RJGG 300730Z 29010KT 9999 FEW025 BKN040 31/25 Q1008 NOSIG SAEZ 300700Z 10007KT CAVOK 11/09 Q1020 RJFR 300700Z 32011KT 9999 FEW035 32/27 Q1009 RJFS 300700Z 20011KT 9999 FEW035 31/25 Q1009 RJFT 300700Z 21007KT 170V260 9999 FEW035 32/24 Q1010 RJFU 300700Z 25009KT 230V300 9999 FEW030 31/24 Q1010 EYPA 300750Z 21011KT 190V260 9999 BKN019 16/11 Q1002 KVLD 300753Z AUTO 00000KT 6SM BR CLR 24/24 A2994 RMK AO2 SLP144 T02440239 TSNO KUTS 300753Z AUTO 21004KT 10SM CLR 27/23 A3004 RMK AO2 SLP165 T02720233 KUVA 300755Z AUTO 05004KT 10SM CLR 25/21 A3007 RMK AO2 T02460208 KVKS 300755Z AUTO 00000KT 10SM CLR 26/23 A3001 RMK A01 KVLL 300755Z AUTO 10SM CLR 20/15 A2993 RMK AO2 T01970151 GGOV 300700Z 12003KT 8000 -RA FEW006 BKN014TCU 24/23 Q1013 NOSIG KVKY 300755Z AUTO 33010KT 10SM BKN060 30/25 A2997 RMK A01 KWDG 300735Z AUTO 07010KT 10SM CLR 25/21 A3012 RMK AO2 SBAA 292045Z 15005KT CAVOK 36/13 Q1012 MDLR 300300Z 00000KT 9999 FEW018 27/23 Q1017 KY50 300756Z AUTO 26007KT 10SM CLR 19/12 A2998 RMK AO2 TSNO T01940122 SLP142 KY49 300735Z AUTO 26008KT 10SM CLR 18/13 A2994 RMK AO2 T01750132 KVNC 300735Z AUTO 25007KT 10SM SCT020 28/24 A2999 RMK AO2 LMML 300745Z 06005KT 010V100 9999 FEW020 30/24 Q1011 NOSIG KUUU 300753Z AUTO 20003KT 4SM BR CLR 22/22 A2991 RMK AO2 SLP126 T02220217 KY51 300735Z AUTO 24005KT 10SM CLR 16/14 A3005 RMK AO1 T01610142 SBAF 300700Z 25002KT 7000 SCT016 BKN030 19/17 Q1022 RJKA 300700Z 32009KT 9999 FEW020 31/24 Q1011 KWDR 300735Z AUTO 00000KT 10SM CLR 25/24 A3000 RMK AO1 KVOA 300755Z AUTO 26006KT 10SM CLR 30/25 A2995 RMK A01 EYSA 300750Z 22014KT 9999 FEW023 BKN026 15/10 Q1003 SBAN 300700Z 12006KT CAVOK 18/08 Q1023 SBBE 300800Z 05003KT CAVOK 23/22 Q1012 KY63 300756Z AUTO 26006KT 10SM CLR 16/12 A3002 RMK AO2 T01550121 SBBG 292200Z 23001KT CAVOK 21/16 Q1017 FQIN 300600Z 36008KT CAVOK 21/17 Q1016 SBAQ 300200Z 13004KT CAVOK 19/12 Q1024 SBBH 300700Z 00000KT CAVOK 14/12 Q1023 SBBI 300100Z 30003KT 9999 FEW018 15/11 Q1025 SBAR 300800Z 14007KT 9999 FEW015 SCT070 25/20 Q1018 SBCA 300115Z 14008KT CAVOK 20/14 Q1024 SBAT 300345Z 00000KT CAVOK 20/17 Q1015 SBCB 292100Z 00000KT 9999 FEW025 23/20 Q1021 SBAU 300000Z 15010KT CAVOK 22/12 Q1021 SBCC 292000Z 09009KT 9999 FEW030 32/13 Q1014 KY70 300754Z AUTO 26007KT 10SM CLR 18/15 A2993 RMK AO2 T01760145 KVOK 300758Z AUTO 28006KT 10SM CLR 17/14 A2999 RMK AO2 SLP154 T01700144 KVPC 300753Z AUTO 00000KT 8SM CLR 23/22 A2996 RMK AO2 SLP130 T02280217 MDPC 300800Z 12010KT 9999 SCT020 27/24 Q1016 KUXL 300735Z AUTO 27004KT 10SM CLR 27/25 A3001 RMK AO2 T02690253 SBAX 292200Z 15007KT 9999 SCT025 21/09 Q1024 SBCF 300800Z 00000KT CAVOK 14/13 Q1024 KUYF 300755Z AUTO 31005KT 10SM BKN041 20/16 A2999 RMK AO2 SBCG 300800Z 12014KT CAVOK 22/12 Q1019 SBBQ 292300Z 13003KT CAVOK 17/13 Q1027 SBCH 300730Z 07006KT CAVOK 16/13 Q1022 KVNY 300751Z 00000KT 10SM CLR 22/16 A2999 RMK AO2 SLP145 T02170161 403390178 SBCI 292045Z 06004KT CAVOK 34/13 Q1012 SBBR 300800Z 07003KT CAVOK 13/08 Q1023 SBCJ 292200Z 00000KT CAVOK 23/19 Q1016 KUZA 300754Z AUTO 00000KT 6SM BR BKN055 BKN080 OVC100 25/24 A2998 RMK AO2 SLP136 T02500239 SBBU 300700Z 14007KT CAVOK 17/11 Q1022 FPST 300400Z 25006KT 9999 FEW020 SCT033 BKN100 21/19 Q1016 SBCM 300700Z 00000KT CAVOK 13/12 Q1019 SBBV 300800Z 35002KT 9999 SCT035 BKN080 24/22 Q1013 SBBW 292200Z 09004KT 9999 FEW020 BKN100 28/15 Q1017 FQLC 300700Z 06009KT 020V080 9999 FEW010 19/14 Q1024 SAME 300800Z 00000KT CAVOK 06/03 Q1014 SBCO 300300Z 11002KT 5000 BR NSC 15/15 Q1019 SBCP 300200Z 16004KT CAVOK 23/21 Q1023 MDPP 300600Z 00000KT 9999 FEW018 26/23 Q1017 SBCR 300000Z 17004KT CAVOK 24/14 Q1015 SBCT 300700Z 07002KT CAVOK 09/08 Q1025 KVPS 300755Z 02001KT 7SM SCT070 BKN180 BKN250 26/24 A2993 RMK AO2A SLP141 T02550238 $ FQMA 300600Z 35006KT CAVOK 16/09 Q1013 NOSIG KVRB 300753Z AUTO 23007KT 10SM CLR 25/23 A2998 RMK AO2 SLP150 T02500233 SBDN 300700Z 11009KT CAVOK 18/11 Q1020 SBCX 291700Z 03004KT CAVOK 22/12 Q1023 RJNG 300529Z 31005KT 9999 FEW030 SCT100 30/25 Q1008 RMK 1CU030 4AC100 A2977 SBEG 300800Z 00000KT CAVOK 24/22 Q1012 SBCY 300800Z 25002KT CAVOK 24/15 Q1014 KWHP 292347Z 09008KT 10SM SKC 32/17 A2993 RMK TCU NE-SE SBCZ 300745Z 23004KT 1000 BR BKN002 OVC100 22/22 Q1013 KVQQ 300750Z 24004KT 7SM SCT002 22/22 A2994 KVPZ 300756Z AUTO 28007KT 10SM CLR 19/14 A3002 RMK AO2 SLP162 T01890144 TSNO RJOA 300700Z 21004KT 9999 FEW025 31/23 Q1011 SBEK 292145Z 26001KT 9999 FEW020 31/25 Q1010 RJNK 300700Z 23010KT 5000 BR SCT008 BKN010 OVC015 27/24 Q1009 RJOB 300700Z 22006KT 190V250 9999 FEW025 31/25 Q1009 EYVI 300750Z 22011KT 9999 BKN019 16/12 Q1005 NOSIG RJOC 300700Z 26013KT 9999 FEW035 30/24 Q1008 KVQT 300755Z AUTO 32010KT 10SM FEW024 30/24 A3001 RMK A01 SAOC 300700Z 36005KT 9999 BKN020 13/10 Q1016 RJOE 300706Z VRB03KT 9999 -SHRA BKN020 33/23 Q1008 RMK 5CU020 A2978 MDSD 300800Z 05008KT 9999 BKN016 SCT070 25/23 Q1016 RJOF 300005Z 26005KT 220V300 9999 FEW025 BKN030 29/25 Q1010 RMK 1CU025 5CU030 A2985 KVSF 300754Z AUTO 00000KT 8SM CLR 17/16 A2990 RMK AO2 SLP123 T01670161 KWJF 300756Z AUTO 17004KT 10SM CLR 28/13 A3004 RMK AO2 SLP144 T02780133 404000156 RJOH 300700Z 27013KT 9999 FEW030 32/21 Q1008 SBFI 300800Z 13008KT CAVOK 17/15 Q1019 RJOI 300655Z 16006KT 9999 FEW050 31/25 A2980 RMK SLP091 T03110250 SBES 292300Z 19005KT 9999 SCT010 BKN040 22/19 Q1022 RJNS 300700Z 16007KT 9999 -TSRA FEW020 FEW025CB SCT030 BKN050 29/26 Q1008 SANT 300700Z 32003KT 7000 NSC 17/14 Q1015 RJOK 300700Z 14006KT 9999 FEW015 30/26 Q1009 RJNT 300700Z 29011KT 9999 FEW015 SCT040 30/25 Q1008 KVTA 300754Z AUTO 33004KT 10SM FEW045 BKN050 23/19 A2996 RMK AO2 SLP136 T02280189 SBFL 300700Z 34007KT 0100 R32/0100 R14/0100 FG VV001 18/17 Q102 0 RJOM 300700Z 22006KT 9999 FEW030 30/24 Q1009 SBFN 292200Z 12011KT 9999 FEW024 26/22 Q1016 RJNW 300700Z 23007KT 0500 R25/1000VP1800U FG FEW001 BKN002 BKN003 25/25 Q1009 LOAN 300700Z VRB02KT 25KM FEW025CU SCT050SC BKN RJOO 300700Z VRB03KT 9000 VCSH FEW020 FEW025CB BKN035 33/23 Q1008 RJNY 300734Z 18005KT 160V220 9000 -TSRA FEW010 FEW025CB BKN030 BKN080 28/24 Q1007 RMK 1CU010 1CB025 5CU030 6AC080 A2976 FBL TS W-NW RJOP 300453Z 33003KT 9999 BKN030 30/25 Q1008 RMK 5CU030 A2979 FQNP 300700Z 36003KT 9999 SCT020 BKN100 23/17 Q1021 RJOR 300700Z 04007KT 9999 FEW030 29/24 Q1009 SBFS 292100Z /////KT 9999 FEW020 ///// Q//// RJOS 300746Z 12003KT 9999 FEW030 32/25 Q1008 RMK 1CU030 A2977 KVTI 300755Z AUTO 28004KT 10SM CLR 17/15 A3010 RMK AO2 T01710148 RJOT 300700Z 26007KT 220V300 9999 FEW035 33/24 Q1009 VYMD 300730Z 16007G12KT 6000 BKN015 FEW018CB OVC100 28/23 Q1003 MDST 300800Z 08004KT 9999 FEW019 24/22 Q1016 SBGL 300700Z 15002KT 9999 FEW015 BKN020 21/19 Q1021 FQPB 300700Z 17004KT 9999 FEW020 26/20 Q1017 SBGM 292300Z 12003KT 9999 FEW030 29/21 Q1012 LOAV 300700Z 30007KT 25KM FEW040CU BKN100AC 17/10 RMK BKN RJOW 300700Z 29010KT 9999 FEW030 29/25 Q1009 KWLD 300754Z AUTO 08007KT 10SM SCT060 24/20 A3016 RMK AO2 SLP198 T02440200 $ KVTN 300752Z AUTO 23005KT 10SM CLR 14/11 A3020 RMK AO2 SLP210 T01440106 SBGO 300800Z 13003KT CAVOK 18/09 Q1021 RJOY 300700Z 07003KT 020V130 9999 FEW025 SCT035 BKN070 33/23 Q1008 SBFZ 300800Z 15006KT 9999 BKN030 24/20 Q1014 KVTP 300754Z AUTO 10SM CLR 08/06 A3067 RMK AO2 LTG DSNT S SBGR 300800Z 10001KT 4000 BR OVC004 11/11 Q1024 KVUJ 300735Z AUTO 00000KT 10SM SCT048 SCT095 24/24 A3002 RMK AO2 SBGU 291400Z 10005KT CAVOK 20/12 Q1027 SBIC 292145Z 00000KT CAVOK 27/27 Q1011 SARC 300700Z 05006KT 010V080 CAVOK 23/18 Q1014 KWMC 300756Z AUTO 05015KT 10SM CLR 22/M06 A3021 RMK AO2 SLP175 T02221061 403330078 TSNO $ SBGW 292300Z 25002KT CAVOK 17/14 Q1023 SARE 300700Z 05007KT 360V080 CAVOK 22/17 Q1014 SARF 300700Z 05009KT 9999 BKN030 23/18 Q1015 KVUO 300753Z AUTO 00000KT 10SM CLR 22/07 A3000 RMK AO2 SLP159 T02170067 403560139 SBIH 300245Z 00000KT 9999 FEW020TCU 27/24 Q1013 KVVG 300735Z AUTO 17003KT 4SM BR 24/24 A2987 RMK A01 SARI 300700Z 05005KT CAVOK 17/17 Q1021 RJSA 300700Z 03005KT 9999 FEW020 BKN035 26/22 Q1008 SASA 300700Z 00000KT 9999 BKN020 BKN100 16/13 Q1017 SBHT 300700Z 00000KT 9999 FEW012 SCT080 22/22 Q1012 RKJB 300700Z 21010KT 7000 FEW030 31/29 Q1008 NOSIG SBIL 300700Z 22004KT 9999 SCT025 SCT040 21/20 Q1019 RJSC 300700Z 11003KT 030V170 9999 FEW040 SCT080 BKN120 31/22 Q1008 SARL 300700Z 05004KT CAVOK 21/18 Q1017 FQQL 300600Z 05003KT CAVOK 20/18 Q1018 SBJF 292300Z 12004KT CAVOK 20/17 Q1024 RJSF 300700Z 12004KT 080V170 9999 FEW025 BKN090 29/23 Q1010 SBIP 292200Z 00000KT CAVOK 19/16 Q1021 SARP 300700Z 09003KT CAVOK 19/16 Q1019 RJSH 291619Z 19003KT 5000 BR FEW020 SCT150 BKN200 23/22 Q1008 RMK 1CU020 4AC150 A2978 RJSI 300700Z 26004KT 210V330 9999 FEW040 SCT/// 33/23 Q1007 SCBA 300700Z AUTO 00000KT 9999 -RA SCT023 OVC025 03/02 Q1006 SASJ 300700Z 32003KT CAVOK 17/14 Q1015 RJSK 300700Z 28010KT 9999 FEW015 SCT025 BKN/// 29/23 Q1008 RKJK 300658Z 23012KT 4SM HZ FEW230 31/27 A2975 RMK AO2A SLP078 WND DATA ESTMD ALSTG/SLP ESTMD T03110266 $ RJTC 300536Z VRB02KT 7000 FEW020 SCT025 FEW025CB BKN120 27/23 Q1009 RETS RERA RMK 1CU020 4CU025 1CB025 6AC120 A2980 CB 10KM SE MOV SE HAAB 300700Z 22005KT 9999 BKN020 SCT070 17/13 Q1029 RJSN 300700Z 26010KT 9000 FEW020 SCT030 31/24 Q1008 KVVV 300753Z AUTO 26008KT 10SM CLR 18/10 A3005 RMK AO2 RJSO 292007Z 29003KT 9999 FEW005 SCT010 BKN150 22/21 Q1008 RMK 2ST005 4ST010 7AC150 A2978 RJTF 300700Z 21004KT 160V260 8000 FEW030 BKN090 BKN/// 30/24 Q1008 SBKG 300700Z 16006KT 9999 SCT015 20/18 Q1018 SBJP 300700Z 20005KT 9999 FEW020 21/20 Q1017 SCAP 300700Z AUTO 00000KT //// // BKN002 BKN012 OVC017 06/06 Q1013 SBIZ 300330Z 00000KT CAVOK 24/21 Q1013 SBJR 300100Z 16005KT 9999 FEW013 BKN040 23/22 Q1023 RJTI 300700Z 18008KT 9999 FEW020 SCT030 BKN100 30/25 Q1008 RJSR 300700Z 24009KT 200V270 9999 FEW030 SCT040 BKN/// 29/22 Q1008 SCAR 300700Z 36002KT 9999 OVC023 17/11 Q1015 SCAS 292000Z 00000KT 9999 VCSH FEW013 BKN040 10/09 Q1010 RJSS 300714Z 11003KT 040V160 9999 FEW010 FEW030CB SCT100 BKN/// 27/23 Q1008 RMK 1ST010 1CB030 3AC100 A2978 CB 20KM N MOV E SBLB 291300Z /////KT 9999 SCT010 ///// Q//// W///S3 SCAT 300700Z AUTO 31004KT 4500 // ///013 12/10 Q1016 RJSU 300721Z VRB01KT 9999 -TSRA FEW010 FEW030CB BKN060 BKN100 28/22 Q1008 RMK 1ST010 2CB030 5CU060 6AC100 A2978 FBL TS 15KM W-NW STNR SBJU 300700Z 18012KT 9999 BKN020 26/20 Q1019 SBJV 300200Z 30002KT 7000 FEW001 16/16 Q1022 KVWU 300750Z AUTO 27011G16KT 10SM CLR 19/14 A2989 RMK AO2 SBLE 292100Z 10003KT 9999 FEW040 24/18 Q1021 RJTO 300700Z 22007KT 190V250 9999 FEW020 SCT035 30/23 Q1008 SCCF 300700Z 09014KT CAVOK 04/M26 Q1026 RJSY 300700Z 26009KT 9999 FEW030 SCT050 BKN/// 29/23 Q1008 SBKP 300700Z 10005KT CAVOK 13/09 Q1023 SCCH 292200Z 06005KT 5000 HZ OVC030 10/09 Q1014 RJTR 300549Z 20005KT 7SM FEW030 SCT075 BKN120 29/23 A2979 SCCI 300700Z 22003KT 9000 FEW010 SCT070 M00/M00 Q1002 TEMPO 0800 FG SBMA 300800Z 29002KT CAVOK 23/22 Q1012 SCDA 300700Z 16003KT 9999 OVC025 17/10 Q1015 RJTT 300745Z 17009KT 9999 -SHRA FEW030 SCT080 BKN100 30/26 Q1007 RMK 1CU030 4AC080 7AC100 A2976 RJTU 300737Z 20004KT 9999 TSRA FEW010 FEW020CB BKN040 26/25 Q1009 RMK 1ST010 2CB020 6SC040 A2982 FLB TS 5KM S MOV SE SAVC 300700Z 25004KT CAVOK 11/01 Q1009 SBMD 292045Z 24002KT 9999 FEW024 BKN090 ///// Q1011 SBME 300710Z 34001KT 0500 FG BKN002 18/18 Q1021 SBLO 300800Z 21003KT CAVOK 15/14 Q1022 SBLP 292045Z 14007KT CAVOK 30/09 Q1017 SBMG 300745Z 09007KT CAVOK 18/12 Q1020 RJTY 300658Z AUTO 25006KT 10SM FEW085 29/25 A2983 RMK AO2 SLP096 T02940246 SBLS 300100Z 14008KT CAVOK 19/13 Q1025 SBMK 300400Z 21003KT CAVOK 18/10 Q1023 KVYS 300735Z AUTO 29007KT 10SM CLR 18/15 A3007 RMK AO2 T01830152 SAWC 291538Z 14001KT FG 0900E 9999W BKN002 01/00 Q1005 SBML 300100Z 15010KT CAVOK 22/11 Q1023 KWRB 300758Z AUTO 19006KT 10SM CLR 25/24 A2995 RMK AO2 SLP142 T02520237 FQTT 300700Z 00000KT 6000 NSC 22/17 Q1019 RMK FU SAWE 300100Z 36005KT 6000 BR BKN004 OVC040 03/02 Q1003 REBAJO MINIMO VFR SBMN 300700Z 06003KT CAVOK 27/23 Q1011 SBNF 300300Z 26003KT 0400 FG NSC 16/16 Q1022 SBMO 300800Z 00000KT 9999 SCT020 19/18 Q1018 SCCY 300000Z 00000KT 9999 BKN040 07/05 Q1009 SAWG 300800Z 00000KT CAVOK M02/M03 Q1002 SAWH 300700Z 09012KT CAVOK 03/00 Q1001 SBMQ 300752Z 33004KT 9999 BKN002 BKN100 25/25 Q1012 KXIH 300755Z AUTO 30013KT 10SM BKN110 29/25 A3000 RMK A01 SBMS 292245Z 14007KT 9999 SCT020 BKN090 24/23 Q1016 KWRI 300758Z AUTO 21005KT 10SM CLR 23/22 A2991 RMK AO2 SLP127 T02260224 SCFA 300700Z 33003KT 9999 BKN025 15/10 Q1015 NOSIG SBMT 300200Z 07001KT CAVOK 13/10 Q1025 SCEL 300700Z VRB01KT CAVOK 07/03 Q1014 NOSIG KWRL 300753Z AUTO 19005KT 10SM CLR 13/M01 A3026 RMK AO2 SLP215 T01331011 FQVL 300700Z 35004KT 320V020 9999 FEW020 19/15 Q1017 SBMY 292145Z 12003KT 9999 FEW025TCU 32/23 Q1011 SBOI 292000Z 11008KT 9999 SCT030 31/22 Q1011 SBPA 300800Z 23002KT 6000 NSC 15/14 Q1019 SBPB 300300Z 07017KT CAVOK 27/22 Q1014 SBNT 300800Z 18009KT 9999 VCSH FEW009 BKN018 FEW030TCU BKN070 2 2/22 Q1015 SBPC 292200Z 10003KT CAVOK 14/10 Q1026 RKPC 300700Z 06010KT 5000 BR SCT035 BKN200 29/26 Q1009 NOSIG SCGE 300100Z 34004KT 9999 BKN025 OVC070 10/10 Q1013 SBPF 300000Z 07010KT CAVOK 14/11 Q1023 RKNY 300700Z 12004KT 9999 FEW030 BKN220 31/24 Q1004 NOSIG SBPJ 300700Z 15004KT CAVOK 23/13 Q1014 SBPK 300200Z 01003KT CAVOK 19/17 Q1018 LPBJ 300700Z 29006KT 9999 SCT014 21/19 Q1014 RKPK 300700Z 18013KT 9999 FEW030 30/25 Q1008 NOSIG SCFT 300700Z AUTO 31002KT 2600 RA ///003 05/05 Q1007 MGCB 300000Z 11004KT 9999 FEW008 BKN016 19/18 QFE871.7 SCT060 MTN N/SE/W/NW CUB/CL KWST 300753Z AUTO 22003KT 6SM BR CLR 23/22 A2992 RMK AO2 SLP131 T02330222 SBPL 300700Z 15008KT 9999 BKN023 23/19 Q1018 SBPN 292000Z 16009KT CAVOK 35/11 Q1012 SBPP 292200Z 03002KT CAVOK 23/15 Q1020 SBPR 292038Z 09010KT 9999 FEW030 23/14 Q1024 LPAZ 300730Z 33011KT 9999 FEW016 21/18 Q1023 SBPS 300800Z 24005KT 210V270 9999 SCT020 20/19 Q1020 SBRB 300800Z 00000KT CAVOK 20/20 Q1013 SCIC 300700Z AUTO 10005KT 8000 NCD 06/05 Q1013 SAZM 300700Z 32003KT 8000 NSC 02/01 Q1022 SBPV 300800Z 00000KT CAVOK 21/19 Q1011 KXLL 300755Z AUTO 19005KT 10SM SCT027 BKN034 BKN043 25/22 A2993 RMK AO2 SAZN 300700Z 02009KT CAVOK 12/02 Q1011 SCIE 300700Z 36015KT 9999 -SHRA SCT023 BKN030 13/08 Q1011 SBRF 300800Z 14009KT 9999 SCT023 25/21 Q1016 MGCP 300000Z 00000KT 9999 FEW018 FEW024CB SCT200 32/27 QFE1005.7 FEW080 CB N/NE SAZS 300700Z 18003KT 9999 FEW020 04/01 Q1009 KWVI 300753Z AUTO VRB03KT 10SM OVC006 16/14 A3000 RMK AO2 SLP156 T01610144 402170122 SBRJ 300700Z 17003KT 7000 FEW010 BKN020 21/20 Q1021 KXNA 300753Z 09005KT 10SM CLR 25/22 A3014 RMK AO2 SLP188 T02500222 SBSC 300700Z 07003KT 9999 FEW015 BKN040 21/18 Q1022 FSIA 300700Z 14005KT 9999 SCT018 29/24 Q1014 NOSIG SBQV 300445Z 11007KT 9999 BKN007 16/15 Q1024 KWVL 300755Z 36003KT 7SM CLR 19/17 A2984 RMK AO1 KWWD 300755Z AUTO 19004KT 10SM CLR 24/22 A2996 RMK AO1 SBSG 291820Z 16010KT 9999 VCSH BKN021 FEW023TCU BKN070 24/23 Q1 015 RERA RKSG 300658Z 26008KT 4SM HZ FEW170 33/26 A2972 RMK AO2A SLP066 T03330255 $ SCIP 300700Z 08003KT 9999 FEW020 SCT030 11/08 Q1023 NOSIG SBRP 300700Z 11009KT CAVOK 15/11 Q1021 SCIR 292000Z 28004G19KT 2500 SHRA BKN006 OVC012 13/12 Q1009 RKSI 300730Z 20015KT 5000 HZ NSC 29/23 Q1006 NOSIG SBTA 300300Z 00000KT CAVOK 14/13 Q1024 SBSJ 300700Z 09001KT 1000 FG NSC 14/14 Q1023 KXMR 300658Z AUTO 27007KT 10SM CLR 25/23 A2995 RMK AO2 SLP145 T02520229 $ SBTC 292020Z 15001KT 9999 FEW020 28/20 Q1020 SBSL 300800Z 06006KT 9999 FEW017 26/22 Q1012 RKSM 300000Z 18008KT 4000 BR BKN015 28/25 A2980 RMK CIG015 SLP088 8/600 9/700 SBSM 300330Z 03008KT CAVOK 23/18 Q1019 SBTE 300700Z 32002KT CAVOK 24/22 Q1012 SBSN 300720Z 11007KT 9999 TS SCT010 SCT015 FEW020CB BKN100 26/2 4 Q1012 SBTF 292245Z 04008KT 9999 TS FEW020 FEW030CB BKN100 28/25 Q1010 SCJO 292200Z 29002KT 9999 BKN025 OVC060 11/11 Q1011 RKSO 300658Z 23011KT 6SM HZ FEW020 33/25 A2971 RMK AO2A SLP063 T03320250 SBSP 300700Z AUTO 00000KT 6000 NCD 12/09 Q1024 SBSR 300700Z 12003KT CAVOK 19/10 Q1023 SBUA 292300Z 18001KT 9999 TS FEW020 FEW025CB BKN100 25/24 Q1011 RKSS 300700Z 21010KT 7000 SCT030 33/24 Q1006 NOSIG KWWR 300735Z AUTO 04004KT 10SM SCT065 SCT120 21/20 A3020 RMK AO2 LTG DSNT N SBTK 292245Z 10010KT 9999 SCT030 FEW033TCU 27/22 Q1012 MGES 300000Z 03006KT 9999 SCT018TCU BKN200 25/20 QFE911.0 TCU SE/S SBST 292300Z 00000KT CAVOK 16/14 Q1022 HBBA 300600Z 35004KT 320V030 5000 HZ FEW025 BKN100 23/15 Q1017 NOSIG LPFL 291900Z 17006KT 130V200 9999 FEW017 BKN033 21/18 Q1024 SBSV 300800Z 13004KT 9999 SCT017 24/18 Q1018 RKTN 300700Z 27004KT 9999 SCT030 36/22 Q1006 NOSIG SBUF 292145Z 09012KT 9999 BKN022 BKN080 25/20 Q1019 RKTP 300100Z 19013KT 2800 BR FEW000 SCT007 BKN010 28/26 A2981 SBUG 292200Z 05005KT CAVOK 22/17 Q1016 LPFR 300730Z 33010KT 9999 FEW018 23/18 Q1014 SBTT 292300Z 21003KT 9999 TS FEW013 FEW025CB ///// Q1011 SBTU 292000Z /////KT 9999 FEW020 SCT080 ///// Q1013 SBUL 300700Z 09006KT CAVOK 17/11 Q1023 RKTU 300700Z 22009KT 9000 SCT030 34/24 Q1007 NOSIG VYYY 300730Z 15004KT 7000 BKN014 FEW018CB OVC100 25/23 Q1007 CB SW SBVH 300400Z 10003KT CAVOK 19/15 Q1018 SBUR 300700Z 06006KT CAVOK 20/10 Q1022 SCMK 292100Z 02015KT 9999 BKN020 OVC070 11/09 Q1009 RESHRA KWYS 300750Z AUTO 21003KT 10SM CLR 04/03 A3045 RMK AO2 MGGT 300800Z 36008KT 9999 SCT014 18/17 Q1026 A3030 KXPY 292100Z AUTO 20007KT 10SM CLR 33/24 A2998 RMK A01 YABA 300730Z 07009KT 4000 -SHRA FEW013 SCT018 BKN036 14/13 Q1018 LPHR 300730Z 00000KT 9999 FEW008 SCT012 BKN025 23/20 Q1022 SBVT 300800Z 34001KT CAVOK 18/16 Q1021 KXSA 300735Z AUTO 00000KT 10SM CLR 24/22 A2996 RMK AO2 T02350215 MGHT 300800Z 00000KT 9999 BKN018 15/13 QFE819.7 WSAP 300700Z 17009KT 9999 FEW018TCU FEW020CB BKN300 30/22 Q1010 RETS KYIP 300753Z AUTO 27006KT 10SM CLR 19/15 A2993 RMK AO2 SLP129 T01890150 TSNO SBYA 291900Z 00000KT 9999 FEW018 FEW025TCU BKN100 24/23 Q1010 RETS SCNT 292000Z 16003KT 9999 FEW030 SCT200 03/M00 Q1001 MHAM 300600Z 09004KT CAVOK 30/24 FEW080 BKN250 SCON 300700Z AUTO 09003KT 050V120 7000 -RA ///005 09/08 Q1006 LPLA 300700Z /////KT 9999 BKN040 21/18 Q1023 MHCA 300800Z 00000KT 9999 SCT0030 SCT080 22/22 LQBK 300730Z 09005KT 9999 FEW017 BKN032 20/15 Q1013 NOSIG KYKM 300753Z AUTO 25006KT 10SM CLR 16/06 A3008 RMK AO2 SLP180 T01610061 403500106 KYKN 300755Z AUTO 04003KT 10SM CLR 18/13 A3012 RMK AO1 SCPQ 300700Z AUTO 03005KT 350V080 7000 RA BKN005 OVC013 08/08 Q1003 MHCH 300600Z 02010KT 9999 FEW030 BKN080 29/21 HZ SBYS 300200Z 17002KT CAVOK 15/11 Q1024 LPMA 300730Z VRB03KT 9999 FEW016 23/17 Q1019 SCRD 292200Z 00000KT CAVOK 17/10 Q1014 SCRG 292000Z 18009KT CAVOK 20/09 Q1013 SCQP 300700Z 03008KT 6000 RA NSC 10/09 Q1009 KXVG 300756Z AUTO 25005KT 10SM CLR 18/14 A2994 RMK AO2 SCRM 300700Z 01011KT 9999 SCT010 M07/M08 Q1001 MGMM 292200Z 00000KT 9999 FEW020 FEW025CB 27/24 Q1014 A2994 FEW200 SCSE 300500Z 31003KT 5000 BR OVC008 10/10 Q1016 LOWG 300750Z 08003KT 030V130 9999 FEW004 SCT012 BKN028 15/14 Q1016 NOSIG KYNG 300751Z 31008KT 10SM FEW013 FEW020 OVC250 23/19 A2993 RMK AO2 TSE22 SLP124 T02280194 LOWI 300750Z VRB01KT 9999 FEW015 SCT030 BKN043 15/11 Q1016 NOSIG SCTB 292200Z 21003KT CAVOK 21/03 Q1015 MGMT 300000Z 00000KT CAVOK 31/24 QFE1008.3 FEW070 BKN200 LOWK 300750Z VRB02KT 9999 -SHRA FEW010 BKN030 BKN045 15/13 Q1015 TEMPO SHRA BKN012 SEAM 292300Z 21004KT 9999 BKN030 15/10 Q1026 LOWL 300750Z 28005KT 240V320 9999 FEW020 17/10 Q1016 NOSIG SCTE 300700Z 36017KT 5000 -RA OVC050 10/09 Q1006 NOSIG SCSN 300700Z AUTO 07003KT 020V130 0450 R/////// -RA FG VV001 08/08 Q1014 SECA 292300Z 04010KT 9999 BKN040 SCT200 25/14 Q1015 LOWS 300750Z VRB02KT 9999 FEW020 SCT042 BKN066 17/11 Q1016 NOSIG MGPB 300800Z 00000KT 999 TS SCT016 FEW025CB BKN090 25/25 Q1014 A2994 CB/TS/PCPN W/WNW LPPD 300730Z 34003KT 9999 FEW018 21/16 Q1022 SCTN 300732Z AUTO VRB04KT 9999 RA OVC037 09/08 Q1004 LOWW 300750Z 32007KT 290V350 9999 FEW030 SCT120 BKN150 19/12 Q1015 NOSIG LOWZ 300700Z 09005KT 50KM SCT020CU 15/11 Q1016 RMK SCT LOXT 300750Z 29008KT 230V330 35KM FEW030CU 21/11 Q1015 NOSIG RMK SCT SCVD 300700Z AUTO 04009KT 9000 RA OVC024 10/09 Q1008 SECO 292300Z 30002KT 9999 FEW016 25/25 Q1012 LOXZ 300750Z VRB02KT 20KM -SHRA FEW010ST BKN025SC BKN050SC 14/10 Q1016 NOSIG RMK OVC LPPR 300730Z 22004KT 9999 SCT004 BKN007 21/20 Q1012 LPPS 300730Z 33010KT 9999 SCT012 23/20 Q1019 SECU 300200Z 09004KT 9999 -RA OVC033 12/11 Q1027 LPPT 300730Z 30007KT 270V330 9999 FEW010 BKN014 22/19 Q1014 SCVM 300800Z 00000KT 0200 FG OVC002 10/09 Q1015 YBAF 300730Z AUTO 05006KT 9999 // NCD 16/10 Q1024 MGQZ 300000Z 36030KT 9999 SCT012 FEW025CB SCT200 18/11 QFE769.4 CB NE YBAS 300730Z 11004KT CAVOK 24/M17 Q1021 MGSJ 300800Z 00000KT 9999 FEW018 BKN200 25/24 Q1013 A2991 FEW080 MGRT 300000Z 24004KT 9999 SCT018 FEW025CB BKN100 29/24 Q1013 A2991 CB/PCPN W VOL. STA. MARIA Y SANTIAGUITO EN ACTIVIDAD YBBN 300730Z 05004KT 9999 FEW030 16/13 Q1024 RMK LOW LEVEL SMOKE SW-NW LRBC 300730Z 36006KT CAVOK 26/17 Q1010 YBCG 300730Z AUTO 03005KT 9999 // SCT050 18/13 Q1024 YBCK 300730Z AUTO 00000KT //// // ////// 23/01 Q1022 YAMB 300730Z 00000KT 9999 FEW045 17/10 Q1024 LRAR 300730Z 36007KT 320V030 9999 FEW045CB 21/16 Q1012 MHLC 300600Z 03011KT 9999 TS SCT026CB SCT200 25/24 Q1014 A2995 NOSIG LRBM 300730Z 12003KT 090V160 9999 SCT011 SCT040 18/16 Q1013 R10/19//95 YBDG 300730Z AUTO 36011KT 9999 // SCT045 OVC065 09/05 Q1016 MHLE 300000Z 07006KT 9999 FEW024 BKN200 21/13 LRBO 300700Z VRB03KT 9999 FEW100 27/19 Q1009 BLU BLU YBCS 300730Z 14014KT 9999 FEW028 23/13 Q1019 SEGS 292300Z 20006KT 9999 FEW033 SCT200 29/21 Q1011 A2985 LRBS 300730Z 07006KT 030V130 CAVOK 30/18 Q1008 NOSIG YBCV 300800Z AUTO 00000KT 9999 // NCD 18/03 Q1023 SEGU 300800Z 23008KT 9999 FEW030 BKN100 24/20 Q1010 NOSIG RMK A2985 LRCK 300730Z 13010KT 090V160 CAVOK 29/23 Q1010 NOSIG MGTU 300000Z 23006KT 9999 SCT016 31/23 FEW070 LRCL 300730Z VRB02KT 9999 FEW016 SCT060 BKN079 19/16 Q1013 MHLM 300600Z 33006T 9999 FEW025 27/26 Q1015 A2997 NOSIG LRCT 300700Z 36015KT 9999 FEW040 BKN070 20/15 Q1012 BLU BLU YBDV 300800Z AUTO 27003KT //// // ////// 22/M07 Q1021 SEJD 292300Z 00000KT 9999 VCSH FEW020 SCT300 26/23 Q1013 RMK A2992 LRCV 300730Z 08008KT CAVOK 29/17 Q1008 LQMO 300800Z VRB02KT 9999 FEW050 30/18 Q1007 ROAH 300730Z 34009KT 300V010 9999 FEW020 30/25 Q1012 BGBW 300750Z AUTO 19003KT 9999NDV NCD 05/02 Q1020 SFAL 291850Z 30010KT 9999 SCT025 04/M01 Q1014 GMAD 300730Z 25005KT 200V270 1000 FG OVC001 19/18 Q1010 BECMG 0500 FG OVC001 MHNO 300000Z 32015KT 9999 FEW040TCU SCT250 26/21 Q1015 GMAG 300700Z 00000KT 4000 BR OVC006 18/18 Q1011 NOSIG FTTA 300700Z 18008KT 9999 FEW020 25/22 Q1016 FTTC 300700Z 20008KT CAVOK 26/23 Q1014 HDAM 300400Z 36004KT 8000 BKN023 SCT133 34/27 Q1004 FTTD 300700Z 20008KT 9999 BKN040 24/23 Q1015 YBHI 300730Z AUTO 33010KT 9999 // NCD 16/M03 Q1020 KZPH 300755Z AUTO 00000KT 10SM BKN035 BKN041 20/20 A2998 RMK AO2 MGZA 300000Z 08010KT 9999 FEW020 FEW026CB OVC200 30/20 QFE987.2 FEW080 CB ENE SEMC 292200Z 06003KT 010V120 9999 VCSH SCT026 SCT100 23/20 Q1016 FTTJ 300700Z 20004KT 170V240 CAVOK 26/24 Q1013 NOSIG YBHM 300800Z AUTO 15017KT 9999 // SCT039 BKN051 OVC060 19/16 Q1022 MHPL 300000Z 00000KT 9999 SCT020TCU BKN080 28/26 Q1011 GMAT 300700Z 36012KT 5000 OVC010 19/18 Q1012 NOSIG YARG 300730Z AUTO 15008KT 9999 // NCD 31/00 Q1016 SELT 300800Z 17006KT 9999 SCT030 09/08 Q1030 LRIA 300730Z 29006KT 250V330 CAVOK 23/17 Q1011 BGGH 300750Z AUTO 02002KT 1200NDV FG VV002/// 04/04 Q1021 YARM 300730Z AUTO 31007KT 9999 // NCD 08/01 Q1024 FVBU 300700Z 33010KT CAVOK 20/04 Q1024 NOSIG RODN 300758Z AUTO 33007KT 10SM FEW023 31/26 A2989 RMK AO2 SLP126 T03120259 FTTY 300700Z 22008KT CAVOK 33/19 Q1013 YCBA 300730Z AUTO 33006KT //// // NCD 15/01 Q1022 YCBB 300800Z AUTO 33005KT //// // ////// 10/04 Q1023 SEMT 300800Z 18006KT 9999 BKN030 24/22 Q1011 WSSL 300730Z 18010KT 9999 FEW018TCU FEW020CB SCT280 31/20 Q1010 RETS RMK 0730Z Q1010 LQSA 300730Z VRB02KT 9999 FEW050 23/17 Q1013 NOSIG SENL 292300Z 21003KT CAVOK 28/21 Q1012 YBKE 300730Z AUTO 29003KT //// // ////// 18/03 Q1022 MHSC 300112Z 36008KT 9999 SCT075 27/19 A2999 RMK AO2A LAST MHRO 300000Z 09012KT 9999 FEW020 30/23 Q1013 A2992 NOSIG YCAR 300800Z AUTO 26012KT 9999 // NCD 24/20 Q1017 WSSS 300730Z 18004KT 160V310 9999 FEW017CB FEW018TCU SCT300 31/22 Q1010 NOSIG YCAS 300730Z AUTO 06007KT //// // ////// 17/11 Q1023 FVCZ 300600Z 00000KT CAVOK 17/12 Q1020 FVFA 300600Z 09004KT 040V140 CAVOK 17/06 Q1021 NOSIG MHTE 300000Z 01016KT 9999 SCT026TCU SCT080 30/25 Q1012 YCBP 300800Z AUTO 28008KT //// // SCT084 OVC125 25/01 Q1020 MHTG 300800Z 26002KT 9999 BKN028 SCT220 20/18 Q1020 A3012 NOSIG GMFF 300700Z 23002KT 160V330 CAVOK 23/17 Q1016 NOSIG YBMA 300730Z AUTO 20005KT 9999 // NCD 27/05 Q1019 YBKT 300800Z AUTO 35008KT //// // ////// 28/13 Q1016 MHSR 300600Z 00000KT 9999 BKN020 20/19 HZ YBLN 300800Z AUTO 10007KT //// // ////// 17/17 Q1015 GMFK 300700Z 13006KT 100V160 9999 SCT026 SCT080 32/01 Q1017 NOSIG GMFM 300700Z 00000KT 2000 BR SCT010 20/17 Q1016 NOSIG BGJN 300750Z AUTO 00000KT 9999NDV NCD 06/01 Q1020 GMFO 300600Z 17003KT 9999 FEW026 SCT230 25/13 Q1012 NOSIG YBNA 300730Z AUTO 01005KT 9999 // NCD 15/12 Q1024 YBLT 300730Z AUTO 36020KT 9999 // OVC030 07/05 Q1013 MHTR 300000Z 09011KT 9999 BKN022CB SCT080 28/24 PCPN S YBMK 300730Z AUTO 14013KT 9999 // SCT055 20/16 Q1021 SERB 292200Z 06018KT 9999 SCT040 17/08 Q1026 FVHA 300700Z 35010KT CAVOK 20/08 Q1026 NOSIG RMK QFE 857.3 YCEE 300800Z AUTO 26006KT //// // ////// 13/09 Q1020 SEQM 300800Z 19003KT 9999 FEW003 SCT030 10/09 Q1025 NOSIG RMK A3027 YCDO 300730Z AUTO 01007KT //// // ////// 12/06 Q1021 BGKK 300750Z AUTO 04001KT 0200NDV FG VV002/// 02/01 Q1019 YCCY 300730Z AUTO 11008KT //// // ////// 27/06 Q1018 ROIG 300700Z 20006KT 160V250 9999 SCT028 31/24 Q1012 LQTZ 300730Z VRB02KT 9999 FEW030 BKN045 22/19 Q1013 SESA 300300Z 21010KT 9999 FEW012 BKN080 23/21 Q1012 YCDU 300800Z AUTO 26007KT 9999 // SCT023 BKN029 16/13 Q1021 SESD 292300Z 00000KT 5000 BR BKN010 BKN090 23/21 Q1010 GLRB 300730Z 00000KT 9999 BKN013 23/22 Q1016 NOSIG SERO 300200Z 14002KT 9999 SCT023 BKN070 25/22 Q1012 YBOK 300730Z 03001KT CAVOK 18/05 Q1024 YCFL 300730Z AUTO 14018KT //// // ////// 24/17 Q1017 SESM 292300Z 29003KT 9999 FEW030 23/19 Q1016 A3002 YAYE 300800Z AUTO 01004KT 340V050 9999 // NCD 25/M06 Q1021 LROD 300730Z 34009KT CAVOK 20/16 Q1013 YCFS 300800Z AUTO 02011KT 9999 // NCD 17/13 Q1022 SGAS 300700Z 08006KT 050V110 CAVOK 22/16 Q1016 SEST 292300Z 18013KT 9999 FEW023 BKN200 25/21 Q1008 A2977 HEBA 300700Z 33009KT CAVOK 29/24 Q1007 NOSIG FVKB 300600Z 00000KT CAVOK 19/11 Q1018 NOSIG YBPN 300730Z AUTO 11012KT 9999 // SCT045 BKN056 BKN071 21/15 Q1021 LSGC 300750Z VRB02KT 9999 SCT034 SCT040 12/03 Q1018 SETN 292100Z 27012KT 9999 SCT026 BKN100 28/24 Q1007 A2976 LSGG 300750Z 08007KT 040V100 9999 FEW037 18/07 Q1017 NOSIG LROP 300730Z 09006KT 050V110 CAVOK 29/19 Q1008 NOSIG YCHK 300800Z AUTO 10009KT 9999 // NCD 29/04 Q1019 HEAR 300700Z 18002KT CAVOK 33/21 Q1007 NOSIG SETU 292300Z 03004KT 9999 VCSH OVC020 11/10 Q1030 HECA 300730Z 07003KT CAVOK 32/18 Q1007 NOSIG HEAT 300700Z 34002KT CAVOK 33/17 Q1008 NOSIG HEBL 300700Z 00000KT CAVOK 37/11 Q1007 NOSIG HEAX 300700Z 29006KT 9999 FEW020 30/23 Q1007 NOSIG MHYR 300000Z 05004KT 9999 SCT025TCU 29/20 YBRK 300730Z 08008KT CAVOK 21/12 Q1022 YBRL 300800Z AUTO 04011KT //// // ////// 28/14 Q1016 LSGS 300750Z 26006KT 220V300 9999 SCT040 18/10 Q1015 YBRM 300730Z 30012KT CAVOK 29/09 Q1015 YCIN 300800Z AUTO 11004KT //// // NCD 33/05 Q1014 GMMC 300100Z 32006KT 9999 BKN016 22/19 Q1015 FWCL 300700Z 08006KT CAVOK 24/14 Q1022 NOSIG YBSG 300730Z AUTO 12008KT //// // OVC074 27/18 Q1014 GMME 300730Z 18003KT 150V230 8000 SCT010 BKN015 22/18 Q1014 NOSIG GMMH 300759Z 36017KT 6000 SCT006 20/18 Q1014 TEMPO CAVOK M03 GMMI 300700Z AUTO 04017KT 9999NDV NCD 22/16 Q1011 NOSIG LRSB 300730Z 32005KT 9999 FEW033 SCT070 22/16 Q1013 NOSIG LTAC 300720Z 02002KT CAVOK 30/09 Q1013 NOSIG SGEN 292100Z 07008KT CAVOK 26/18 Q1017 GMML 300700Z 03018KT 8000 OVC016 22/17 Q1014 NOSIG KZZV 300753Z AUTO 33005KT 6SM BR SCT032 OVC050 23/21 A2994 RMK AO2 SLP130 T02330211 YBRY 300800Z AUTO 06008KT 9999 // NCD 26/06 Q1021 YBTH 300730Z AUTO 32008KT 9999 // NCD 07/02 Q1021 ROMY 300700Z 08007KT 030V120 9999 SCT028 30/23 Q1012 LTAF 300720Z 15007KT 130V190 9999 -SHRA SCT035 BKN100 31/25 Q1003 NOSIG GMMN 300730Z 34006KT 320V030 9999 BKN016 22/19 Q1015 NOSIG LTAG 300720Z 15006KT 9999 BKN030 31/24 Q1004 NOSIG SGES 300700Z 11007KT CAVOK 17/15 Q1019 LTAI 300720Z VRB02KT 9999 SCT030 30/23 Q1006 NOSIG YBSU 300730Z AUTO 17004KT 9999 // NCD 17/13 Q1024 LTBA 300720Z VRB08KT CAVOK 31/21 Q1008 NOSIG LTAJ 300720Z 11006KT CAVOK 37/05 Q1007 NOSIG YBTL 300730Z 09014KT 9999 FEW040 23/13 Q1019 YBUD 300730Z AUTO 11009KT 9999 // NCD 18/13 Q1023 YCKN 300800Z AUTO 14011KT 9999 // NCD 22/17 Q1018 LRTC 300730Z 16011KT CAVOK 31/14 Q1010 LRSM 300730Z 32004KT 250V040 9999 FEW030 22/14 Q1012 FVMV 300600Z 00000KT CAVOK 13/07 Q1022 NOSIG LTAN 300650Z 03008KT 360V060 CAVOK 28/08 Q1014 NOSIG LTBF 300650Z 00000KT CAVOK 29/19 Q1008 NOSIG GMMW 300700Z 25004KT 200V270 CAVOK 27/14 Q1011 NOSIG LTAP 300720Z 09006KT 040V150 CAVOK 27/17 Q1011 NOSIG GMMX 300730Z 26004KT 220V290 9999 FEW100 21/19 Q1015 NOSIG BGSF 300750Z AUTO 05005KT 020V080 9999NDV NCD 04/M02 Q1021 LTAR 300650Z 09008KT 060V120 CAVOK 27/08 Q1018 GMMZ 300700Z 00000KT CAVOK 24/04 Q1017 NOSIG LTAS 300521Z VRB02KT CAVOK 24/17 Q1008 RMK RWY18 14003KT 090V210 LTBJ 300720Z VRB03KT CAVOK 32/17 Q1006 NOSIG LTCA 300650Z 07005KT 030V130 CAVOK 33/09 Q1012 NOSIG LTAT 300720Z 35005KT CAVOK 34/09 Q1011 NOSIG LTAU 300720Z 00000KT 9999 FEW040 29/11 Q1014 NOSIG LTCC 300720Z VRB06KT CAVOK 38/05 Q1007 NOSIG LTCD 300650Z 00000KT CAVOK 30/10 Q1015 NOSIG LRSV 300730Z 34008KT 6000 SHRA SCT040CB 18/16 Q1013 LRTM 300730Z 30007KT 260V350 9999 FEW026 FEW030CB 22/16 Q1012 YDBY 300800Z AUTO 29012KT //// // ////// 32/09 Q1014 LTCE 300720Z 09010KT 9999 FEW035 28/05 Q1020 NOSIG BIBD 291650Z 03007KT 9999 SCT040 13/// Q1014 LTCF 300650Z 02004KT 320V070 CAVOK 26/06 Q1022 LTCG 300720Z 09008KT CAVOK 27/24 Q1010 NOSIG LTAZ 300720Z 24006KT CAVOK 29/11 Q1014 LTBQ 300650Z 03003KT 340V080 CAVOK 29/21 Q1008 NOSIG LTBR 300720Z VRB03KT CAVOK 30/18 Q1008 NOSIG LRTR 300730Z 35009KT CAVOK 23/15 Q1011 LTCI 300650Z 27005KT 230V290 CAVOK 25/13 Q1019 NOSIG LTDA 300010Z 21017KT 9999 TS FEW025CB 27/24 Q1005 RMK RWY04 22018KT LSMA 300750Z 00000KT 9999 FEW020 SCT045 OVC054 15/11 Q1017 RMK WHT LTBS 300720Z 18013KT CAVOK 30/22 Q1006 NOSIG LTCJ 300720Z 21005KT 160V270 CAVOK 34/16 Q1007 YCMM 300800Z AUTO 21008KT //// // ////// 13/12 Q1020 LTCK 300650Z VRB03KT CAVOK 30/06 Q1016 BIAR 300700Z 35006KT 9999 FEW009 SCT034 08/06 Q1015 LTBU 300720Z 05008KT 020V080 CAVOK 31/18 Q1008 LSMD 300750Z VRB02KT 9999 FEW005 BKN060 15/11 Q1017 RMK WHT LSME 300750Z 00000KT 9999 FEW030 BKN059 15/12 Q1017 RMK WHT BGTL 300758Z AUTO 08002KT 9999 CLR 06/04 A3013 RMK AO2 SLP186 T00600044 $ LTCO 291226Z 01006KT 310V080 9999 FEW030TCU SCT035 BKN100 32/M01 Q1017 RMK RWY34 06007KT 360V110 HEGN 300700Z 36016KT CAVOK 36/19 Q1006 NOSIG LRTZ 300700Z 10008KT 9999 FEW040 28/23 Q1010 BLU BLU YCMT 300730Z AUTO 05003KT //// // ////// 23/07 Q1022 YCNK 300730Z AUTO 33008KT //// // ////// 16/04 Q1020 LTCT 291232Z 07007KT 040V120 9999 FEW025CB SCT040 35/09 Q1010 RMK RWY30 06006KT 360V110 YCNM 300730Z AUTO 34004KT //// // ////// 13/07 Q1022 YCOE 300800Z AUTO 08007KT //// // ////// 24/17 Q1016 LSMM 300750Z 25003KT 200V330 9999 OVC031 14/10 Q1017 RMK WHT YBWP 300800Z AUTO 11014KT 9999 // NCD 27/17 Q1014 LSMP 300750Z VRB01KT CAVOK 16/10 Q1017 RMK BLU RORS 300700Z 32004KT 9999 FEW025 31/24 Q1012 LTFA 300430Z 00000KT 5000 BR NSC 22/22 Q1006 RMK RWY17 00000KT LSMS 300750Z 26006KT 220V300 9999 SCT040 18/10 Q1015 YCOM 300730Z AUTO 31022G32KT 9999 // OVC120 06/00 Q1015 YBWW 300730Z AUTO 08009KT 9999 // SCT060 17/09 Q1023 LTFC 300720Z 35003KT 260V070 CAVOK 29/11 Q1012 YBWX 300800Z AUTO 04013KT //// // ////// 26/16 Q1017 YCNY 300800Z AUTO 16004KT 130V220 //// // ////// 29/06 Q1017 LTFE 300720Z VRB02KT CAVOK 32/19 Q1005 NOSIG LTFG 291425Z 26006KT 180V320 9999 TS FEW020CB BKN030 32/26 Q1004 RMK RWY26 26007KT 220V300 LTFH 300650Z 08005KT 020V130 9999 FEW036 28/22 Q1010 NOSIG BIEG 300700Z 36006KT 6000 BR OVC006 05/04 Q1017 LTFJ 300720Z 02009KT 330V060 CAVOK 30/22 Q1008 NOSIG RPLB 300700Z 34005KT 9999 FEW018TCU FEW020 BKN300 32/25 Q1008 RMK A2977 TCU E LTFK 300514Z 32004KT 290V360 CAVOK 27/22 Q1007 RPLC 300800Z 34003KT 9999 FEW020 BKN300 33/21 Q1010 RMK NOSIG A2982 GMTA 300700Z 16006KT CAVOK 29/17 Q1011 NOSIG ROTM 300758Z 34009KT 9999 FEW020 FEW040 31/26 A2991 RMK SLP111 T03060256 RPLI 300700Z 34010KT 9999 FEW019 31/26 Q1009 NOSIG RMK A2980 FWKI 300700Z 07010KT 9999 FEW020 SCT090 22/12 Q1023 NOSIG RPLL 300700Z 29006KT 210V320 9999 FEW023CB SCT025 BKN100 29/24 Q1009 RERA NOSIG RMK A2980 CB W RPMD 300700Z 16004KT 120V190 9999 FEW016 SCT090 BKN290 31/24 Q1007 NOSIG RMK A2974 FVTL 300600Z 01005KT CAVOK 16/08 Q1023 NOSIG GMTN 300700Z 21009KT CAVOK 29/10 Q1011 NOSIG HEMA 300700Z 35015KT CAVOK 33/19 Q1007 NOSIG GMTT 300730Z 22012KT 8000 BKN016 24/19 Q1014 NOSIG GMTU 291230Z 26014KT 8000 SCT016 28/20 Q1013 NOSIG HEMM 300700Z 33010KT CAVOK 28/23 Q1008 NOSIG BIHN 291900Z 20004KT 9999 BKN016 11/// Q1016 HELX 300700Z 34002KT CAVOK 35/19 Q1005 NOSIG RPMZ 300700Z 27004KT 9999 -SHRA SCT017CB BKN100 30/26 Q1010 NOSIG RMK A2983 CB NW NE FVWN 300600Z 00000KT CAVOK 10/06 Q1021 MKJP 300700Z VRB02KT 9999 FEW026 28/22 Q1015 MKJS 300700Z 15010KT 9999 FEW022 28/19 Q1014 YCUN 300800Z AUTO 36006KT //// // ////// 18/15 Q1018 BIIS 300747Z 00000KT 9999 BKN070 06/03 Q1015 LUBL 300730Z AUTO 35005KT 310V030 9999 ///200 24/16 Q1011 LUBM 300730Z 27004KT CAVOK 24/17 Q1010 R25/CLRD65 YDLQ 300730Z AUTO 01009KT //// // ////// 11/05 Q1018 YCWA 300730Z AUTO 05009KT 9999 // NCD 26/06 Q1021 GOGG 300700Z 20006KT 170V240 9999 SCT013 OVC130 25/25 Q1014 BIKF 300730Z 07011KT 9999 FEW020 SCT060 BKN100 10/06 Q1012 GOGK 300700Z VRB02KT 8000 BKN013 BKN130 25/24 Q1013 HEPS 300700Z 23004KT 2000 BR NSC 28/24 Q1007 NOSIG GOGS 300700Z 20010KT 9999 BKN015 BKN130 27/24 Q1013 YCWR 300730Z AUTO 32010KT //// // ////// 09/04 Q1022 HESC 300700Z 00000KT CAVOK 29/09 Q1018 NOSIG HESH 300700Z 36014KT CAVOK 35/17 Q1005 NOSIG GOKD 291800Z 28004KT 9999 SCT016 SCT020TCU BKN130 29/24 Q1012 HESN 300700Z 21007KT CAVOK 38/08 Q1006 NOSIG LSZA 300750Z VRB01KT 9999 FEW028 SCT085 22/17 Q1011 NOSIG LSZB 300750Z 00000KT 9999 FEW050 16/10 Q1017 NOSIG LSZC 300750Z AUTO VRB01KT 9999 FEW040 OVC050 15/10 Q1017 LSZG 300750Z VRB01KT 9999 FEW028 15/09 Q1017 NOSIG LSZH 300750Z VRB02KT 9999 SCT060 14/13 Q1017 NOSIG LSZL 300750Z VRB01KT 9999 FEW060 SCT120 23/12 Q1010 RMK BLU RPVM 300700Z 04004KT 9999 FEW018CB SCT300 32/24 Q1008 NOSIG RMK A2977 CB S LSZR 300750Z VRB02KT 9999 FEW012 BKN060 15/12 Q1017 NOSIG RMK E LSZS 300750Z VRB01KT 9999 FEW005 BKN040 10/08 Q1016 MMAA 300742Z 05004KT 8SM FEW100 OVC300 28/27 A2987 RMK 8/037 HZY FXMM 300700Z 00000KT CAVOK 04/M03 Q1021 NOSIG CAHR 300700Z AUTO 00000KT 16/13 RMK AO1 SLP118 T01560133 56003 BIRK 300700Z 08010KT CAVOK 10/03 Q1012 GOOD 300700Z 00000KT 9999 SCT010 SCT130 26/25 Q1012 MMAN 300440Z 13008KT 10SM SKC 28/18 A3007 RMK ISOL AC YFBS 300730Z AUTO 34005KT //// // ////// 10/05 Q1022 GOOG 300700Z 25004KT 9999 BKN015 SCT130 28/24 Q//// MMAS 300442Z 06011KT 10SM SCT200 21/09 A3030 RMK 8/002 MMCB 300500Z 00000KT 10SM SCT200 26/10 A4018 RMK 8/008 LUKK 300730Z 21008KT CAVOK 30/15 Q1009 R26/CLRD65 NOSIG GOOK 300600Z 22006KT 8000 TS SCT013 FEW030CB BKN130 26/25 Q1013 FYGB 300700Z AUTO 21002KT //// // ////// 07/M09 Q1025 YFDF 300800Z AUTO 07006KT 9999 // NCD 28/04 Q1019 MMCE 292343Z 01012KT 5SM BKN300 30/26 A2990 RMK SLP122 57010 953 8/008 HZY CBBC 300700Z AUTO 00000KT 9SM CLR 12/10 A3021 RMK SLP229 MMCG 292046Z 09010KT 8SM FEW020 36/21 A2996 RMK 8/100 MSGTX MMMD FYGF 300700Z 21006KT CAVOK 16/M10 Q1025 YEML 300800Z AUTO 08007KT 9999 // NCD 20/08 Q1022 MMBT 292340Z 00000KT 8SM OVC200 31/25 A2990 RMK 8/001 HZY CU MMCL 300541Z 25005KT 10SM BKN100 OVC220 30/25 A2988 RMK SLP119 51007 931 8/077 MMCM 300342Z 00000KT 7SM SCT020 SCT100 29/24 A3003 RMK 8/520 MMCN 300245Z 26004KT 10SM BKN200 32/18 A2985 RMK SLP108 8/003 HZY DSNT CB 1 QUAD MMCP 300242Z 00000KT 7SM SCT080 28/27 A2995 RMK 8/030 GOOY 300800Z 24010KT 9999 SCT008 28/25 Q1013 NOSIG MMCS 300243Z 00000KT 10SM SCT050CB BKN080 OVC200 28/17 A3008 RMK SLP072 52012 940 8/963 TS N LTGICCG N/W MMCT 292050Z 09010KT 8SM FEW020 36/21 A2996 RMK 8/100 MSGTX MMMD MMCU 300740Z 17005KT 10SM SCT030 BKN080 BKN200 19/14 A3026 RMK 8/472 MMCV 300540Z 21010KT 8SM SKC 28/17 A3005 RMK SLP164 52023 934 HZY MMDO 300243Z 11006KT 10SM BKN030CB OVC200 18/13 A3031 RMK SLP136 52019 920 8/903 BINOVC ISOL AC MMCZ 300740Z 00000KT 7SM SCT250 23/23 A3000 RMK 8/008 FZAA 300600Z 25004KT 4000 BR FEW015 19/17 Q1017 NOSIG BIVM 300800Z 10019KT 9999 RA FEW008 BKN035 09/07 Q1011 MMEP 300147Z 36006KT 6SM SCT008 BKN020 OVC250 26/23 A3001 RMK 8/307 BINOVC GOSM 300700Z 28007KT CAVOK 28/25 Q1014 GOSP 300700Z 24004KT 9999 SCT010 BKN230 28/25 Q1012 GOSS 300700Z 27006KT 190V340 9999 BKN013 SCT230 28/26 Q1011 GOTK 300700Z 28008KT 9999 BKN015 SCT130 25/23 Q1014 MMGL 300743Z 00000KT 7SM SCT300 20/16 A3020 RMK 8/001 HZY MMGM 300149Z 00000KT 10SM FEW030 SCT120 33/26 A2980 RMK 8/140 HZY FYKM 300700Z 00000KT CAVOK 17/08 Q1021 MMIA 300154Z 00000KT 6SM BKN200 26/24 A2995 RMK 8/008 HZY YERN 300800Z AUTO 35006KT //// // ////// 24/M01 Q1022 GOTT 300700Z 20006KT 9999 SCT015 BKN130 25/23 Q1013 FYKT 300700Z 00000KT CAVOK 06/00 Q1024 MMHO 300740Z 00000KT 10SM BKN200 29/24 A2996 RMK 8/008 HZY NCRG 300700Z 12004KT 9999 FEW023 BKN045 21/13 Q1014 NCPY 300700Z AUTO 11004KT //// //// 28/24 Q1008 FYML 300700Z AUTO 02001KT //// // ////// 06/M06 Q1026 YESP 300730Z AUTO 06004KT 9999 // NCD 16/15 Q1021 MMIO 300340Z 36008KT 10SM SKC 25/16 A3022 YGBI 300800Z AUTO 07006KT //// // ////// 27/20 Q1013 FYLZ 300700Z AUTO 12007KT //// // ////// 09/04 Q1025 MMIT 292300Z 36015G25KT 7SM FEW020 SCT180 35/21 A2980 RMK 8/103 HZY FYOA 300700Z 22003KT CAVOK 14/M04 Q1021 YFLI 300800Z AUTO 33015KT 9999 // SCT054 OVC071 12/04 Q1008 MNBL 292300Z 07004KT 5000 -DZ BKN016 28/26 Q1010 YGDH 300730Z AUTO 33008KT //// // ////// 13/05 Q1023 FYOO 300700Z AUTO 20003KT //// // ////// ///// Q1021 MNCH 292300Z 06006KT 9999 FEW025 34/21 Q1008 MMMA 300140Z 10010KT 7SM SCT200 29/25 A3000 RMK 8/001 HZY MMLM 300248Z 26004KT 10SM FEW120 BKN220 30/22 A2987 RMK SLP115 8/034 DSNT LTGIC NE MMMD 300746Z 11005KT 7SM SCT300 26/24 A3000 RMK 8/008 FYOW 300700Z AUTO 08009KT //// // ////// 11/M10 Q1021 MMLO 300541Z 06004KT 8SM SCT200 20/07 A3034 RMK SLP119 52013 904 8/002 MMLP 300440Z 19005KT 10SM SKC 28/20 A2992 YGEL 300730Z 11007KT CAVOK 20/19 Q1016 RMK 6SC074 7AC090 MMLT 300043Z 14005KT 8SM SKC 35/25 A2980 MMML 300443Z 14003KT 10SM BKN120 32/18 A2988 RMK 8/030 ISOL CI MMMM 300145Z 00000KT 7SM BKN230 20/16 A3020 RMK 8/008 AC MMMT 300044Z 36010KT 8SM SCT020 29/20 A2990 RMK 8/100 MMNL 300040Z 14010KT 10SM SKC 39/18 A2991 YGFN 300730Z AUTO 04005KT 9999 // NCD 16/10 Q1023 MMMV 292340Z 06008KT 10SM SCT050 38/17 A2990 RMK 8/500 HZY SKBG 300400Z 14003KT 9999 FEW015 BKN080 22/19 A3004 RMK LTNG/W FYRN 300700Z 15006KT CAVOK 15/00 Q1021 MMMX 300750Z 30006KT 12SM FEW100 SCT200 17/11 A3040 NOSIG RMK 8/032 MMMY 300743Z 08006KT 15SM SKC 25/20 A3003 SKAR 300400Z 09003KT 9999 SCT022 SCT100 20/19 A3009 MMMZ 300744Z 33007KT 10SM FEW090 26/21 A2985 RMK 8/030 HZY MMPA 300143Z 12008KT 4SM FEW020 SCT100 BKN270 28/24 A3003 RMK 8/568 HZY MMPB 300446Z 34009KT 8SM FEW020 SCT100 SCT230 15/11 A3041 RMK 8/572 HZY SKCC 300500Z 18012KT 9999 FEW022 28/22 A2995 MMPE 291457Z RTD 11005KT 10SM SCT030 BKN100 BKN200 32/19 A2991 RMK 8/829 SKBO 300800Z 05006KT 9999 BKN020 11/09 A3033 SKCG 300700Z 08003KT 9999 FEW017 SCT200 27/26 A2978 MMPG 292340Z 12010KT 8SM SKC 40/19 A2991 RMK HZY SKBQ 300800Z 04003KT 9999 FEW015 26/24 A2979 SKCL 300800Z 00000KT 9999 FEW027 BKN100 21/19 A2997 MMPN 292341Z 00000KT 4SM SCT020CB BKN120 BKN280 21/19 A3014 RMK SLP/// 5//// 9// 8/963 HZY MMOX 300745Z 00000KT 7SM SCT025 SCT090 BKN220 16/11 A3027 RMK 8/138 MMPQ 292345Z 09008KT 4SM SCT030 SCT070 33/23 A2988 RMK 8/190 HZY MSGTX MMMD MMPR 300748Z 00000KT 12SM SCT080 BKN250 28/26 A2986 RMK 8/038 MMPS 292341Z 18008KT 7SM SCT250 31/23 A2993 RMK SLP143 57921 957 8/006 HZY YHBA 300730Z AUTO 14005KT 9999 // NCD 18/14 Q1023 SKEJ 292300Z 00000KT 9999 FEW015 BKN200 32/23 A2971 YFRT 300800Z AUTO 16008KT //// // ////// 21/12 Q1021 BKPR 300800Z VRB03KT CAVOK 28/13 Q1011 NOSIG MMQT 300745Z 07005KT 8SM SCT100 15/13 A3038 RMK 8/030 FYWB 300700Z 12004KT CAVOK 06/03 Q1024 MMSD 300440Z 28003KT 12SM SKC 28/21 A2992 FYWE 300700Z 10005KT CAVOK 08/M22 Q1025 MNJG 292300Z 00000KT 9999 SCT020 SCT200 25/18 Q1012 YGLA 300730Z AUTO 11011KT 9999 // NCD 20/12 Q1022 YGLB 300730Z AUTO 30015KT //// // NCD 08/02 Q1019 FYWH 300700Z 00000KT CAVOK 06/M13 Q1026 NOSIG TAPA 300800Z 09012KT 9999 FEW020 27/22 Q1016 NOSIG GQNI 291800Z 36012KT 9999 BKN040TCU 33/19 Q1011 MMTB 292300Z 29012KT 6SM FEW020 SCT200 30/19 A2995 RMK 8/104 HZ MMSL 300145Z 27015KT 10SM FEW230 28/24 A2989 RMK 8/008 MMTC 300341Z 06004KT 8SM FEW035 SCT090 32/12 A3008 RMK 8/570 ISOL CI YHAY 300730Z AUTO 36008KT //// // ////// 11/07 Q1019 MMRX 300345Z 15010KT 10SM SKC 26/22 A3001 RMK HZY FU GQNN 300800Z 28012KT 250V310 7000 BKN010 26/21 Q1012 NOSIG YGLI 300730Z AUTO 29005KT 9999 // NCD 08/M00 Q1025 MMTG 300348Z 32005KT 10SM BKN090 26/19 A2999 RMK 8/030 ISOLD CI MMSP 300740Z 11006KT 10SM BKN020 16/11 A3034 RMK 8/500 AC MMTJ 300742Z 29005KT 6SM SCT015 BKN100 20/16 A3001 RMK 8/550 HZY GQPA 291800Z VRB12KT 8000 NSC 40/15 Q1008 MNJU 292300Z 09006KT 8000 VCRA SCT020TCU SCT300 29/25 Q1011 -RESHRA TCU E TCURA/S/SW MMTM 300351Z 09006KT 10SM SKC 28/25 A3002 YFTZ 300800Z AUTO 08007KT //// // ////// 32/04 Q1015 MMTO 300740Z 04005KT 7SM SCT015 13/11 A3047 RMK 8/500 HZY FYWW 300700Z 10007KT CAVOK 09/M17 Q1024 MMTP 300742Z 00000KT 7SM SCT150 26/24 A2991 RMK 8/020 YGLS 300730Z 10007KT CAVOK 26/M04 Q1022 SKIB 300100Z 31005KT 9999 FEW033 BKN100 25/17 A3003 MMVA 300345Z 07008KT 6SM BKN017 26/22 A3001 RMK 8/700 HZY MMUN 300740Z 06002KT 7SM SCT300 26/25 A3000 RMK 8/008 HZY SC K04V 300750Z AUTO 35007KT 10SM CLR 12/08 A3052 RMK AO2 K06D 300735Z AUTO 28009KT 10SM CLR 15/12 A3000 RMK AO2 K04W 300753Z AUTO 25006KT 10SM CLR 16/13 A2996 RMK AO2 MNMG 300700Z 00000KT 9999 FEW020 BKN300 26/23 Q1011 A2987 NOSIG GQPP 300700Z 35014KT 7000 FEW006 20/18 Q1011 NOSIG SKIP 292300Z 07005KT 8000 VCSH SCT007 BKN016 10/08 A3043 RMK VCSH/N/E GQPZ 300600Z 32010KT CAVOK 25/16 Q1011 MMVR 300346Z 00000KT 7SM SCT012 28/25 A3004 RMK 8/100 HZY K08D 300755Z AUTO 33010KT 10SM BKN090 14/13 A3012 RMK AO2 LWOH 300730Z 15001KT CAVOK 26/15 Q1013 SLCA 292300Z 00000KT 9999 SCT036 25/19 Q1017 SLCB 300700Z 00000KT 9999 NSC 08/01 Q1027 SKLC 292300Z 00000KT 9999 SCT025 BKN250 31/24 A2975 LXGB 300750Z 20010KT 9999 FEW023 25/19 Q1012 NOSIG MNPC 292300Z 08006KT 6000 VCRA BKN016TCU SCT100 29/25 Q1011 TCURA/N/NW/W/S NFFN 300800Z 13008KT 9999 FEW030 SCT300 22/18 Q1013 NOSIG YHID 300800Z AUTO 12017KT 9999 // SCT023 SCT028 26/20 Q1014 SKMD 292300Z 10008KT 9999 FEW035 BKN200 28/11 A3005 MMZC 300640Z 13015KT 8SM SKC 18/06 A3035 SLCO 292200Z 18003KT 9999 FEW027 FEW030TCU 32/24 Q1012 SLCP 292200Z 00000KT 9999 NSC 28/21 Q1017 MMZH 300142Z 26003KT 7SM SCT020 SCT100 SCT250 31/26 A2982 RMK 8/532 HZY SKLT 300700Z 00000KT 9999 SCT016 SCT080 24/23 A2990 MMZO 300140Z 27005KT 10SM SCT100 30/26 A2975 RMK 8/020 SKMR 300100Z 00000KT 9999 SCT017 SCT100 27/26 A2980 K11R 300755Z AUTO 22003KT 10SM CLR 27/24 A3004 RMK AO2 T02710242 YGTE 300800Z AUTO 11009KT 9999 // NCD 27/19 Q1015 YGTH 300730Z AUTO 35006KT 9999 // OVC125 10/05 Q1020 K12N 300754Z AUTO 00000KT 22/22 A2993 RMK AO1 SLP124 T02220217 SKMZ 292300Z 30004KT 9999 BKN090 21/14 A3024 YHLC 300800Z AUTO 12005KT //// // ////// 29/01 Q1018 MNRS 292300Z 07006KT 9999 SCT016CB BKN070 27/25 Q1010 CB 4/C SLET 292300Z 32010KT 9999 FEW017 SCT200 27/21 Q1013 TBPB 300800Z 07017KT 9999 SCT016 27/24 Q1014 NOSIG SKPC 292300Z 00000KT 9999 VCSH FEW013 BKN070 25/24 A2980 RETSRA RMK VCSH/W/SW LWSK 300730Z VRB02KT CAVOK 29/16 Q1010 NOSIG YGTN 300800Z AUTO 18004KT 9999 // NCD 26/07 Q1018 SKNV 300300Z 18004KT 9999 BKN130 27/18 A2990 SKPE 300500Z 11005KT 9999 FEW020 SCT080 21/18 A3006 LYBE 300730Z 32006KT 280V360 CAVOK 23/16 Q1013 NOSIG MPBO 300200Z 27003KT 9999 FEW015 OVC090 Q1014 SKPS 292300Z 11007KT 9999 SCT027 22/11 A3011 YHML 300730Z AUTO 33018KT 9999 // OVC018 09/07 Q1012 MPDA 300300Z 00000KT 9000 TS SCT015CB BKN080 25/24 Q1010 RWY DAMP LYBT 300730Z VRB05KT CAVOK 23/15 Q1012 NOSIG SKPV 300000Z 07008KT 9999 FEW017 BKN200 28/26 A//// SKRG 300800Z 36004KT 3000 -RA SCT004 OVC070 13/13 A3030 SKRH 292300Z 05010KT CAVOK 30/23 A2979 K14Y 300759Z AUTO 24005KT 10SM CLR 16/12 A3001 RMK AO2 NFNA 300700Z 15006KT 9999 BKN020 BKN045 23/18 Q1014 K0A9 300755Z AUTO 00000KT 9SM BKN040 22/21 A3003 RMK SLJE 292200Z 00000KT 9999 NSC 28/20 Q1016 MPEJ 300000Z 29007KT 8000 SCT016TCU BKN200 28/25 Q1009 RMK TCU N / HZ ALQDS K18A 300755Z AUTO 00000KT 7SM CLR 23/23 A2998 RMK AO2 T02260225 SKSM 300400Z 00000KT 9999 FEW020 SCT200 29/23 A2986 YHOO 300800Z AUTO 13009KT //// // ////// 28/M02 Q1018 SLJO 292200Z 00000KT 9999 FEW017 32/22 Q1013 SKSP 300800Z 08007KT 9999 FEW017 OVC200 28/26 A298 YHOT 300800Z AUTO 33013KT 9000 // ////// 02/M02 Q1015 SKUC 300400Z 18003KT 9999 SCT023 24/23 A2993 K19A 300755Z AUTO 00000KT 10SM CLR 23/23 A2997 RMK AO2 TDCF 300000Z 13003KT 9999 BKN016 25/23 Q1014 SKUI 300000Z 27007KT 8000 TS BKN015 FEW017CB 25/24 A2980 RMK CB/W NGFU 300700Z 12013KT 9999 FEW020 SCT110 BKN310 28/26 Q1006 K0E0 300755Z AUTO 04005KT 10SM -VCTSRA 16/14 A3044 RMK AO2 LTG DSNT SW AND W T01550135 K21D 300755Z AUTO 23003KT 10SM CLR 19/13 A3001 RMK AO2 SLMG 292300Z 00000KT 9999 NSC 29/24 Q1013 SLLP 300700Z 04003KT 9999 NSC M02/M11 Q1038 YJAB 300800Z AUTO 13008KT //// // ////// 33/10 Q1012 K20U 300735Z AUTO 22003KT 10SM CLR 11/08 A3016 RMK AO2 K20V 300756Z AUTO 00000KT 10SM CLR 06/M02 A3049 RMK AO2 K0F2 300755Z AUTO 00000KT 10SM CLR 23/19 A3007 RMK AO2 T02280192 SKVP 300100Z 05010KT 9999 FEW020 BKN200 34/18 A2984 K0CO 300755Z AUTO 25008KT 10SM CLR 06/01 A3083 RMK AO2 YHSM 300730Z AUTO 33013KT 9999 // OVC031 12/05 Q1015 SKVV 292300Z 00000KT 9999 FEW023 SCT090 27/21 A2991 HKEL 300700Z 34007KT 9999 BKN018TCU 18/14 YHUG 300730Z AUTO 10009KT //// // ////// 25/M00 Q1019 NFTF 300300Z 15008KT 9999 FEW018 23/16 Q1015 SLOR 292200Z 36015KT 9999 NSC 14/M03 Q1036 NFTL 300300Z 11007KT 9999 FEW009 SCT018 BKN100 24/17 Q1013 SLPO 292100Z 05008KT 9999 NSC 14/M04 Q1034 SLPS 292300Z 00000KT 9999 NSC 27/20 Q1013 SLRB 292300Z 00000KT 9999 NSC 29/20 Q1017 NFTV 300300Z 12010KT 9999 FEW018 SCT290 25/16 Q1012 LYKV 300730Z 32006KT 260V350 CAVOK 24/16 Q1012 NOSIG MPMG 300300Z 33004KT 9999 FEW020 27/25 Q1011 NOSIG K0J4 300758Z AUTO 00000KT 6SM BR CLR 24/23 A2996 RMK AO2 SLP140 T02390228 PNO $ SLRI 292300Z 00000KT 9999 FEW017 29/23 Q1012 K1A5 300755Z AUTO 00000KT 19/19 A3007 RMK AO2 T01850185 PWINO SLSA 292300Z 00000KT 9999 FEW020 30/23 Q1011 K1A6 300755Z AUTO 00000KT 7SM SCT028 23/22 A3002 RMK AO2 T02250220 SLSB 291100Z 00000KT 0500 FG NSC 20/20 Q1013 K1A9 300755Z AUTO 00000KT 7SM CLR 24/24 A2994 RMK AO2 T02430241 SLRQ 292200Z 00000KT 9999 FEW017 29/26 Q1012 SLSI 292300Z 00000KT 9999 NSC 26/22 Q1015 LYNI 300730Z 32015KT CAVOK 26/16 Q1010 TEMPO 33028KT K1B7 292130Z 06004KT 10SM SKC 33/26 A2997 RMK LAST SLRY 292200Z 00000KT 9999 NSC 30/23 Q1013 SMJP 300800Z VRB01KT 9999 BKN005 24/23 Q1013 BEMG AT0840 1500 BR SLTJ 300200Z 00000KT 9999 FEW025 15/11 Q1022 MPPA 300300Z 35010KT CAVOK 25/21 Q1011 SLSU 292300Z 00000KT 9999 NSC 15/M00 Q1029 K28J 300715Z AUTO 25003KT 10SM SCT013 SCT031 23/23 A2995 RMK AO2 TSNO HKJK 300700Z 12005KT 9999 BKN020 18/13 Q1026 NOSIG LYPG 300730Z 26003KT CAVOK 32/16 Q1008 NOSIG SLTR 292300Z 00000KT 9999 NSC 29/23 Q1012 HKKI 300600Z 09004KT 9999 FEW018 BKN230 18/14 SLVG 291400Z 33005KT 9999 NSC 17/12 Q1027 ZBAA 300730Z 06003MPS 010V110 1600 R01/1000V1500U R36R/1400VP2000U R36L/1800N TSRA BR SCT033CB SCT040 24/23 Q1005 NOSIG LZIB 300730Z 31007KT 9999 FEW015 17/11 Q1015 NOSIG SLVM 292100Z 18010KT 9999 BKN023 30/20 Q1011 K1F0 300730Z AUTO 00000KT 10SM CLR 23/19 A3007 RMK AO2 SLVR 300700Z 33004KT 9999 SCT013 20/20 Q1015 HKML 300700Z 18008KT 9999 BKN020 27/22 Q1018 HKMO 300700Z 21004KT 9999 BKN023 26/22 Q1019 NOSIG GUCY 292100Z 23006KT 9999 BKN015 BKN110 25/23 Q1015 NOSIG SLYA 292300Z 00000KT 9999 SCT070 22/19 Q1016 YJLC 300730Z AUTO 15010KT //// // ////// 28/03 Q1018 NGTA 300600Z 26019KT 9999 VCSH SCT017CB OVC100 27/26 Q1004 TDPD 300000Z 11006KT 8000 VCSH BKN014 27/25 Q1016 K1H2 300735Z AUTO 29003KT 10SM CLR 18/15 A3010 RMK AO2 T01760147 CERM 300700Z AUTO 34001KT 09/08 RMK AO1 SLP122 T00870079 56009 K33V 300755Z AUTO 13010KT 10SM CLR 02/M01 A3050 RMK AO2 HKNW 300700Z 15014KT 9999 BKN018 17/11 Q1025 MPTO 300800Z 00000KT 9999 FEW020 26/25 Q1009 NOSIG NGTT 300800Z 25014KT 9999 FEW018 SCT040 BKN100 28/24 Q1005 K1J0 300758Z AUTO 00000KT 10SM CLR 24/23 A2994 RMK AO2 SLP096 T02440233 YIVO 300730Z AUTO 01011KT //// // ////// 15/04 Q1019 LYTV 300730Z VRB01KT CAVOK 31/19 Q1008 NOSIG LZKZ 300730Z 32005KT 9999 -RA FEW004 SCT040 OVC100 17/15 Q1014 NOSIG K0S9 300755Z AUTO 00000KT 10SM SCT060 13/12 A3010 RMK AO2 K1K1 300755Z AUTO 10005KT 10SM SCT065 22/20 A3017 RMK AO2 T02170195 LYUZ 300730Z 32005KT 250V030 4000 BR BKN005 17/17 Q1015 LYVR 300730Z 32010KT 220V350 9999 FEW040 24/17 Q1011 NOSIG K1L0 300755Z AUTO 00000KT 26/24 A3000 RMK AO2 T02580243 PWINO GVAC 300800Z 03010KT 9999 BKN015 25/22 Q1014 NOSIG K36U 300755Z AUTO 00000KT 10SM CLR 07/01 A3037 RMK AO2 SOCA 300730Z AUTO 00000KT 9999 NCD 23/23 Q1013 GVBA 300800Z 03008KT 9999 BKN015 25/23 Q1014 NOSIG K2C8 300755Z AUTO 27008KT 10SM CLR 17/14 A2991 RMK AO2 K40B 300716Z AUTO 00000KT 12/12 A2988 RMK AO1 SLP113 T01230120 57013 P0000 ZBHH 300700Z 33002MPS 270V050 9999 FEW040 28/13 Q1007 NOSIG K1M4 300756Z AUTO 00000KT 4SM BR CLR 23/23 A3005 RMK AO2 T02270227 SLP187 K0V4 300755Z AUTO 00000KT 3/4SM OVC003 22/22 A2996 RMK AO1 T02210221 K2D5 300755Z AUTO 27009KT 10SM 14/13 A3006 RMK AO2 K40J 300755Z AUTO 00000KT 1SM BR VV007 23/23 A2995 RMK AO2 T02340234 YKII 300800Z AUTO 26023KT 6000 -RA SCT013 BKN021 BKN030 09/08 Q1009 RERA LZPP 300730Z VRB01KT 9999 FEW020 18/12 Q1015 HLLM 300750Z 36005KT 330V030 8000 FEW020 30/22 Q1012 YLBD 300800Z AUTO 28004KT 9999 // NCD 28/11 Q1015 K42J 300755Z AUTO 00000KT 6SM BKN002 23/23 A2995 RMK AO1 TSNO K1P1 300755Z AUTO 00000KT 1/4SM FG OVC001 18/18 A2989 RMK AO2 T01760176 TFFF 300730Z AUTO 07007KT 9999 +RA BKN021/// BKN034/// BKN047/// ///CB 26/24 Q1014 K2G4 300735Z AUTO 23006KT 3SM BR CLR 20/ A3004 RMK AO1 K2DP 300756Z AUTO 35003KT 6SM BR FEW018 21/20 A2995 RMK AO2 SLPNO T02120204 $ K2G9 300755Z AUTO 21006KT 7SM SCT023 20/20 A2998 RMK AO2 LZSL 300730Z VRB02KT 9999 FEW012 16/14 Q1013 TFFR 300730Z AUTO 11003KT 9999 FEW023 OVC160 26/23 Q1015 MRLB 300200Z 14008KT 9999 SCT035 BKN130 27/21 A2989 K2I0 300755Z AUTO 01006KT 10SM OVC045 25/20 A3006 RMK AO2 T02450195 YLEC 300800Z AUTO 36007KT //// // ////// 16/M03 Q1021 K1R7 300755Z AUTO 26003KT 25/23 A3003 RMK AO2 LZTT 300730Z 06006KT 9999 FEW015 SCT021 14/09 Q1014 NOSIG MRLM 292000Z 00000KT CAVOK 28/23 A2982 YKMP 300500Z AUTO 04009KT 010V090 //// // ////// 20/11 Q1022 SMZO 300000Z 03004KT CAVOK 27/24 Q1011 NOSIG K1S5 300755Z AUTO 00000KT 10SM CLR 15/11 A3005 RMK AO2 T01480106 K2J9 300735Z AUTO 4SM 24/24 A2996 RMK AO1 YLEO 300800Z AUTO 14003KT 9999 // OVC091 24/14 Q1020 YKNT 300800Z AUTO 12005KT //// // ////// 27/M10 Q1021 MROC 300800Z 09007KT 9999 FEW030 SCT120 22/17 A2998 NOSIG K1QW 300656Z AUTO 27017KT M /// /// M 23/M01 A3015 RMK AO2 SLP189 T02251006 $ AYMO 300600Z 16015KT 9999 SCT018 BKN300 30/24 Q1008 K49A 300755Z AUTO 36004KT 5SM HZ CLR A3004 RMK AO2 YKOW 300730Z AUTO 15009KT //// // OVC085 31/11 Q1014 K3D2 300755Z AUTO 27009G16KT 10SM CLR 21/14 A2985 RMK AO2 T02100140 YLHI 300730Z AUTO 05009KT 9999 // NCD 15/07 Q1026 K1V4 300754Z AUTO 19/18 A2986 RMK AO1 SLP100 T01940178 K1V6 300750Z AUTO 29005KT 10SM CLR 20/10 A3033 RMK AO2 SPCL 300700Z 36003KT 9999 FEW025 23/22 Q1014 RMK PP000 K3AU 300735Z AUTO 06004KT 10SM SCT070 22/20 A3017 RMK AO2 YLHR 300800Z AUTO 13014KT //// // BKN029 OVC033 24/19 Q1016 LZZI 300730Z 23005KT 190V260 9999 FEW020 18/10 Q1014 YKSC 300730Z AUTO 21012KT 9999 // BKN027 OVC065 12/09 Q1018 AYNZ 300700Z 09026KT 9999 FEW035 SCT140 28/19 Q1010 MRPV 300000Z 28003KT 6000 BCFG BKN014 21/19 A3001 NOSIG YMBA 300800Z AUTO 14007KT //// // ////// 19/10 Q1020 YLIS 300730Z AUTO 05009KT 9999 // NCD 17/12 Q1023 ZBSJ 300700Z 09002MPS 5000 BR OVC046 27/25 Q1003 NOSIG OAHR 300654Z 02012KT 350V060 CAVOK 35/M03 Q1010 RMK SKC VIS MIN 9999 BLU YMBD 300800Z AUTO 36008KT 9999 // SCT027 SCT040 SCT046 11/09 Q1018 YKRY 300730Z AUTO 14004KT //// // ////// 17/05 Q1024 ZBTJ 300730Z 13005MPS 9999 BKN033 30/21 Q1004 NOSIG AYPY 300700Z 16025KT 9999 FEW020 27/21 Q1010 RMKS OAKB 300750Z 35008KT 9999 FEW080TCU SCT180 31/08 Q1011 NOSIG RMK BLU BLU YMAV 300738Z AUTO 34022G33KT 9999 // OVC045 OVC053 12/04 Q1012 YLLE 300600Z AUTO 31010KT //// // ////// 23/M02 Q1022 YMAY 300730Z AUTO 33007KT 9999 // OVC110 11/05 Q1020 GVNP 300800Z 04012KT 9999 FEW015 BKN020 26/26 Q1013 NOSIG OBBI 300700Z 09009KT CAVOK 39/24 Q0999 NOSIG K54J 300755Z AUTO 00000KT 10SM CLR 25/24 A2995 RMK AO2 T02460241 SPGM 292100Z /////KT 9999 FEW040 32/21 Q1012 RMK TX YMCO 300800Z AUTO 34005KT //// // ////// 11/06 Q1013 NIUE 300300Z 11013KT 9999 SCT018 BKN030 BKN110 24/15 Q1012 YMDG 300730Z AUTO 33006KT //// // NCD 10/04 Q1022 MTBO 300730Z AUTO 27013KT 9999 // NCD 07/M01 Q//// GVOP 300000Z 02010KT 9999 FEW015 26/25 Q1015 NOSIG SPHI 300800Z 18008KT 9999 FEW008 BKN130 19/17 Q1012 RMK PP000 SPHO 292300Z 07007KT CAVOK 21/11 Q1026 RMK PP000 MSLP 300550Z 01003KT CAVOK 26/22 Q1012 A2989 YMEK 300730Z AUTO 36007KT 9999 // NCD 28/08 Q1019 K4A6 300755Z AUTO 00000KT 8SM FEW028 BKN041 BKN047 25/25 A2999 RMK AO2 K4A7 300735Z AUTO 00000KT 7SM CLR 25/24 A2997 RMK AO2 T02460235 K3J7 300735Z AUTO 00000KT 10SM CLR 23/ A2995 RMK AO2 K1YT 300656Z AUTO 18001KT 10SM CLR 21/03 A3009 RMK AO2 SLPNO T02070031 $ SPIM 300800Z 16008KT 9999 OVC015 18/14 Q1013 NOSIG RMK PP000 YMEN 300730Z AUTO 36028G44KT 9999 // SCT070 SCT110 11/04 Q1011 K4A9 300735Z AUTO 03003KT 5SM BR SCT034 23/22 A3000 RMK AO2 SPHY 291900Z /////KT CAVOK 15/02 Q1036 RMK BIRD HAZARD RWY 03/21 PP000 K3K3 300735Z AUTO 11004KT 10SM SCT026 18/17 A3027 RMK AO2 PWINO YMER 300730Z AUTO 00000KT 9999 // NCD 10/07 Q1014 YMES 300730Z AUTO 31013KT 9999 // BKN082 OVC100 13/02 Q1011 SPJI 292100Z 06003KT 9999 SCT030 SCT110 33/22 Q1018 RMK T.MAX 34.9 PP000 YMGB 300800Z AUTO 11007KT //// // ////// 29/16 Q1013 OAMS 300750Z 28009KT 9999 SCT120 BKN200 36/07 Q1005 BLU+ BLU YMGD 300800Z AUTO 01006KT 9999 // NCD 29/17 Q1012 SPJL 300500Z 27004KT CAVOK 01/M05 Q1040 RMK PP000 SPJR 292300Z 05008KT CAVOK 18/06 Q1027 RMK PP000 YMHB 300730Z 34015G26KT 9999 FEW035 SCT060 BKN240 12/01 Q0998 ZBYN 300730Z 21002MPS 170V240 9999 FEW033CB FEW040TCU 35/15 Q1003 NOSIG AYWK 300200Z 09003KT 9999 FEW020CB SCT020 SCT140 BKN300 30/24 Q1010 RMK YMIA 300730Z AUTO 34007KT 9999 // SCT079 SCT091 BKN110 16/01 Q1018 K2V5 300755Z AUTO 17004KT 10SM CLR 16/12 A3029 RMK AO2 T01600115 YLRE 300800Z AUTO 08006KT 9999 // NCD 23/01 Q1021 SPME 300300Z VRB01KT 9999 BKN025 24/21 Q1012 RMK BIRD HAZARD RWY 32/14 PP000 SPLO 292100Z 19006KT 8000 BKN030 18/12 Q1011 RMK TMAX 19.4 PP000 GVSV 300800Z 06018KT 9999 SCT018 25/21 Q1014 NOSIG K4BM 300755Z AUTO 28007KT 10SM CLR 08/02 A3076 RMK AO2 K3LF 300735Z AUTO 00000KT 10SM CLR 17/15 A3012 RMK AO2 T01700151 K2W6 300737Z AUTO 00000KT 10SM CLR 24/21 A2996 RMK AO1 YMHU 300800Z AUTO 17006KT 9999 // NCD 31/01 Q1016 K3N8 300755Z AUTO 26006KT 10SM CLR 16/14 A2996 RMK AO2 T01600136 YMIN 300800Z AUTO 24012KT //// // ////// 13/11 Q1019 SPMS 292300Z 21007KT 8000 VCSH BKN015 BKN080 28/24 Q1013 RMK BIRD HAZARD RWY 09/27 PP000 YNAR 300730Z AUTO 35006KT //// // ////// 10/06 Q1020 YLST 300800Z AUTO 33005KT 9999 // NCD 27/09 Q1019 YLTN 300800Z AUTO 18009KT //// // ////// 23/14 Q1021 DAAD 300700Z 00000KT 8000 NSC 31/12 Q1012 YNBR 300730Z AUTO 35007KT 9999 // NCD 12/05 Q1023 DAAE 300700Z 26012KT 9999 FEW023TCU FEW026CB SCT090 29/22 Q1007 DAAG 300730Z 23006KT 8000 NSC 30/26 Q1010 MSSS 300350Z 00000KT CAVOK 24/21 Q1016 A3002 YLTV 300730Z AUTO 27014KT 9999 // OVC073 12/06 Q1010 DAAJ 300700Z 00000KT CAVOK 28/11 Q1015 DABB 300730Z 06004KT 9999 FEW040 SCT230 29/27 Q1009 DABC 300730Z 02003KT 9999 FEW030 31/12 Q1015 K4I3 300756Z AUTO 33004KT 10SM SCT070 21/17 A2998 RMK AO2 MUCF 300659Z AUTO 08003KT 26/25 Q1016 K2WX 300756Z AUTO 27004KT 16/04 A3014 RMK AO1 SLP188 T01610039 DAAP 300700Z /////KT CAVOK 31/05 Q1012 YMLT 300730Z AUTO 34022KT 7000 RA BKN009 BKN013 BKN020 07/06 Q1004 YMML 300749Z 35030G40KT 9999 FEW025 BKN055 BKN200 10/02 Q1013 INTER 0930/1100 5000 SHRA BKN025 FM0749 MOD/SEV TURB BLW 5000FT K4I7 300755Z AUTO 30003KT 10SM CLR 19/13 A3006 RMK AO2 K3R7 300755Z AUTO 00000KT 10SM CLR 26/25 A3000 RMK AO2 P0015 T02570246 YMNE 300730Z AUTO 33007KT 9999 // NCD 28/09 Q1020 MUCL 300705Z AUTO 16004KT 29/24 Q1015 DAAS 300700Z 16004KT 9999 FEW030 30/11 Q1019 DAAT 300730Z 09009KT 2000 HZ NSC 31/09 Q1019 MUCM 300650Z 08007KT 9000 NSC 25/23 Q1017 YMNG 300730Z AUTO 02013KT 9999 // OVC071 09/05 Q1017 TGPY 300500Z 09012KT 9999 BKN017 27/25 Q1013 DAAV 300700Z 10004KT 9999 TS SCT026CB SCT040 29/23 Q1007 DAAY 300700Z ///00KT 6000 SCT030 SCT100 26/07 Q1020 K5A6 300755Z AUTO 00000KT 10SM CLR 24/23 A3000 RMK AO2 T02370231 SPQT 300800Z 26002KT 0300 FG BKN002 OVC070 22/21 Q1013 RMK PP000 K65S 300755Z AUTO 00000KT 10SM CLR 14/04 A3017 RMK AO2 SPQU 300800Z VRB03KT CAVOK 09/M10 Q1026 RMK PP000 YNEN 300730Z AUTO 14012KT 9999 // NCD 30/19 Q1013 DABS 300730Z 00000KT CAVOK 29/14 Q1017 MUCU 300651Z 05005KT 9000 FEW020 25/22 Q1016 DABT 300700Z 14012KT 9999 FEW020 26/08 Q1016 YMOG 300800Z AUTO 35007KT //// // ////// 25/15 Q1019 K3T5 300730Z AUTO 00000KT 10SM CLR 26/24 A3003 RMK AO2 T02600241 K66R 300755Z AUTO 00000KT 10SM CLR 25/24 A3003 RMK AO2 T02460240 SPRU 300800Z 12006KT 6000 OVC019 18/15 Q1012 RMK PP000 K5C1 300755Z AUTO 18003KT 10SM CLR 23/20 A3011 RMK AO1 SPSO 300800Z 08004KT CAVOK 12/10 Q1013 RMK SCT230 PP000 YMOR 300730Z AUTO 36004KT 9999 // NCD 16/06 Q1023 DAEF 300700Z 10012KT CAVOK 32/07 Q1012 SPST 300300Z 00000KT 9999 SCT025 SCT080 25/21 Q1015 RMK BIRD HAZARD RWY 17/35 PP000 SPTN 300800Z 261003KT 9999 OVC025 12/10 Q1015 RMK PP000 DAEN 300700Z 15014KT CAVOK 35/10 Q1011 YMRB 300730Z AUTO 12010KT 9999 // SCT057 22/10 Q1021 YNGU 300800Z AUTO 09009KT //// // ////// 30/07 Q1015 DAFH 300700Z 11010KT CAVOK 33/10 Q1015 MUHA 300655Z VRB01KT 5000 2000SW PRFG FEW025 BKN180 24/22 Q1017 SPTU 292300Z 00000KT CAVOK 29/24 Q1011 RMK BIRD HAZARD RWY 01/19 PP000 K4M9 300735Z AUTO 36004KT 10SM CLR 24/24 A3008 RMK AO2 MUGM 300756Z 36005KT 9999 FEW025 28/24 A3000 RMK SLP158 T02780244 MTPP 300100Z 08006KT 8000 FEW025 30/22 Q1016 A3001 MUHG 300650Z VRB02KT CAVOK 25/21 Q1016 K4O4 300755Z AUTO 00000KT 10SM CLR 25/21 A3005 RMK AO2 YMRY 300730Z AUTO 34006KT 9999 // NCD 14/03 Q1015 YMTG 300732Z AUTO 23015KT 9999 // SCT014 SCT027 BKN037 09/08 Q1014 YMTI 300730Z AUTO 15006KT //// // ////// 25/// Q1017 K4MR 300756Z AUTO M 10SM FEW033 SCT050 SCT120 19/17 A3028 RMK AO2 LTG DSNT N AND W SLP194 T01940167 $ K5H4 300735Z AUTO 25007KT 10SM CLR 12/11 A3004 RMK AO2 SPZA 292130Z 27003KT CAVOK 27/12 Q1012 SPYL 292200Z 18010KT CAVOK 25/17 Q1010 RMK TX 27.2 BIRD HAZARD RWY 17/35 PP000 DBBB 300700Z 23012KT 9999 SCT012 24/22 Q1014 TEMPO BKN012 K6A1 300755Z AUTO 11003KT 10SM 27/26 A2997 RMK AO2 T02700262 SPZO 300800Z 00000KT 9999 NSC 02/M04 Q1035 RMK PP000 K6A2 300735Z AUTO 00000KT 7SM CLR 23/23 A2997 RMK AO2 UAAA 300730Z 30003MPS 250V350 9999 FEW050 SCT100 31/04 Q1010 R88/CLRD65 NOSIG K6B0 300755Z AUTO 17003KT 10SM CLR 22/18 A2986 RMK AO2 T02230178 UAAH 300730Z 32004MPS 230V010 9999 FEW040 29/03 Q1011 R23/0///60 NOSIG RMK QFE720/0960 YMYB 300800Z AUTO 11005KT 9999 // NCD 16/12 Q1024 UACC 300730Z 34004MPS 280V020 9999 BKN031 22/12 Q1013 R04/0/0070 NOSIG RMK QFE728/0971 DAOB 300700Z 00000KT 9999 BKN026 29/12 Q1016 TJBQ 300450Z 11008KT 10SM SKC 26/22 A3006 RMK TOWER CLOSED 0500-1100Z DAOF 300700Z 00000KT 9999 SCT040 SCT100 33/06 Q1009 YNRC 300800Z AUTO 24017KT //// // ////// 10/09 Q1015 UACK 300730Z 33005MPS 290V020 9999 BKN043 25/12 Q1011 R20/010070 NOSIG RMK QFE735/0980 DAOI 300700Z 00000KT 9999 BKN030 SCT200 28/19 Q1010 K79J 300756Z AUTO 00000KT 8SM CLR 27/23 A2994 RMK AO2 SLP134 T02670233 UADD 300730Z 01004MPS 330V050 9999 NSC 31/M03 Q1010 R31/0///65 NOSIG RMK QFE700/0933 K5M9 300735Z AUTO 01006G14KT 10SM BKN045 24/17 A3008 RMK AO2 T02360165 DAOL 300700Z 25012KT 8000 SCT026 SCT100 30/14 Q1011 UACP 300730Z 29004MPS 9999 SCT033CB BKN100 23/16 Q1010 NOSIG RMK QFE745/0994 DAON 300730Z 00000KT CAVOK 31/12 Q1012 DAOO 300730Z 25008KT 9999 FEW030 30/20 Q1010 DAOR 300700Z 00000KT 8000 FEW033 SCT100 31/07 Q1015 YPAD 300730Z 32011KT 9999 FEW022 SCT030 13/10 Q1018 K82C 300755Z AUTO 26008KT 10SM CLR 20/13 A2999 RMK AO2 T02000130 YPAG 300800Z AUTO 35006KT 9999 // NCD 16/00 Q1020 DAOV 300700Z 00000KT 8000 BKN030 29/13 Q1012 DAOY 300700Z /////KT CAVOK 29/05 Q1020 YNSM 300800Z AUTO 03005KT //// // ////// 18/13 Q1020 OEAB 300700Z 36016KT CAVOK 30/01 Q1021 NOSIG OEAH 300700Z 23022KT 7000 SKC 43/09 Q0999 NOSIG OEBA 300700Z 33017KT CAVOK 33/06 Q1018 NOSIG YPCC 300730Z 11013KT 9999 FEW025 28/22 Q1013 YOLD 300800Z AUTO 31008KT 9999 // NCD 22/M04 Q1020 YNTN 300800Z AUTO 16009KT 9999 // NCD 30/08 Q1016 YPBO 300800Z AUTO 06007KT 9999 // NCD 30/07 Q1019 K82V 300755Z AUTO 20006KT 10SM CLR 14/08 A3031 RMK AO2 OEAO 292100Z 33004KT CAVOK 33/02 Q1009 OEBH 300700Z 02011KT CAVOK 36/02 Q1012 NOSIG OEAR 300700Z 23004KT 9999 FEW040 41/15 Q1005 MWCB 300000Z 10005KT 9999 FEW018 30/26 Q1015 K6I2 300750Z AUTO 29003KT 8SM FEW007 OVC020 22/22 A3003 RMK AO2 YPEA 300700Z 36009KT 9999 SCT040 BKN100 19/15 Q1017 INTER 0700/1000 4000 SHRA BKN010 YPED 300730Z AUTO 29010KT 9999 // SCT027 SCT041 13/10 Q1019 K5R8 300755Z AUTO 00000KT 10SM CLR 26/25 A3001 RMK AO2 T02570252 YOLW 300800Z AUTO 35010KT //// // ////// 28/13 Q1017 DAUA 300700Z 09006KT 1000 HZ NSC 34/06 Q1007 YPDN 300730Z 02010KT CAVOK 30/17 Q1012 RMK SMOKE DAUB 300700Z 11012KT CAVOK 36/13 Q1010 DATM 300700Z 21006KT 2500 DRSA NSC 30/22 Q1011 OEDF 300700Z 24004KT CAVOK 43/09 Q0998 NOSIG DAUE 300700Z 00000KT CAVOK 31/13 Q1011 UAII 300730Z 34002MPS CAVOK 35/00 Q1008 R28/0///70 NOSIG RMK QFE719/0959 MWCR 300300Z 09008KT 9999 FEW018 29/26 Q1017 NOSIG DAUG 300700Z 04009KT CAVOK 33/06 Q1013 DAUH 300730Z 10010KT CAVOK 36/11 Q1010 YOOD 300800Z AUTO 34006KT //// // ////// 23/M05 Q1020 DAUI 300700Z 36008KT 7000 NSC 35/10 Q1009 YNWN 300800Z AUTO 04007KT 9999 // NCD 27/// Q1020 OEDM 300700Z 33014KT CAVOK 37/M04 Q1009 DAUK 300700Z 14006KT 9999 FEW046 SCT100 34/13 Q1010 DAUL 300700Z 00000KT 9999 FEW033 SCT200 29/10 Q1016 DAUO 300700Z 16005KT 9999 FEW040 31/14 Q1009 OEDR 300700Z 26005KT 8000 SKC 43/07 Q0997 NOSIG MUVR 300650Z 26004KT 8000 NSC 23/21 Q1017 UBBB 300730Z 35009KT CAVOK 35/12 Q1011 88CLRD70 NOSIG YOOM 300800Z AUTO 00000KT //// // ////// 20/M04 Q1022 UAKD 291100Z 31005G10MPS 7000 SCT065 28/04 Q1007 R04/0///65 NOSIG RMK QFE722/0963 K5T9 300755Z AUTO 13006KT 10SM CLR 27/21 A3003 RMK A01 DAUT 300700Z 00000KT CAVOK 31/02 Q1010 DAUU 300700Z 12010KT 9999 SCT046 36/07 Q1010 ZGGG 300730Z 22002MPS 190V250 9999 TS FEW033CB SCT033 29/25 Q1009 BECMG AT0740 NSW UBBG 300730Z 32004KT 250V050 9999 FEW100 32/12 Q1013 R12/CLRD70 NOSIG K6L4 300755Z AUTO 00000KT M1/4SM FG OVC018 23/23 A2997 RMK AO2 LTG DSNT NE AND E ZGHA 300700Z 19006MPS 9999 BKN050 33/20 Q1007 NOSIG DAUZ 300700Z 08009KT CAVOK 31/07 Q1012 UAKK 300730Z 28006MPS 250V330 9999 BKN045CB BKN078 22/10 Q1012 R23/0///70 NOSIG RMK QFE713/0950 TIST 300753Z 09009KT 10SM BKN023 27/23 A3002 RMK AO2 RAE05 SLP166 P0000 T02720233 $ UBBL 300800Z 13008KT 9999 NSC 36/05 Q1012 R15/CLRD70 RMK MT OP UBBN 300800Z 18006KT 9999 NSC 35/07 Q1012 R14R/CLRD60 NOSIG RMK MT OP QFE684 TISX 300753Z AUTO 08009KT 10SM CLR 27/22 A3002 RMK AO2 SLP163 T02670222 TSNO K5SM 300754Z AUTO 06003KT 10SM CLR 12/M05 A3072 RMK AO2 UBBQ 300700Z 24004KT 170V320 9999 NSC 33/12 Q1013 R16/CLRD70 NOSIG RMK MT OP YPGV 300730Z 11015KT 9999 SCT019 26/20 Q1014 YORG 300730Z AUTO 33012KT 9999 // NCD 06/02 Q1021 OEGN 300700Z 21008KT CAVOK 36/24 Q1004 K7BM 300754Z AUTO 27004KT 10SM CLR 12/08 A3066 RMK AO2 UBBY 300700Z 24003KT 9999 NSC 32/12 Q1017 R33/////// NOSIG RMK MT OP OEGS 300700Z 33013KT CAVOK 37/10 Q1007 OEGT 300700Z 29008KT CAVOK 30/13 Q1009 NOSIG OEHL 300700Z 02008KT CAVOK 36/04 Q1012 NOSIG UBEE 300800Z 18005KT CAVOK 36/14 Q1011 R30/CLRD70 NOSIG YPKA 300800Z AUTO 05011KT 9999 // NCD 26/18 Q1017 YPKG 300800Z AUTO 29004KT 9999 -SHRA OVC100 20/11 Q1021 TJMZ 291950Z 25006KT 10SM SCT050 33/25 A3000 YPJT 300800Z AUTO 01009KT 9999 // SCT051 SCT074 SCT089 19/15 Q1017 YPLC 300800Z AUTO 20010KT 9999 // BKN018 OVC026 13/11 Q1020 ZHCC 300700Z 14004MPS 100V180 9999 FEW040 33/25 Q1002 NOSIG ZGKL 300700Z VRB01MPS 9999 FEW026 SCT043 31/23 Q1008 NOSIG UAOO 300730Z 36005MPS CAVOK 32/00 Q1011 R06/CLRD70 NOSIG RMK QFE746/0995 OEJN 300700Z 31012KT CAVOK 36/22 Q1004 NOSIG YPKS 300730Z AUTO 35005KT //// // ////// 09/04 Q1022 YPKT 300800Z AUTO 17007KT //// // ////// 32/07 Q1013 OEKJ 300700Z 22011KT CAVOK 43/05 Q1005 YPKU 300800Z AUTO 13008KT 9999 // SCT125 31/03 Q1015 OEKK 300700Z 36017KT CAVOK 43/16 Q1003 NOSIG YPLM 300800Z AUTO 01011KT 9999 // NCD 26/12 Q1017 K6R3 300755Z AUTO 00000KT 7SM CLR 24/23 A3003 RMK AO2 T02400233 K6R6 300753Z AUTO 20009KT 28/14 A3008 RMK AO1 SLP142 T02830144 TJPS 300650Z 07006KT 8SM HZ FEW030 26/21 A2999 RMK HZ ALQDS OEMA 300700Z 26005KT CAVOK 38/M02 Q1010 NOSIG K8A0 300735Z AUTO 00000KT 5SM BR CLR 25/25 A3000 RMK AO2 K96D 300735Z AUTO 10SM CLR 19/14 A2992 RMK AO2 YPMQ 300730Z AUTO 01007KT 9999 // NCD 16/12 Q1021 SUAA 292100Z 17012KT 2000 BR OVC007 13/12 Q1018 YPOD 300730Z AUTO 25017KT 9999 // SCT015 BKN043 OVC051 09/07 Q1013 ZGNN 300700Z 13005MPS 9999 -SHRA FEW009 SCT016 FEW026TCU BKN040 26/24 Q1007 NOSIG UARR 300730Z 20008MPS CAVOK 33/03 Q1008 R22/CLRD70 NOSIG RMK QFE753/1004 TJSJ 300756Z 11005KT 10SM SCT027 27/23 A3003 RMK AO2 SLP166 T02670233 UASK 300730Z 30005MPS 270V330 9999 SCT050CB BKN100 26/08 Q1007 R30/090060 NOSIG RMK QFE730/0974 YPPD 300800Z AUTO 36009KT 9999 // NCD 27/06 Q1016 YPPF 300730Z AUTO 30008KT 9999 // BKN022 BKN048 13/10 Q1018 UATE 300730Z 03005G11MPS CAVOK 37/00 Q1010 R30/0///70 NOSIG RMK QFE756/1008 K7L2 300735Z AUTO 22005KT 10SM CLR 12/11 A3012 RMK AO2 UATG 300730Z 20004MPS 140V250 CAVOK 36/00 Q1010 R14/CLRD70 NOSIG RMK QFE759/1012 UASP 300730Z 29005MPS 9999 BKN020CB 24/10 Q1007 R21/0///70 NOSIG RMK QFE744/0993 YPPH 300730Z 02008KT 9999 FEW040 SCT095 BKN210 19/14 Q1016 SUCA 291800Z 15012KT 9999 SCT008 BKN060 15/13 Q1016 UASS 300730Z 30008MPS 270V330 CAVOK 26/09 Q1008 R26/0///60 NOSIG RMK QFE738/0984 OEPA 300700Z 33008KT CAVOK 41/10 Q1002 NOSIG ZGOW 300700Z 17004MPS 9999 -SHRA FEW028 FEW033CB 30/23 Q1011 NOSIG ZHHH 300700Z 24005MPS 9999 SCT030 34/25 Q1005 NOSIG K8D3 300756Z AUTO 27010KT 19/11 A3003 RMK AO1 SLP151 T01940111 UATT 300730Z 28003MPS 220V330 CAVOK 31/01 Q1012 R13/CLRD70 NOSIG RMK QFE739/0986 K7N0 300755Z AUTO 00000KT 10SM CLR 27/25 A3000 RMK AO1 CMGB 300745Z AUTO 20003KT 23/19 RMK AO1 SLP092 T02280194 58009 CMFM 300700Z AUTO 00000KT 14/14 RMK AO1 SLP116 T01380135 58014 UAUU 300730Z 27005MPS 170V330 CAVOK 27/10 Q1013 R33/CLRD70 NOSIG RMK QFE744/0992 OERF 300700Z 31015KT CAVOK 39/02 Q1004 SUDU 292100Z 17009KT 8000 HZ FEW030 BKN200 21/17 Q1015 OERK 300700Z 33007KT CAVOK 42/M02 Q1004 NOSIG OERR 300700Z 32018KT CAVOK 39/14 Q1007 NOSIG OETB 300700Z 00000KT CAVOK 33/05 Q1011 OESK 300700Z 36011KT CAVOK 38/02 Q1010 NOSIG UCFM 300730Z 34003MPS CAVOK 32/04 Q1010 R26/CLRD70 NOSIG YPTN 300800Z AUTO 09011KT 9999 // NCD 30/10 Q1014 UCFO 300730Z 31003MPS 9999 FEW050 SCT160 31/10 Q1010 R12/CLRD70 NOSIG OETF 300700Z 01006KT CAVOK 33/02 Q1017 NOSIG ZGSZ 300700Z 17008MPS 9999 FEW028 28/24 Q1010 NOSIG TKPK 300100Z 07015KT 9999 SCT019 28/23 Q1017 TKPN 300000Z 08016KT 9999 SCT020 28/23 Q1016 K7R3 291718Z 31006KT 10SM SCT035 BKN042 BKN050 33/25 A3004 OETR 300700Z 27008KT CAVOK 33/08 Q1011 K9A5 300755Z AUTO 00000KT 4SM SCT034 SCT060 SCT085 25/21 A3001 RMK AO2 T02450210 SVAC 300100Z 360//KT 9999 FEW020 ///// Q1012 YREN 300800Z AUTO 27013KT //// // ////// 16/02 Q1018 YPWR 300800Z AUTO 31007KT 9999 // OVC092 20/M05 Q1020 OEWJ 300700Z 31004KT CAVOK 38/19 Q1005 NOSIG YPXM 300800Z AUTO 12013KT //// // OVC013 25/21 Q1014 SVBC 300800Z /////KT 9999 FEW013 24/24 Q1015 SVBI 300600Z 02003KT 9999 FEW020 24/23 Q1015 SVBM 300600Z 11008KT 9999 SCT016 22/19 Q1018 MYGF 300000Z 28003KT 9999 FEW020 BKN040 BKN100 29/26 A2996  SVBS 292100Z 27012KT 9999 SCT013 ///// Q1012 HTAR 300700Z 15010KT 9999 BKN023 19/14 Q1025 K9D7 300735Z AUTO 27007KT 10SM CLR 14/13 A3000 RMK AO2 OEYN 300700Z 28004KT CAVOK 37/20 Q1002 NOSIG K7W4 300755Z AUTO 15004KT 10SM CLR 23/22 A2995 RMK AO1 T02310223 SVCR 300600Z /////KT 9999 FEW013 30/27 Q1013 SULS 300700Z 00000KT 1200 BR SCT005 BKN060 11/10 Q1021 SVCU 300200Z 07010KT CAVOK 27/22 Q1012 HTDA 300700Z 08005KT 9999 BKN025 28/23 Q1019 NOSIG HTBU 300700Z 27005KT 9999 FEW021 FEW023CB BKN090 25/17 Q1020 K9F2 291010Z 29005KT 7SM FEW050 29/26 A2997 SUMU 300800Z 11007KT CAVOK 13/11 Q1020 TEMPO BR HTDO 300700Z 09005KT 9999 SCT021 22/15 Q1022 NOSIG YSBK 300800Z AUTO 35006KT 9999 // NCD 16/01 Q1019 YSCB 300730Z 32011KT 9999 FEW030 SCT160 08/02 Q1019 TLPC 300000Z 10005KT 9999 SCT026 26/25 Q1015 TEMPO SHRA SVGD 300600Z 00000KT 9999 BKN020 25/23 Q//// YRMD 300730Z AUTO 12011KT //// // ////// 26/M02 Q1018 TLPL 300700Z 09015G26KT 9999 -SHRA BKN018 SCT038 25/24 Q1014 TEMPO SHRA YSCN 300730Z AUTO 32006KT 9999 // NCD 15/01 Q1018 YSCO 300800Z AUTO 35006KT //// // ////// 14/04 Q1021 YSCR 300800Z AUTO 33007KT //// // ////// 16/14 Q1021 SVGU 300600Z /////KT CAVOK 24/24 Q1014 MZBZ 300000Z 06010KT 9999 FEW021 30/25 A2995 Q1014 NOSIG YSDU 300730Z AUTO 33007KT 9999 // NCD 11/06 Q1022 HRYR 300800Z 00000KT 8000 FEW025 26/14 Q1023 NOSIG SVJC 292300Z 08018KT 9999 FEW013 XX/XX Q1010 YROM 300730Z AUTO 22004KT 9999 // NCD 18/01 Q1023 YSGE 300800Z AUTO 08002KT //// // ////// 15/06 Q1023 SVJM 300600Z /////KT 9999 CAVOK 23/22 Q1015 SUSO 300000Z 00000KT CAVOK 21/18 Q1016 MYNN 300800Z 200005KT 9999 SCT016 BKN080 BKN220 29/24 A3013 K9L2 300755Z AUTO 00000KT 10SM CLR 27/14 A3003 RMK AO2 SLP143 T02670139 405330161 $ TNCA 300600Z 09012KT 9999 FEW018 27/24 Q1013 A2992 NOSIG HTIR 300700Z 00000KT 9999 FEW019 21/12 Q1026 TNCB 300700Z AUTO 07013KT //// ////// 27/23 Q1013 NOSIG HSSJ 300700Z 21004KT 9999 FEW040 25/17 Q1017 HTKA 300700Z 12006KT CAVOK 25/16 Q1022 TNCC 300700Z 11009KT 9999 BKN017 27/24 Q1013 NOSIG TNCE 300700Z AUTO 06013KT //// ////// ///// Q1017 SVLF 291500Z 00000KT 9999 BKN060 XX/XX Q1013 DFFD 300700Z VRB03KT 8000 FEW026 FEW033CB SCT100 25/23 Q1016 NOSIG YSHK 300800Z AUTO 32010KT //// // ////// 27/14 Q1017 ZJHK 300700Z 18003MPS 130V230 9999 FEW030CB SCT030 31/21 Q1008 NOSIG SVMC 300300Z /////KT 9999 SCT013 28/22 Q1011 HTKJ 300700Z 00000KT 9999 BKN023 SCT100 Q1021 NOSIG HSSS 300730Z 18014KT CAVOK Q1013 SVMD 300300Z 05003KT 8000 VCBR OVC017 19/18 Q1023 TNCM 300700Z 08009KT 050V110 9999 FEW020 SCT042 28/23 Q1016 A3002 K8W2 300755Z AUTO 25003KT 10SM BKN120 24/23 A2992 RMK AO1 T02400227 SVMG 300700Z /////KT 9999 FEW010 26/24 Q1014 NOSIG SVMI 300700Z 11001KT 9999 FEW016 26/24 Q1012 NOSIG YSHT 300800Z AUTO 02012KT 9999 // BKN071 OVC083 10/06 Q1018 YSHW 300730Z AUTO 33006KT 9999 // NCD 16/04 Q1018 HTMB 300700Z 11014KT 9999 FEW019 19/10 Q//// SVMN 300300Z 23006KT CAVOK 29/// Q1010 UEEE 300730Z 07003MPS CAVOK 24/10 Q1008 R23L/09//60 NOSIG RMK QFE748 HTMG 300700Z 00000KT 9999 BKN024 23/19 Q1021 SVMT 300200Z 14006KT 9999 SCT013 25/24 Q1013 OIAA 300700Z 18006KT CAVOK 41/14 Q0998 K9MN 300753Z AUTO 25009KT 10SM CLR 18/13 A3005 RMK AO1 T01830127 YTAR 300800Z AUTO 20004KT //// // ////// 22/04 Q1020 YRTI 300800Z AUTO 36018KT //// // ////// 19/16 Q1015 OIAG 300700Z 16010KT 9999 FEW040 45/01 Q0998 OIAH 300700Z 12010KT CAVOK 42/M03 Q1006 SVPA 300600Z /////KT 9999 FEW013 24/24 Q1014 OIAI 291050Z 27008KT CAVOK 46/11 Q0997 OIBA 300700Z 24012KT 3000 DU FEW025 36/29 Q0999 SVPC 291300Z 07010KT 9999 SCT040 28/XX Q1015 OIBB 300700Z 24008KT CAVOK 40/21 Q0998 A2949 DGAA 300653Z 23008KT 9999 FEW013 24/21 Q1016 NOSIG HTMT 300700Z 18012KT 9999 FEW023 26/22 Q1019 HTMU 300700Z 09010KT 9999 FEW021 23/17 Q1021 OIAM 300700Z 15008KT CAVOK 43/30 Q0997 HUEN 300600Z 35015KT 7000 -DZ SCT017 FEW019CB BKN120 20/18 Q1020 HTMW 300600Z 04010KT 9999 FEW020 FEW021CB BKN100 23/15 Q1019 NOSIG OIBJ 300700Z 19006KT CAVOK 41/07 Q1006 OIBK 300700Z 00000KT 4000 HZ NSC 38/27 Q0999 SVPM 291600Z 00000KT 9999 BKN030 XX/XX Q1016 OIBL 300700Z 21008KT 4000 HZ FEW030 37/26 Q0999 OICC 300730Z 12010KT CAVOK 37/M07 Q1014 A2995 NOSIG OIAW 300730Z 14004KT 8000 NSC 44/17 Q0997 YSMH 300730Z AUTO 16005KT 9999 // SCT021 18/15 Q1022 YSMI 300800Z AUTO 31022KT //// // ////// 10/10 Q1005 OIBP 300730Z 17008KT 5000 HZ SCT040 42/24 Q0998 A2949 OIBQ 300700Z 12008KT 7000 NSC 36/29 Q0999 OICI 300700Z 09010KT CAVOK 39/M05 Q1012 A2991 OICJ 300450Z 00000KT CAVOK 28/05 Q1018 OIBS 300700Z 24008KT CAVOK 38/30 Q1000 OICK 300600Z 07012KT CAVOK 37/M01 Q1012 YTEE 300730Z AUTO 15004KT 110V170 9999 // NCD 26/02 Q1019 KMG 300800Z AUTO 35030KT 9999 // SCT027 SCT037 BKN043 06/05 Q1014 YSNF 300730Z AUTO 10009KT 9999 // SCT031 SCT038 BKN053 15/08 Q1025 OIBV 300700Z 16010KT 4000 HZ NSC 37/25 Q0999 YTEF 300800Z AUTO 09007KT //// // ////// 30/M08 Q1018 SVSA 300600Z /////KT 9999 SCT020 28/22 Q1014 OICS 300730Z 32008KT CAVOK 35/M01 Q1015 YTEM 300730Z AUTO 01006KT //// // ////// 11/06 Q1021 CPBT 300700Z AUTO 24006KT 09/07 RMK AO1 T00880073 UDSG 300730Z VRB02MPS 9999 NSC 30/05 Q1019 R02/CLRD70 NOSIG YSNW 300700Z 31012KT CAVOK 15/M00 Q1017 FM0700 MOD TURB BLW 5000FT TILL 0800 FM0800 MOD/SEV TURB BLW 5000FT SVSP 291400Z 04010KT 6000 +HZ BKN030 XX/XX Q1017 SVSR 292000Z 25013KT 9999 BKN027 25/18 Q1018 CPEH 300700Z AUTO 05004KT 12/10 RMK AO1 T01220095 YTGM 300800Z AUTO 28004KT //// // ////// 20/M02 Q1022 OIFK 292200Z 00000KT CAVOK 29/04 Q1010 HUKA 300600Z 25005KT 7000 SCT018 FEW020CB BKN080 19/17 HTTB 300700Z 08006KT 9999 FEW018 BKN080 22/14 Q1022 OIFM 300730Z 04006KT 9999 FEW040 32/M02 Q1017 A3005 HTSO 300700Z 04010KT 9999 FEW020 22/16 Q1024 OIGG 300730Z 35004KT CAVOK 32/18 Q1011 YTIB 300730Z AUTO 30009KT //// // ////// 19/M04 Q1022 SVVA 300600Z 36003KT 9999 FEW016 27/22 Q1015 OIFS 300700Z 10004KT CAVOK 29/01 Q1022 OIGK 291050Z 08008KT 9999 FEW035CB FEW040TCU 28/09 Q1018 CPFI 300700Z AUTO 36004KT 11/10 RMK AO1 T01130096 K9V9 300755Z AUTO 00000KT 10SM BKN110 17/15 A3014 RMK AO2 T01650146 HTSU 300700Z 07006KT CAVOK 21/12 Q1026 SVVG 300600Z 00000KT 9999 BKN020 26/26 Q1008 YSRI 300730Z AUTO 35011KT 9999 // NCD 16/05 Q1018 DFOO 300700Z 18004KT 9999 FEW016 BKN260 23/22 Q1016 OIHH 300700Z 15002KT 9999 FEW040 30/03 Q1020 SVVL 300600Z 00000KT 9999 FEW033 25/20 Q1016 HUKS 300600Z 36002KT 9999 SCT020 FEW025CB OVC130 25/19 OIHM 291100Z 26010KT 9999 FEW040 35/M01 Q1016 OIIE 300700Z 11012KT CAVOK 33/04 Q1014 OIHR 300530Z 09006KT CAVOK 29/04 Q1020 OIII 300730Z 27006KT 9999 FEW035 33/03 Q1016 A3002 NOSIG OIIK 300700Z 16004KT CAVOK 31/08 Q1018 PAAD 300755Z AUTO 04007KT 10SM OVC012 03/00 A3015 RMK AO2 OIIP 300700Z 18006KT 9999 FEW040 32/07 Q1017 OJAI 300800Z 28012KT 7000 NSC 31/10 Q1011 NOSIG PABA 291218Z 3SM BR BKN005 BKN010 OVC014 04/03 A3000 RMK VIA PHONE OIIS 292200Z 06010KT 9999 SCT035 SCT090 30/05 Q1013 PAAK 300756Z 12012KT 10SM OVC011 09/06 A2996 RMK AO1 OIKB 300730Z 20012KT 4500 HZ NSC 40/26 Q0998 A2948 OJAM 300800Z 29012KT 5000 HZ NSC 30/07 Q1010 NOSIG ZJSY 300700Z 29003MPS 9999 -DZ FEW015 OVC033 24/23 Q1011 NOSIG YSSY 300730Z 35013KT CAVOK 19/00 Q1018 NOSIG PABE 300753Z 29006KT 10SM FEW100 12/09 A3000 RMK AO2 SLP159 T01220094 PAAP 300250Z 18010KT 7SM -RA SCT002 BKN015 OVC030 12/12 A3015 RMK LAST NO SPECI OJAQ 300700Z 01009KT CAVOK 35/18 Q1006 NOSIG PAAQ 300753Z AUTO 00000KT 10SM OVC080 14/13 A3004 RMK AO2 SLP174 T01440128 TSNO PABI 300753Z AUTO 24005KT 10SM FEW120 13/09 A3000 RMK AO2 SLP161 T01280089 TSNO CPIR 300700Z AUTO 27009KT 12/09 RMK AO1 T01180094 OIKK 300700Z 35010KT CAVOK 30/M05 Q1016 A3003 YSTW 300730Z AUTO 28006KT 9999 // NCD 12/04 Q1023 PACD 300753Z 33003KT 10SM -RA OVC008 10/10 A3002 RMK AO2 RAB37 SLP165 P0000 T01000100 $ OIKO 291050Z 21008KT CAVOK 42/23 Q0996 OIKQ 300700Z 22014KT 3500 SA NSC 37/27 Q0998 PABR 300653Z AUTO 10007KT 10SM CLR 04/01 A3011 RMK SLP198 T00390011 TSNO $ VIA AUTODIAL HTZA 300700Z 22006KT 9999 BKN016 25/23 Q1018 NOSIG OIMB 300700Z 07016KT CAVOK 30/M06 Q1014 PABT 300653Z 30004KT 10SM FEW070 SCT190 16/08 A2990 RMK SLP130 T01610083 $ VIA AUTODIAL OIMC 300700Z 24004KT CAVOK 37/04 Q1010 YTMO 300730Z AUTO 16008KT //// // ////// 26/01 Q1020 OIMD 300700Z 35006KT CAVOK 32/M03 Q1010 PABV 300756Z AUTO 00000KT 10SM OVC050 15/14 A3005 RMK AO1 PACM 300756Z AUTO 00000KT 10SM OVC009 11/09 A3003 RMK AO2 TSNO T01050094 401220083 SLP163 $ YTNG 300800Z AUTO 13003KT 9999 // NCD 19/07 Q1022 PADE 300753Z AUTO 27004KT 10SM CLR 10/06 A2996 RMK AO2 SLP144 T01000061 TSNO YSWG 300730Z 32007KT 9999 FEW035 SCT120 BKN150 11/05 Q1020 YSWH 300730Z AUTO 34008KT 9999 // OVC098 13/03 Q1017 PADG 300100Z 06009KT 15SM FEW050 SCT070 17/01 A2995 UDYZ 300730Z VRB02MPS 9999 SKC 33/08 Q1014 R09/000070 NOSIG YTNK 300800Z AUTO 15005KT 9999 // NCD 26/M08 Q1020 OINB 291100Z VRB02KT 9999 FEW025 32/22 Q1006 PADK 300756Z 14011KT 10SM BKN009 BKN013 09/06 A2994 RMK AO1 PAEC 300256Z 18010KT 15SM SCT015 BKN030 BKN060 16/12 A2993 RMK NOSPECI PADL 300756Z 00000KT 10SM OVC100 13/12 A3001 RMK AO1 PAED 300758Z AUTO 01003KT 10SM FEW060 BKN075 OVC090 15/14 A3003 RMK AO2 SLP164 T01480135 PACV 300753Z 00000KT 10SM OVC041 11/09 A3010 RMK AO2 SLP192 T01110089 PADM 300756Z AUTO 10005KT 10SM BKN050 09/07 A3001 RMK AO2 TSNO T00940072 SLP151 $ OIMM 300730Z 04014KT CAVOK 35/M01 Q1014 A2995 OINE 300700Z 21014KT CAVOK 33/17 Q1012 OIMN 300700Z 29006KT 9999 FEW040 29/13 Q1017 UERP 300730Z 09005MPS CAVOK 20/11 Q1011 R35/090060 NOSIG RMK QFE714 OING 300700Z 24010KT 9999 FEW040 34/20 Q1013 PAEG 300753Z AUTO 00000KT 9SM CLR 11/07 A2994 RMK AO1 SLP139 T01060072 TSNO $ UERR 300730Z 08005MPS CAVOK 27/05 Q1007 R07/CLRD60 NOSIG RMK QFE724 OIMQ 300700Z 09010KT CAVOK 33/01 Q1013 PADQ 300753Z 09007KT 10SM FEW010 OVC033 14/12 A3004 RMK AO2 SLP174 T01390117 $ PACZ 300755Z AUTO 34001KT 10SM OVC004 09/08 A2998 RMK AO2 SLP156 T00880083 PAEH 300755Z AUTO 33005KT 10SM BKN009 11/10 A3002 RMK AO2 SLP168 T01110099 PAEI 300758Z AUTO VRB04KT 10SM FEW100 OVC110 12/11 A2997 RMK AO2 SLP153 T01230109 $ NSFA 300700Z 13003KT 9999 FEW025 26/21 Q1010 PAFA 300753Z 00000KT 10SM FEW050 BKN085 BKN110 13/11 A2996 RMK AO2 RAE33 SLP152 FU ALQDS P0000 T01280111 OINK 291100Z 23006KT 9999 FEW030TCU 39/21 Q1005 PAFB 300555Z 06003KT 13SM SCT040 BKN100 BKN140 13/11 A2994 RMK SLP143 60034 51003 ALSTG/SLP ESTMD LAST PAEL 300251Z 00000KT 10SM FEW010 OVC030 13/12 A3011 RMK SEA 0 SWELL 2 SW NOSPECI LAST PADU 300756Z AUTO 00000KT 10SM OVC010 10/08 A3005 RMK AO2 SLP181 T01000078 PAEM 300756Z AUTO 35004KT 10SM OVC010 12/08 RMK AO1 PAEN 300753Z AUTO 20009KT 10SM OVC085 13/12 A3005 RMK AO2 SLP178 T01280117 TSNO PAFE 300756Z AUTO 12007KT 10SM FEW008 FEW011 OVC028 A3020 RMK AO1 P0002 OINN 300700Z 34006KT 9999 FEW020 30/21 Q1011 OINR 300700Z 05004KT CAVOK 32/19 Q1010 PAGA 300658Z AUTO 23004KT 10SM CLR 18/09 A2993 RMK AO2 SLP141 T01830094 PNO $ PAGB 292021Z 31005KT 7SM BKN020 OVC030 05/ A2998 RMK LAST PAFM 300756Z AUTO 04005KT 10SM CLR 14/05 A2996 RMK AO1 HUSO 300600Z 35005KT 9999 BKN018 FEW022CB 20/18 Q1021 OINZ 300700Z 26008KT CAVOK 33/20 Q1012 PAFR 300753Z AUTO 00000KT 10SM SCT075 OVC085 14/14 A3005 RMK AO1 SYCJ 301000Z 00000KT 9999 FEW017 SCT300 22/22 Q1013 PAFS 300756Z AUTO 00000KT 10SM FEW018 BKN023 OVC100 17/11 A2998 RMK AO2 TSNO T01660105 SLP157 $ PAGK 300753Z AUTO 18004KT 10SM OVC065 11/09 A3005 RMK AO2 SLP181 T01110094 TSNO PAGL 300756Z AUTO 00000KT 10SM SCT065 16/11 A2998 RMK AO1 PAHC 300756Z AUTO 00000KT 10SM OVC090 14/11 A2996 RMK AO2 TSNO T01380105 OVC V BKN SLP148 $ YTRE 300730Z AUTO 05007KT 9999 // NCD 16/12 Q1020 PAGM 300756Z AUTO 04007KT 10SM OVC006 07/04 A3004 RMK AO1 PAGN 300756Z AUTO 00000KT 5SM -RA BR FEW014 BKN027 BKN046 12/12 A3015 RMK AO2 TSNO T01160116 P0000 SLP211 $ PAGS 300756Z AUTO 00000KT 5SM FEW003 BKN011 OVC024 12/10 A3013 RMK AO1 PNO PAHL 300756Z AUTO 35005KT 10SM SCT080 17/06 A2992 RMK AO1 PAHN 300754Z AUTO VRB05KT 10SM OVC014 13/10 A3012 RMK AO2 SLP203 T01330100 TSNO PAHO 300753Z AUTO 00000KT 10SM SCT065 OVC080 14/11 A3006 RMK AO2 SLP181 T01390111 TSNO PAGY 300753Z AUTO 19006KT 10SM OVC048 14/09 A3011 RMK AO2 SLP196 T01440089 TSNO PAHP 300756Z AUTO 33005KT 10SM OVC012 10/07 A3001 RMK AO1 PAIG 300756Z AUTO 00000KT 10SM CLR 12/12 A2999 RMK AO2 TSNO T01220122 SLP160 $ PAII 300756Z AUTO 00000KT 10SM OVC085 11/10 A3003 RMK AO1 OISA 292155Z 00000KT CAVOK 20/M02 Q1019 NTAA 300730Z 18004KT 9999 FEW016 SCT050 23/20 Q1012 NOSIG PAIK 300701Z AUTO 27005KT 10SM CLR 16/08 A2994 RMK AO2 SLP179 T01560083 PNO $ PAIL 300753Z AUTO 00000KT 10SM FEW080 12/10 A3004 RMK AO2 SLP174 T01170100 TSNO PAJC 300756Z AUTO 01003KT 7SM OVC015 11/09 RMK AO1 PAIM 300655Z AUTO 29003KT 1 1/2SM HZ SCT008 SCT060 16/08 A2993 RMK AO2 SLP127 T01560082 PAIN 300756Z AUTO 23004KT 10SM FEW065 SCT075 11/08 A3000 RMK AO1 OISF 292150Z 00000KT 9999 SCT040 29/02 Q1008 PAHX 300756Z AUTO 00000KT 10SM CLR 14/12 A2996 RMK AO2 SLP149 T01390117 PAHY 300616Z AUTO 10SM SCT055 OVC085 12/10 A3022 RMK AO1 YTST 300800Z AUTO 06009KT 9999 // NCD 31/11 Q1013 OISL 300700Z 00000KT CAVOK 40/17 Q1005 PAIW 300658Z AUTO 06013KT 10SM OVC005 07/06 A3004 RMK AO2 SLP173 T00670061 PAJN 300753Z 09011KT 7SM -RA FEW005 BKN034 OVC060 12/11 A3015 RMK AO2 SLP210 P0000 T01170106 DIAD 300700Z 00000KT 9999 FEW010 BKN100 21/21 Q1016 NOSIG PAKF 300701Z AUTO 01006KT 10SM OVC011 11/09 A3002 RMK AO2 SLP261 T01060089 $ CPRO 300700Z AUTO 25005KT 07/06 RMK AO1 T00650063 PAKI 300756Z AUTO 28007KT 10SM OVC032 12/09 A3000 RMK AO2 TSNO T01160094 SLP161 $ OISR 300700Z 00000KT 9999 FEW040TCU 42/17 Q1003 ZLLL 300700Z 12003MPS 050V190 CAVOK 32/12 Q1011 NOSIG OISS 300730Z 00000KT CAVOK 35/M03 Q1014 A2995 OITK 291430Z 01010KT 9999 FEW035CB SCT040 34/10 Q1010 OKBK 300700Z 06003KT 8000 NSC 42/05 Q0998 NOSIG PAKK 300756Z AUTO 35007KT 10SM CLR 14/03 A2993 RMK AO1 OITL 300730Z 07016KT 9999 FEW040 28/07 Q1019 OITM 300700Z 10014KT 9999 FEW040 32/07 Q1017 PAKN 300754Z 00000KT 10SM -RA SCT028 BKN045 BKN070 13/11 A2998 RMK AO2 SLP154 P0002 T01280111 PAKP 292207Z 01020KT BKN033 BKN040 09/M02 A2995 OITP 300600Z 08004KT CAVOK 30/17 Q1011 PALG 300756Z AUTO 00000KT 10SM CLR 11/09 A2996 RMK AO2 TSNO T01050094 402050077 SLP147 $ OISY 300700Z 12008KT 9999 FEW045 31/00 Q1018 PALH 300753Z 17005KT 10SM SCT050 BKN075 OVC090 16/12 A3005 RMK AO2 SLP176 T01610117 YTWB 300730Z AUTO 09007KT 9999 // NCD 14/08 Q1026 CPRY 300700Z AUTO 25005KT 09/07 RMK AO1 T00920072 DIAP 300730Z 24005KT 9000 FEW011 24/23 Q1016 NOSIG OITR 300700Z 35008KT CAVOK 30/11 Q1017 NOSIG PALJ 300258Z 00000KT 25SM FEW010 BKN040 BKN060 17/14 A2995 RMK LAST EST PASS CLSD NOSPECI PAMB 300756Z AUTO 24004KT 10SM OVC100 11/10 A2997 RMK AO2 TSNO T01110100 401720077 SLP151 $ PAKT 300734Z AUTO 12003KT 7SM -RA FEW004 SCT010 OVC043 13/12 A3023 RMK AO2 P0001 T01280117 TSNO OITT 300730Z 10012KT 9999 FEW035 32/07 Q1018 A3008 PAKU 300245Z 07010KT 10SM R06/P6000FT FEW017 05/01 A3013 RMK LAST OITU 291050Z 27008KT 9999 SCT035 32/09 Q1015 PAMC 300753Z AUTO 00000KT 9SM -RA OVC075 16/13 A2997 RMK AO2 RAB36 SLP153 P0001 T01610128 TSNO DIBK 300700Z 22008KT 8000 FEW006 BKN010 20/19 Q1018 NOSIG CPST 300700Z AUTO 29003KT 12/09 RMK AO1 T01240093 PAKV 300753Z AUTO 00000KT 10SM FEW060 12/08 A2998 RMK AO2 SLP153 T01220083 TSNO PAMD 300756Z AUTO 06005KT 10SM FEW008 13/12 A3008 RMK AO1 PAKW 300301Z AUTO 00000KT 7SM -RA FEW012 SCT030 OVC039 11/11 A3021 RMK AO2 P0001 T01060106 TSNO $ CPSV 300700Z AUTO 28002KT 12/08 RMK AO1 T01210081 PALP 300248Z 03012KT 15SM SCT020 07/01 A3014 RMK LAST PAMH 300756Z AUTO RMK AO1 OITZ 300700Z 09006KT 9999 FEW035 28/05 Q1019 PANA 300756Z AUTO 35004KT 10SM FEW045 12/09 A2999 RMK AO2 SLP155 T01170094 PAMK 300756Z AUTO 31004KT 10SM FEW012 13/13 A2997 RMK AO2 TSNO T01270127 401610072 SLP154 $ PANC 300753Z 18004KT 10SM FEW025 SCT075 BKN090 BKN200 17/11 A3003 RMK AO2 SLP171 T01670106 PALU 300755Z AUTO 10006KT 10SM BKN010 08/06 A3006 RMK AO2 SLP179 T00800064 DIBU 300700Z 28004KT 6000 SCT006 OVC013 21/19 Q1017 NOSIG PAMO 300756Z AUTO 30010KT 10SM CLR 12/11 A3001 RMK AO2 TSNO T01160105 401880083 SLP047 $ PAMR 300753Z 00000KT 10SM FEW040 SCT065 BKN090 BKN200 17/12 A3004 RMK AO2 SLP171 T01670122 PANI 300756Z AUTO 00000KT 9SM BKN080 BKN090 12/11 A2996 RMK AO1 UHBB 300730Z 06002MPS 310V100 9999 FEW033CB 27/15 Q1007 R36/090060 NOSIG RMK QFE738/0984 DIDK 300700Z ///// 9999 SCT013 BKN100 22/21 Q//// NOSIG DIDL 300700Z ///// 8000 OVC013 21/20 Q1017 NOSIG PANN 300753Z AUTO 00000KT 10SM BKN060 13/12 A2997 RMK AO2 SLP153 T01330117 TSNO PAMY 300756Z AUTO 00000KT 10SM OVC008 08/03 A3001 RMK AO1 PAOH 300756Z AUTO 00000KT 2 1/2SM -RA BR FEW004 SCT017 BKN022 13/13 A3014 RMK AO2 TSNO T01270127 401550116 RAB46 P0000 SLP208 $ PAPB 300753Z AUTO 05003KT 10SM OVC008 09/08 A3005 RMK AO2 CIG 005V010 SLP162 T00890078 TSNO $ PANT 300653Z AUTO 00000KT 10SM BKN022 OVC032 13/13 A3023 RMK RAE06 SLP238 P0000 T01330128 TSNO VIA AUTODIAL PAOM 300753Z AUTO 27003KT 10SM CLR 13/12 A2996 RMK SLP144 T01280117 TSNO VIA AUTODIAL PANV 300756Z AUTO 17003KT 10SM OVC025 17/06 A2996 RMK AO1 PANW 300656Z AUTO 00000KT 10SM OVC095 14/11 A3002 RMK AO2 TSNO T01380111 SLP143 $ UGKO 300730Z VRB04KT CAVOK 31/18 Q1009 R07/09//70 NOSIG PAOO 300051Z 27010KT 10SM CLR 13/08 A2998 RMK VIA PHONE PAPG 300756Z 00000KT 10SM BKN031 BKN037 OVC048 12/10 A3018 RMK AO1 P0001 PAOR 300753Z 07004KT 10SM BKN060 BKN090 OVC130 11/10 A2997 RMK AO2 SLP153 T01110100 OIZB 300730Z 35019KT CAVOK 40/07 Q0999 PAOT 300753Z 27011KT 10SM CLR 14/10 A2994 RMK AO2 SLP138 T01440100 DIGA 300700Z 00000KT 6000 BKN011 21/20 Q1016 NOSIG PAPN 300616Z AUTO 33006KT 10SM BKN023 BKN028 OVC060 12/08 A3002 RMK AO2 PWINO TSNO BKN V SCT $ CPXL 300700Z AUTO 26003KT 14/10 RMK AO1 T01360096 PAPO 300756Z AUTO 02014KT 10SM CLR 10/06 A3000 RMK AO1 PAQH 300756Z AUTO 23006KT 10SM SCT045 13/11 A3000 RMK AO2 SLP159 T01330106 OIZH 300730Z 02010KT CAVOK 32/M00 Q1010 A2984 OIZI 300700Z 00000KT 8000 NSC 40/07 Q1003 OIZJ 300700Z 14014KT 4000 SA NSC 34/30 Q0998 PAPT 300239Z 25005KT 20SM RA SCT025 OVC045 13/12 A2996 RMK NO SPECI PARC 300756Z AUTO 17006KT 10SM OVC026 08/06 A2998 RMK AO1 OIYY 300700Z 33012KT 9999 FEW100 34/M05 Q1015 PASA 300756Z AUTO 07004KT 6SM OVC003 07/06 A3004 RMK AO1 PAQT 300753Z AUTO 08010KT 10SM CLR 03/01 A3015 RMK AO2 SLP210 T00330006 TSNO PASC 300753Z 08006KT 10SM SCT010 01/M01 A3014 RMK AO2 SLP206 T00111011 PASD 300756Z 32003KT 10SM BKN029 BKN034 OVC090 13/11 A3002 RMK AO1 YWCA 300730Z AUTO 34006KT //// // ////// 16/00 Q1021 PASI 300753Z 17003KT 9SM -RA OVC022 13/13 A3014 RMK AO2 SLP208 P0010 T01280128 OLBA 300700Z 23009KT 5000 BR FEW026 28/22 Q1008 PATA 300752Z AUTO 04005KT 6SM HZ OVC100 14/11 A2995 RMK AO2 SLP142 T01440111 TSNO PASK 300756Z AUTO 26005KT 10SM CLR 14/10 A2995 RMK AO1 PATC 300755Z AUTO 04021KT 2 1/2SM BR BKN002 06/05 A2999 RMK AO2 SLP159 T00550052 PASM 300756Z AUTO 32004KT 10SM CLR 12/09 A2997 RMK AO1 PASN 300753Z AUTO 00000KT 10SM OVC003 10/09 A3003 RMK AO2 SLP171 T01000094 TSNO PATE 300658Z AUTO 03009KT 10SM CLR 12/07 A2998 RMK AO2 SLP167 T01220072 PASO 300753Z AUTO 17008KT 10SM OVC075 13/10 A3006 RMK AO2 SLP179 T01330100 TSNO $ YWBR 300800Z AUTO 31002KT //// // ////// 28/03 Q1020 PATG 300756Z AUTO 15009KT 10SM FEW028 OVC100 13/11 A3000 RMK AO1 PARY 300756Z AUTO 00000KT 10SM -RA OVC002 17/08 A2995 RMK AO2 TSNO T01720083 RAB44 P0000 SLP146 $ MSV 300730Z AUTO 27007KT 9999 // NCD 09/00 Q1019 PATK 300753Z AUTO 16006KT 10SM FEW038 BKN065 OVC110 14/12 A3003 RMK AO2 RAE31 SLP170 P0003 T01440117 TSNO $ PATL 300755Z AUTO 33003KT 10SM RA BKN050 14/12 A3002 RMK AO2 RAB0724 SLP162 P0002 T01420117 $ PASV 300755Z AUTO 35001KT 10SM BKN075 12/09 A3002 RMK AO2 SLP160 T01240088 MUI 300730Z AUTO 33021KT 9999 // NCD 11/04 Q1022 PASW 300250Z 12006KT 30SM BKN022CB 20/13 A2996 RMK CB VC N MAX 19 LAST NOSPECI PATO 300753Z AUTO 09006KT 10SM BKN029 BKN036 OVC085 13/09 A3008 RMK AO2 SLP184 T01280094 TSNO PASX 300756Z AUTO 00000KT 10SM OVC080 A3004 RMK AO1 UHHH 300730Z 26007MPS 9999 SCT033CB 26/19 Q1003 R23L/CLRD60 NOSIG RMK QFE745/0994 PASY 300756Z AUTO 04017KT 10SM OVC006 10/10 A2983 RMK AO2 SLP101 T01000100 TSNO $ PATQ 300756Z AUTO 00000KT 10SM OVC022 07/03 A3010 RMK AO2 TSNO T00660027 SLP199 $ PAVA 300051Z 9SM OVC022 14/09 A3000 RMK VIA PHONE NSTU 300750Z 11019KT 10SM SCT020 BKN036 26/21 A2984 RMK SLP107 T02580213 PAVC 300756Z AUTO 30010KT 10SM BKN016 OVC022 11/09 A3003 RMK AO2 TSNO T01050094 SLP169 $ PAVD 300756Z 09003KT 10SM SCT039 OVC046 10/07 A3009 RMK AO1 PAUN 300756Z AUTO 25004KT 10SM FEW012 14/11 A2997 RMK AO1 DIKO 300700Z 00000KT CAVOK 22/10 Q1016 NOSIG UIAA 300730Z 25005MPS 210V280 9999 NSC 31/03 Q1008 R29/CLRD70 NOSIG RMK QFE698 UGSB 300730Z 35006KT CAVOK 27/23 Q1012 R13/CLRD70 NOSIG PAUT 300755Z AUTO 01005KT 10SM OVC010 09/08 A3003 RMK AO2 T00880076 PAVL 300753Z AUTO 02007KT 10SM CLR 14/07 A2993 RMK AO2 SLP136 T01440067 TSNO PAWD 300753Z AUTO 00000KT 10SM OVC047 14/11 A3007 RMK AO2 SLP183 T01390111 TSNO PAWG 300756Z AUTO 07003KT 9SM FEW006 FEW011 SCT038 13/11 A3022 RMK AO1 P0005 PAWI 300653Z AUTO 01007KT 10SM CLR 05/02 A3009 RMK SLP189 T00500017 TSNO VIA AUTODIAL UIBB 300730Z 08004MPS 9999 SCT040CB 18/13 Q1006 R30/CLRD60 NOSIG RMK QFE712/0949 UGTB 300730Z 17005KT 110V230 CAVOK 32/13 Q1016 R31L/CLRD80 NOSIG PAWM 300658Z AUTO 19006KT 10SM FEW090 15/12 A2995 RMK AO2 SLP151 T01500117 DIMN 300700Z 22004KT 9999 BKN012 21/20 Q1014 NOSIG YWHA 300800Z AUTO 26006KT 9999 // NCD 18/07 Q1019 PAYA 300753Z AUTO 08003KT 10SM CLR 11/10 A3011 RMK AO2 SLP196 T01110100 TSNO PAWS 300756Z AUTO 00000KT 10SM FEW070 BKN090 OVC110 14/13 A3003 RMK AO1 ZLXY 300700Z VRB01MPS CAVOK 38/20 Q1001 NOSIG DIOD 291700Z 32004KT 9999 SCT016 FEW020CB/E 29/23 Q1014 NOSIG UHMA 300600Z 10006G09MPS 9999 -RA FEW010 OVC080 13/09 Q1015 R19/CLRD60 NOSIG RMK QFE756/1008 YWGT 300730Z AUTO 03008KT 9999 // OVC084 10/06 Q1018 YVRD 300800Z AUTO 15007KT //// // ////// 30/04 Q1016 UHMD 300430Z 19005MPS 9999 VCFG NSC 10/06 Q1018 RMK QFE763/1017 PAZK 300756Z AUTO 25005KT 10SM OVC050 09/07 A3004 RMK AO1 UHMM 300730Z 00000MPS 9999 SCT040CB OVC100 21/13 Q1010 NOSIG RMK QFE743 10CLRD70 YWIS 300730Z AUTO 10006KT //// // ////// 20/13 Q1022 OMAA 300700Z 22007KT 160V260 6000 NSC 42/15 Q0999 A2951 BECMG 32013KT OMAD 300700Z 21005KT 4000 DU NSC 40/14 Q0999 A2952 BECMG 32012KT 7000 NSW ZMUB 300800Z 15006MPS 110V190 9999 FEW030CB FEW033 SCT100 25/10 Q1012 NOSIG RMK QFE652.0 40 MOP OMAL 300700Z 18012KT 150V220 CAVOK 40/14 Q1002 A2960 BECMG 25010KT YWLG 300730Z AUTO 33004KT 9999 // NCD 17/04 Q1022 TQPF 292100Z 08013KT 9999 FEW020 29/22 Q1015 YWLM 300730Z 33005KT CAVOK 15/03 Q1020 RMK USE TAF FOR ARRIVALS AFTER 1000Z. DITB 300700Z 00000KT 9999 BKN013 21/21 Q1014 NOSIG UHPP 300700Z 19005MPS 9999 FEW040 SCT100 18/13 Q1012 R34R/CLRD70 NOSIG RMK MT OBSC QFE755/1007 EBBE 300725Z 25003KT 9999 SCT017 BKN035 12/10 Q1016 WHT BLU TEMPO WHT DISP 300700Z 00000KT 7000 BKN013 22/21 Q1016 NOSIG OMDB 300700Z 27011KT 230V320 7000 NSC 40/14 Q1000 NOSIG DISS 300700Z ///// 9999 FEW013 BKN100 23/22 Q1016 NOSIG EBBL 300725Z 23007KT 9999 FEW035 SCT050 BKN090 14/11 Q1015 BLU BLU EBAW 300750Z 23006KT 190V250 CAVOK 14/11 Q1015 NOSIG UIII 300730Z 29005MPS 9999 SCT013CB 21/16 Q1006 R30/CLRD60 NOSIG RMK QBB390 QFE710/0947 EBCI 300750Z 24007KT 210V270 9999 FEW006 BKN008 BKN015 12/10 Q1016 BECMG BKN020 EBBR 300750Z 20004KT 9999 BKN040 13/10 Q1016 NOSIG VAAH 300740Z 23013KT 5000 HZ SCT020 BKN080 31/26 Q1004 NOSIG YWOL 300730Z AUTO 32009KT 9999 // NCD 17/01 Q1018 VABB 300740Z 26014KT 3500 HZ SCT012 SCT018 FEW025TCU BKN090 29/25 Q1008 TEMPO 1500 SHRA KA08 300755Z AUTO 31003KT 7SM CLR 24/23 A2996 RMK AO2 T02370232 PWINO OMDW 300700Z 27012KT 5000 DU NSC 42/12 Q1001 NOSIG EBCV 300725Z AUTO 26007KT 9999 FEW010/// BKN029/// BKN051/// 13/11 Q1016 BLU UHSS 300730Z 19004MPS 5000 BR SCT012 BKN034 22/21 Q1006 R19/CLRD70 NOSIG RMK MT OBSC QFE753/1004 OMFJ 300700Z 23011KT 210V070 7000 NSC 45/13 Q0998 A2949 EBDT 300725Z 22004KT 9999 FEW020 BKN050 13/11 Q1016 BLU BLU EBFN 300725Z 31007KT 9999 FEW010 FEW015CB 15/11 Q1016 BLU BLU TEMPO WHT EBFS 300725Z 23008KT 9999 FEW004 BKN005 BKN007 12/10 Q1016 YLO GRN TEMPO YLO DIYO 300700Z 26008KT 9999 SCT013 SCT100 21/20 Q1016 NOSIG YWUD 300800Z AUTO 21006KT //// // ////// 15/09 Q1020 YWTN 300730Z AUTO 14007KT //// // ////// 25/01 Q1020 UHWW 300730Z 28004MPS 9999 NSC 28/20 Q1004 R25L/0///70 NOSIG RMK QFE752 TRPG 292200Z 11013KT 9999 HZ SCT020 27/22 Q1016 EBLB 300753Z AUTO 23005KT 9999 SCT009/// BKN011/// 12/08 Q1016 GRN EBLG 300750Z 24007KT 210V280 9999 BKN014 14/10 Q1016 NOSIG YWWL 300730Z AUTO 35005KT //// // ////// 12/04 Q1021 UKBB 300730Z VRB02MPS 6000 BKN014 22/18 Q1009 88CLRD95 NOSIG YWYM 300800Z AUTO 15011KT 090V150 //// // ////// 33/05 Q1014 CTNK 300700Z AUTO 26003KT 22/16 RMK AO1 SLP075 T02220155 56006 UKDD 300730Z 15003MPS 110V180 CAVOK 25/17 Q1013 08090070 NOSIG UKDE 300730Z 14003MPS 100V180 CAVOK 29/17 Q1013 20CLRD70 NOSIG TTCP 300700Z 09008KT 9999 FEW018 SCT040 27/23 Q1013 NOSIG UIUU 300730Z 25007MPS 150V310 9999 SCT046CB 30/09 Q1005 R26/010095 NOSIG RMK QFE710/0946 EBOS 300750Z 02003KT 350V060 9999 FEW010 SCT015TCU BKN030 13/10 Q1016 NOSIG UKDR 300730Z 20005MPS 160V230 CAVOK 26/18 Q1012 1809//70 NOSIG OMRK 300700Z 28006KT CAVOK 41/13 Q1000 A2953 CTRA 300700Z AUTO 29004KT 15/12 RMK AO1 PK WND 35019/0615 SLP081 T01470120 52022 VANP 300740Z 29009KT 6000 SCT020 32/24 Q1007 NOSIG OMSJ 300700Z 26016KT 9999 FEW030 41/14 Q1000 EDAH 300750Z 25020KT 9999 BKN014 14/11 Q1003 EDBC 300750Z 27017KT 9999 BKN031 BKN037 15/07 Q1011 UKHH 300730Z 20002MPS 160V230 CAVOK 23/16 Q1013 070///65 NOSIG PFCL 300756Z AUTO 19005KT 10SM OVC100 11/09 A3001 RMK AO2 SLP166 T01110094 YYNG 300730Z AUTO 33005KT //// // ////// 09/04 Q1021 ULAA 300730Z 33004MPS 290V010 9999 BKN010CB OVC030 16/15 Q1000 R26/290060 TEMPO 1000 SHRA BR BKN003CB RMK QFE748/0998 EDDB 300750Z 24017KT 9999 FEW015 BKN028 15/09 Q1009 NOSIG EDDC 300750Z 26018G29KT 240V300 9999 FEW040 16/06 Q1012 NOSIG EDDE 300750Z 26015KT 9999 BKN030 14/07 Q1014 TEMPO 26015G25KT EDDF 300750Z 21007KT 190V260 9999 FEW032 17/08 Q1015 NOSIG EDDG 300750Z 27012KT 240V300 9999 SCT023 15/10 Q1013 NOSIG EDDH 300750Z 25013KT 220V280 9999 SCT014 BKN040 14/11 Q1007 TEMPO 26015G25KT BKN012 KAAA 300755Z AUTO 30004KT 10SM CLR 20/16 A3009 RMK AO2 T01960160 PFEL 300658Z AUTO 36003KT 10SM BKN085 15/12 A2996 RMK AO2 RAE02 SLP149 P0000 T01500122 KC09 300735Z AUTO 28008KT 10SM CLR 18/15 A3004 RMK AO2 T01830153 EDDK 300750Z 19003KT 9999 -RA FEW016 SCT021 BKN080 13/09 Q1015 NOSIG EDDL 300750Z 25007KT 9999 SCT020 SCT060 15/11 Q1015 NOSIG EDDM 300750Z 25004KT 200V330 CAVOK 16/08 Q1016 NOSIG EDDN 300750Z 23004KT 170V290 9999 FEW030 SCT080 17/09 Q1016 NOSIG KAAF 300753Z AUTO 00000KT 10SM CLR 27/25 A2994 RMK AO2 SLP137 T02670250 VCBI 300710Z 22011KT 9999 SCT016 31/23 Q1012 NOSIG EDDP 300750Z 25021KT 9999 FEW030 16/09 Q1012 TEMPO 25020G30KT UKKK 300730Z 31004MPS 270V340 9999 SCT014 BKN100 21/17 Q1010 26190060 NOSIG EDDR 300750Z 26007KT 220V300 9999 FEW028 15/08 Q1016 NOSIG EDDS 300750Z VRB03KT 9999 FEW046 BKN087 16/09 Q1016 NOSIG UKKM 300730Z 31004MPS 9999 BKN022 21/16 Q1010 3319//65 NOSIG EDDT 300750Z 25017KT 9999 SCT025 BKN029 BKN050 15/09 Q1009 TEMPO 25020G30KT ZPPP 300700Z 24006MPS 9999 FEW023TCU SCT023 SCT033 22/14 Q1017 NOSIG KABE 300751Z 00000KT 10SM FEW060 24/22 A2992 RMK AO2 SLP127 T02390217 EDDV 300750Z 27016KT 9999 BKN022 15/10 Q1011 TEMPO 27020G30KT EDFE 300750Z 24006KT 9999 FEW030 16/07 Q1015 EDDW 300750Z 26020KT 9999 BKN023 15/10 Q1010 NOSIG KAAO 300754Z AUTO 07004KT 10SM FEW060 22/20 A3017 RMK AO2 SLP203 T02170200 UKLI 300730Z 00000MPS 9999 SCT040 BKN100 18/15 Q1012 NOSIG KABH 300756Z AUTO 15007KT 10SM CLR A3039 RMK AO2 SLPNO $ KABI 300752Z 15007KT 10SM CLR 26/17 A3008 RMK AO2 SLP155 T02610172 EDFH 300750Z 26009KT CAVOK 12/08 Q1016 UKLL 300730Z 27005MPS 9999 BKN008 BKN036CB 16/16 Q1013 31290065 NOSIG KACB 300752Z AUTO 23004KT 10SM BKN090 23/13 A2982 RMK AO2 T02300132 KAAT 300755Z AUTO 18003KT 10SM CLR 12/00 A3021 RMK AO2 SLP187 T01220000 403390056 KC29 300735Z AUTO 27008KT 10SM CLR 19/13 A3002 RMK AO1 T01880127 UKLN 300730Z 31004MPS 270V340 9999 SCT033CB OVC100 17/17 Q1012 3319//65 NOSIG EDFM 300750Z 17004KT 140V210 9999 FEW049 SCT080 15/09 Q1016 KC35 300755Z AUTO 28003KT 10SM CLR 19/13 A3001 RMK AO2 T01880131 UKLR 300730Z 25003MPS 220V280 9999 SCT023CB OVC100 17/15 Q1011 NOSIG KABQ 300752Z 09023G29KT 10SM FEW020 SCT065 OVC100 19/14 A3034 RMK AO2 PK WND 08033/0703 SLP193 MTNS OBSC NE-SE T01940139 KABR 300753Z AUTO 23006KT 10SM CLR 14/12 A3008 RMK AO2 SLP180 T01390117 UKLU 300730Z 09001MPS 9999 OVC030 16/15 Q1012 10190065 NOSIG KACJ 300735Z AUTO 12003KT 7SM CLR 23/23 A2997 RMK AO2 KACK 300753Z AUTO 23009KT 3SM BR OVC003 22/21 A2992 RMK AO2 SLP131 T02220211 KADC 300753Z AUTO 23003KT 10SM CLR 16/13 A2999 RMK AO2 KADF 300756Z AUTO 00000KT 8SM CLR 26/26 A3003 RMK AO2 T02550255 SLP180 KABY 300753Z AUTO 16003KT 4SM BR OVC002 25/24 A2996 RMK AO2 SLP143 T02500239 KADG 300753Z AUTO 25004KT 10SM CLR 17/14 A2996 RMK AO2 SLP143 T01720139 $ KACP 300735Z AUTO 00000KT 10SM SCT006 OVC010 26/25 A3001 RMK AO2 T02630249 KACQ 300755Z AUTO 00000KT 10SM CLR 13/12 A3009 RMK AO2 KADH 300755Z AUTO 00000KT 10SM CLR 25/21 A3009 RMK AO2 EDHI 300750Z 26020G31KT 230V290 6000 DZ FEW012 SCT015 BKN036 13/12 Q1008 EDGS 300750Z 29008KT 230V330 9999 SCT010 11/09 Q1015 KACT 300751Z 21005KT 10SM CLR 26/19 A3003 RMK AO2 SLP161 T02610194 EDHK 300750Z 26017G25KT 9999 -DZRA BKN009 OVC016 13/12 Q1004 EDHL 300750Z 27010KT 9999 -RA BKN020 13/12 Q1006 RMK ATIS GOL KACV 300753Z AUTO 00000KT 10SM CLR 14/12 A2994 RMK AO2 SLP143 T01390122 402440117 $ KADM 300755Z AUTO 00000KT 10SM CLR 23/22 A3006 RMK AO2 T02310218 KACY 300754Z 21006KT 10SM CLR 24/22 A2995 RMK AO2 SLP141 T02440222 KAEG 300755Z AUTO 02007KT 10SM -DZ SCT065 OVC085 17/16 A3040 RMK AO2 LTG DSNT SE AND SW T01670155 KAEJ 300755Z AUTO 00000KT 10SM CLR 11/09 A3054 RMK AO2 T01080093 KADS 300755Z AUTO 14005KT 10SM CLR 30/18 A3006 RMK AO2 T02970179 EDJA 300750Z VRB03KT 9999 FEW060 15/08 Q1017 KAEL 300754Z AUTO 00000KT 10SM CLR 18/14 A3009 RMK AO2 KADU 300755Z AUTO 00000KT 10SM CLR 16/14 A3017 RMK AO2 UKON 300730Z 16005MPS 130V210 9999 FEW033 30/18 Q1011 NOSIG UKOO 300730Z 16005MPS CAVOK 29/21 Q1010 16090065 NOSIG KADW 300758Z AUTO 18007KT 10SM CLR 24/23 A2992 RMK AO2 SLP136 T02430229 $ CWAE 300100Z 18002KT 15SM FEW060 26/05 A3017 RMK CU1 LAST OBS/NEXT 301300UTC WND ESTD SLP208 DENSITY ALT 3600FT KAFF 300658Z AUTO 06003KT 10SM FEW150 SCT170 16/09 A3041 RMK AO2 SLP215 T01580093 402490115 CWAF 300700Z AUTO 13/ RMK AO1 T0127 CWAJ 300700Z AUTO 27005KT 23/15 RMK AO1 SLP115 T02260147 58002 CWBA 300700Z AUTO 18002KT 20/ RMK AO1 T0202 KAFK 300755Z AUTO 24005KT 10SM CLR 17/14 A3018 RMK AO2 T01740141 KAGC 300753Z 22005KT 6SM HZ BKN035 BKN090 24/20 A2992 RMK AO2 SLP122 T02440200 TTPP 300700Z 00000KT 9999 FEW016 26/25 Q1013 NOSIG KAFN 300752Z AUTO 00000KT 5SM BR CLR 18/17 A2993 RMK AO2 SLP132 T01830172 CWBE 300700Z AUTO 23005KT 19/15 RMK AO1 SLP086 T01900151 58001 KAEX 300753Z AUTO A2999 RMK AO2 SLPNO PWINO $ KAFO 300755Z AUTO 17003KT 10SM CLR 05/02 A3042 RMK AO2 KAFP 300755Z AUTO 00000KT 10SM BKN110 25/22 A2996 RMK AO2 T02450220 KC75 300755Z AUTO 00000KT 10SM CLR 20/15 A3007 RMK AO2 T01950151 CWAQ 300700Z AUTO 29002KT 13/11 RMK AO1 SLP197 T01280108 53017 CWAR 300700Z AUTO 05015KT 14/13 RMK AO1 9PAST HR 8047 PK WND 05023/0613 SLP054 P0004 T01390129 50009 PFKT 300658Z AUTO 03015G22KT 10SM CLR 13/06 A2999 RMK AO2 SLP155 T01330061 CWBK 300700Z AUTO 32012KT 17/14 RMK AO1 SLP116 T01670135 55003 PFKW 300756Z AUTO 30005KT 10SM OVC050 13/09 A2998 RMK AO2 SLP151 T01280094 CWAV 300700Z AUTO 21003KT 07/06 RMK AO1 SLP231 T00700058 51006 KAFW 300753Z 00000KT 10SM CLR 27/18 A3004 RMK AO2 SLP155 T02670183 CWBO 300700Z AUTO 23001KT 09/08 RMK AO1 SLP211 T00940075 53012 CWCF 300700Z AUTO 26008KT 18/13 RMK AO1 SLP088 T01800130 53001 CWCI 300700Z AUTO 25019KT 13/11 RMK AO1 PK WND 25023/0637 SLP048 T01280107 56014 KAGS 300753Z AUTO 23004KT 10SM SCT048 25/24 A2994 RMK AO2 RAE0656 SLP135 P0000 T02500244 KAIA 300753Z AUTO 19005KT 10SM FEW090 14/09 A3025 RMK AO2 SLP203 T01390089 $ CWDA 300700Z AUTO 00000KT 11/11 RMK AO1 SLP127 T01100109 56011 CWCJ 300700Z AUTO 22003KT 12/09 RMK AO1 SLP028 T01170094 56009 CWBS 300700Z AUTO 21006KT 23/22 RMK AO1 T02310220 EDMA 300750Z 32004KT 250V040 CAVOK 16/08 Q1016 RMK ATIS LIM KAIB 300755Z AUTO 10007KT 10SM CLR 18/00 A3038 RMK AO2 CWBT 300700Z AUTO 09001KT 15/15 RMK AO1 SLP129 T01460146 55005 KAID 291950Z 29010G15KT 10SM SCT030 30/20 A2997 CWBU 300700Z AUTO 28007KT 15/12 RMK AO1 SLP127 T01460115 52003 CWDC 300700Z AUTO 08001KT 13/13 RMK AO1 SLP117 T01340131 53004 CWBV 300700Z AUTO 33010KT 15/14 RMK AO1 SLP117 T01500141 51002 KAHN 300751Z AUTO 00000KT 10SM CLR 24/22 A2996 RMK AO2 SLP137 T02390222 EDLN 300750Z 27004KT 200V340 9999 BKN020 15/11 Q1015 RMK ATIS E CWCO 302300Z AUTO 20004KT 31/17 RMK AO1 SLP079 T03130173 58011 KAIG 300730Z AUTO 26010G14KT 10SM CLR 17/13 A2993 RMK AO2 T01700126 CWBY 300700Z AUTO 07003KT 14/ RMK AO1 SLP122 T0137 55007 EDLP 300750Z 26010KT 200V340 9999 SCT019 12/08 Q1014 RMK ATIS NOV KAHQ 300755Z AUTO 21005KT 10SM CLR 17/15 A3017 RMK AO2 T01690151 OOMS 300350Z 33010KT 7000 NSC 35/25 Q1000 NOSIG CWBZ 300700Z AUTO 20002KT 19/19 RMK AO1 SLP081 T01900188 58016 UMBB 300730Z 27007G10MPS 9999 SCT024 17/11 Q1010 R29/CLRD// NOSIG KD07 300756Z AUTO 35004KT 19/04 A3018 RMK AO1 SLP204 T01940039 CWDJ 300700Z AUTO 24007KT 14/12 RMK AO1 SLP176 T01360116 51006 KBAB 300658Z AUTO 07004KT 10SM CLR 28/05 A2984 RMK AO2 SLP107 T02820049 $ KAIK 300755Z AUTO 25003KT 10SM CLR 22/21 A3000 RMK AO2 CWDK 300700Z AUTO 07001KT 10/07 RMK AO1 SLP222 T01000072 51009 CWCT 300700Z AUTO 26007KT 09/08 RMK AO1 SLP213 T00890082 53011 CWEB 300700Z AUTO 30011KT 14/14 RMK AO1 SLP207 T01350135 55004 KBAC 300755Z AUTO 29009KT 10SM CLR 16/14 A3003 RMK AO2 KBAD 300658Z AUTO 00000KT 10SM OVC160 28/24 A3002 RMK AO2 SLP166 T02780235 CWDM 300700Z AUTO 22005KT 14/14 RMK AO1 SLP127 T01420142 57008 EDLV 300750Z 26009KT 240V300 9999 SCT021 16/11 Q1014 PFNO 300658Z AUTO 27006KT 10SM CLR 16/09 A2995 RMK AO2 SLP142 T01560089 CWEE 300700Z AUTO 22/22 RMK AO1 SLP050 T02220222 KBAF 300753Z 15003KT 7SM CLR 19/18 A2990 RMK AO2 SLP120 T01940183 EDLW 300750Z 26010KT 9999 SCT021 15/09 Q1014 RMK ATIS J KAIO 300755Z AUTO 21003KT 10SM CLR 16/16 A3017 RMK AO2 CWEF 300700Z AUTO 13008KT 13/12 RMK AO1 SLP119 T01260122 55004 CWDO 300700Z AUTO 14008KT 14/09 RMK AO1 SLP135 T01350087 56007 EDMO 300750Z 25005KT 210V290 CAVOK 14/09 Q1017 RMK ATIS O KAJG 300755Z AUTO 31004KT 10SM CLR 20/17 A3007 RMK AO2 CWDQ 300700Z AUTO 17006KT 22/20 RMK AO1 SLP086 T02150195 57011 CWEH 300700Z AUTO 06008KT 11/09 RMK AO1 SLP210 T01120091 53010 EEEI 300650Z 17008KT 140V200 9999 FEW011 SCT016 16/12 Q0998 TEMPO 3000 SHRA KBAK 300150Z 27004KT 10SM SKC 27/23 A2999 KAIT 300753Z AUTO 24003KT 10SM CLR 18/13 A2994 RMK AO2 KBBB 300754Z AUTO 28005KT 10SM CLR 16/12 A3004 RMK AO2 CWDT 300600Z AUTO 10004KT 18/13 RMK AO1 SLP097 T01760133 56020 CWEK 300700Z AUTO 05004KT 14/13 RMK AO1 SLP235 T01370130 58002 CWEL 300700Z AUTO 29007KT 22/13 RMK AO1 SLP191 T02240128 50000 KBBD 300755Z AUTO 17004KT 10SM CLR 26/18 A3010 RMK NWWW 300730Z AUTO 12010KT CAVOK 19/13 Q1017 CWDV 300700Z AUTO 30009G22KT 16/12 RMK AO1 PK WND 26022/0612 SLP055 T01570122 53009 CWFD 300714Z AUTO 21014KT SCT015 BKN075 04/ A2986 KBAN 300752Z AUTO 00000KT 10SM CLR 12/M01 A3038 RMK AO2 SLP179 T01171011 403000017 $ KAJO 300756Z AUTO 00000KT 10SM CLR 21/17 A2999 RMK AO2 T02050172 403220172 SLP148 $ KBBF 300755Z AUTO 24007KT 9SM CLR 29/25 A3000 RMK A01 ULLI 300730Z 20002MPS 9999 BKN020 20/15 Q1002 R28L/190060 NOSIG CWFF 300700Z AUTO 25007KT 13/10 RMK AO1 SLP145 T01260102 51005 KBBG 300755Z AUTO 00000KT 10SM FEW038 OVC070 24/20 A3016 RMK AO2 KD25 300735Z AUTO 25006KT 10SM CLR 16/12 A2989 RMK AO2 T01630121 CWEP 300700Z AUTO 31009KT 16/15 RMK AO1 SLP112 T01590153 53001 KAIZ 300755Z AUTO 00000KT 10SM CLR 19/17 A3016 RMK AO1 KAKH 300754Z AUTO 00000KT 7SM BKN055 25/23 A2998 RMK AO2 SLP142 T02500228 CWDZ 300700Z AUTO 19001KT 11/08 RMK AO1 T01140081 CWEQ 300700Z AUTO 23006KT 16/13 RMK AO1 SLP119 T01550132 55000 KAJR 300735Z AUTO 00000KT 10SM CLR 22/22 A3000 RMK AO2 T02210217 CWER 300700Z AUTO 02003KT RMK AO1 CWFJ 300700Z AUTO 19002KT 10/04 RMK AO1 T00950035 KALB 300751Z 00000KT 10SM BKN070 24/19 A2987 RMK AO2 SLP113 BKN V SCT T02390189 KBCB 300735Z AUTO 00000KT 5SM BR OVC110 21/21 A3007 RMK AO2 T02090209 CWGB 300700Z AUTO 24008KT 20/ RMK AO1 SLP192 T0204 51002 CWEU 300700Z 14009KT 15SM SCT120 BKN220 13/02 A3002 RMK AC2CI0 SLP166 CWGD 300700Z AUTO 24007KT 21/17 RMK AO1 SLP100 T02130168 58005 KBCE 300753Z AUTO 08006KT 10SM CLR 14/M05 A3046 RMK AO2 SLP182 T01391050 CWEW 300700Z AUTO 18001KT 21/20 RMK AO1 SLP092 T02050197 56009 KAKO 300753Z AUTO 16010KT 10SM CLR 16/12 A3031 RMK AO2 SLP212 T01560117 KBAX 300755Z AUTO 00000KT 10SM CLR 17/14 A2988 RMK AO2 T01680140 KBBP 300755Z AUTO 00000KT 10SM CLR 23/22 A2995 RMK AO2 KBAZ 300751Z AUTO 23004KT 10SM CLR 24/22 A3005 RMK AO2 SLP165 T02440217 $ EDOP 300752Z 26018G28KT 9999 OVC019 14/11 Q1006 RMK ATIS J EDNY 300750Z VRB03KT 9999 SCT010 15/10 Q1017 RMK ATIS I KAKQ 300754Z AUTO 00000KT 8SM CLR 22/21 A2996 RMK AO2 SLP144 T02220211 TSNO KAJZ 300755Z AUTO 04003KT 7SM CLR 17/02 A3030 RMK AO2 T01740019 CWFQ 300700Z AUTO 16004KT 21/19 RMK AO1 SLP102 T02120194 58008 CWEZ 300700Z AUTO 31005KT 19/14 RMK AO1 SLP191 T01890141 53003 KALI 300753Z AUTO 18004KT 1/4SM FG VV011 23/22 A3002 RMK AO2 SLP162 T02280222 KAKR 300754Z AUTO 31005KT 10SM SCT050 24/19 A2994 RMK AO2 SLP128 T02390189 KAMA 300753Z AUTO 02006KT 10SM CLR 21/20 A3023 RMK AO2 SLP183 T02110200 ULMM 300730Z 09006MPS CAVOK 19/06 Q1002 R13/090070 NOSIG RMK QFE745 KD39 300754Z AUTO 26005KT 10SM CLR 16/13 A3002 RMK AO2 T01550128 KALK 300756Z AUTO 07006KT 10SM CLR 19/15 A3026 RMK AO2 SLP150 T01890150 KBCK 300755Z AUTO 00000KT 10SM CLR 14/11 A2999 RMK AO2 T01370111 CWGL 300700Z AUTO 32006KT 24/16 RMK AO1 PK WND 29017/0611 SLP082 T02380164 56004 KALM 300755Z AUTO 34011KT 10SM FEW024 SCT065 BKN080 20/17 A3026 RMK AO2 P0001 CWGM 300700Z AUTO 22002KT 07/04 RMK AO1 T00720043 KBBW 300753Z AUTO 25003KT 10SM CLR 14/12 A3023 RMK AO2 SLP220 T01390117 KBDE 300753Z AUTO 28005KT 10SM CLR 14/12 A2987 RMK AO2 SLP116 T01440117 TSNO KALN 300755Z AUTO 32005KT 10SM CLR 20/15 A3011 RMK AO2 T02030150 KALO 300754Z AUTO 27008KT 10SM CLR 19/16 A3008 RMK AO2 SLP181 T01890156 KAMG 300753Z AUTO 00000KT 1/4SM FG VV002 23/23 A2993 RMK AO2 SLP130 T02330233 KBDG 300755Z AUTO 00000KT 10SM CLR 20/07 A3042 RMK AO1 T02000074 KBDH 300755Z AUTO 23004KT 10SM CLR 15/13 A3005 RMK AO2 OOSA 300350Z 14008KT 6000 BKN012 OVC025 25/23 Q1007 NOSIG NZAA 300730Z AUTO 20006KT 9999 NCD 09/05 Q1025 NOSIG CWHI 300600Z AUTO 29004KT 08/07 RMK AO1 T00780071 50012 CWGR 300700Z AUTO 10005KT 13/ RMK AO1 SLP105 T0131 58009 ZSAM 300700Z 15005MPS 120V190 9999 FEW030TCU 32/23 Q1010 NOSIG KALS 300752Z AUTO 13004KT 10SM CLR 12/09 A3050 RMK AO2 SLP228 T01220094 KBEA 300755Z AUTO 17003KT 4SM BR CLR 21/21 A3003 RMK AO2 T02050205 KBCT 300245Z 24004KT 10SM SCT032 28/23 A3001 RMK LAST OBSERVATION. KD50 300735Z AUTO 32004KT 10SM FEW080 SCT120 14/13 A3010 RMK AO2 KANB 300753Z AUTO 00000KT 8SM CLR 25/23 A2997 RMK AO2 SLP135 T02500233 DNIB 292300Z VRB02KT 9999 FEW008 24/22 Q1014 NOSIG CWGT 300700Z AUTO 27002KT 21/15 RMK AO1 SLP196 T02060146 52002 KBDL 300751Z 17005KT 8SM CLR 23/20 A2989 RMK AO2 SLP121 T02280200 CWHL 300700Z AUTO 15002KT 12/10 RMK AO1 SLP230 T01180104 50000 KAND 300756Z AUTO 00000KT 9SM CLR 24/23 A2997 RMK AO2 SLP136 T02390228 KBED 300756Z AUTO 00000KT 10SM CLR 20/18 A2987 RMK AO2 SLP123 T02000178 TSNO CWID 292200Z AUTO 25005KT 25/08 RMK AO1 SLP084 T02470078 52003 CWHM 300700Z AUTO 18004KT 21/20 RMK AO1 T02070197 KBDN 300755Z AUTO 27004KT 10SM CLR 17/00 A3020 RMK AO2 EDQM 300750Z 26011KT 190V290 CAVOK 13/04 Q1015 KANE 300754Z AUTO 25006KT 10SM CLR 21/13 A3000 RMK AO2 KALW 300753Z AUTO 09009KT 10SM CLR 22/03 A3006 RMK AO2 SLP170 T02220028 403500156 KAMN 300753Z AUTO 22004KT 10SM CLR 17/15 A2992 RMK AO2 T01720145 CWGW 300700Z AUTO 35001KT 10/07 RMK AO1 SLP236 T01020068 52014 CWHN 300700Z AUTO 29006KT 260V320 9SM CLR 14/08 A3000 RMK SLP164 KALX 300755Z AUTO 00000KT 5SM BR CLR 24/22 A2996 RMK AO2 T02350216 CWHO 302300Z AUTO 08006KT 08/08 RMK AO1 SLP156 T00800077 58010 CWGX 300700Z AUTO 32013KT 14/12 RMK AO1 PK WND 32019/0620 SLP030 T01420120 53003 KD55 300755Z AUTO 26008KT 10SM CLR 14/13 A2997 RMK AO2 PFSH 300658Z AUTO 00000KT 10SM CLR 16/12 A2996 RMK AO2 SLP161 T01610122 CWHP 300700Z AUTO 06003KT 10/10 RMK AO1 SLP119 T01020100 58004 CWIG 300700Z AUTO 05005KT RMK AO1 CWGY 300700Z AUTO 23007KT 09/07 RMK AO1 SLP209 T00910070 51015 KBEH 300753Z AUTO 28010KT 10SM CLR 22/17 A2998 RMK AO2 SLP147 T02170167 CWGZ 300000Z VRB02KT 15SM SCT240 05/01 A3012 RMK CI3 6.6/2.7/0/0 LAST OB/NEXT 301200 SLP202 CWHQ 300700Z AUTO 35001KT 17/16 RMK AO1 T01700155 KBDR 300752Z AUTO 25003KT 9SM CLR 26/23 A2991 RMK AO2 SLP128 T02560228 KD57 300755Z AUTO 00000KT 10SM CLR 09/07 A3012 RMK AO2 CWII 300700Z AUTO 33012KT 19/15 RMK AO1 PK WND 33020/0602 T01910148 CWIJ 300700Z AUTO 06007KT 09/06 RMK AO1 SLP161 T00910064 51012 KANK 300755Z AUTO 29005KT 10SM CLR 15/09 A3058 RMK AO1 T01450085 KD60 300735Z AUTO 33006KT 10SM BKN090 14/13 A3015 RMK AO2 OPKC 300755Z 22015KT 7000 FEW020 BKN030 31/23 Q1002 TEMPO 25015G25KT CWIK 300700Z AUTO 27008KT 16/11 RMK AO1 SLP165 T01640108 53008 CWJB 300700Z AUTO 08004KT 20/16 RMK AO1 T02040162 CWHT 300700Z AUTO 26007KT 12/04 RMK AO1 SLP167 T01230038 51016 EDSB 300750Z 23005KT 200V260 CAVOK 15/11 Q1016 KBDU 300759Z AUTO 29003KT 10SM CLR 18/11 A3029 RMK AO2 CWJC 300700Z AUTO 33005KT 13/11 RMK AO1 SLP107 T01270114 55000 ULOO 300730Z 18002MPS P6000 FEW040CB 18/13 Q1002 R19/090070 RMK QFE747 CWIL 300700Z AUTO 04015KT 05/ A2992 RMK SLP140 KBFD 300753Z AUTO 23003KT 7SM SCT026 BKN032 BKN039 22/20 A2993 RMK AO2 SLP114 T02220200 TSNO CWHV 300700Z AUTO 17002KT 17/17 RMK AO1 SLP110 T01740166 56008 CWJD 300700Z AUTO 26006KT 16/14 RMK AO1 2PAST HR 5001 SLP091 P0001 T01570143 50002 UMGG 300600Z 13002MPS 9999 SCT041 BKN100 17/14 Q1010 R10/CLRD// NOSIG KAMW 300753Z AUTO 26007KT 10SM CLR 17/15 A3012 RMK AO2 SLP191 T01670150 $ NZAP 300700Z 21011KT 40KM SKC 07/01 Q1023 RMK ALT VATSIM USE ONLY KBFF 300753Z AUTO 06006KT 10SM CLR 16/11 A3025 RMK AO2 SLP201 T01610106 CXAF 300700Z AUTO 28004KT 11/06 RMK AO1 T01080058 TUPJ 300200Z 09011KT 9999 FEW019 28/23 Q1018 RMK A3006 CXAG 300700Z AUTO 25006KT 09/08 RMK AO1 T00940079 CWIP 300700Z AUTO 11002KT 14/ RMK AO1 T0139 KAOH 300753Z AUTO 26005KT 10SM FEW065 18/16 A3000 RMK AO2 SLP151 T01830161 KANQ 300755Z AUTO 28003KT 10SM CLR 18/14 A2999 RMK CWJH 300700Z AUTO 24001KT 12/11 RMK AO1 SLP105 T01210111 51005 KBFI 300753Z VRB03KT 10SM CLR 23/11 A3009 RMK AO2 SLP188 T02330111 403170167 OPLA 300755Z 13009KT 7000 SCT040 BKN100 33/25 Q1000 TEMPO 33035KT 1500 TSRA FEW030CB CWJI 300700Z AUTO 13005KT 14/12 RMK AO1 7PAST HR 0004 SLP192 P0003 T01350115 50007 KAPA 300753Z 18009KT 10SM FEW120 BKN220 18/10 A3032 RMK AO2 SLP197 T01780100 PHBK 300756Z AUTO 25003KT 10SM CLR A2995 RMK AO2 SLP146 CXBA 300700Z AUTO 24007KT 11/09 RMK AO1 T01100089 CXAJ 300700Z AUTO 25005KT 08/07 RMK AO1 T00820067 CWIS 300700Z AUTO 22010KT 12/12 RMK AO1 SLP121 T01230116 56017 EEKA 300750Z 19008KT 9999 FEW015CB SCT067 16/12 Q0997 CXAK 300700Z AUTO 23006KT 10/10 RMK AO1 T00950095 KAPC 300754Z AUTO 27008KT 10SM CLR 16/14 A2996 RMK AO2 SLP135 T01560139 402940122 KBFL 300754Z AUTO 04003KT 10SM CLR 31/M03 A2991 RMK AO2 SLP120 T03111028 404170228 KBFM 300753Z AUTO 31006KT 10SM CLR 27/23 A2997 RMK AO2 SLP148 T02670233 KBGD 300751Z AUTO 06008KT 10SM SCT006 22/20 A3021 RMK AO2 SLP189 T02170200 CWKD 300700Z AUTO 12003KT 18/13 RMK AO1 SLP084 T01820126 56019 KANW 300755Z AUTO 30003KT 10SM CLR 18/13 A3021 RMK AO2 T01760126 KBGE 300735Z AUTO 00000KT 5SM BR BKN005 26/25 A2995 RMK AO2 CWIW 300700Z AUTO 26007KT 14/11 RMK AO1 SLP168 T01370114 51008 KAPF 300753Z AUTO 28004KT 10SM CLR 28/24 A2999 RMK AO2 SLP154 T02830244 KAOO 300753Z AUTO 21003KT 10SM CLR 22/20 A2994 RMK AO2 SLP125 T02220200 EEKE 300750Z 21014KT 9999 -SHRA FEW006 BKN050CB 13/11 Q0999 KBGF 300755Z AUTO 00000KT 10SM CLR 24/23 A3003 RMK KAPG 292351Z 18004KT 7SM BKN120 29/23 A2995 CWIX 300700Z AUTO 11011KT 19/15 RMK AO1 T01940146 CWJO 300700Z AUTO 12006KT 19/13 RMK AO1 SLP091 T01890132 58018 NZCH 300730Z AUTO 04004KT 9999 NCD 03/01 Q1022 NOSIG NZCI 300645Z 23005KT 20KM FEW060 04/01 Q1023 RMK NZNR VATSIM USE ONLY CWIY 300700Z AUTO 10002KT 10/09 RMK AO1 SLP123 T00990091 57007 CWKG 300700Z AUTO 18001KT 13/12 RMK AO1 SLP124 T01330124 56006 CWKH 300700Z AUTO 22/04 RMK AO1 SLP191 T02180042 58001 CWIZ 300700Z AUTO 16004KT 21/20 RMK AO1 T02080203 CWJR 300700Z AUTO 03002KT 18/08 RMK AO1 SLP208 T01820081 51014 CXBI 300700Z AUTO 31006KT 21/15 RMK AO1 SLP086 T02100150 58004 CXCA 300700Z AUTO 23007KT 18/13 RMK AO1 PK WND 26017/0644 SLP006 T01790132 50000 KBHB 300755Z AUTO 03003KT 6SM CLR 16/16 A2987 RMK AO1 NZCM 300555Z 06003KT 9000 -SN OVC025 M28/M33 A2862 RMK SLP699 CWKK 300700Z AUTO 28023KT 16/14 RMK AO1 PK WND 27031/0640 SLP999 T01600143 53003 CXAT 300700Z AUTO 34006KT 02/01 RMK AO1 SLP159 T00230009 54000 CWJT 300700Z AUTO 07001KT 18/18 RMK AO1 SLP080 T01770176 57012 CWLB 300700Z AUTO 28007KT 14/07 RMK AO1 SLP174 T01350067 52004 CXBK 300700Z AUTO 22007KT 14/12 RMK AO1 SLP172 T01370115 51009 KBHC 300755Z AUTO 00000KT 7SM CLR 25/23 A2993 RMK AO2 EDTL 300750Z 18003KT CAVOK 16/11 Q1016 CWJU 300700Z AUTO 11007KT 13/12 RMK AO1 1PAST HR 8006 SLP229 P0000 T01250115 50001 CWLC 300700Z AUTO 33003KT 13/11 RMK AO1 T01330106 KBGM 300753Z AUTO 19005KT 8SM CLR 22/19 A2992 RMK AO2 SLP118 T02170194 $ CXCD 300700Z AUTO 25009KT 14/05 RMK AO1 T01360048 CWJV 300700Z AUTO 12006KT 18/08 RMK AO1 SLP191 T01770075 52013 CWKM 300700Z AUTO 10007KT 05/ A3014 RMK SLP211 KAPN 300754Z AUTO 22005KT 10SM BKN065 19/13 A2981 RMK AO2 SLP090 T01940128 KBFW 300755Z AUTO 26005KT 10SM CLR 18/11 A2981 RMK AO2 CWJW 300700Z AUTO 18003KT 11/06 RMK AO1 SLP220 T01060055 53004 CWLE 300700Z AUTO 24008KT 12/11 RMK AO1 SLP188 T01150111 53009 VCRI 300710Z 24016KT 200V260 9999 SCT017 33/23 Q1010 NOSIG CWJX 300700Z AUTO 21005KT 11/10 RMK AO1 SLP197 T01140097 50013 CWKO 300700Z AUTO 03002KT 12/10 RMK AO1 SLP209 T01240103 51016 CXBO 300700Z AUTO 07008KT RMK AO1 UMII 300730Z 20004G07MPS CAVOK 18/13 Q1007 R23/CLRD// NOSIG UNAA 300730Z 19003MPS CAVOK 26/12 Q1005 R20/090065 NOSIG RMK QFE731 CWKP 300700Z AUTO 06005KT 04/ A3005 RMK SLP200 CXCH 300700Z AUTO 14/13 RMK AO1 T01370126 KBGR 300753Z 00000KT 10SM CLR 17/17 A2987 RMK AO2 SLP110 T01720167 CXBR 300700Z AUTO 30008KT 11/07 RMK AO1 T01090072 CWLI 300700Z AUTO 04012KT 07/ A3009 RMK SLP200 KARA 300753Z AUTO 00000KT 9SM CLR 27/24 A3000 RMK AO2 SLP159 T02670244 KARB 300753Z AUTO 29006KT 10SM CLR 16/13 A2994 RMK AO2 SLP133 T01610133 KBHK 300751Z AUTO 19008KT CLR 13/06 A3019 RMK AO2 SLP205 T01280061 CXDB 300700Z AUTO 24005KT 08/05 RMK AO1 T00790050 CXCK 300700Z AUTO 04002KT 12/07 RMK AO1 SLP153 T01200068 53016 NZDN 300733Z 03003KT 30KM NSC M00/M02 Q1021 RMK VATSIM USE ONLY KBHM 300753Z 11003KT 8SM SCT200 24/24 A3000 RMK AO2 SLP151 T02440239 KBID 300755Z 24011G15KT 7SM 22/21 A2993 RMK AO1 CWLM 300700Z AUTO 29005KT 20/10 RMK AO1 SLP193 T01960104 58001 KBIE 300755Z AUTO 00000KT 10SM CLR 16/15 A3020 RMK AO2 T01550147 CXBW 300600Z AUTO 25006KT 10/09 RMK AO1 T01030088 CWME 300700Z AUTO 01006KT 16/14 RMK AO1 SLP222 T01570135 51001 CXDE 300700Z AUTO 33009KT 13/12 RMK AO1 T01280117 58002 KBIF 300658Z 36015G19KT 10SM OVC150 22/18 A3017 RMK AO2A LTG DSNT S AND W SLP152 T02180177 403380209 $ CWKW 300700Z AUTO ///// 13/ A2983 RMK SLP115 EDVE 300750Z 27014G26KT 240V300 9999 SCT024 BKN030 16/09 Q1011 RMK ATIS J KAQO 300735Z AUTO 00000KT 10SM CLR 27/19 A3010 RMK AO2 CWKX 300700Z AUTO 20004KT 10/06 RMK AO1 SLP225 T00960055 51010 KD95 300753Z AUTO 28004KT 10SM CLR 19/14 A2991 RMK AO2 T01870140 KAQP 300754Z AUTO 25005KT 10SM CLR 14/12 A3004 RMK AO2 KARG 300755Z AUTO 01007KT 10SM CLR 25/21 A3007 RMK AO1 OPNH 300800Z 22508KT 6000M FEW035 SCT100 35/24 Q0998 KAPY 300755Z AUTO 15008KT 10SM BKN020 26/22 A3002 RMK AO2 T02680221 CXCP 300700Z AUTO 32003KT 09/07 RMK AO1 T00910067 CWLP 300700Z AUTO 27012KT 14/12 RMK AO1 SLP227 T01360124 56002 EDTY 300750Z 24004KT 210V270 CAVOK 14/08 Q1016 KBIH 300756Z AUTO 29004KT 10SM CLR 26/09 A3015 RMK AO2 SLP145 T02610089 403830133 UNBB 300730Z 23004MPS 9999 TS SCT012 BKN021CB 22/13 Q1004 R24/CLRD66 NOSIG RMK QFE731 KAQR 300755Z AUTO 00000KT 24/23 A3007 RMK AO2 CXDI 300700Z AUTO 30006KT 23/17 RMK AO1 SLP098 T02300172 58005 OPMT 300755Z 31006KTS 4000 FU SCT040 BKN100 31/25 Q0998 TEMPO 36025KTS 2000 TSRA FEW030CB KBIJ 300755Z AUTO 00000KT 5SM BR SCT120 26/25 A2993 RMK AO2 CXCS 300700Z AUTO 29010KT 10/08 RMK AO1 T01030082 CXEA 300700Z AUTO 30010G17KT 15/13 RMK AO1 PK WND 30017/0602 SLP072 T01490128 52021 CWLS 300700Z AUTO 24002KT 19/15 RMK AO1 SLP103 T01860152 58002 CWMJ 300700Z AUTO 18003KT 21/18 RMK AO1 SLP067 T02140175 58016 CWNB 300700Z AUTO RMK AO1 KBJC 300756Z AUTO 32003KT 10SM CLR 18/10 A3031 RMK AO2 CXDK 300700Z AUTO 27002KT 12/12 RMK AO1 7PAST HR 1012 SLP130 P0003 T01220116 50007 KBIL 300753Z 20009KT 10SM CLR 18/04 A3025 RMK AO2 SLP215 T01780044 EDVK 300750Z 27010KT 230V300 9999 BKN035 15/07 Q1014 RMK ATIS I KE11 300755Z AUTO 15007KT 10SM -RA BKN095 BKN110 26/17 A3017 RMK AO2 T02640168 KARM 300755Z AUTO 00000KT 7SM 25/24 A3003 RMK AO2 T02510240 CWNC 300700Z AUTO 29001KT 21/18 RMK AO1 SLP077 T02120182 57015 CXEC 300700Z AUTO 23003KT 15/10 RMK AO1 SLP202 T01490097 53010 KASD 300753Z AUTO 00000KT 6SM BR CLR 24/24 A2998 RMK AO2 SLP152 T02390239 KCAD 300755Z AUTO 25008KT 10SM CLR 19/12 A2989 RMK AO2 T01940130 KAQV 300756Z AUTO 00000KT 9SM FEW070 27/24 A3000 RMK AO2 SLP154 T02670239 CWND 300431Z M01/M01 RMK PRESFR 8052 T10131012 DNMM 300700Z VRB02KT 8000 FEW007 23/22 Q1014 NOSIG CWMM 300700Z AUTO 29001KT 18/13 RMK AO1 SLP194 T01750130 51004 KASE 300753Z 21008KT 10SM CLR 11/02 A3048 RMK AO2 SLP195 T01110017 KAQW 300752Z AUTO 00000KT 10SM FEW065 19/17 A2991 RMK AO2 SLP125 T01940172 KCAE 300756Z 00000KT 10SM SCT110 27/23 A2994 RMK AO2 SLP135 T02670228 CWNE 300700Z AUTO 33006KT 17/15 RMK AO1 SLP122 T01660146 56006 KAQX 300755Z AUTO 00000KT 10SM CLR 25/24 A2994 RMK AO2 KASG 300148Z 00000KT 10SM BKN050 31/22 A3010 RMK LAST CWLX 300700Z AUTO 10014KT 07/ A2987 RMK SLP126 KCAG 300753Z AUTO 33003KT 10SM CLR 06/01 A3039 RMK AO2 SLP232 T00560006 $ KASH 292250Z 26003KT 10SM CLR 32/20 A2987 CXDP 300700Z AUTO 25003KT 05/04 RMK AO1 T00500043 CXEG 300700Z AUTO 08/08 RMK AO1 T00800079 CWLY 300700Z AUTO 18011G17KT 9SM CLR 25/07 A3008 RMK SLP182 DENSITY ALT 1900FT KE16 300755Z AUTO 13004KT 10SM BKN018 16/15 A3000 RMK AO2 SOUTH WIND SOCK OUT OF SERVICE UMKK 300730Z 22004MPS 9999 -SHRA BKN023CB OVC086 13/10 Q1003 R24/19//60 NOSIG RMK QFE752/1002 CWMQ 300700Z AUTO 21005KT 11/09 RMK AO1 SLP212 T01120090 53011 CWNH 300700Z AUTO 17001KT 15/12 RMK AO1 SLP106 T01520115 58016 ZSHC 300730Z VRB01MPS 9999 FEW023 FEW030CB 36/18 Q1007 NOSIG KARR 300752Z AUTO 27007KT 10SM CLR 17/14 A3004 RMK AO2 SLP168 T01720139 KBJI 300752Z AUTO 26005KT 10SM CLR 17/14 A2994 RMK AO2 T01650136 PFWS 300756Z AUTO 24003KT 10SM BKN065 OVC080 12/11 A3003 RMK AO2 RAB40E54 SLP175 P0000 T01170106 KBIS 300752Z 25003KT 10SM CLR 13/10 A3010 RMK AO2 SLP189 T01330100 VECC 300750Z 33013KT 3200 HZ SCT018 FEW030CB BKN100 33/27 Q0995 TEMPO TL0950 2000 TSRA KBJJ 300756Z AUTO 32005KT 10SM CLR 20/18 A2996 RMK AO2 SLP137 T02000178 TSNO KASJ 300735Z AUTO 00000KT 10SM CLR 21/20 A2996 RMK AO2 T02080198 KBKB 300754Z AUTO 00000KT 10SM CLR 25/23 A2999 RMK AO2 SLP179 T02500233 KCAK 300751Z 32009KT 10SM SCT044 OVC250 23/19 A2995 RMK AO2 SLP130 T02280189 KART 300756Z AUTO VRB03KT 7SM CLR 24/19 A2979 RMK AO2 SLP080 T02390189 CWNK 300700Z AUTO 27006KT 17/14 RMK AO1 T01670139 CWMT 300700Z AUTO 00000KT 13/11 RMK AO1 SLP103 T01300109 51004 CWOB 300749Z AUTO 17015KT 02/ A2993 KASL 300755Z AUTO 00000KT 10SM CLR 27/24 A3005 RMK AO1 T02650239 CWNL 300700Z AUTO 22006KT 20/16 RMK AO1 SLP079 T01960162 58008 CWOC 300700Z AUTO 33003KT 15/15 RMK AO1 SLP125 T01480147 56006 KBIV 300753Z AUTO 28008KT 10SM CLR 22/15 A2996 RMK AO2 SLP140 T02220150 KBKD 300755Z AUTO 16009KT 10SM CLR 28/17 A3006 RMK AO2 T02780170 KARV 300730Z AUTO 27008KT 10SM CLR 18/12 A2990 RMK AO2 T01800123 KBKE 300753Z AUTO 00000KT 10SM CLR 12/07 A3022 RMK AO2 SLP212 T01170067 403060033 TSNO $ CWOD 300700Z AUTO 10004KT 19/18 RMK AO1 SLP047 T01890176 56018 CWNM 300700Z AUTO 18001KT 15/09 RMK AO1 SLP203 T01520091 51014 ZSFZ 300700Z 17007MPS 9999 FEW030 32/23 Q1009 NOSIG KARW 300755Z AUTO 00000KT 7SM SCT015 26/26 A2993 RMK AO2 KASN 300755Z AUTO 00000KT 7SM CLR A2997 RMK AO2 KCBE 300737Z AUTO 00000KT 7SM CLR 23/23 A2995 RMK AO1 CXDW 300700Z AUTO 27013KT 18/14 RMK AO1 PK WND 28017/0636 T01770143 CWOE 300700Z AUTO 34010KT 13/08 RMK AO1 SLP209 T01330075 51014 KBKF 300658Z 18013KT 10SM FEW120 BKN220 20/10 A3031 RMK AO2A SLP184 T02030100 402840137 KCAO 300755Z AUTO 10003KT 8SM OVC004 20/19 A3034 RMK AO2 SLP206 T02000189 KCBF 300755Z AUTO 22006KT 10SM CLR 20/15 A3018 RMK AO2 KBIX 300758Z AUTO 35006KT 10SM CLR 25/24 A2997 RMK AO2 SLP151 T02480241 KCBG 300755Z AUTO 25005KT 10SM CLR 21/13 A2997 RMK AO2 CWNP 300700Z AUTO 05001KT 14/10 RMK AO1 SLP207 T01410103 52013 CWMZ 300700Z AUTO 25013KT 22/18 RMK AO1 SLP080 T02180184 58005 CWNQ 300700Z AUTO 08001KT 20/20 RMK AO1 SLP087 T01990195 57006 KCAR 300754Z AUTO 00000KT 10SM CLR 13/12 A2987 RMK AO2 SLP118 T01280117 KCCA 300735Z AUTO 00000KT 10SM -RA CLR 24/24 A3010 RMK AO2 KAST 300755Z AUTO 00000KT 10SM CLR 14/12 A3004 RMK AO2 SLP173 T01390122 402830117 KCBK 300735Z AUTO 13004KT 10SM CLR 17/14 A3028 RMK AO2 CXET 300700Z AUTO 33004KT 23/13 RMK AO1 SLP089 T02290133 58002 KBKL 300753Z 28012KT 10SM CLR 25/18 A2991 RMK AO2 SLP124 T02500178 $ KATL 300752Z 33004KT 10SM FEW150 BKN200 OVC300 27/23 A2996 RMK AO2 SLP133 T02670228 EFET 300750Z AUTO 04007KT 010V090 3100 -SHRA BR OVC005 13/12 Q0998 CWPC 300700Z AUTO 30012KT 25/20 RMK AO1 PK WND 27017/0620 SLP098 T02540204 58011 KCAV 300755Z AUTO 00000KT 10SM CLR 15/14 A3012 RMK AO2 KCBM 300658Z AUTO 33002KT 10SM CLR 23/23 A3000 RMK AO2 SLP159 T02340226 $ CXFM 300700Z AUTO 25003KT 10/08 RMK AO1 T01040079 CWPD 300700Z AUTO 19003KT 16/15 RMK AO1 SLP076 T01570148 56013 UMMG 300730Z 23004G07MPS 9999 BKN016 BKN066 15/12 Q1007 R35/190065 NOSIG KBKN 300755Z AUTO 08006KT 10SM OVC070 25/21 A3015 RMK AO2 KASW 300755Z AUTO 25003KT 10SM CLR 17/14 A3001 RMK AO2 CWPE 300700Z AUTO 04004KT 15/13 RMK AO1 SLP121 T01510132 58006 KASX 300753Z AUTO 25009G16KT 10SM CLR 18/13 A2987 RMK AO2 SLP115 T01830128 KBLF 300752Z AUTO 25005KT 10SM CLR 22/19 A3008 RMK AO2 SLP142 T02220194 KAUG 300753Z AUTO 00000KT 1/4SM FG VV002 19/19 A2987 RMK AO2 SLP113 T01940189 CWPF 300745Z AUTO 36001KT 17/13 RMK AO1 T01700130 KATP 300755Z AUTO 26005KT 10SM 29/24 A3000 RMK A01 KBLH 300752Z AUTO 19008KT 10SM CLR 35/20 A2989 RMK AO2 SLP112 T03500200 403890306 KAUH 300755Z AUTO 23006KT 10SM CLR 14/13 A3021 RMK AO2 T01370127 PHHI 300758Z VRB01KT 10SM FEW026 BKN030 25/19 A3001 RMK AO2A SLPNO WND DATA ESTMD ALSTG ESTMD $ NZGS 300725Z 27005KT 20KM FEW040 03/M01 Q1023 RMK VATSIM USE ONLY CWNZ 300700Z AUTO 22007G15KT 17/14 RMK AO1 SLP984 T01740138 56010 CXGH 300700Z AUTO 21004KT 17/14 RMK AO1 T01690141 KBLI 300753Z AUTO 00000KT 10SM CLR 16/12 A3010 RMK AO2 SLP199 T01610117 403110117 OPPS 300800Z 05010KT 5000 TS FEW030CB SCT040 35/23 Q999 NZHK 300700Z 09004KT 40KM SKC 07/03 Q1023 RMK ALT VATSIM USE ONLY CXFR 300700Z AUTO 24006KT 11/05 RMK AO1 T01110047 ULWC 300730Z 27005MPS 9999 BKN026 BKN/// 19/13 Q1004 R21/010060 NOSIG RMK QFE743/0991 KATS 300755Z AUTO 35011KT 10SM BKN095 25/16 A3018 RMK AO2 KCDA 300755Z AUTO 00000KT 3/4SM BR BKN070 BKN085 19/18 A2991 RMK AO2 T01900183 KE38 300755Z AUTO 00000KT 10SM BKN120 24/12 A3028 RMK AO2 LTG DSNT W T02360123 KBKS 300755Z AUTO 15003KT 7SM CLR 24/23 A3001 RMK AO1 T02400227 CXHA 300700Z AUTO 27005KT 21/15 RMK AO1 SLP117 T02070147 58004 UMMM 300730Z 21003MPS 9999 BKN012CB BKN100 16/13 Q1007 R12/290050 NOSIG RMK QFE735 EFHA 300750Z AUTO 16005KT 110V210 9999 BKN015CB 16/13 Q0997 KATT 300751Z AUTO 00000KT 10SM CLR 27/22 A3006 RMK AO2 SLP162 T02720217 PFYU 300756Z 04005KT 10SM CLR 12/09 A2996 RMK AO1 KBKT 300755Z AUTO 20010KT 10SM CLR 22/22 A2997 RMK AO1 T02210217 CWPK 300200Z AUTO 13002KT 21/18 RMK AO1 SLP090 T02050181 50000 UNEE 300730Z 23004MPS 200V270 9999 FEW040CB 24/13 Q1002 R23/CLRD60 NOSIG RMK QFE729 KCDC 300753Z AUTO 04007KT 10SM CLR 18/M06 A3026 RMK AO2 SLP165 T01781056 KAVC 300756Z AUTO 00000KT 10SM CLR 22/21 A3003 RMK AO2 T02180213 KBMC 300735Z AUTO 35003KT 10SM CLR 16/03 A3026 RMK AO1 T01550026 NZHN 300623Z 24008KT 25KM SCT040 05/02 Q1024 RMK VATSIM USE ONLY KCDD 300741Z AUTO 26005KT 10SM CLR 16/12 A2984 RMK AO2 KBKV 300753Z AUTO 15003KT 3/4SM BR VV002 23/23 A2998 RMK AO2 SLP148 T02330233 KAUM 300756Z AUTO 25004KT 10SM CLR 17/14 A3008 RMK AO2 KBLM 300755Z AUTO 23004KT 10SM CLR 23/19 A2994 RMK AO1 CXHD 300700Z AUTO 25008KT 12/11 RMK AO1 T01200106 KBKW 300751Z AUTO 00000KT 6SM BR FEW028 21/19 A3005 RMK AO2 VIS 1 RWY19 SLP138 T02110194 KAUN 300755Z AUTO 08004KT 10SM CLR 28/06 A2997 RMK AO1 KATW 300735Z AUTO 25007KT 10SM CLR 17/11 A2995 RMK AO2 EDXW 300750Z 28025G39KT 6000 SCT014 BKN023 14/12 Q1004 RMK ATIS KIL KAUO 300755Z AUTO RMK AO1 KBKX 300755Z AUTO 21004KT 10SM CLR 16/12 A3013 RMK AO1 KCCO 300755Z AUTO 00000KT 10SM CLR 26/25 A2996 RMK AO2 T02550249 CXHF 300700Z AUTO 20/18 RMK AO1 T01960184 CWPO 300700Z AUTO 28005KT 16/13 RMK AO1 SLP149 T01610131 52004 KBMG 300753Z AUTO 00000KT 10SM CLR 18/16 A3006 RMK AO2 SLP171 T01830161 KATY 300753Z AUTO 24009KT 10SM CLR 17/12 A3010 RMK AO2 SLP184 T01670122 EFHF 300750Z 17008KT 100V210 9999 SCT018TCU 17/13 Q0998 CWOY 300700Z AUTO 26007KT 14/10 RMK AO1 SLP160 T01380104 53008 UMMS 300740Z 20003MPS 160V240 9999 SCT011CB BKN073 16/14 Q1007 R13/290062 TEMPO 1200 SHRA KCDH 300755Z AUTO 00000KT 3SM BR CLR 25/24 A3002 RMK AO2 NZHS 300645Z 23005KT 20KM FEW060 04/01 Q1023 RMK NZNR VATSIM USE ONLY CWQH 300700Z AUTO 08002KT 21/20 RMK AO1 T02050203 KCCR 300753Z 29005KT 10SM CLR 19/12 A2994 RMK AO2 SLP123 T01940117 403940178 KBMI 300756Z AUTO 28008KT 10SM CLR 20/17 A3010 RMK AO2 T02000166 SLP180 NZHT 300700Z 22003KT 40KM SKC 05/02 Q1023 RMK ALT VATSIM USE ONLY CWPR 300700Z AUTO 02001KT 16/M01 RMK AO1 SLP203 T01571006 51013 KBNA 300753Z 33003KT 10SM CLR 26/23 A3002 RMK AO2 SLP156 T02560228 KAUS 300753Z 21004KT 10SM CLR 25/22 A3005 RMK AO2 SLP162 T02500222 KCDJ 300752Z AUTO 00000KT 18/17 A3017 RMK AO1 SLP205 T01830172 CWPS 300700Z AUTO 25/20 RMK AO1 SLP096 T02470201 56008 CWRA 300700Z AUTO 07031G38KT 12/11 RMK AO1 0PAST HR 7061 PK WND 07040/0649 SLP026 P0008 T01230107 50020 KAVK 300755Z AUTO 06006KT 10SM OVC050 23/22 A3015 RMK AO2 LTG DSNT W AND NW CWQK 300700Z AUTO 26013KT 19/ RMK AO1 PK WND 26019/0601 SLP192 T0187 51001 CXIB 300700Z AUTO 15001KT 14/12 RMK AO1 SLP114 T01370115 58008 KBML 300752Z AUTO 00000KT 1/4SM FG VV002 18/17 A2991 RMK AO2 SLP124 T01780172 EFHK 300750Z 17010KT 9999 SCT018TCU SCT080 16/12 Q0998 NOSIG KBLU 300752Z AUTO 05004KT 10SM CLR 24/M01 A3028 RMK AO2 SLP126 T02391011 403060206 KCCU 300754Z AUTO 17010KT 10SM CLR 11/M02 A3080 RMK AO2 KAVL 300754Z AUTO 00000KT 8SM CLR 21/19 A3007 RMK AO2 SLP150 T02110194 KCEC 300756Z AUTO 14007KT 10SM CLR 18/12 A2994 RMK AO2 SLP138 T01780122 402670122 OPRN 300800Z 13012KT 5000 HZ FEW030TCU SCT040 32/26 Q1002.8/29.61 EEPU 300750Z 21014G27KT 170V230 3600 RA FEW007 BKN019CB OVC035 13/11 Q0999 KBLV 300758Z AUTO 33003KT 10SM CLR 20/16 A3009 RMK AO2 SLP189 T02040164 CXHM 300700Z AUTO 25002KT 24/19 RMK AO1 SLP081 T02400190 57008 PGRO 300750Z VRB04KT 7SM SCT020 28/24 A2980 KCDN 300755Z AUTO 00000KT 10SM FEW065 25/21 A2997 RMK AO2 TSNO KAUW 300754Z AUTO 29013KT 10SM CLR 19/12 A2993 RMK AO2 SLP131 T01940122 KCEF 300758Z AUTO 00000KT 4SM BR CLR 19/18 A2989 RMK AO2 SLP126 PHJH 300350Z 07015KT 15SM FEW030 29/17 A2990 RMK LAST CWQO 300700Z AUTO 06003KT 12/12 RMK AO1 T01240123 CWPX 300700Z AUTO 03005KT 12/ A3001 RMK SLP179 CWRF 300700Z AUTO ///// 08/ A2986 RMK SLP134 KAVP 300754Z AUTO 22003KT 6SM HZ OVC018 26/22 A2993 RMK AO2 SLP121 T02560217 $ KCCY 300755Z AUTO 27008KT 10SM CLR 18/16 A3009 RMK AO2 KAWG 300755Z AUTO 26006KT 10SM CLR 18/16 A3013 RMK AO2 CWQP 300700Z AUTO 21011KT 21/20 RMK AO1 SLP083 T02140203 57013 CXHP 300700Z AUTO 25007KT 13/06 RMK AO1 T01320055 KBMQ 300753Z AUTO 18004KT 10SM CLR 27/20 A3010 RMK AO2 SLP171 T02720200 KAVQ 300755Z AUTO 13006KT 10SM CLR 28/16 A3002 RMK AO2 T02760164 CWPZ 300700Z AUTO 00000KT 06/04 RMK AO1 SLP237 T00620044 53006 CWRH 300700Z AUTO ///// 01/ A2986 RMK SLP143 KCDR 300753Z AUTO 00000KT 10SM CLR 13/10 A3021 RMK AO2 SLP211 T01330100 CXHR 300700Z AUTO 31002KT 10/07 RMK AO1 T01030071 CWQR 300700Z AUTO 11005KT 13/ RMK AO1 T0134 KCDS 300753Z AUTO 35003KT 10SM CLR 26/19 A3010 RMK AO2 SLP161 T02560189 OPSK 300800Z 23004KT 5000 HZ BKN040 SCT100 34/27 Q.997 RH.68 PC KAXA 300755Z AUTO 25006KT 10SM CLR 17/15 A3012 RMK AO2 CWQS 300700Z AUTO 16011KT 15/12 RMK AO1 SLP231 T01480115 58003 CWRJ 300700Z AUTO 27007KT 12/11 RMK AO1 SLP185 T01240110 53012 CWSA 300700Z AUTO 11007KT 7SM OVC011 15/14 A2982 RMK SLP098 EGAA 300750Z 31008KT 9999 FEW018 BKN026 11/08 Q1020 KBMT 300755Z AUTO 29003KT 10SM CLR 26/25 A3001 RMK AO2 T02620245 CYAB 292200Z 31014KT 15SM FEW030 FEW050 06/02 A2997 RMK CU1SC1 SC TR CALLOUT LAST STFD OBS/NXT 301100Z SLP152 CWRK 300700Z AUTO 19003KT 22/18 RMK AO1 SLP079 T02160176 56016 KBNL 300755Z AUTO 20003KT 10SM CLR 26/24 A2995 RMK AO2 EGAC 300750Z 31007KT 270V340 9999 FEW016 BKN048 12/06 Q1019 UMOO 300730Z 18004MPS CAVOK 16/14 Q1008 R13/CLRD// NOSIG KAWM 300753Z AUTO 33003KT 10SM CLR 26/24 A3002 RMK AO2 SLP159 T02560244 $ PGSN 300754Z 12004KT 10SM FEW100 29/24 A2979 RMK AO2 SLP108 T02890239 KCFD 300755Z AUTO 22003KT 10SM CLR 26/23 A3005 RMK AO2 T02610228 CYAD 292000Z 17009KT 15SM SCT220 30/17 A2965 RMK CI2 LAST OBS/NEXT 301100 UTC SLP043 CWSD 300700Z AUTO 32004KT 16/16 RMK AO1 SLP124 T01550160 55003 CWQV 300700Z AUTO 09010KT 18/14 RMK AO1 T01770139 CWRM 300700Z AUTO 34001KT 11/10 RMK AO1 SLP219 T01070098 53008 KCDW 300753Z AUTO 21003KT 10SM CLR 25/22 A2991 RMK AO2 SLP132 T02500217 TSNO KCFE 300755Z AUTO 21003KT 10SM CLR 18/13 A3002 RMK AO2 T01770132 EGAE 300750Z 24006KT 9999 BKN044 12/09 Q1019 CWRN 300700Z AUTO 05007KT 15/15 RMK AO1 SLP112 T01500148 51003 KBNO 300753Z AUTO 26005KT 10SM CLR 10/M01 A3025 RMK AO2 SLP212 T01001011 403110056 KAVX 300751Z AUTO 08003KT 10SM CLR 17/16 A3003 RMK AO2 SLP152 T01670156 402220156 $ KAWO 300755Z AUTO 00000KT 10SM CLR 16/10 A3012 RMK AO1 CWSF 300700Z AUTO 16007KT 13/12 RMK AO1 SLP119 T01330120 58006 CWRO 300700Z AUTO 15005KT 14/12 RMK AO1 SLP231 T01350115 58002 NZKI 300700Z 01003KT 35KM SKC 06/01 Q1022 RMK ALT VATSIM USE ONLY ORBI 300530Z 30010KT CAVOK 38/11 Q0999 CWSG 300700Z AUTO 16004KT 12/11 RMK AO1 SLP113 T01190108 56009 PHJR 300753Z 00000KT 10SM CLR 26/20 A2998 RMK AO2 SLP158 T02610200 KAXH 300755Z AUTO 00000KT 7SM CLR 25/24 A3003 RMK AO2 T02470237 CYAH 300742Z AUTO 19011G20KT 9SM FEW095 OVC120 22/16 A2953 RMK SLP000 DENSITY ALT 2400FT KBOI 300753Z 13007KT 10SM CLR 19/03 A3016 RMK AO2 SLP186 T01940033 PGUA 300758Z AUTO 23003KT 10SM FEW028 28/22 A2980 RMK AO2 SLP081 T02800217 $ NZKK 300628Z 23004KT 30KM SCT044 09/04 Q1025 RMK NZWP VATSIM USE ONLY OPST 300800Z 09008KT 4000 FU SCT040 BKN100 32/25 Q1001 NOSIG RH69 KCFJ 300755Z AUTO 27004KT 10SM CLR 16/15 RMK AO2 T01620150 CXKA 300700Z AUTO 22013G18KT 19/14 RMK AO1 PK WND 23018/0657 SLP980 T01880135 56016 KBOK 300756Z AUTO 00000KT 10SM CLR 18/12 A2996 RMK AO2 T01830116 SLP141 CYBB 292200Z 07010KT 15SM BKN016 BKN025 16/12 A2986 RMK SC5SC2 SLP111 DENSITY ALT 200FT CWSK 300700Z AUTO 04001KT 16/11 RMK AO1 SLP198 T01620114 50009 CWRT 300700Z AUTO 11001KT 07/06 RMK AO1 T00680056 EGBB 300750Z 31011KT 9999 BKN019 13/08 Q1017 KCEU 300754Z AUTO 00000KT 10SM CLR 26/22 A2998 RMK AO2 SLP140 T02560222 KCGC 300755Z AUTO 00000KT 7SM CLR 23/23 A2996 RMK AO2 KBPC 300755Z AUTO 31005KT 10SM CLR 20/19 A3020 RMK AO2 CWRU 300700Z AUTO 35023KT 15/12 RMK AO1 PK WND 35027/0645 SLP204 T01470122 56006 CWSL 300700Z AUTO 20002KT 15/11 RMK AO1 SLP197 T01460109 52012 CYBC 300700Z AUTO 04004KT 9SM CLR 14/13 A2985 RMK SLP109 CYBD 300100Z 27012G19KT 230V300 15SM FEW068TCU SCT200 21/12 A3018 RMK TCU1CI2 LAST OBS/NEXT 301300UTC/ SLP221 DENSITY ALT 500FT CYAM 300700Z 23006KT 14SM SCT068 BKN083 BKN110 20/14 A2973 RMK AC3AC2AC2 SLP066 DENSITY ALT 1600FT VDPP 300730Z 25012KT 9000 -RA SCT015 FEW017CB BKN040 26/22 Q1009 CB KAXN 300753Z AUTO 27008KT 10SM CLR 18/13 A3003 RMK AO2 SLP164 T01830128 KCEW 300753Z AUTO 00000KT 4SM BR CLR 24/24 A2995 RMK AO2 SLP139 T02440244 PHKO 300753Z 03005KT 10SM FEW055 28/18 A2991 RMK AO2 SLP128 T02780183 EFIV 300750Z AUTO 04003KT 9999 -SHRA OVC025 14/12 Q1000 KCGE 300737Z AUTO 19004KT 10SM CLR 26/23 A2994 RMK AO1 KBNW 300755Z AUTO 28006KT 10SM CLR 19/15 A3013 RMK AO2 KAXO 291630Z 03011KT 7SM FEW020 BKN040 33/26 A3004 KCGF 300245Z 19005KT 15SM FEW120 BKN200 25/24 A2992 EGBE 300720Z 29008KT 260V320 9999 SCT020 12/09 Q1017 CXKE 300700Z AUTO 18002KT 21/17 RMK AO1 SLP078 T02090169 58017 EFKE 300750Z AUTO 18012KT 9999 OVC009 15/13 Q0996 EFJO 300420Z AUTO 15005KT 9999 BKN008 15/14 Q0999 CWRX 300700Z AUTO 07011KT 09/ A2986 KCEY 300755Z AUTO 36007KT 10SM OVC032 25/24 A3006 RMK AO1 KBPG 300755Z AUTO 15006KT 10SM CLR 25/12 A3014 RMK AO2 T02530120 CWTG 300700Z AUTO 01005KT 13/11 RMK AO1 SLP113 T01340107 56011 CWRY 300700Z AUTO 30005KT 09/07 RMK AO1 SLP219 T00940067 51011 CWSP 300700Z AUTO 32001KT 16/12 RMK AO1 SLP198 T01550122 58002 CYBG 300700Z 10009KT 25SM FEW070 SCT140 BKN180 19/14 A2980 RMK AC2AC2AC3 CB 30 NM SW MOVG NE TOP 270 OCNL LTNGS SLP090 ZSNB 300700Z 16003MPS 130V190 9999 FEW026 36/21 Q1007 NOSIG KCEZ 300753Z AUTO 06006KT 10SM CLR 16/08 A3036 RMK AO2 SLP197 T01560078 PHLI 300553Z 05009KT 10SM SCT020 BKN027 27/23 A2996 RMK AO2 SLP142 T02670228 10306 20267 53012 KCGI 292353Z AUTO 01005KT 10SM BKN048 BKN055 31/24 A2999 RMK AO2 SLP152 60041 T03110244 10356 20283 51011 $ CWRZ 300700Z AUTO 26005KT 14/14 RMK AO1 SLP122 T01390135 55006 KBPI 300753Z AUTO 01004KT 10SM CLR 07/M01 A3046 RMK AO2 SLP238 T00721006 CWSR 300700Z AUTO 27009KT 14/10 RMK AO1 SLP152 T01370096 53013 CXKI 300700Z AUTO 19/13 RMK AO1 SLP038 T01920130 58009 KCHA 300753Z AUTO 00000KT 10SM CLR 26/23 A2999 RMK AO2 SLP146 T02610233 TSNO EFKI 300750Z AUTO 15006KT 100V200 9999 FEW023 16/11 Q0998 KCFS 300755Z AUTO 23003KT 10SM CLR 16/14 A2989 RMK AO2 T01640140 KBOS 300754Z 23007KT 10SM CLR 25/19 A2988 RMK AO2 SLP116 T02500194 KAXS 300755Z AUTO 11006KT 10SM CLR 29/19 A3010 RMK AO2 T02850194 NZMC 302300Z 30015G35KT 8000 SCT050 04/// Q0989 RMK VIS 50KM TO SOUTH VATSIM USE CYAS 291900Z 10011KT 15SM SCT020 SCT050 BKN240 17/11 A2982 RMK SC3SC1CI0 LAST OBS/NEXT 201200UTC SLP103 EGBJ 300750Z 33008KT 9999 FEW035 14/08 Q1019 CWSS 300700Z AUTO 04001KT 13/12 RMK AO1 SLP118 T01290123 55002 KBPK 300753Z AUTO 00000KT 10SM FEW050 23/21 A3012 RMK AO2 SLP188 T02330211 KE80 300755Z AUTO 00000KT 10SM -RA OVC100 19/17 A3035 RMK AO2 LTG DSNT E AND SW P0001 T01880167 CXLB 300700Z AUTO 34004KT 17/15 RMK AO1 SLP122 T01710154 50001 CWST 300700Z AUTO 19005KT 16/14 RMK AO1 SLP096 T01610138 58018 CYBK 300700Z 34014KT 15SM FEW030 12/09 A2976 RMK SC1 SLP080 CYAT 300700Z AUTO 20007KT 9SM FEW039 SCT050 19/16 A2926 RMK SLP909 DENSITY ALT 1300FT CYCB 300700Z 04005KT 15SM BKN025 12/10 A3001 RMK SC7 SLP165 PGUM 300754Z 01003KT 10SM FEW022 SCT041 28/24 A2979 RMK AO2 RAB04E17 SLP082 P0000 T02830244 EFKK 300750Z 18007KT 140V220 9999 FEW020 16/12 Q0996 KAZC 300755Z AUTO 00000KT 10SM CLR 21/02 A3023 RMK AO2 T02070018 CYBL 300400Z 32005KT 30SM FEW250 22/11 A3012 RMK CI2 LAST OBS/NEXT 301300UTC SLP199 DENSITY ALT 1000FT KCHD 300347Z 06014KT 10SM BKN090 31/17 A2997 RMK LAST KCFV 300752Z AUTO 05004KT 10SM FEW110 24/19 A3013 RMK AO2 SLP195 T02440189 KAXV 300750Z AUTO 29003KT 10SM SCT060 21/16 A3000 RMK AO2 EGCC 300750Z 30008KT 9999 SCT020 BKN026 12/09 Q1017 NOSIG NZMF 300700Z 03003KT 40KM SCT090 02/M01 Q1022 RMK ALT NZQN VATSIM USE ONLY CYCD 300400Z 26004KT 30SM SKC 23/11 A3010 RMK LAST OBS/NEXT 301300 UTC SLP192 DENSITY ALT 800FT CXKM 300700Z AUTO 26007KT 10/08 RMK AO1 T00960084 KBOW 300755Z AUTO 00000KT 7SM CLR 23/ A2998 RMK AO2 KAZE 300735Z AUTO 00000KT 10SM CLR 25/25 A2993 RMK AO2 T02510251 CWSW 300100Z 23003KT 130V280 20SM SCT060 SCT250 24/04 A3014 RMK CU4CI1 CI TR LAST OBS/NEXT 301300Z SLP203 DENSITY ALT 5400FT CYAW 300300Z 35007KT 15SM FEW090 17/15 A2989 RMK AC2 DA654FT LAST OBS/NEXT 301100 UTC SLP122 CWTN 300700Z AUTO 35002KT 20/14 RMK AO1 SLP100 T02010137 56011 CYBN 300700Z AUTO 00000KT 9SM FEW028 FEW038 FEW062 BKN070 23/15 A2981 RMK SLP091 EETN 300750Z 20010KT 9999 FEW020CB BKN027 17/13 Q0998 NOSIG KAXX 300755Z AUTO 00000KT 10SM OVC100 12/11 A3056 RMK AO2 T01160110 ZSNJ 300700Z 21006MPS 9999 SCT040 34/25 Q1006 NOSIG CYCG 300400Z VRB04KT 15SM FEW160 20/10 A3008 RMK AC1 AC TR LAST OBS/NEXT 301300 UTC SLP183 DENSITY ALT 2400FT CYAY 300757Z AUTO 18004KT 6SM BR OVC001 12/12 A2991 RMK SLP128 EFJY 300750Z AUTO 14006KT 9999 FEW011 SCT016 BKN059 BKN080 16/14 Q0998 CYAZ 300100Z 30008KT 15SM SKC 22/14 A3016 RMK OCNL GUSTS LAST OBS/NEXT 301300UTC SLP213 DENSITY ALT 600FT CYBQ 300700Z AUTO 34005KT 9SM OVC075 14/12 A2975 RMK SLP083 DENSITY ALT 1200FT TVSC 292200Z 07013KT 9999 FEW020 28/24 Q1014 CYBR 300700Z 28008KT 15SM BKN250 14/14 A2995 RMK CI7 SLP143 DENSITY ALT 1500FT PHMK 300454Z AUTO 04010G25KT 10SM CLR 26/21 A2991 RMK AO2 SLP131 T02610206 TSNO KCGS 300730Z AUTO 17004KT 10SM CLR 26/23 A2992 RMK AO1 KAYS 300755Z AUTO 00000KT 5SM BR SCT003 25/25 A2993 RMK AO2 T02510251 CYDA 300300Z 00000KT 20SM FEW010 SCT045TCU BKN090 OVC120 14/12 A2992 RMK ST1TCU2AC3AS2 SLP143 DENSITY ALT 1300FT KBPT 300753Z 00000KT 10SM CLR 26/24 A3000 RMK AO2 SLP158 T02560244 EFMA 300750Z 12003KT 2100 +SHRA BKN007 OVC026CB 14/13 Q0995 EFKS 300750Z AUTO 19005KT 160V220 9999 FEW011 OVC025 15/13 Q0998 KBQK 300755Z AUTO 00000KT 10SM CLR 23/23 A2993 RMK AO1 KCHK 300755Z AUTO 12003KT 10SM CLR 25/22 A3009 RMK AO2 KCIC 300150Z 19003KT 10SM SKC 40/04 A2981 CWTT 300700Z AUTO 12001KT 22/21 RMK AO1 T02210212 CXKT 300700Z AUTO 18002KT 12/11 RMK AO1 SLP126 T01220112 58001 CYCK 300700Z AUTO 27005KT 9SM CLR 19/16 A2990 RMK SLP120 DENSITY ALT 1200FT CYDB 300756Z AUTO 00000KT 6SM -RA BR OVC050 09/08 A3001 RMK SLP185 ZSOF 300700Z 16005MPS 140V200 9999 FEW030 35/24 Q1005 NOSIG EFKT 300750Z AUTO 08007KT 020V160 9999 OVC008 15/15 Q0996 CYDC 300100Z 23011KT 220V280 25SM FEW060 FEW150 29/M01 A3013 RMK CU1AC1 CU TR AC TR LAST OBS/NEXT 301300 UTC SLP190 DENSITY ALT 4200FT CXLL 300700Z AUTO 21001KT 13/12 RMK AO1 SLP130 T01270122 51009 CYBU 300700Z AUTO 25008KT 9SM CLR 15/12 A2990 RMK SLP129 DENSITY ALT 1500FT CWTU 300700Z AUTO 14011KT 12/ A2996 RMK SLP154 KBRD 300753Z AUTO 26008KT 10SM CLR 19/13 A2997 RMK AO2 SLP144 T01890133 EETU 300750Z 17006KT 140V200 9999 SCT010 SCT016 BKN050 15/12 Q1001 KCID 300752Z AUTO 26005KT 10SM CLR 16/16 A3009 RMK AO2 SLP184 T01610156 EFKU 300750Z AUTO 17005KT 130V200 9999 BKN013 17/13 Q0999 CYBV 292100Z 32028G42KT 15SM BKN007 BKN020 BKN080 18/14 A2957 RMK SC5SC1AC1 LAST OBS/NEXT 301200Z SLP016 DENSITY ALT 1700FT CXMD 300700Z AUTO 29009KT 18/13 RMK AO1 SLP126 T01840133 52005 CWVD 300700Z AUTO 08004KT 02/ A2995 RMK SLP178 CYBW 300700Z AUTO 30005KT 9SM CLR 08/07 A3023 RMK SLP242 EGCN 300750Z 34005KT 260V060 9999 FEW014 SCT022 14/10 Q1017 KAZO 300753Z AUTO 26006KT 10SM CLR 19/14 A2997 RMK AO2 SLP144 T01940139 KCHO 300753Z AUTO 18003KT 6SM BR CLR 23/22 A2993 RMK AO2 SLP128 T02330222 PHNG 300757Z AUTO 08009G16KT 050V110 SCT024 27/21 A2996 RMK AO2 SLP140 T02670211 PWINO $ CWVF 300700Z AUTO 31008KT 21/16 RMK AO1 T02140160 CYDF 300746Z VRB02KT 8SM BCFG SCT210 10/10 A2990 RMK CI4 VIS LWR NW-NE SLP125 CYBX 300744Z 00000KT 1/4SM -DZ FG VV003 13/13 A2990 RMK FG8 SLP124 CYCO 300700Z 01014KT 15SM FEW008 FEW030 FEW100 SCT240 10/08 A3002 RMK ST1SC1AC1CI1 SC TR SLP169 KF05 300755Z AUTO 00000KT 10SM CLR 26/17 A3007 RMK AO1 T02640174 KBQP 300735Z AUTO 00000KT 10SM CLR 25/24 A3002 RMK AO2 T02520240 CYCP 300100Z VRB02KT 15SM FEW070 SCT260 24/05 A3014 RMK CU2CI1 LAST OBS/NEXT 301300 UTC SLP207 DENSITY ALT 3600FT CXMG 300700Z AUTO 24006KT 08/07 RMK AO1 T00770067 CWTY 300700Z AUTO 36002KT 21/19 RMK AO1 SLP082 T02090188 58009 CWUP 300700Z AUTO 04009KT M02/ A2998 RMK SLP182 EFLP 300750Z AUTO 20006KT 160V250 9999 FEW005 SCT007 BKN009 BKN060 15/14 Q1000 KCGZ 300755Z AUTO 07009KT 10SM CLR 29/17 A2998 RMK AO1 40370 0270 CYCQ 300100Z 24017G26KT 35SM FEW060 SCT120 BKN230 21/04 A3006 RMK CU1AC3CI3 LAST STFD OBS/NEXT 301300Z SLP185 DENSITY ALT 2900FT CWVH 300700Z AUTO 02011KT 06/ A3009 RMK SLP207 CWVI 300700Z AUTO 25008KT 12/10 RMK AO1 SLP186 T01190095 51008 CXMI 300700Z AUTO 35003KT 15/14 RMK AO1 SLP114 T01520141 58001 KDAA 300658Z AUTO 15004KT 10SM CLR 25/23 A2993 RMK AO2 SLP138 T02490234 ZSPD 300730Z 17005MPS CAVOK 34/21 Q1007 NOSIG EFMI 300750Z AUTO 16002KT 8000 +SHRA FEW009 OVC032 14/13 Q0999 KCHS 300756Z 33006KT 10SM CLR 24/23 A2994 RMK AO2 SLP136 T02440233 CYCS 292200Z 06004KT 4SM BR FEW007 BKN035 BKN080 11/10 A2975 RMK SF1SC5AC1 11.7/8.8/TR/NIL LAST STFD OBS/NEXT 301200Z SLP074 CWUS 300700Z AUTO 31005KT 20/M01 RMK AO1 SLP189 T01981009 51016 CWWA 300700Z AUTO 01002KT 19/06 RMK AO1 SLP197 T01910057 51002 KDAB 300753Z 25005KT 8SM FEW004 SCT016 SCT150 23/23 A2996 RMK AO2 SLP143 T02330228 PHNL 300753Z 06012KT 10SM FEW034 SCT060 27/21 A2996 RMK AO2 SLP146 T02670206 $ CWWB 300700Z AUTO 24006KT 26/20 RMK AO1 SLP087 T02560197 58008 KBRL 300753Z AUTO 28004KT 10SM CLR 19/16 A3012 RMK AO2 SLP193 T01890161 EGEC 300750Z 31010KT 270V350 9999 FEW038 12/07 Q1018 CYDL 300700Z AUTO 21003KT 160V240 9SM BKN035 OVC050 10/06 A3014 RMK SLP211 EGDM 300750Z 30008KT 9999 FEW016 14/10 Q1018 BLU CXMM 300700Z AUTO 28004KT 15/09 RMK AO1 SLP125 T01480094 53007 CYED 300700Z 24005KT 15SM SCT099 12/08 A3012 RMK AC3 DA2329FT SLP203 KCIN 300755Z AUTO 27006KT 10SM CLR 17/15 A3014 RMK AO2 NZNP 300659Z 27007KT 18KM SCT028 BKN034 10/06 Q1024 RMK VATSIM USE ONLY CWVN 300700Z AUTO 04008KT 13/11 RMK AO1 SLP201 T01280106 51019 CWWE 300700Z AUTO 35004KT 15/14 RMK AO1 SLP122 T01470139 58001 CYDN 300700Z AUTO 26010KT 9SM BKN150 17/14 A2988 RMK SLP121 DENSITY ALT 1400FT CWUW 300743Z AUTO 09020KT 9SM OVC020 OVC073 03/ A2988 KBRO 300753Z AUTO 15004KT 9SM CLR 25/24 A3001 RMK AO2 SLP161 T02500239 $ PHOG 300754Z 04017KT 10SM CLR 26/21 A2996 RMK AO2 SLP150 T02610206 KBQX 300755Z AUTO 24008KT 8SM CLR 29/25 A3001 RMK A01 NZOH 300646Z 31005KT 25KM BKN035 06/03 Q1024 RMK VATSIM USE ONLY CXMO 300700Z AUTO 32001KT 09/08 RMK AO1 T00940084 CWWF 300700Z AUTO 31004KT 15/12 RMK AO1 5PAST HR 0009 PK WND 29023/0601 SLP183 P0002 T01490123 50005 CWUX 300700Z AUTO 01001KT 15/14 RMK AO1 SLP087 T01540137 57016 CYCX 300700Z 00000KT 12SM FEW090 14/14 A2990 RMK AC1 DA264FT SLP124 VDSR 300730Z 10008KT 070V130 9999 SCT015 FEW017CB BKN040 30/23 Q1008 CB KDAG 300750Z AUTO 00000KT 10SM CLR 26/19 A3001 RMK AO2 SLP130 T02610189 404000239 $ NZNR 300645Z 23005KT 20KM FEW060 04/01 Q1023 RMK VATSIM USE ONLY ORER 300000Z VRB02KT CAVOK 28/02 Q1004 NOSIG CYDP 292300Z 08013KT 15SM SCT014 BKN080 BKN210 07/06 A2997 RMK SC3AC2CI2 LAST STAFFED OB/ NEXT 300800 SLP149 CWVP 300700Z AUTO 32002KT 12/05 RMK AO1 SLP215 T01210049 53011 CYEG 300700Z 22004KT 15SM SCT094 08/07 A3014 RMK AC4 SLP214 CYCY 300704Z AUTO 14007KT 9SM SCT003 OVC012 02/01 A3008 RMK SLP187 NZNS 300709Z VRB03KT 10KM SCT018 06/04 Q1023 RMK VATSIM USE ONLY CWVQ 300700Z AUTO 18003KT 22/18 RMK AO1 SLP085 T02190178 57013 CYDQ 300700Z AUTO 25006KT 240V010 9SM CLR 11/05 A3009 RMK SLP200 KF17 300755Z AUTO 00000KT 10SM CLR 26/23 A3002 RMK AO2 T02550230 KCIR 300735Z AUTO 35007KT 10SM CLR 24/19 A3007 RMK AO2 T02350193 UNKL 300730Z 23004MPS 9999 TS SCT040CB 24/10 Q1003 R29/CLRD65 TEMPO 3000 -TSRA RMK QFE727 ZSQD 300700Z 18008MPS CAVOK 34/23 Q1003 NOSIG PGWT 300750Z 09004KT 7SM FEW017 29/24 A2977 KBTA 300755Z AUTO 21003KT 10SM CLR 18/14 A3017 RMK AO2 T01770140 EGDR 300750Z 34009KT 9999 FEW022 14/09 Q1021 BLU NOSIG TVSV 2901000Z 09011KT 9999 FEW018 27/22 Q1015 CWXA 300700Z AUTO 04002KT 11/03 RMK AO1 SLP224 T01080033 53007 KCKB 300753Z AUTO 19003KT 8SM BKN035 23/22 A2994 RMK AO2 SLP121 T02280217 TSNO NZNV 300700Z VRB06KT 30KM FEW050 03/00 Q1019 RMK VATSIM USE ONLY CWWK 300700Z AUTO 00000KT 17/13 RMK AO1 SLP194 T01720132 51004 CWVT 300700Z AUTO 29003KT 13/12 RMK AO1 SLP146 T01330119 50006 CYFB 300700Z 15017KT 12SM -DZ OVC007 04/03 A2989 RMK ST8 SLP125 CYEK 300700Z AUTO 36008KT 1/4SM -RA FG VV002 10/10 A2969 RMK SLP054 KDAL 300753Z 12004KT 10SM CLR 30/17 A3003 RMK AO2 SLP162 T03000172 KCIU 300755Z AUTO 24005KT 10SM FEW120 20/14 A2974 RMK AO1 KCKC 300754Z AUTO 27009G19KT 239V299 10SM 17/10 A2977 RMK AO2 CWXC 300700Z AUTO 03001KT 17/14 RMK AO1 SLP077 T01710139 58019 CWWL 300700Z AUTO 16002KT 14/12 RMK AO1 SLP229 T01430118 58001 CWVU 300700Z AUTO 15006KT 14/14 RMK AO1 SLP137 T01440138 57003 CYFC 300700Z AUTO 04003KT 9SM CLR 14/13 A2989 RMK SLP123 CXNM 300700Z AUTO 14003KT 12/12 RMK AO1 T01170116 KDAN 300753Z AUTO 00000KT 4SM BR FEW004 24/22 A2996 RMK AO2 SLP134 T02390222 CYEN 300700Z 31015G21KT 15SM -SHRA OVC060 15/13 A3010 RMK SC8 CVCTV CLD EMBD PRESRR SLP193 DENSITY ALT 2100FT PHNY 300658Z AUTO 04011KT 10SM FEW018 23/19 A3000 RMK AO2 SLP136 T02280189 KCKF 300735Z AUTO 00000KT 10SM SCT120 27/25 A2996 RMK AO2 T02650246 EGEO 300720Z VRB02KT 9999 FEW042 11/05 Q1018 EGDX 300750Z 31008KT 9999 FEW034 13/08 Q1019 BLU EGFF 300750Z 31008KT 9999 FEW034 13/10 Q1020 CXMY 300700Z AUTO 14/13 RMK AO1 T01440132 CXNP 300700Z AUTO 32002KT 14/14 RMK AO1 SLP130 T01350135 58003 EGDY 300750Z 30007KT 9999 FEW025 SCT040 13/09 Q1019 BLU NOSIG KCKI 300755Z AUTO 00000KT 10SM CLR 22/22 A2995 RMK AO2 KCJR 300730Z AUTO 00000KT 10SM CLR 23/22 A2994 RMK AO2 T02310224 CWXI 300700Z AUTO 13003KT 15/15 RMK AO1 SLP120 T01520146 58012 KDCA 300752Z 19007KT 10SM FEW038 SCT250 27/24 A2992 RMK AO2 SLP132 T02720239 CYER 300758Z AUTO 29009G16KT 9SM -RA OVC007 08/07 A2923 RMK SLP900 CWWS 300700Z AUTO 26009KT 18/15 RMK AO1 SLP078 T01760146 56002 CXPA 300700Z AUTO 29005KT 10/06 RMK AO1 T01030055 NZPM 300705Z 31005KT 30KM OVC040 06/03 Q1024 RMK VATSIM USE ONLY CYET 300700Z AUTO 00000KT 9SM BKN110 09/06 A3016 RMK TS/LTNG TEMPO UNAVBL SLP228 KBTL 300753Z 25005KT 10SM CLR 19/14 A2997 RMK AO2 SLP143 T01890139 CWWU 300700Z 09012G22KT 8SM -RA BKN010 OVC025 14/13 A2977 RMK SF6SC2 SLP082 CXOL 300700Z AUTO 23007KT 10/08 RMK AO1 T01030075 CXPC 300700Z AUTO 19/18 RMK AO1 SLP071 T01900179 58006 CWXL 300700Z AUTO 25003KT 12/10 RMK AO1 T01160097 KBTM 300753Z AUTO 14005KT 10SM CLR 09/04 A3036 RMK AO2 SLP244 T00890044 KCKM 300755Z AUTO 35006KT 7SM CLR 27/27 A3002 RMK AO1 CYEV 300700Z 02012KT 15SM BKN033 OVC053 10/06 A3005 RMK SC5SC3 SLP181 EGGD 300750Z 32009KT 9999 FEW019 13/07 Q1019 KDAW 300751Z AUTO 00000KT 10SM CLR 21/19 A2987 RMK AO2 SLP109 T02110189 KCLE 300751Z 24006KT 10SM FEW150 BKN250 20/17 A2996 RMK AO2 SLP137 T02000172 KCKN 300755Z AUTO 28006KT 10SM CLR 16/14 A2994 RMK AO2 KDBN 300755Z AUTO 00000KT 7SM OVC100 22/22 A2996 RMK AO2 NZPP 300700Z 27003KT 40KM SCT035 09/02 Q1023 RMK ALT VATSIM USE ONLY CYGE 300000Z 09004KT 20SM BKN075TCU 20/12 A3019 RMK TCU6 LAST OBS/NEXT 311200Z SLP224 DENSITY ALT 3400FT KBUF 300754Z 24007KT 10SM SCT045 BKN140 BKN250 26/21 A2982 RMK AO2 SLP093 OCNL LTGIC DSNT S-SW CB DSNT S-SW MOV E T02560211 CYFO 292300Z 35010G18KT 330V030 15SM SCT040TCU BKN070 22/13 A2977 RMK TCU4AC2 LAST OBS/NEXT 301100UTC SLP083 DENSITY ALT 2200FT CWWX 300700Z AUTO 29006KT 19/16 RMK AO1 SLP080 T01870157 50002 KBTP 300755Z AUTO 27005KT 6SM FEW018 23/21 A2993 RMK AO1 KDAY 300756Z 31008KT 10SM SCT050 BKN060 22/18 A3001 RMK AO2 SLP153 T02220183 $ KCKP 300735Z AUTO 00000KT 10SM CLR 17/16 A3014 RMK AO2 T01650158 KDBQ 300753Z AUTO 27010KT 10SM CLR 18/14 A3007 RMK AO2 SLP178 T01780144 CYGH 292300Z 33006KT 290V030 25SM SCT025 BKN250 19/07 A2992 RMK CU3CI4 18.5/10.3/0.0/0 LAST STFD OBS/NXT 301300UTC SLP136 DENSITY ALT 700FT CWWZ 300700Z AUTO 25001KT 25/21 RMK AO1 PK WND 27020/0607 SLP088 T02510213 57009 KBTR 300753Z AUTO 00000KT 7SM CLR 26/24 A3000 RMK AO2 SLP157 T02560239 TSNO KCLI 300755Z AUTO 24006KT 10SM CLR 17/12 A2992 RMK AO2 CYFR 292200Z 33007KT 15SM FEW050CB BKN280 23/11 A2980 RMK CB1CS4 /0/ LAST STFD OBS/NEXT301400Z SLP094 DENSITY ALT 1700FT CWXR 300700Z AUTO 31008KT 06/ A3006 RMK SLP190 KCMA 300755Z 00000KT 10SM CLR 20/16 A2998 RMK AO2 SLP161 T02000161 402560183 NZRC 300700Z VRB06KT 30KM FEW050 03/00 Q1019 RMK NZNV VATSIM USE ONLY CYHA 291900Z 14011KT 15SM FEW012 FEW025 BKN050 BKN270 16/09 A2982 RMK ST1SC2SC1CI0 LAST OBS/NEXT 301200 UTC SLP101 CWZA 300700Z AUTO 10001KT 15/13 RMK AO1 SLP196 T01480128 51011 CWYJ 300700Z AUTO 26001KT 17/12 RMK AO1 SLP191 T01650116 58001 CYFS 300700Z 29006KT 15SM FEW030 BKN070 BKN210 13/10 A2989 RMK SC1AC6CI1 SC TR SLP126 KCLK 300755Z AUTO RMK AO2 PWINO PNO TSNO CYGK 300300Z 00000KT 15SM SCT250 22/20 A2984 RMK CI3 LAST STFD OBS/NEXT 301000 UTC SLP102 DENSITY ALT 1200FT CYFT 292000Z 04010KT 15SM FEW004 09/07 A2999 RMK ST1 ST TR LAST OB/NEXT 300900 UTC SLP157 CWYK 300700Z AUTO ///// 11/ A2988 RMK SLP135 KDDC 300752Z AUTO 10005KT 7SM FEW045 SCT060 21/19 A3023 RMK AO2 LTG DSNT E-S SLP209 T02060189 KCLL 300753Z 18003KT 10SM CLR 27/22 A3004 RMK AO2 SLP166 T02670222 NZQN 300700Z 03003KT 40KM SCT090 02/M01 Q1022 RMK ALT VATSIM USE ONLY CXPL 300700Z AUTO 30007KT 08/06 RMK AO1 T00750063 CWYL 300700Z AUTO 05001KT 04/04 RMK AO1 SLP264 T00430041 50001 CYGL 300700Z 18008KT 15SM FEW005 BKN040 19/18 A2941 RMK SF2SC4 SLP960 DENSITY ALT 1800FT KCKV 300752Z AUTO 34005KT 7SM FEW018 24/23 A3003 RMK AO2 SLP163 T02390228 EFOU 300750Z AUTO 18010KT 9999 SCT023/// 16/11 Q0997 KCLM 300753Z AUTO 00000KT 10SM CLR 14/08 A3011 RMK AO2 SLP196 T01390083 402670089 KDCM 300755Z AUTO 00000KT 7SM BKN055 BKN075 OVC100 26/24 A2997 RMK AO2 KBTV 300754Z AUTO 00000KT 10SM CLR 21/19 A2983 RMK AO2 SLP099 T02110189 TSNO KCMD 300755Z AUTO 00000KT 5SM BR CLR 22/22 A3003 RMK AO2 T02230218 CYHD 300700Z AUTO 29015G25KT 9SM OVC034 16/11 A2975 RMK SLP079 DENSITY ALT 2000FT CWYM 300700Z AUTO 10010KT M00/ A2996 RMK SLP183 KBVE 300751Z AUTO 00000KT 10SM CLR 27/25 A2999 RMK AO2 SLP153 T02720250 EGHE 300750Z 36012KT 9999 FEW020 15/09 Q1022 CYHE 300700Z AUTO VRB02KT 9SM CLR 16/10 A3012 RMK SLP200 KF44 300755Z AUTO 00000KT 10SM CLR 23/21 A3003 RMK AO2 CXOX 300700Z AUTO 27004KT 16/10 RMK AO1 SLP116 T01630096 53003 EFPO 300750Z AUTO 12009KT 090V150 9999 FEW007/// SCT010/// BKN026/// 16/14 Q0996 CXOY 300700Z AUTO 32006KT 10/09 RMK AO1 T00950091 CWZG 300700Z AUTO 27002KT 09/04 RMK AO1 T00880035 53006 CYGP 300700Z 00000KT 7SM FEW003 11/11 A2990 RMK SC1 SLP126 EGGP 300750Z 31014KT 9999 FEW021 14/07 Q1018 KCMH 300751Z 35006KT 10SM FEW039 SCT065 BKN140 22/18 A2996 RMK AO2 SLP138 T02170178 $ KDDH 300754Z AUTO 00000KT 10SM FEW060 18/17 A2990 RMK AO2 SLP119 T01830172 KF46 300755Z AUTO 16004KT 10SM CLR 28/18 A3003 RMK AO2 T02800180 CYHH 292000Z 16011KT 15SM FEW060 SCT220 33/16 A2968 RMK CU2CI1 LAST OBS NXT 301100Z SLP050 KBVI 292147Z 27004KT 10SM SCT044 SCT060 SCT065 31/21 A2994 RMK LAST CYGQ 300754Z 25008G15KT 1SM -DZ BR SCT008 OVC014 16/15 A2952 RMK FG1SF3ST4 SLP998 DENSITY ALT 1900FT KBUR 300753Z 15003KT 10SM CLR 22/17 A2999 RMK AO2 SLP141 T02220167 403170183 $ EGHH 300750Z 33007KT 9999 FEW025 14/10 Q1019 KCMI 300753Z AUTO 30004KT 10SM CLR 18/16 A3008 RMK AO2 SLP181 T01780156 CYHI 300000Z 33010KT 15SM FEW210 FEW230 13/02 A3002 RMK CC1CI1 CC TR CI TR 12.8/11.7 LAST OBS TAKEN/NEXT 291400Z SLP168 CYGR 300200Z 04004KT 1/8SM FG VV001 15/15 A2988 RMK FG8 LAST OBS/NEXT 300900 UTC SLP117 KCLS 300755Z AUTO 00000KT 9SM CLR 17/11 A3007 RMK AO2 EGHI 300750Z 32006KT 270V360 9999 FEW040 13/09 Q1018 KCLT 300752Z 00000KT 10SM BKN060 OVC070 26/23 A2998 RMK AO2 SLP141 T02560228 KCNB 300754Z AUTO 24008KT 10SM CLR 19/11 A3009 RMK AO2 T01850108 CYGT 292000Z 11008KT 3SM BR OVC001 06/05 A2989 RMK FG3ST5 LAST STFD OBS/NEXT OBS 300900Z SLP126 CXRB 300700Z AUTO 13013KT 03/01 RMK AO1 PK WND 12019/0622 SLP176 T00300014 51003 CYHK 300751Z AUTO 03014KT 9SM BKN024 06/06 A2992 RMK SLP135 KDCU 300753Z AUTO 31004KT 6SM BR CLR 25/24 A3000 RMK AO2 SLP150 T02500239 KDEC 300754Z AUTO 30009KT 10SM CLR 22/15 A3009 RMK AO2 SLP183 T02170150 KCNC 300755Z AUTO 24006KT 10SM CLR 18/15 A3015 RMK AO2 KBUU 300735Z AUTO 26005KT 10SM CLR 17/12 A3000 RMK AO2 T01670120 CWZL 300700Z AUTO 30005KT 15/10 RMK AO1 SLP240 T01520103 50002 KBWD 300735Z AUTO 00000KT 10SM FEW042 BKN055 24/18 A3008 RMK AO2 KDED 300735Z AUTO 00000KT 23/23 A2998 RMK AO1 NZRO 300704Z VRB04KT 30KM NSC 04/01 Q1023 RMK VATSIM USE ONLY CYGV 300759Z AUTO 07004KT 9SM OVC004 15/15 A2990 RMK SLP125 CYHM 300700Z 28008KT 15SM FEW090 BKN230 23/20 A2983 RMK AC2CI3 SLP097 DENSITY ALT 1900FT PHSF 300756Z AUTO 12004KT 10SM CLR 14/10 A3029 RMK AO2 SLP127 T01440102 $ KCLW 300755Z AUTO 00000KT 10SM CLR 24/23 A2996 RMK AO2 KBVN 300755Z AUTO 00000KT 10SM CLR 18/12 A3019 RMK AO2 T01790115 CWZN 300700Z AUTO 00001KT 12/11 RMK AO1 T01190109 56036 CYGW 300700Z AUTO 15012G20KT 9SM BKN130 BKN200 20/18 A2931 RMK SLP924 DENSITY ALT 1300FT KBVO 300653Z AUTO 00000KT 10SM CLR 24/22 A3014 RMK AO2 SLP194 T02390222 EGGW 300750Z 30012KT 9999 SCT017 13/09 Q1017 CWZO 300700Z AUTO 16002KT RMK AO1 CYGX 300700Z 33015G21KT 15SM OVC020 14/12 A2962 RMK SC8 SLP034 DENSITY ALT 800FT ZSSS 300730Z 20004MPS 160V240 CAVOK 36/22 Q1006 NOSIG KBWG 300753Z AUTO 31003KT 10SM FEW016 BKN021 OVC030 24/22 A3003 RMK AO2 SLP161 T02440222 KBUY 300754Z AUTO VRB03KT 10SM -RA BKN085 OVC100 25/22 A2997 RMK AO2 RAB41 SLP140 P0000 T02500222 KDCY 300735Z AUTO 00000KT 10SM CLR 19/17 A3005 RMK AO2 T01860165 CWYY 300700Z AUTO 06003KT 19/09 RMK AO1 SLP177 T01940094 51018 KDEH 300755Z AUTO VRB03KT 10SM CLR 17/15 A3006 RMK AO2 EGHQ 300750Z 33010KT 9999 FEW020 13/09 Q1021 CXRH 300700Z AUTO 08002KT 14/12 RMK AO1 T01440124 CWZQ 300740Z AUTO 13004KT 15/14 RMK AO1 T01510136 UNNT 300730Z 31005MPS 9999 BKN036CB 22/16 Q1002 R25/090070 R16/090070 NOSIG RMK QFE742/0989 KBWI 300754Z 20003KT 10SM FEW045 SCT250 24/23 A2991 RMK AO2 SLP127 T02440228 KCMR 300755Z AUTO 14004KT 10SM FEW004 BKN120 19/11 A3045 RMK AO2 KCNI 300735Z AUTO 00000KT 2 1/2SM BR SCT001 24/22 A3000 RMK AO2 KBXA 300755Z AUTO 00000KT 7SM 24/22 A3001 RMK AO2 P0001 T02380220 KBVS 300755Z AUTO 00000KT 10SM CLR 16/13 A3011 RMK A01 EGJA 300750Z 34010KT 9999 FEW020 15/10 Q1020 CWZS 300700Z AUTO 15002KT 11/11 RMK AO1 SLP120 T01140106 57007 EFSA 300750Z AUTO 14008KT 100V170 9999 BKN017 17/13 Q1000 KCNK 300755Z AUTO 00000KT 10SM CLR 17/16 A3021 RMK AO2 SLP218 T01720161 CYIK 292100Z 06008KT 15SM MIFG FEW003 BKN020 OVC070 10/09 A2973 RMK ST1SC5AC2 LAST OBS/NEXT 301200UTC SLP069 EGJB 300750Z 34007KT 310V020 9999 FEW018 15/10 Q1020 KBVU 300755Z AUTO 26003KT 10SM CLR 32/10 A2998 RMK AO2 CXSC 300700Z AUTO 22007KT 10/09 RMK AO1 T01010088 UNOO 300730Z 31005MPS 9999 BKN033CB 22/14 Q1008 R25/CLRD60 NOSIG RMK QFE748 CXRL 300700Z AUTO 12/08 RMK AO1 T01190079 CYHU 300700Z AUTO 17004KT 9SM CLR 22/20 A2980 RMK SLP089 DENSITY ALT 1000FT KCNM 300753Z AUTO 18003KT 10SM CLR 23/16 A3013 RMK AO2 SLP139 T02330156 KCOD 300755Z 23004KT 10SM CLR 16/01 A3034 RMK AO1 CWZV 300700Z AUTO 29006KT 14/10 RMK AO1 SLP236 T01370099 58001 KDEN 300753Z 17012KT 10SM FEW220 19/09 A3028 RMK AO2 SLP172 T01890094 KCOE 300755Z AUTO 11003KT 10SM CLR 17/06 A3015 RMK AO1 NZTG 300624Z 24008KT 40KM SKC 08/03 Q1023 RMK VATSIM USE ONLY NZSP 300550Z 02017G23KT 2400 IC BLSN SCT000 BKN015 BKN150 M56/ A2799 RMK BLSN SCT000 CLN AIR 01021KT ALL WNDS GRID CXSE 300700Z AUTO 28010KT 04/03 RMK AO1 SLP179 T00390026 CWZW 300700Z AUTO 27004KT 10/04 RMK AO1 SLP193 T00960043 51013 CYIN 300700Z AUTO 00000KT 9SM CLR 08/05 A3021 RMK SLP228 KCMX 300753Z AUTO 27017G27KT 10SM FEW090 19/11 A2973 RMK AO2 PK WND 28027/0753 SLP065 T01940111 TSNO $ KCNO 300753Z AUTO 28004KT 8SM CLR 22/17 A3000 RMK AO2 SLP151 T02170172 403610183 KBVX 300755Z AUTO 00000KT 10SM CLR 26/23 A3008 RMK AO1 KCOF 300758Z AUTO 26010KT 10SM CLR 25/24 A2996 RMK AO2 SLP150 T02540239 $ CYJF 292200Z 24008G18KT 210V290 15SM FEW040TCU SCT120 SCT180 23/07 A2983 RMK TCU2AC1AC1 TCU N-NE/CONTRAILS/22.9/14.3/0/0 LAST OB/NEXT 301400UTC SLP105 DENSITY ALT 1800FT CYIO 300700Z AUTO 22004KT 9SM CLR 03/00 A2999 RMK SLP161 KBVY 300753Z AUTO 00000KT 10SM CLR 22/19 A2987 RMK AO2 SLP108 T02220189 EFRO 300750Z AUTO 17007KT 9999 FEW001 SCT006 BKN013 BKN022 14/14 Q0996 KBWP 300735Z AUTO 25007KT 10SM CLR 14/11 A3001 RMK AO1 KCMY 300735Z AUTO 00000KT 10SM CLR 16/11 A3002 RMK AO2 T01630113 CYHY 300700Z 24006KT 15SM FEW030 SCT050 BKN230 13/10 A2986 RMK CF2SC2CI1 SLP117 ZUCK 300700Z VRB03MPS 9999 SCT040 35/20 Q1004 NOSIG KDEQ 300753Z AUTO 00000KT 7SM OVC075 25/24 A3003 RMK AO2 SLP161 T02500239 CYHZ 300700Z 32007KT 15SM SKC 14/13 A2989 RMK SLP122 CWZZ 300700Z AUTO 23016KT 11/ A2985 RMK SLP128 KDFI 300753Z AUTO 23004KT 10SM CLR 18/14 A2998 RMK AO2 SLP146 T01830144 EFSI 300750Z AUTO 19005KT 110V260 9999 FEW007 BKN011 15/12 Q0996 EGKA 300750Z 36011KT 9999 FEW020 15/09 Q1018 KBXK 300735Z AUTO 14005KT 10SM CLR 29/17 A2997 RMK AO1 CYKA 300700Z 10004KT 030V110 40SM SKC 21/09 A3009 RMK SLP188 DENSITY ALT 1800FT KDET 300753Z 27005KT 10SM CLR 20/14 A2991 RMK AO2 SLP124 T02000139 EGJJ 300750Z 36009KT 9999 FEW020 15/11 Q1020 NOSIG KF70 300755Z AUTO 00000KT 10SM CLR 23/17 A3001 RMK AO1 EGKB 300750Z 30007KT 270V350 9999 FEW020 13/08 Q1018 KCNU 300752Z AUTO 07005KT 10SM CLR 24/19 A3016 RMK AO2 SLP200 T02440189 EHAK 300755Z AUTO 32028KT //// // FEW010/// SCT016/// BKN024/// 12/10 Q1009 RE// KCPC 300735Z AUTO 00000KT 10SM CLR 22/21 A2995 RMK AO2 T02220211 CXSL 302300Z AUTO 32007KT 18/10 RMK AO1 PK WND 31023/2216 T01840096 KCOM 300755Z AUTO 17003KT 10SM CLR 25/18 A3009 RMK AO2 T02490176 CYKD 292300Z 33006KT 12SM -RA BKN012 OVC030 11/09 A3004 RMK SC7SC1 12.3/9.2/TR/CIG RAG/VIS E 6/LAST OBS/NXT 301300Z SLP171 KCNW 300255Z 00000KT 10SM SKC 30/18 A3000 CXTD 300700Z AUTO 31006KT 16/16 RMK AO1 SLP124 T01560156 56001 CYIV 300700Z 32010KT 15SM OVC011 14/12 A2969 RMK SC8 WND ESTD SLP057 DENSITY ALT 1100FT KDEW 300753Z AUTO 00000KT 10SM CLR 12/02 A3014 RMK AO2 SLP195 T01220017 403170056 KCON 300751Z AUTO 00000KT 8SM CLR 19/18 A2988 RMK AO2 SLP115 T01940183 PHTO 300753Z 23006KT 10SM BKN055 23/21 A2998 RMK AO2 RAB01E20 SLP152 P0000 T02330206 EHAM 300755Z 31011KT 280V340 9999 FEW028TCU 16/11 Q1014 NOSIG CYKF 300700Z AUTO 28012KT 9SM CLR 22/16 A2985 RMK SLP101 DENSITY ALT 2100FT CZBF 300700Z VRB02KT 1/4SM FG VV002 13/13 A2990 RMK FG8 SLP127 KBYG 300753Z AUTO 25008KT 10SM CLR 16/02 A3034 RMK AO2 SLP222 T01560022 KCNY 300753Z AUTO 24003KT 10SM CLR 19/M04 A3019 RMK AO2 SLP159 T01941044 CYKG 292100Z 12012KT 7SM VCFG FEW040 SCT150 OVC250 12/09 A2977 RMK SC2AC2CS4 FOG BANK E-S 1M LAST OBS/NEXT 301200 UTC SLP091 CXSP 300700Z AUTO 26001KT 10/M00 RMK AO1 T00971003 KCOQ 300755Z AUTO 26009KT 10SM CLR 18/12 A2991 RMK AO2 CXTH 300700Z AUTO 23006KT 10/09 RMK AO1 T01020088 KBYI 300753Z AUTO 19003KT 10SM CLR 12/06 A3024 RMK AO2 SLP207 T01220061 VEPT 300650Z 34010KT 5000 HZ SCT018 SCT025 34/25 Q0999 NOSIG CXSR 300700Z AUTO 24009KT 11/05 RMK AO1 SLP201 T01090046 51006 KCOS 300754Z 02003KT 10SM SCT160 BKN180 BKN220 17/11 A3040 RMK AO2 SLP213 T01720111 $ NZTU 300700Z 05003KT 15KM VCSH SCT095 03/00 Q1021 RMK ALT VATSIM USE ONLY CYLA 291900Z 12012KT 15SM SCT035 BKN085 21/13 A2980 RMK SC3AC2 LAST OBS/NXT 301200Z SLP092 CYKJ 300750Z AUTO 33006KT 280V010 9SM -RA BKN026 OVC075 15/13 A2987 RMK SLP124 DENSITY ALT 2000FT KCOT 300753Z AUTO 15007KT 10SM CLR 26/22 A3003 RMK AO2 SLP160 T02610217 KCPK 300755Z AUTO 00000KT 10SM CLR 22/21 A2996 RMK AO2 KCQB 300735Z AUTO 05003KT 10SM CLR 25/24 A3011 RMK AO2 CYJT 300700Z 04004KT 030V090 15SM FEW020 SCT200 12/10 A2989 RMK SC1CI3 SLP122 KCQC 300753Z AUTO 07013G20KT 10SM -RA BKN004 BKN008 OVC070 14/13 A3046 RMK AO2 CIG 002V007 SLP223 P0004 T01390128 EGKK 300750Z 31010KT 280V340 9999 FEW024 14/08 Q1018 KCOU 300754Z AUTO 36005KT 10SM CLR 20/16 A3016 RMK AO2 SLP204 T02000161 EHBK 300755Z AUTO 24007KT 200V270 9000 -RA FEW007 FEW015CB 13/12 Q1015 REDZ BECMG NSW CYLC 292000Z 15010KT 15SM SCT030 BKN050 OVC100 06/04 A2988 RMK SC3SC2AC3 VIRGA SE QUAD OFFSHORE 8.6/4.2/TR/0 LASTOB/NXTOB301200Z SLP123 CYKL 300700Z AUTO 16008KT 9SM CLR 14/13 A2979 RMK SLP093 DENSITY ALT 2100FT EGLC 300750Z 29010KT 9999 FEW026 15/07 Q1017 CYLD 300100Z 23007KT 210V270 15SM FEW140 19/11 A2974 RMK AC1 LAST OB NEXT 31000Z VIA CYGQ SLP073 DENSITY ALT 2400FT KDFW 300753Z 10003KT 10SM CLR 28/18 A3004 RMK AO2 SLP161 T02830183 KCQF 300755Z AUTO 00000KT 10SM CLR A2995 RMK AO2 CYKO 292000Z 11013KT 15SM FEW010 BKN025 OVC120 19/13 A2965 RMK SC1SC6AC2 LAST OB NEXT / 301200 UTC REDUCED PROGRAM SLP041 EGLF 300750Z 31010KT 280V340 9999 FEW020 13/08 Q1018 CXTO 300700Z AUTO 27/19 RMK AO1 SLP083 T02650192 58013 CXTP 300700Z AUTO 05002KT 11/11 RMK AO1 7PAST HR 6024 SLP122 P0003 T01090106 50007 CYKP 300700Z AUTO 24006KT 200V290 9SM BKN140 OVC160 18/16 A2934 RMK SLP937 DENSITY ALT 1700FT OSDI 300800Z 20016KT CAVOK 33/01 Q1009 EFTP 300750Z AUTO 13007KT 100V170 9999 FEW065TCU 17/13 Q0997 CYKQ 292100Z 16018G28KT 12SM FEW055 SCT090 35/14 A2946 RMK SC1AC3 LAST OBS/NEXT 301300 UTC SLP978 DENSITY ALT 2800FT CYLH 300758Z AUTO 29008G26KT 260V320 9SM SCT016 OVC026 16/15 A2940 RMK SLP957 DENSITY ALT 1700FT KCPR 300753Z AUTO 30010KT 10SM CLR 11/M02 A3032 RMK AO2 SLP216 T01061017 NZWB 300704Z 27007KT 20KM SKC 04/01 Q1022 RMK VATSIM USE ONLY KCPS 300753Z AUTO 00000KT 10SM CLR 19/17 A3011 RMK AO2 SLP191 T01940167 KBYS 300755Z AUTO 17003KT 10SM CLR 29/11 A3005 RMK AO2 SLP113 T02890110 $ CYLJ 300000Z 29014G22KT 15SM FEW060 SCT250 23/09 A2992 RMK CU1CI2 LAST STFD OB/NXT 301200UTC SLP138 DENSITY ALT 2900FT CYMA 300700Z 00000KT 20SM FEW045TCU FEW080 BKN240 12/10 A2993 RMK TCU1AC1CI6 TCU TR AC TR SLP149 DENSITY ALT 1700FT EFVA 300750Z AUTO 13005KT 100V180 9999 FEW017/// BKN090/// 17/13 Q0995 KCPT 300755Z AUTO 00000KT 10SM 26/20 A3007 RMK AO2 TSNO CYLK 300000Z VRB03KT 25SM FEW035 FEW210 21/11 A2984 RMK SC1CI1 22.0/15.0/0/LAST OBS/NXT 301400Z SLP110 DENSITY ALT 1500FT ORMM 300000Z 00000KT CAVOK 34/07 Q0995 NOSIG CZDB 300700Z AUTO 29003KT 12/11 RMK AO1 SLP125 T01190114 58002 CYLL 300700Z AUTO 27009KT 9SM CLR 12/09 A3008 RMK SLP191 EGMC 300750Z 30009KT 280V350 CAVOK 14/08 Q1017 EFTU 300750Z AUTO 18004KT 130V220 9999 SCT019/// 16/12 Q0996 EGLL 300750Z 30008KT 9999 FEW022 14/08 Q1018 NOSIG KCQM 300755Z AUTO 26005KT 10SM CLR 16/11 A2987 RMK AO2 EGMD 300750Z 31013KT 9999 FEW012 16/12 Q1017 CXTV 300700Z AUTO 04007KT 08/07 RMK AO1 6PAST HR 1006 SLP188 P0002 T00780067 50006 KDHN 300753Z AUTO 26003KT 8SM OVC120 25/24 A2997 RMK AO2 SLP140 T02500244 KDGW 300753Z AUTO 00000KT 10SM CLR 13/07 A3030 RMK AO2 SLP209 T01280067 KCRE 300753Z 00000KT 10SM CLR 23/22 A2994 RMK AO1 SLP139 T02330217 KBZN 300756Z AUTO 13005KT 10SM CLR 11/07 A3030 RMK AO2 SLP236 T01060067 KCRG 300753Z AUTO 00000KT 10SM CLR 24/22 A2993 RMK AO2 SLP134 T02390222 KBYY 300755Z AUTO 00000KT 5SM BR CLR 25/25 A3002 RMK AO2 T02550254 KCRH 292305Z AUTO 25005KT 10SM CLR 32/25 A3001 RMK A01 ORNI 300000Z 33008KT CAVOK 36/02 Q0998 NOSIG CYKY 300700Z 30006KT 14SM FEW040 13/10 A3012 RMK SC1 SLP200 CZCP 300737Z AUTO 03006KT 9SM SCT006 04/ A3011 CYMH 300700Z AUTO VRB02KT 9SM OVC060 13/12 A2991 RMK SLP128 CYKZ 300700Z 28005KT 12SM BKN090 25/20 A2980 RMK AS7 SLP086 DENSITY ALT 2100FT NZWK 300704Z VRB04KT 30KM NSC 04/01 Q1023 RMK NZRO VATSIM USE ONLY CZCR 300700Z AUTO 11002KT 16/15 RMK AO1 SLP125 T01620149 57005 KDIJ 300756Z AUTO 00000KT 10SM CLR 08/04 A3042 RMK AO2 T00830044 SLP232 $ CYMJ 300011Z 33011KT 15SM FEW070 SCT280 24/11 A3002 RMK ACC1CI1 CB TOP DIST SW LAST OBS/NEXT 301000 UTC SLP166 CYNA 300724Z AUTO 12002KT 7SM BKN002 OVC009 15/14 A2990 RMK SLP124 KDHT 300753Z AUTO 09007KT 7SM VCTS FEW060 21/19 A3028 RMK AO2 LTG DSNT SE-SW SLP193 T02110194 KCQT 300747Z AUTO 00000KT 10SM CLR 21/17 A2998 RMK AO2 SLP151 T02060167 402780183 KDIK 300756Z AUTO 20003KT 10SM CLR 11/07 A3013 RMK AO2 SLP194 T01110072 CYLT 291900Z 34003KT 15SM FEW020 FEW120 FEW220 04/02 A3013 RMK SC2AC1CI1 LAST OBS/NEXT 301200 UTC AC TR CI TR SLP207 CXWB 300700Z AUTO 14/10 RMK AO1 T01390104 EFUT 300750Z 19006KT 140V230 9999 FEW010 BKN030 BKN100 16/14 Q0999 CYNC 292000Z 17015G26KT 130V200 15SM FEW060 FEW250 33/16 A2948 RMK CU1CI1 CF ASOCTD LAST OBS/NEXT 301300Z SLP983 DENSITY ALT 2600FT CYLU 292100Z 31004KT 15SM FEW025 SCT040 SCT100 BKN250 19/13 A2983 RMK CU2SC2AC1CI0 LAST OBS/NEXT 301200Z SLP105 EGNC 291550Z 21003KT 9999 VCSH FEW028 SCT035 14/11 Q1011 NZWN 300730Z AUTO 02008KT 9999 NCD 07/03 Q1023 NOSIG TXKF 300755Z 33008KT 9999 SCT013 BKN050 BKN180 BKN300 26/23 Q1018  EHDL 300755Z AUTO 30009KT //// // SCT022 BKN026 BKN035 15/10 Q1013 RE// CYND 300100Z 19006KT 160V220 15SM FEW062 FEW250 28/20 A2982 RMK CU1CI1 CU TR CI TR LAST OBS/NEXT 31 1100 UTC SLP096 DENSITY ALT 1800FT CXVM 300700Z AUTO 26006KT 12/10 RMK AO1 T01170100 CYMM 300700Z AUTO 27005KT 9SM SCT047 BKN240 15/10 A2995 RMK SLP148 DENSITY ALT 1400FT KCQW 300755Z AUTO 00000KT 10SM FEW095 23/21 A2996 RMK AO2 NZWP 300628Z 23004KT 30KM SCT044 09/04 Q1025 RMK VATSIM USE ONLY CXVN 300700Z AUTO 24006KT 26/20 RMK AO1 SLP078 T02560195 57009 CYNE 300700Z AUTO 27004KT 210V310 9SM SCT140 16/13 A2975 RMK SLP078 DENSITY ALT 1100FT CYLW 300700Z AUTO 36002KT 9SM CLR 15/09 A3012 RMK SLP194 KCQX 300752Z AUTO 23006KT 7SM CLR 23/22 A2991 RMK AO2 SLP129 T02280222 CYMO 300700Z AUTO 22014G23KT 9SM CLR 19/13 A2941 RMK SLP959 DENSITY ALT 1100FT KCSG 300751Z AUTO 00000KT 10SM BKN120 25/23 A2994 RMK AO2 SLP131 T02500228 KCRP 300751Z 19003KT 6SM BR BKN250 23/22 A3002 RMK AO2 SLP163 T02330222 $ NZWR 300628Z 23004KT 30KM SCT044 09/04 Q1025 RMK NZWP VATSIM USE ONLY KCRQ 300753Z AUTO 00000KT 8SM CLR 21/18 A2997 RMK AO2 SLP146 T02060178 402390194 NZWS 300700Z 03002KT 9000 SKC 08/07 Q1023 RMK ALT VATSIM USE ONLY EGNH 300750Z 31014KT 9999 SCT022 SCT031 13/08 Q1018 EHEH 300755Z AUTO 22007KT 9999 OVC090 15/12 Q1015 BLU 25005KT CAVOK EFVR 300750Z AUTO 14008KT 110V210 CAVOK 18/12 Q0999 KCRS 300753Z AUTO 12003KT 10SM CLR 27/20 A3005 RMK AO2 SLP169 T02720200 KEBA 300755Z AUTO 13006KT 7SM SCT055 26/26 A2999 RMK AO2 T02630257 NZWU 300646Z 31005KT 25KM BKN035 06/03 Q1024 RMK NZOH VATSIM USE ONLY CYOA 292300Z 29007KT 15SM SCT080 BKN130 23/06 A2985 RMK AC3AC2 23.7/11.6/0/LAST OBS NXT 301100Z SLP122 CZFA 300100Z 28011G17KT 30SM SCT065TCU BKN083 BKN230 17/04 A2992 RMK TCU3AC2CI2 CLIMAT 18.4/5.4/0.0 LAST STFD OBS/NEXT 301300Z SLP152 DENSITY ALT 3100FT EGNJ 300750Z 35006KT 9999 FEW008 SCT035 13/09 Q1016 KCTB 300756Z AUTO 32007KT 10SM CLR 10/04 A3024 RMK AO2 SLP218 T01000044 KDKB 300735Z AUTO 26010G14KT 10SM CLR 19/15 A3005 RMK AO2 T01920151 CYMT 300100Z 14009KT 15SM FEW030 25/18 A2974 RMK SC2 LAST OBS/NEXT 301000 UTC SLP069 DENSITY ALT 2900FT CYMU 292100Z 14015KT 15SM FEW070 BKN270 27/16 A2955 RMK AC2CI2 LAST OBS/ NEXT 301200Z SLP010 CYOC 300100Z 04014G19KT 1 1/2SM -RA BR BKN012 OVC038 09/08 A2997 RMK FG2ST4SC2 CLIMAT 13.4/9.4/0.6MM/LAST STFD OBS/NEXT 30 1300 UTC/VIS SW-W 4 SLP161 CZEL 300700Z AUTO 29007KT 20/16 RMK AO1 SLP103 T02010158 57004 KCSM 300753Z AUTO 01007KT 10SM CLR 24/22 A3015 RMK AO2 SLP180 T02390217 CZEM 292000Z 17013G24KT 150V230 15SM FEW020 35/16 A2950 RMK CU2 LAST OBS/NEXT 301300 UTC SLP991 DENSITY ALT 2700FT CXWM 300700Z AUTO 23006KT 11/08 RMK AO1 T01060081 CYOD 300700Z 26005KT 15SM SKC 14/09 A3004 RMK SLP178 EGNM 300750Z VRB03KT 9999 SCT010 SCT018 11/09 Q1016 KCRW 300754Z 00000KT 4SM BR BKN001 BKN027 OVC050 23/22 A2996 RMK AO2 RAB0656E32 SLP132 VLY FG P0001 T02280217 $ EHDV 300755Z AUTO 31026KT 9999 FEW023/// SCT037/// BKN045/// 14/06 Q1012 EHFD 300755Z AUTO 30030KT 9999 FEW016/// SCT026/// BKN040/// 13/09 Q1009 CXVW 300700Z AUTO 23008KT 11/05 RMK AO1 T01100054 CXWN 300700Z AUTO 32003KT 18/13 RMK AO1 SLP114 T01840131 51008 KCRX 300755Z AUTO 00000KT 5SM BR CLR 25/23 A3000 RMK AO2 EGNO 300750Z 31013KT 9999 FEW030 SCT040 14/08 Q1017 CYMX 300700Z 00000KT 25SM FEW230 19/18 A2980 RMK CI1 SLP092 DENSITY ALT 900FT KEBG 300755Z AUTO 13003KT 10SM CLR 25/23 A3002 RMK AO2 T02500227 KCSQ 300755Z AUTO 25006KT 10SM CLR 18/15 A3017 RMK AO2 UNTT 300730Z 30004MPS 250V340 9999 SCT033CB 18/15 Q1001 R21/190055 NOSIG RMK QFE736 KEAR 300755Z AUTO 23006KT 10SM CLR 17/11 A3023 RMK AO1 EGNR 300750Z 31011KT 9999 SCT015 BKN032 12/08 Q1019 RESHRA KCTJ 300755Z AUTO 00000KT 10SM CLR 24/24 A3001 RMK AO2 T02400240 CYPA 300700Z 27008KT 15SM SCT250 14/11 A2995 RMK CI4 SLP145 DENSITY ALT 1600FT CYOJ 300700Z AUTO 16003KT 130V220 9SM CLR 13/07 A2993 RMK SLP142 KDKK 300748Z AUTO 25006KT 1 1/2SM +TSRA BR FEW011 BKN016 OVC020 22/21 A2986 RMK AO2 LTG DSNT NE AND S RAB19 TSB11 SLP107 P0037 T02220211 $ EGPA 300750Z 31014KT 9999 VCSH FEW007 SCT020 BKN040 10/07 Q1015 EGNS 300750Z 31013KT 9999 SCT018 BKN035 12/07 Q1019 NOSIG KCUB 300753Z AUTO 19003KT 10SM CLR 26/23 A2995 RMK AO2 SLP140 T02610233 TSNO KEAT 300755Z AUTO 10SM CLR 24/04 A3008 RMK AO2 SLP176 T02390039 403390172 EGPB 300750Z 34013KT 9999 FEW011 SCT025 11/05 Q1013 NOSIG EGNT 300750Z 32005KT 9999 -RA FEW007 BKN024 11/10 Q1016 KEAU 300756Z AUTO 25007KT 10SM CLR 17/13 A2997 RMK AO2 SLP146 T01720128 CYPC 300747Z 04005KT 360V070 6SM BR OVC005 05/05 A3009 RMK ST8 CIG RAG SLP191 ZUGY 300700Z VRB02MPS 9999 BKN030 FEW033TCU 27/22 Q1011 NOSIG EGPC 300720Z 32009KT 9999 VCSH FEW021 SCT036 10/06 Q1015 KCSV 300753Z AUTO 00000KT 10SM CLR 22/20 A3007 RMK AO2 SLP158 T02170200 CZFM 292300Z 32004KT 15SM SCT018 OVC040 13/09 A3000 RMK SC3SC5 13.3/9.1/0.0/LAST OBS/NXT 301300Z SLP162 CZEV 300700Z AUTO 03011KT 09/06 RMK AO1 SLP185 T00910059 53006 EGOM 300650Z AUTO 35004KT 9999 SCT026/// BKN045/// 09/08 Q1016 RERA CYPD 300755Z AUTO 23002KT 2 1/2SM BR OVC003 15/15 A2986 RMK SLP113 DENSITY ALT 500FT EGPD 300750Z 31015KT 9999 FEW024 BKN038 10/05 Q1015 NOSIG EGNV 300750Z 02005KT 9999 FEW009 BKN024 11/09 Q1017 CZFN 292300Z 36003KT 10SM -RA OVC017 12/11 A2992 RMK SC8 11.9/11.4/11.4 LAST OB/NEXT 301500Z SLP136 CYPE 300700Z 26010KT 15SM BKN060 15/05 A3003 RMK SC5 SLP177 DENSITY ALT 2100FT EGPE 300750Z 28007KT 9999 6000NW -SHRA FEW008 SCT014 BKN024 09/07 Q1017 KDLF 300658Z AUTO 13010KT 10SM CLR 29/21 A3004 RMK AO2 SLP156 T02880213 CYOO 300701Z AUTO 29003KT 9SM SCT043 BKN080 OVC099 23/20 A2978 RMK SLP081 DENSITY ALT 1700FT EGPF 300750Z 30009KT 9999 FEW045 12/05 Q1018 EGNX 300750Z 29009KT 9999 FEW025 BKN043 12/09 Q1017 KECG 300754Z AUTO 12003KT 10SM CLR 23/22 A2995 RMK AO2 SLP143 T02330222 EGOP 300650Z AUTO 32009KT 9999 // SCT049/// 12/09 Q1020 CYPG 300500Z 26007KT 15SM SKC 19/14 A2988 RMK LAST OBS/NEXT 301100 UTC SLP120 EHGG 300755Z AUTO 28014KT 250V320 9999 SCT027 BKN031 15/09 Q1011 NOSIG KDLH 300755Z 27010KT 10SM CLR 16/12 A2989 RMK AO2 SLP121 T01560122 KCUH 300755Z AUTO 05004KT 25/23 A3012 RMK AO2 PWINO CYPH 300700Z AUTO 21007KT 9SM FEW220 17/13 A2936 RMK SLP943 DENSITY ALT 1000FT EGPH 300750Z VRB03KT 9999 FEW015 SCT032 11/08 Q1017 KDKR 300735Z AUTO 00000KT 10SM CLR 26/23 A3006 RMK AO2 KDMA 300658Z AUTO 12012KT 10SM CLR 24/19 A3009 RMK AO2 SLP149 T02390192 403340230 $ EGPI 300750Z 31008KT 290V360 9999 FEW020 SCT046 12/08 Q1019 KEBS 300755Z AUTO 26006KT 10SM CLR 16/15 A3011 RMK AO2 EGQA 291050Z 27010KT 9999 7000W VCSH FEW006 SCT023 12/// Q1011 WHT CZFS 300700Z AUTO 29007KT 13/10 RMK AO1 SLP126 T01320104 51007 EGOS 300750Z 30010KT 9999 SCT023 12/08 Q1018 WHT BECMG SCT025 BLU CYQA 300700Z AUTO 25002KT 9SM OVC075 20/19 A2979 RMK SLP083 DENSITY ALT 1800FT EHFS 300755Z AUTO 22011KT 9999 DZ FEW010/// SCT013/// BKN042/// 14/12 Q1015 KCVB 300735Z AUTO 00000KT 10SM CLR 26/20 A3008 RMK AO2 T02590197 CYQB 300700Z 07005KT 15SM BKN032 OVC080 21/15 A2982 RMK SC6AC2 SLP099 DENSITY ALT 1000FT EGPK 300750Z 30007KT 270V330 9999 FEW040 12/07 Q1018 KCUL 300755Z AUTO 00000KT 10SM CLR 20/16 A3007 RMK AO2 T02000163 KCVC 300755Z AUTO 00000KT 10SM 25/23 A2996 RMK AO2 KEDC 300735Z AUTO 00000KT 10SM CLR 25/22 A3006 RMK AO2 KDLL 300735Z AUTO 25004KT 10SM CLR 19/12 A3001 RMK AO2 T01850116 CYPL 300200Z 25009KT 15SM OVC020 17/16 A2942 RMK SC8 LAST STFD OB/NEXT 301100Z SLP966 DENSITY ALT 2300FT CXZC 300700Z AUTO 20005KT 19/13 RMK AO1 SLP958 T01890133 56014 EGPL 300750Z 25003KT 9999 FEW018 BKN048 12/06 Q1018 CYQD 300700Z 00000KT 15SM BKN030 BKN070 16/14 A2981 RMK SC6AC1 SLP097 DENSITY ALT 1300FT KDLN 300753Z AUTO 17006KT 10SM CLR 13/06 A3033 RMK AO2 SLP225 T01280056 EGPM 300750Z 33014KT 9999 FEW028 BKN036 10/05 Q1013 NOSIG VGEG 300750Z 07012KT 2500 RA BKN008 FEW028CB OVC080 25/24 Q0988 NOSIG KEDE 300755Z AUTO 00000KT 10SM CLR 23/22 A2995 RMK AO2 T02310216 EGOV 300750Z 33012KT 9999 FEW022 BKN035 13/03 Q1019 BLU NOSIG EGOW 291350Z 29011G21KT 9999 SCT030 16/09 Q1012 BLU EGPN 300750Z 31005KT 270V010 9999 FEW035 12/04 Q1017 CYOW 300700Z 17004KT 15SM SKC 21/17 A2977 RMK SLP078 DENSITY ALT 1300FT CYQF 300700Z 22004KT 15SM BKN120 09/09 A3018 RMK AC5 SLP228 CYPO 300745Z AUTO 36006KT 6SM -RA BR OVC002 12/11 A2919 RMK SLP887 DENSITY ALT 600FT KCTY 300753Z AUTO 00000KT 24/23 A2995 RMK AO1 SLP141 T02390233 $ KCVG 300752Z 32007KT 10SM FEW036 SCT050 BKN250 22/17 A3001 RMK AO2 SLP153 T02220167 EGPO 300750Z VRB02KT 9999 9000N -SHRA SCT018 BKN038 10/07 Q1017 KECP 300753Z AUTO 30003KT 6SM BR CLR 25/24 A2992 RMK AO2 SLP142 T02500244 KDLP 300755Z AUTO 36007KT 10SM FEW036 SCT044 29/24 A2998 RMK A01 CYQG 300700Z 24005KT 15SM SCT270 18/16 A2991 RMK CI4 SLP125 DENSITY ALT 1100FT KCVH 300750Z AUTO 25004KT 5SM CLR 16/16 A3001 RMK AO1 KDMH 300754Z AUTO 26/23 A2991 RMK AO1 SLP129 T02560233 KCTZ 300755Z AUTO 00000KT 10SM CLR 22/22 A2996 RMK AO2 T02210220 CYOY 300700Z AUTO 07002KT 9SM OVC031 19/17 A2982 RMK ICG PAST HR SLP098 CYPQ 300700Z AUTO 00000KT 9SM SCT030 BKN043 BKN085 20/19 A2978 RMK SLP081 DENSITY ALT 1400FT CYQH 300700Z 24009KT 20SM FEW035 BKN100 BKN210 13/05 A3003 RMK SC1AC4CI2 SLP180 DENSITY ALT 2400FT EHFZ 300755Z AUTO 30025KT 9999 ///////// 13/09 Q1012 CYQI 300700Z 11003KT 9SM FEW002 FEW020 15/14 A2989 RMK SF1SC1 SF TR SC TR SLP123 CYPR 300700Z AUTO 08005KT 9SM SCT130 OVC160 14/12 A3022 RMK SLP235 KDLS 300753Z AUTO 11003KT 10SM CLR 21/03 A3002 RMK AO2 SLP165 T02060033 403780144 EHGR 300755Z AUTO 22006KT 9999 FEW038 BKN078 OVC083 15/12 Q1015 BLU VRB02KT 9999 FEW020 SCT030 BKN080 TEMPO FEW015 SCT018CB BKN030 KEDJ 300750Z AUTO 00000KT 10SM OVC048 20/17 A3001 RMK AO1 KECS 300755Z AUTO 01008KT 10SM CLR 13/03 A3028 RMK AO2 KCWA 300755Z AUTO 25009KT 10SM CLR 16/13 A2996 RMK AO2 CYRA 300000Z 02007KT 15SM TS FEW040 SCT045CB BKN090 BKN210 19/13 A2981 RMK CU1CB3AC1CS1 TS MOVG N OCNL DIST LTNG N 23.8/15.4/1.0/0 LAST OB/NEXT 301400Z SLP102 DENSITY ALT 1400FT KCUT 300753Z AUTO 32005KT 10SM CLR 09/04 A3034 RMK AO2 SLP225 T00940039 EGQK 300650Z AUTO 29009KT 9999 OVC038/// 10/06 Q1016 CYRB 300700Z 12015KT 10SM FEW006 03/02 A3006 RMK SC1 VIS E 1 VIS W 4 SLP186 CYQK 300700Z 31007KT 15SM SCT019 15/13 A2983 RMK SC3 SLP105 DENSITY ALT 1700FT KCWC 300755Z AUTO 11003KT 10SM CLR 27/19 A3006 RMK AO2 T02670192 KECU 300730Z AUTO 15009KT 8SM CLR 26/21 A3015 RMK AO2 CYQL 300700Z AUTO 23003KT 9SM BKN120 11/09 A3019 RMK SLP216 EGPU 300720Z AUTO 32008KT 9999 FEW020/// 11/07 Q1018 EGQL 300750Z 30005KT 9999 FEW035 10/04 Q1016 BLU KEED 300756Z AUTO 24010KT 10SM CLR 36/14 A2990 RMK AO2 SLP086 T03560139 404220328 CYQM 300700Z 00000KT 8SM OVC007 15/15 A2990 RMK SF8 SLP126 KDMN 300753Z AUTO 04007KT 10SM BKN090 OVC110 21/17 A3025 RMK AO2 SLP166 T02060167 KCVN 300755Z AUTO 05003KT 10SM SCT120 21/17 A3027 RMK AO1 LTG DSNT W KEDN 300755Z AUTO 00000KT 7SM CLR 23/23 A2994 RMK AO2 EGQM 300750Z AUTO 34009KT 9999 BKN045/// 11/07 Q1016 RERA CYPW 300200Z 27006KT 50SM FEW040 FEW270 25/13 A3013 RMK CU1CI1 CU TR LAST OBS/NEXT 301300 UTC SLP203 DENSITY ALT 1300FT KDMO 300753Z AUTO 00000KT 10SM CLR 19/17 A3018 RMK AO2 SLP211 T01940167 KCVO 300755Z 30005KT 10SM CLR 21/08 A3000 RMK AO1 KCWF 300755Z AUTO 27007KT 10SM SCT120 28/23 A3000 RMK AO2 T02910241 CYPX 300700Z AUTO 08012KT 9SM BKN120 BKN160 18/15 A2941 RMK SLP958 DENSITY ALT 1000FT KDLZ 300757Z AUTO 31005KT 10SM SCT050 SCT060 19/16 A2998 RMK AO2 CYQQ 300700Z 33006KT 20SM SKC 19/11 A3012 RMK SLP201 KCWI 300755Z 28005KT 10SM CLR 15/13 A3010 RMK AO1 CYQR 300700Z 23007KT 15SM BKN100 14/12 A3005 RMK AC5 SLP181 DENSITY ALT 2000FT KCVS 300658Z AUTO 08010KT 10SM BKN110 24/18 A3025 RMK AO2 SLP180 T02370183 403100182 $ CYRJ 300700Z 18004KT 140V230 20SM FEW100 21/18 A2973 RMK AC1 SLP066 DENSITY ALT 1600FT EGQS 300750Z 29014KT 9999 FEW020 BKN041 10/06 Q1016 BLU NOSIG EHJA 300755Z AUTO 30028KT 9999 FEW034/// 13/06 Q1013 CYQT 300751Z 28022G30KT 15SM -SHRA OVC036 20/14 A2966 RMK SC8 SLP043 DENSITY ALT 1600FT CYSB 300700Z 22005KT 15SM FEW070 16/14 A2975 RMK AC2 SLP072 DENSITY ALT 1600FT KDNL 300753Z AUTO 22006KT 10SM CLR 26/22 A2996 RMK AO2 SLP139 T02560222 KEDU 300755Z AUTO 20004KT 10SM CLR 20/13 A2987 RMK AO1 OTBD 300700Z 20005KT 140V280 7000 NSC 43/16 Q0999 NOSIG CYRL 300200Z 29016G26KT 15SM SCT013 BKN025 OVC060 16/13 A2962 RMK SF4SC2SC2 LAST STFD OBS/NEXT 300900UTC SLP033 DENSITY ALT 1900FT EGSC 300750Z 29008KT 250V360 9999 SCT020 13/09 Q1017 UOOO 300700Z 17003G06MPS 9999 SCT050CB SCT066 21/14 Q1001 R19/19//57 NOSIG RMK QFE736 CXZU 300700Z AUTO 13/04 RMK AO1 SLP208 T01280040 51009 CYSC 300730Z AUTO 00000KT 6SM VCTS BR SCT060 OVC097 19/19 A2985 RMK SLP106 DENSITY ALT 1500FT CYQU 300700Z 24009KT 25SM FEW100 SCT250 11/06 A3012 RMK AC1CI2 SLP207 KEFD 300750Z 24005KT 10SM FEW250 28/24 A3002 KEDW 300658Z AUTO 23003KT 10SM FEW160 26/16 A3001 RMK AO2 SLP133 T02630159 CXZV 300700Z AUTO 07001KT 09/09 RMK AO1 SLP121 T00920089 56007 CYQV 300700Z AUTO 24006KT 9SM CLR 14/12 A2996 RMK SLP149 DENSITY ALT 1800FT KCWN 300656Z AUTO 33005KT 10SM BKN150 17/10 A3039 RMK AO2 SLP126 T01740101 402210148 $ KEEN 300755Z AUTO 00000KT 1SM CLR 18/14 A2991 RMK AO1 KDMW 300735Z AUTO 19004KT 10SM CLR 24/23 A2994 RMK AO2 KCVW 300755Z AUTO 30007KT 10SM CLR 28/25 A3002 RMK A01 KCXE 300735Z AUTO 00000KT 10SM SCT050 24/24 A2998 RMK AO1 T02420242 KDNN 300735Z AUTO 34003KT 7SM CLR 23/23 A2998 RMK AO2 CYQW 300700Z AUTO 29008KT 9SM CLR 14/10 A3007 RMK SLP185 DENSITY ALT 1900FT KEEO 300753Z AUTO 06004KT 10SM CLR 08/M02 A3039 RMK AO2 SLP213 T00831017 KCVX 300754Z AUTO 24012G21KT 10SM CLR 22/15 A2983 RMK AO2 T02170154 CYQX 300700Z 05006KT 15SM BKN095 BKN160 OVC250 10/09 A2992 RMK AC5AC1CI2 VIS LWR SE SLP132 CYSF 300700Z AUTO 11003KT 9SM OVC095 13/12 A2983 RMK SLP109 DENSITY ALT 900FT CZHY 300700Z AUTO 24005KT 15/10 RMK AO1 SLP110 T01530104 51006 CYQY 300700Z 04004KT 10SM BKN004 BKN009 OVC032 13/13 A2987 RMK ST5ST2SC1 SLP117 CYRQ 300700Z AUTO 04004KT 9SM CLR 19/18 A2979 RMK SLP089 DENSITY ALT 800FT CYQZ 300700Z AUTO 00000KT 9SM CLR 11/11 A3019 RMK SLP232 EGSH 300750Z 30005KT 270V340 9999 VCSH FEW007 SCT015 BKN045 13/12 Q1016 TEMPO SHRA KDPA 300752Z 27006KT 10SM CLR 19/14 A3002 RMK AO2 SLP161 T01890139 KDNS 300755Z AUTO 00000KT 10SM CLR 16/15 A3014 RMK AO2 ORSU 300200Z 05007KT CAVOK 34/01 Q1009 CYSJ 300700Z VRB02KT 15SM FEW080 12/12 A2991 RMK AC2 SLP128 OSKL 300800Z 12010KT 7000 HZ SCT026 BKN100 41/22 Q1004 KEET 300753Z AUTO 30004KT 8SM CLR 24/23 A2998 RMK AO2 SLP143 T02440233 KEFK 300755Z AUTO 21004KT 10SM CLR 19/19 A2987 RMK AO2 T01930186 CYSK 292200Z 16013KT 15SM SCT030 BKN120 23/15 A2947 RMK SC4AC2 26.2/7.5/M/M LAST OBS/NEXT 301200UTC SLP980 DENSITY ALT 1500FT CYRT 300700Z 03004KT 10SM SCT015 BKN022 11/10 A2970 RMK SC3SC3 SLP060 EGTC 300750Z 31010KT 260V340 9999 SCT020 13/09 Q1017 KCWV 300755Z AUTO 00000KT 10SM CLR 23/22 A2994 RMK AO2 KDNV 300755Z AUTO 29006KT 7SM CLR 18/16 A3004 RMK AO2 T01810156 CZKD 300600Z AUTO 32005KT 14/12 RMK AO1 0003 SLP050 T01360118 50002 CYSM 300700Z 18002KT 15SM SCT070 BKN100 14/12 A2985 RMK AC3AS3 SLP113 DENSITY ALT 700FT CYRV 300700Z AUTO VRB03KT 9SM CLR 14/12 A3017 RMK SLP216 EHKD 300755Z AUTO 30013KT 9999 FEW024 SCT028 BKN047 16/09 Q1013 BLU 29015KT 9999 SCT020 BKN030 TEMPO 29015G25KT FEW015 SCT018CB BKN020 KEGE 300755Z AUTO 00000KT 10SM CLR 12/M01 A3044 RMK AO1 CYSN 300100Z 19007KT 10SM FEW050 BKN220 26/18 A2984 RMK SC2CI5 LAST STFD OBS/NEXT 30 1100UTC SLP101 DENSITY ALT 1700FT CYTE 300700Z AUTO 07014KT 1/4SM -RA FG VV002 03/03 A2969 RMK SLP058 EGTE 300750Z 30005KT 270V350 9999 FEW035 14/11 Q1020 KCXO 300753Z AUTO 27004KT 10SM CLR 28/23 A3004 RMK AO2 SLP167 T02780228 KCXP 300755Z AUTO 13003KT 10SM CLR 18/M02 A3023 RMK AO2 CYSP 292100Z 26005G20KT 190V310 15SM SCT012 BKN016 13/09 A2967 RMK SC4SC3 CIG RAG LAST STFD OBS/NEXT 301200UTC SLP050 DENSITY ALT 1300FT CYTH 300700Z 33004KT 15SM BKN040 BKN080 15/13 A2973 RMK SC5AC2 SLP075 DENSITY ALT 1000FT KEGI 300738Z AUTO 03001KT 10SM FEW019 25/24 A2994 RMK AO2 RAB10E35DZB35E38 $ EHJR 300725Z AUTO 30023G25KT //// ///////// 14/09 Q1014 W///H25 KEHA 300748Z AUTO 11006KT 19/16 RMK AO1 PK WND 09 000 T01940162 OSLK 300800Z 18006KT 6000 FEW026 SCT030 28/22 Q1006 EGSS 300750Z 29009KT 9999 SCT017 13/09 Q1017 KEFT 300755Z AUTO 27011KT 10SM CLR 18/14 A3004 RMK AO2 CYUA 300700Z AUTO 01007KT 9SM OVC012 OVC039 07/ A3012 RMK SLP205 KEHC 300755Z AUTO 23011KT 10SM CLR 30/23 A3000 RMK A01 EGTK 300750Z 31008KT 270V340 CAVOK 13/08 Q1018 CYUB 300500Z 02010KT 15SM SCT015 BKN040 08/06 A3010 RMK SC4SC3 10.3./7.2/0/LAST OBS/NXT 301300UTC SLP191 KCXU 300755Z AUTO 00000KT 4SM SCT001 BKN011 24/24 A2995 RMK AO2 T02420241 EGUB 300750Z 31011KT 9999 FEW025 BKN050 13/07 Q1018 BLU NOSIG KDPL 300755Z AUTO 00000KT 10SM CLR 21/20 A2996 RMK AO2 T02060200 KDOV 300758Z AUTO 17006KT 10SM CLR 24/24 A2992 RMK AO2 SLP135 T02370237 VISNO RWY19 CHINO RWY19 $ CYTL 300753Z AUTO 31017G28KT 4SM -RA BR OVC010 12/12 A2943 RMK SLP970 DENSITY ALT 1100FT KCXY 300756Z AUTO 00000KT 10SM CLR 25/22 A2989 RMK AO2 SLP120 T02500217 CYSY 292300Z 21008KT 10SM BKN010 04/03 A3006 RMK SC6 LAST OBS/NEXT 301300Z SLP188 VGHS 300650Z 03008KT 4000 HZ SCT012 BKN100 32/25 Q0995 NOSIG KDQH 300755Z AUTO 00000KT 10SM CLR 26/25 A2994 RMK AO2 CYTQ 291900Z 02008KT 12SM FEW024 BKN034 21/16 A2979 RMK CU2SC2 LAST OBS/NXT 301200Z SLP090 CYTR 300700Z 21005KT 12SM FEW100 24/22 A2977 RMK AC1 SLP079 KCYS 300753Z AUTO 23004KT 10SM CLR 16/08 A3036 RMK AO2 SLP196 T01560083 KDRA 300753Z AUTO 22014KT 10SM CLR 29/08 A3007 RMK AO2 SLP123 T02940078 403890189 CYTS 300700Z 21007G15KT 15SM FEW054 17/13 A2960 RMK SC2 SLP022 DENSITY ALT 1800FT EHMA 300755Z AUTO 30025KT 9999 FEW022/// SCT041/// BKN048/// 14/09 Q1011 EGVA 300658Z AUTO 28004KT 9999 OVC055 12/09 A3005 RMK AO2 SLP179 T01170089 KCZL 300755Z AUTO 01003KT 10SM CLR 25/23 A2998 RMK AO2 T02520226 EICK 300730Z 29008KT 9999 SCT028 11/09 Q1022 NOSIG CYUL 300700Z 00000KT 15SM SKC 22/18 A2979 RMK SLP086 DENSITY ALT 1100FT EGUL 300741Z AUTO 28006KT 9999 BKN014 12/10 A2999 RMK AO2 DZB09E18DZB27E36 CYVC 300700Z 26007KT 15SM BKN030 17/10 A2987 RMK SC5 SLP119 DENSITY ALT 1700FT KEGV 300735Z AUTO 27009G16KT 10SM CLR 18/10 A2988 RMK AO2 T01830102 CZMD 300700Z AUTO 29010G18KT 4SM BR OVC011 12/12 A2955 RMK TS/LTNG TEMPO UNAVBL SLP012 DENSITY ALT 1200FT EHKV 300755Z AUTO 30019KT 240V350 9999 FEW021/// SCT034/// 14/09 Q1013 EGUN 300748Z AUTO 32009KT 9999 BKN016 BKN025 13/11 A3000 RMK AO2 CIG 016V025 BKN016 V SCT KEHO 300737Z AUTO 10003KT 10SM CLR 23/22 A2998 RMK AO2 EGUO 300650Z 29005KT CAVOK 11/08 Q1019 BLU EHMG 300755Z AUTO 30027KT 9999 FEW020/// SCT028/// BKN040/// 14/09 Q1011 CYTZ 300700Z AUTO 27009KT 9SM BKN065 OVC079 25/20 A2978 RMK SLP082 DENSITY ALT 1600FT KEHR 300755Z AUTO 33005KT 10SM CLR 22/18 A3006 RMK AO1 KDRI 300755Z AUTO 00000KT 7SM SCT010 27/24 A3003 RMK AO2 T02650238 CZMJ 300700Z AUTO 21004KT 13/11 RMK AO1 SLP192 T01250112 55003 CYWA 300700Z AUTO 12003KT 9SM OVC040 23/18 A2971 RMK SLP061 CYUS 300700Z AUTO 05010KT 9SM FEW066 FEW086 10/ A2989 RMK SLP127 KEIK 300755Z AUTO 00000KT 10SM CLR 15/12 A3028 RMK AO2 T01490117 KCZT 300755Z AUTO 15005KT 10SM CLR 26/20 A3002 RMK AO2 CYUT 292200Z CCA 29004KT 15SM BKN035 BKN090 13/09 A2980 RMK SC6AC1 13.7/4.2/0.0/0.0/LAST STFD OBS/NEXT 301200 SLP092 EIDL 300730Z 29006KT CAVOK 13/07 Q1021 EGWC 300750Z 29012KT 9999 FEW020 SCT030 13/08 Q1018 BLU CYVL 300700Z AUTO 04007KT 9SM FEW011 OVC140 13/11 A2995 RMK SLP154 KDRM 300754Z AUTO 22005KT 10SM BKN080 OVC110 20/15 A2974 RMK AO2 T02020150 CYVM 300700Z AUTO 01004KT 9SM OVC010 01/00 A3005 RMK SLP177 CYWE 300700Z AUTO 05006KT 9SM CLR 16/10 A2988 RMK SLP126 DENSITY ALT 1600FT KDRO 300753Z AUTO 00000KT 10SM SCT100 14/08 A3043 RMK AO2 SLP218 T01390078 EHLW 300755Z AUTO 30016KT 9999 SCT026 SCT032 15/10 Q1012 BLU 30013KT 9999 FEW025 EGVN 300750Z 32008KT 9999 SCT027 13/07 Q1018 BLU NOSIG EGUW 300750Z 31009KT 9999 FEW015 BKN022 12/09 Q1016 WHT BECMG FEW022 BLU KFAF 300758Z AUTO 17004KT 10SM CLR 25/25 A2994 RMK AO2 SLP142 T02460246 $ CYUX 300755Z AUTO 06007KT 1/4SM -RA FG VV004 06/06 A2987 RMK SLP115 CYVO 300716Z AUTO 21005KT 5SM BR CLR 19/18 A2967 RMK SLP046 DENSITY ALT 2100FT EGVO 300750Z 31011KT 9999 FEW040 13/07 Q1018 BLU NOSIG KEHY 300755Z AUTO 00000KT 10SM CLR 07/M06 A3041 RMK AO2 CYWG 300700Z 26005KT 15SM SCT070 13/12 A2989 RMK AC3 SLP122 CYUY 300700Z 22005KT 15SM FEW150 18/18 A2965 RMK AC1 AC TR SLP039 DENSITY ALT 1900FT CYVP 300700Z 07004KT 15SM R07/4000VP6000FT/D BKN210 13/13 A2969 RMK CI5 SLP054 DENSITY ALT 200FT KCZZ 300752Z AUTO 00000KT 22/19 A3003 RMK AO1 SLP127 T02220189 403440156 EGVP 300750Z 32007KT 9999 FEW020 13/08 Q1018 BLU TEMPO SCT022 WHT CYWH 300400Z VRB02KT 15SM SKC 18/12 A3010 RMK LAST STFD OBS/NEXT 301300 UTC SLP191 DENSITY ALT 100FT CYVQ 300700Z 31003KT 30SM BKN030 BKN090 13/10 A2993 RMK SC5AC2 SLP139 KEIR 300755Z AUTO 32006KT 10SM CLR 30/25 A3003 RMK A01 CYVR 300700Z 34002KT 20SM SKC 19/14 A3010 RMK SLP192 DENSITY ALT 200FT KDTA 300735Z AUTO 05004KT 10SM CLR 19/M01 A3024 RMK AO1 T01891011 CYWJ 292300Z 35010KT 10SM BKN005 BKN012 15/12 A2985 RMK ST5SC2 CIG/VIS LWR WNW 15.0/10.8/5.8/0 LAST STFD OB/NXT 301300UTC SLP115 DENSITY ALT 900FT KDRT 300753Z AUTO 12007KT 10SM CLR 28/21 A3002 RMK AO2 SLP147 T02830206 $ CZMT 300000Z 27003KT 210V320 2SM -SHRA BR FEW007 OVC016 14/14 A3027 RMK CF2CU6 LAST OBS/NEXT 301300 UTC SLP250 CYVT 300400Z 01004KT 15SM BKN025 BKN080 18/12 A2989 RMK SC6AC1 VIRGA NW-NNE E LAST STFD OBS/NEXT 301200 UTC SLP127 DENSITY ALT 2100FT CYWK 300700Z 19003KT 190V260 15SM SKC 12/11 A2983 RMK SLP105 DENSITY ALT 1900FT CZMU 300700Z AUTO 25007KT 11/09 RMK AO1 T01080094 CYWL 300700Z 32007KT 15SM SKC 14/07 A3021 RMK SLP230 DENSITY ALT 3300FT CYXC 300700Z 30002KT 25SM SKC 14/05 A3021 RMK SLP219 DENSITY ALT 3300FT KDSM 300754Z 24005KT 10SM CLR 19/15 A3013 RMK AO2 SLP196 T01940150 KFAM 300755Z AUTO 36004KT 10SM CLR 19/16 A3016 RMK AO1 EGXC 300750Z 34007KT 9999 FEW013 BKN060 BKN080 13/10 Q1016 BLU TEMPO SCT015 WHT CYVV 300700Z 23004KT 15SM FEW250 19/17 A2981 RMK CC2 SLP091 DENSITY ALT 1500FT EGXD 300750Z 34005KT 9999 -SHRA FEW009 SCT025 BKN050 11/10 Q1017 BLU TEMPO 7000 SHRA SCT010 GRN CYXE 300700Z 26008KT 15SM FEW120 SCT250 13/11 A3004 RMK AC2CI2 SLP176 EGXE 300750Z 35005KT 9999 -RA SCT008 SCT016 BKN050 11/10 Q1017 GRN TEMPO 7000 SHRA SCT016 WHT EIDW 300730Z 28010KT 250V330 9999 FEW012 BKN040 11/09 Q1020 NOSIG KFBG 300658Z AUTO 20002KT 10SM CLR 26/21 A2996 RMK AO2 SLP145 T02550208 $ CYXH 300700Z AUTO 19003KT 9SM CLR 12/09 A3014 RMK SLP204 KFAR 300753Z 25009KT 10SM CLR 17/13 A2997 RMK AO2 SLP147 T01670128 KDUA 300755Z AUTO 05003KT 10SM CLR 25/20 A3007 RMK AO2 KELA 300755Z AUTO 25005KT 7SM CLR 26/25 A3002 RMK AO2 T02610250 CYXJ 300700Z 25011KT 15SM FEW120 FEW230 13/04 A3008 RMK AC1CI1 SLP196 DENSITY ALT 2300FT KFAT 300753Z 32011KT 9SM FEW130 29/11 A2988 RMK AO2 SLP112 T02940111 404220211 KDUB 300755Z AUTO 30011KT 10SM CLR 08/M01 A3046 RMK AO2 CYYB 300700Z AUTO 25005KT 9SM CLR 19/17 A2976 RMK SLP072 DENSITY ALT 2100FT KFBL 300754Z AUTO 21005KT 10SM CLR 16/14 A3006 RMK AO2 KDTL 300755Z AUTO 28010KT 10SM CLR 19/12 A3000 RMK AO2 KDUC 300755Z AUTO 10003KT 10SM CLR 25/19 A3007 RMK AO2 KEKM 300050Z 27003KT 10SM CLR 24/13 A2997 RMK AO2 LAST CZOL 300700Z AUTO 26003KT 10/08 RMK AO1 T00980081 EGWU 300750Z 32011KT 9999 FEW022 SCT070 14/08 Q1017 BLU NOSIG CYYC 300700Z 04002KT 15SM FEW088 12/08 A3022 RMK AC1 AC TR SLP235 DENSITY ALT 3800FT CYXL 300700Z 32010G22KT 15SM -SHRA BKN022 BKN045 15/12 A2970 RMK SC5SC2 SLP061 DENSITY ALT 1700FT CZPC 300700Z AUTO 16007KT 11/07 A3024 RMK CLD MISG WX MISG VIS MISG SLP227 KELD 300753Z AUTO 00000KT 8SM CLR 26/23 A3002 RMK AO2 SLP162 T02560228 KDSV 300754Z AUTO 21003KT 10SM BKN060 23/19 A2985 RMK AO2 SLP110 T02280194 $ CYYD 300700Z AUTO VRB02KT 9SM CLR 10/08 A3020 RMK SLP234 KDTN 300753Z AUTO 00000KT 10SM CLR 28/24 A3001 RMK AO2 SLP160 T02830239 KEKN 300751Z AUTO 00000KT 4SM BR CLR 20/19 A3001 RMK AO2 SLP147 T02000189 TSNO EGYD 300750Z 32008KT 9999 FEW013 SCT024 BKN080 13/09 Q1016 WHT NOSIG EGYE 300650Z 25011KT 9999 SCT012 BKN050 ///// Q1016 GRN CYXN 292200Z 06014KT 15SM FEW005 FEW015 SCT210 12/10 A2971 RMK ST1SC1CI2 ST S/SC N/ 12.8/9.7/0/0 LAST STFD OB/NXT 301200Z SLP061 CYYE 300700Z 20003KT 15SM FEW050 10/08 A2998 RMK SC2 SLP160 KDTO 300753Z AUTO 00000KT 10SM CLR 26/19 A3004 RMK AO2 SLP163 T02610194 KEKO 300756Z AUTO 25004KT 10SM CLR 12/M01 A3028 RMK AO2 SLP205 T01171006 403220061 CYYF 300700Z 02007KT 15SM SKC 19/03 A3010 RMK SLP188 DENSITY ALT 1600FT KFAY 300753Z AUTO 24003KT 10SM CLR 24/21 A2995 RMK AO2 SLP135 T02440211 KDUG 300756Z AUTO A3022 RMK AO2 SLPNO PWINO OTHH 300700Z 17009KT 140V220 8000 NSC 41/19 Q0999 NOSIG CYWY 292200Z 34005KT 290V010 10SM -RA OVC010 12/11 A2985 RMK SF8 12.7/11.9/1.8/0 LAST OB/NXT 301400Z SLP114 CYXP 292200Z 26004KT 15SM VCSH OVC050 05/02 A2998 RMK SC8 7.0/4.3/0.0 LAST STFD OBS/NEXT 301100Z SLP152 EGXP 300650Z AUTO 33007KT 9999 // BKN025/// BKN050/// 12/10 Q1015 CYYG 300700Z 29005KT 15SM OVC012 16/14 A2989 RMK SC8 SLP121 DENSITY ALT 300FT KDUH 300755Z AUTO 00000KT 10SM CLR 19/15 A2995 RMK AO2 T01890150 KEKQ 300756Z AUTO 00000KT 5SM BR SCT024 22/22 A3006 RMK AO2 T02160216 SLP168 KFCH 300755Z AUTO 31008KT 10SM CLR 29/12 A2987 RMK A01 EHPG 300755Z AUTO 30009KT 270V340 9999 FEW040/// SCT048/// 14/08 Q1014 CYXQ 292200Z 21004KT 10SM -RA FEW012 BKN025 OVC045 12/10 A2996 RMK SF1SC6SC2 SF TR CLIMAT 12.0/9.5/5.2MM/0.0/LAST STFD OBS/NEXT 301600UTC SLP163 DENSITY ALT 2200FT EGYH 291450Z 02012KT 9999 SCT040 BKN090 17/11 Q1011 BLU CYYH 300700Z 02008KT 15SM FEW012 OVC025 09/07 A2994 RMK SC1SC8 SC TR SLP140 KFCI 300755Z AUTO 20004KT 10SM CLR 23/17 A2997 RMK AO1 KFBR 300755Z AUTO 10SM CLR 15/M05 A3047 RMK AO2 T01481049 CYXR 300700Z AUTO 24007KT 9SM CLR 19/13 A2968 RMK SLP047 DENSITY ALT 1700FT KDUJ 300753Z AUTO 24003KT 5SM HZ SCT032 23/20 A2992 RMK AO2 SLP115 T02280200 KDTS 300753Z AUTO 34003KT 10SM FEW060 27/24 A2993 RMK AO2 SLP134 T02670244 TSNO KEKS 300755Z AUTO 00000KT 10SM CLR 10/06 A3035 RMK A01 EGXS 300750Z 32009KT 9999 BKN030 13/10 Q1016 BLU CYYJ 300700Z 26006KT 30SM SKC 19/13 A3010 RMK SLP193 DENSITY ALT 300FT CYXS 300754Z AUTO VRB02KT 5SM BR CLR 09/06 A3019 RMK SLP235 KELK 300755Z AUTO 02007KT 10SM CLR 21/20 A3019 RMK AO2 EGXT 300750Z 30012KT 9999 FEW015 SCT025 BKN050 13/09 Q1016 BLU CYXT 300700Z VRB02KT 20SM FEW200 12/09 A3022 RMK CI1 SLP239 EGXU 300750Z 34006KT 9999 FEW011 BKN030 BKN050 12/09 Q1016 BLU TEMPO 5000 SHRA SCT022 WHT CYYL 300700Z AUTO /////KT RMK CLD MISG WX MISG VIS MISG PCPN MISG ICG MISG CYXU 300700Z 28006KT 15SM FEW240 20/16 A2987 RMK CI2 SLP110 DENSITY ALT 1800FT KELM 300753Z AUTO 00000KT 6SM BR CLR 21/19 A2987 RMK AO2 SLP106 T02060194 KFCM 300753Z AUTO 24006KT 10SM CLR 17/13 A3001 RMK AO2 SLP158 T01670133 KDTW 300753Z 22004KT 10SM SCT150 BKN250 19/14 A2993 RMK AO2 SLP131 T01890144 $ KELN 300753Z AUTO 04006KT 10SM CLR 18/03 A3012 RMK AO2 SLP184 T01830033 403560100 EGXV 300750Z AUTO 36006KT 9999 BKN029/// SCT050/// 12/11 Q1016 EGYM 300750Z 30008KT 9999 BKN010 BKN060 12/11 Q1016 GRN BECMG SCT015 WHT CYYN 300700Z AUTO 23009KT 9SM CLR 12/10 A3013 RMK SLP198 CYZE 300700Z AUTO 22007KT 9SM CLR 18/14 A2976 RMK SLP078 DENSITY ALT 1200FT KELO 300752Z AUTO 26008KT 10SM CLR 16/11 A2983 RMK AO2 EGXW 300750Z 34006KT 9999 -RA BKN010 SCT025 BKN050 12/10 Q1016 GRN BECMG SCT015 WHT EHQE 300755Z AUTO 31022KT 9999 FEW023/// 14/08 Q1013 CYZF 300700Z 07003KT 060V130 15SM FEW100 SCT220 15/12 A2985 RMK AC1CI2 SLP115 DENSITY ALT 900FT CYXX 300700Z 33003KT 10SM SKC 18/14 A3011 RMK SLP195 DENSITY ALT 400FT KELP 300751Z 35015KT 10SM TS BKN080CB BKN120 BKN200 23/17 A3017 RMK AO2 TSE16B30 SLP140 FRQ LTGICCGCC S-SW TS S-SW MOV NW T02330167 CYZG 292100Z 04005KT 15SM OVC020 15/12 A2973 RMK SC8 LAST OBS/NXT 301200 UTC SLP076 CYXY 300700Z 15008KT 40SM SCT075 BKN250 12/04 A3002 RMK AC3CI3 SLP180 DENSITY ALT 2400FT EGYP 300650Z 35013KT 9999 OVC010 03/01 Q1012 GRN CYXZ 300000Z 23008KT 15SM SCT030 17/12 A2972 RMK SC3 LAST OBS/NEXT 301100UTC SLP064 DENSITY ALT 1600FT EGXZ 300550Z AUTO 34007KT 9999 BKN029/// BKN050/// 11/09 Q1016 CYYQ 300700Z 36016KT 3SM R33/5500VP6000FT/D -RA BR OVC002 09/09 A2962 RMK ST8 SLP031 CYZH 300719Z AUTO 25007KT 9SM BKN100 OVC120 15/06 A3005 RMK SLP182 DENSITY ALT 2200FT KFCS 300658Z AUTO 01004KT 10SM OVC170 18/11 A3037 RMK AO2 SLP233 T01750107 CYYR 300700Z 04005KT 15SM BKN006 15/13 A2989 RMK SF7 SLP122 KEMK 300755Z AUTO 27005KT 8SM CLR 29/24 A3000 RMK A01 CZPS 300700Z AUTO 26005KT 11/08 RMK AO1 T01110075 KFDK 300740Z AUTO 00000KT 10SM SCT110 23/23 A2994 RMK AO2 LTG DSNT W KDVK 300755Z AUTO 31006KT 10SM SCT010 OVC015 22/21 A3004 RMK AO2 CYYT 300711Z 09020G27KT 1SM R16/P6000FT/D -RA BR VV003 12/12 A2981 RMK FG8 SLP096 KDVL 300755Z AUTO 28010KT 10SM CLR 17/11 A2999 RMK AO1 CYYU 300700Z 23012G20KT 15SM OVC030 19/13 A2952 RMK SC8 SLP998 DENSITY ALT 1700FT KEND 300758Z AUTO 09010KT 10SM CLR 25/21 A3012 RMK AO2 CIG 170 RWY17C SLP185 T02460211 $ KEMM 300735Z AUTO 33005KT 10SM CLR 10/00 A3046 RMK AO2 KDVN 300752Z AUTO 27006KT 10SM CLR 17/16 A3009 RMK AO2 SLP184 T01720156 EHRD 300755Z AUTO 33007KT 270V020 9999 FEW025CB 17/10 Q1014 TEMPO 4000 SHRA CYYW 300700Z AUTO 28013G21KT 9SM BKN014 OVC026 16/14 A2952 RMK ICG MISG SLP998 DENSITY ALT 1800FT KDUX 300755Z AUTO 06006KT 10SM SCT010 20/19 A3025 RMK AO2 T01970185 KDVO 300755Z AUTO 35005KT 10SM CLR 15/13 A2997 RMK AO2 KELY 300753Z AUTO 18007KT 10SM CLR 11/M06 A3036 RMK AO2 SLP181 T01111056 403220039 $ KEMP 300753Z AUTO 08003KT 10SM OVC100 21/19 A3018 RMK AO2 SLP210 T02110194 KDVP 300753Z AUTO 00000KT 10SM CLR 17/12 A3013 RMK AO2 T01680122 CYYY 300700Z 15006KT 30SM FEW090 15/13 A2984 RMK AC1 SLP106 DENSITY ALT 300FT CYZP 300700Z AUTO 25007KT 9SM BKN044 BKN150 15/10 A3022 RMK SLP233 KDWH 300753Z 24005KT 10SM CLR 27/24 A3003 RMK AO2 SLP165 T02720244 KELZ 300756Z AUTO 22006KT 9SM CLR 23/20 A2993 RMK AO2 SLP117 T02330200 CYYZ 300700Z 29012KT 15SM SCT082 BKN100 26/19 A2979 RMK AC3AC3 SLP085 DENSITY ALT 2000FT KFDR 300753Z AUTO 11007KT 10SM CLR 27/21 A3004 RMK AO2 SLP151 T02670211 CYZR 300700Z AUTO 26008KT 9SM CLR 20/14 A2988 RMK SLP113 DENSITY ALT 1400FT KFFA 300735Z AUTO 00000KT 10SM CLR 25/22 A2995 RMK AO2 T02500223 KEMT 300255Z 21007 10SM CLR 25/17 A2994 CYZS 300700Z 23005KT 15SM OVC017 08/06 A2967 RMK SC8 WND ESTD SLP050 EHSA 300725Z AUTO 33012G15KT 9999 ///////// 15/10 Q1015 W18/H16 KDVT 300753Z 20008KT 10SM CLR 29/16 A2997 RMK AO2 SLP122 T02940161 CYZT 300700Z 26005KT 15SM FEW170 13/09 A3020 RMK AC1 SLP228 KFFC 300753Z AUTO 00000KT 5SM BR CLR 24/23 A2996 RMK AO2 SLP138 T02440233 KENL 300735Z AUTO 33003KT 10SM CLR 18/15 A3010 RMK AO2 T01810153 CYZU 300400Z 25003KT 15SM FEW040 FEW210 16/04 A3011 RMK SC1CI1 LAST OBS/NEXT 301200Z SLP202 DENSITY ALT 3000FT EHSC 300725Z AUTO 01009G12KT 9999 ///////// 14/10 Q1014 W16/H/// KEMV 300735Z AUTO 00000KT 10SM CLR 21/20 A2998 RMK AO2 CYZV 300744Z 07002KT 15SM BKN003 10/10 A2989 RMK ST5 SLP122 KFDW 300755Z AUTO 19005KT 10SM CLR 26/23 A2996 RMK AO1 KEOE 300755Z AUTO 19003KT 10SM BKN100 23/22 A2999 RMK AO2 CYZW 300100Z 27010G16KT 30SM SCT055TCU SCT085 BKN230 18/04 A3000 RMK TCU3AC1CI1 CLIMAT 18.4/6.6/0.4 MM/LAST OBS/NEXT 301300 UTC SLP172 DENSITY ALT 3000FT CYZX 300700Z 00000KT 15SM SKC 14/12 A2991 RMK WNDY HILL 15003KT SLP129 KFDY 300753Z AUTO 26006KT 10SM CLR 18/16 A2997 RMK AO2 SLP138 T01830156 KFEP 300755Z AUTO 24006KT 10SM CLR 17/15 A3006 RMK AO2 T01720145 CZRP 300700Z AUTO 23010KT 07/04 RMK AO1 SLP168 T00680041 52009 CYZY 300700Z AUTO VRB02KT 9SM CLR 14/05 A3016 RMK SLP223 DENSITY ALT 2400FT KDYB 300755Z AUTO 00000KT 10SM CLR 23/23 A2995 RMK AO1 CZSJ 300733Z AUTO 31017G25KT 280V350 9SM BKN018 OVC025 14/11 A2965 RMK SLP046 DENSITY ALT 1300FT KFET 300755Z AUTO 00000KT 10SM CLR 19/14 A3017 RMK AO2 T01910142 KEOK 300755Z AUTO 25005KT CLR 19/16 A3012 RMK AO2 CZTB 300700Z AUTO 29015G25KT 20/14 RMK AO1 PK WND 29025/0657 SLP035 T02010139 58001 KDWU 300755Z AUTO 00000KT 10SM CLR 24/23 A2993 RMK AO1 KFFL 300755Z AUTO 25005KT 10SM CLR 17/15 A3012 RMK AO2 KFFM 300754Z AUTO 24004KT 10SM CLR 15/12 A3001 RMK AO2 KENV 300755Z AUTO 28005KT 10SM CLR 18/M01 A3025 RMK AO1 CZSM 300700Z AUTO 19001KT 12/11 RMK AO1 SLP108 T01230107 50000 KFEW 300656Z AUTO 28004KT 10SM CLR 14/08 A3032 RMK AO2 SLP195 T01350078 402680059 $ KENW 300753Z AUTO 26007KT 10SM CLR 17/13 A2999 RMK AO2 SLP152 T01720128 KDWX 300755Z AUTO 10003KT 10SM CLR 09/M05 A3043 RMK AO2 T00891051 KFFO 300758Z AUTO 36002KT 10SM BKN045 23/17 A2999 RMK AO2 SLP151 T02330169 VHHH 300730Z 19007KT 090V260 9999 FEW025 28/23 Q1010 NOSIG PLCH 300700Z 00000KT 9999 SCT019 28/25 Q1007 RMK CZSP 300700Z AUTO 32004KT 15/14 RMK AO1 SLP125 T01540143 55002 KEPH 300753Z AUTO 34004KT 10SM CLR 21/04 A3007 RMK AO2 SLP173 T02110044 403390128 ZUUU 300700Z 34003MPS 310V010 6000 TSRA FEW023 BKN023CB 25/22 Q1005 NOSIG KDXR 300753Z AUTO 00000KT 9SM CLR 24/20 A2993 RMK AO2 SLP131 T02390200 KH78 291812Z 01005KT 20SM SCT040 32/26 A3005 RMK SEAS 1-2 KEQA 300755Z AUTO 11005KT 10SM CLR 23/20 A3017 RMK AO2 KFFT 300753Z AUTO 31005KT 10SM CLR 23/21 A3000 RMK AO2 SLP152 T02280211 KDZB 300755Z AUTO 18006KT 10SM CLR 27/19 A3007 RMK AO2 LTG DSNT W T02710194 KFHB 300735Z AUTO 32003KT 10SM CLR 26/23 A2991 RMK AO1 CZST 300100Z 23004KT 180V270 12SM -RA FEW025 SCT045 BKN065 OVC140 15/12 A3023 RMK SC2SC2SC2AC2 LAST STFD OBS/NEXT301300Z SLP235 KDYL 300754Z AUTO 20004KT 10SM CLR 23/22 A2992 RMK AO2 SLP126 T02330222 FABL 300722Z 20003KT 150V250 CAVOK 05/M02 Q1022 NOSIG FABM 300633Z 28003KT CAVOK 05/M03 Q1021 KFGN 300754Z AUTO 28011KT 10SM CLR 17/14 A2986 RMK AO2 KDXX 300753Z AUTO 24004KT 10SM CLR 14/11 A3006 RMK AO2 KFFX 300750Z AUTO 27005KT 10SM CLR 19/14 A2992 RMK AO2 T01910136 EIKN 300730Z 25004KT 9999 FEW020 BKN042 10/08 Q1021 NOSIG KFFZ 300247Z 06015G20KT 40SM SCT080 SCT150 BKN200 32/13 A2996 PKMJ 292256Z 06010KT 15SM FEW014 SCT050 OVC300 30/25 A2972 KDYS 300658Z AUTO 15006KT 10SM CLR 25/18 A3007 RMK AO2 SLP129 T02520177 $ KDZJ 300735Z AUTO 00000KT 1 1/2SM HZ 22/17 A3003 RMK AO2 VIS 1/2V3 T02160173 KDYT 300754Z AUTO 23012KT 10SM CLR 19/14 A2988 RMK AO2 CZUM 300700Z AUTO 13003KT 9SM CLR 11/11 A2986 RMK SLP117 KFGX 300035Z AUTO 26004KT 10SM CLR 24/23 A2998 RMK AO2 T02400229 EIME 300730Z 27008KT 9999 FEW013 BKN041 11/08 Q1021 KFIG 300754Z AUTO 00000KT 1/4SM FG VV003 19/19 A2993 RMK AO2 SLP122 T01940189 EIKY 300730Z 00000KT 9999 SCT026 11/08 Q1023 PKMR 300750Z 08008KT 15SM SCT014TCU BKN045 BKN110 OVC300 28/25 A2969 RMK TCU NE AND SW SLP056 T02780253 KERI 300751Z 26006KT 10SM FEW042 OVC055 23/18 A2989 RMK AO2 LTG DSNT E AND SE RAE41 TSE02 SLP116 P0002 T02330183 KFHR 300753Z AUTO 00000KT 10SM 13/11 A3011 RMK AO2 SLP196 T01280106 402830100 $ KFHU 300746Z AUTO 35002KT 10SM CLR 19/17 A3025 RMK AO2 FACT 300700Z 28006G16KT 250V310 9999 BKN030 13/12 Q1016 NOSIG EHVK 300755Z AUTO 24008KT 9999 FEW018 BKN088 16/12 Q1014 BLU 25006KT 9999 FEW016 BKN080 KESC 300755Z AUTO 26009KT 10SM CLR 19/12 A2980 RMK AO1 CZVL 300700Z AUTO 25007KT 9SM BKN100 OVC120 13/06 A3012 RMK SLP201 DENSITY ALT 2300FT KGAD 300755Z 00000KT 8SM CLR 24/21 A2996 RMK AO1 FACV 300751Z 30019KT 9999 FEW010 BKN025 08/02 Q1019 KFIN 300755Z AUTO 27003KT 10SM CLR 23/23 A2995 RMK AO2 T02280226 KGAF 300755Z AUTO 27008KT 10SM CLR 17/15 A2993 RMK AO2 KESF 300753Z AUTO 00000KT 9SM CLR 24/23 A3001 RMK AO2 SLP159 T02440228 VIAR 300700Z 11004KT 080V160 4000 HZ SCT040 SCT100 32/25 Q1000 NOSIG KGAG 300753Z AUTO 04005KT 10SM CLR 21/19 A3017 RMK AO2 SLP188 T02110194 KEQY 300753Z AUTO 18003KT 10SM OVC095 26/21 A2997 RMK AO2 SLP142 T02560211 KI16 300735Z AUTO 1SM BR OVC001 22/22 A3006 RMK AO2 T02150215 KGAI 300755Z AUTO 00000KT 10SM SCT046 BKN120 24/22 RMK AO1 KFKA 300752Z AUTO 26009KT 10SM CLR 17/13 A3007 RMK AO2 T01680130 KFIT 300752Z AUTO 00000KT 10SM CLR 21/18 A2989 RMK AO2 SLP121 T02110183 KETB 300735Z AUTO 26007KT 10SM CLR 19/11 A2997 RMK AO2 VIBN 300730Z 26008KT 6000 SCT025 34/25 Q1001 KETC 300755Z AUTO 00000KT 10SM 22/21 A2997 RMK AO2 T02150207 FAEL 300741Z 30012KT CAVOK 15/04 Q1013 KGBD 300755Z AUTO 11003KT 10SM OVC065 22/19 A3020 RMK AO1 LTG DSNT S KERV 300755Z AUTO 00000KT 10SM CLR 25/21 A3012 RMK AO2 T02520208 KESN 300756Z AUTO 21007KT 10SM CLR 27/25 A2997 RMK AO2 T02660254 EINN 300730Z VRB02KT 9999 FEW020 13/09 Q1022 NOSIG FAEO 300636Z 33008KT CAVOK 11/M02 Q1022 EHWO 300755Z AUTO 22005KT 9999 FEW032 SCT037 OVC062 14/12 Q1015 BLU 24006KT 9999 FEW028 SCT065 BKN120 TEMPO 27010G20KT TSRA FEW018 SCT020CB BKN030 KGBG 300735Z AUTO 00000KT 10SM CLR 18/15 A3011 RMK AO2 T01780152 KETH 300755Z AUTO 24008KT 10SM CLR 16/12 A3004 RMK AO2 KEST 300752Z AUTO 26006KT 10SM CLR 15/14 A3011 RMK AO2 SLP192 T01500139 KGBK 300755Z AUTO 29009KT 10SM CLR 29/24 A3001 RMK A01 KGCC 300753Z AUTO 18006KT 10SM CLR 09/04 A3029 RMK AO2 SLP225 T00940039 KFKL 300755Z AUTO 27008KT 4SM FEW006 BKN015 OVC047 22/19 A2994 RMK AO1 P0007 KFLD 300753Z AUTO 23005KT 10SM CLR 17/13 A2996 RMK AO2 SLP143 T01720128 KGCD 300755Z AUTO 12009KT 10SM CLR 19/01 A3022 RMK AO2 T01870005 403230111 KFKN 300735Z AUTO 00000KT 10SM CLR 21/21 A2997 RMK AO2 T02130208 KEUF 300758Z AUTO 00000KT 9SM CLR 26/24 A2992 RMK AO2 SLP127 T02560239 $ KEUG 300754Z AUTO 03006KT 10SM CLR 22/08 A2998 RMK AO2 SLP150 T02170078 403780133 KFLG 300757Z AUTO 00000KT 10SM CLR 14/11 A3041 RMK AO2 SLP190 T01440106 TSNO FAGG 300700Z 31018KT 9999 BKN060 15/04 Q1011 KFKR 300755Z AUTO 23004KT 10SM CLR A3006 RMK AO2 KFKS 300756Z AUTO 29008G16KT 10SM CLR 22/16 A2987 RMK AO2 T02170156 KEVB 300150Z 25008KT 10SM SCT040 27/24 A2996 RMK LAST KGDB 300751Z AUTO 22005KT 10SM CLR 15/12 A3007 RMK AO2 T01450122 KGCK 300754Z AUTO 10006KT 10SM BKN043 OVC050 21/19 A3025 RMK AO2 SLP211 T02060189 KI39 300755Z AUTO 00000KT 10SM OVC014 21/20 A3001 RMK AO2 KFLL 300753Z 25004KT 10SM FEW025 BKN140 OVC250 27/24 A2999 RMK AO2 SLP155 T02720244 $ KEUL 300755Z AUTO 02005KT 10SM CLR 14/04 A3016 RMK AO1 KGCM 300755Z AUTO 05009KT 10SM BKN055 BKN070 25/22 RMK AO2 FAGM 300400Z 27005KT CAVOK 08/M03 Q1021 VIDP 300730Z 16007KT 2200 BR SCT030 FEW040CB BKN100 28/25 Q1001 NOSIG KGCN 300754Z 03003KT 10SM CLR 16/10 A3038 RMK AO2 SLP176 T01610100 KFME 300742Z AUTO 00000KT 2SM CLR 22/21 A2995 RMK AO1 KFLO 300753Z AUTO 00000KT 10SM CLR 24/21 A2996 RMK AO2 SLP141 T02390211 KFLP 300755Z 01004KT 10SM FEW055 25/20 A3011 RMK AO1 KFMH 300755Z AUTO 24009KT 5SM BR OVC004 23/22 A2991 RMK AO2 KGDJ 300735Z AUTO 00000KT 10SM CLR 27/19 A3006 RMK AO2 T02710192 CZZJ 300700Z AUTO 25002KT 10/06 RMK AO1 SLP227 T00980057 51005 KEWB 300753Z AUTO 22005KT 4SM BR CLR 21/21 A2989 RMK AO2 SLP122 T02110206 KFNB 300753Z AUTO 00000KT 10SM CLR 18/18 A3017 RMK AO2 SLP210 T01830178 URFF 300730Z 08004MPS 040V110 CAVOK 31/16 Q1012 01010095 NOSIG KEVM 300754Z AUTO 24006KT 10SM CLR 15/11 A2989 RMK AO2 KGED 300754Z AUTO 19006KT 10SM CLR 24/22 A2996 RMK AO2 SLP143 T02390222 KFMM 300755Z AUTO 06006KT 10SM CLR 15/10 A3029 RMK AO2 T01450100 KFMN 300753Z AUTO 09004KT 10SM CLR 18/12 A3033 RMK AO2 SLP211 T01830117 KGEG 300753Z 16007KT 10SM CLR 21/00 A3014 RMK AO2 SLP189 T02110000 403110139 KGDP 300751Z AUTO 07007KT 10SM CLR 23/12 A3029 RMK AO2 SLP169 T02280117 KFLY 300754Z AUTO 00000KT 10SM CLR 14/11 A3045 RMK AO2 T01410109 KFOA 300755Z AUTO 32004KT 10SM CLR 19/15 A3009 RMK AO2 T01870151 KGFA 300656Z AUTO 23008KT 10SM CLR 16/07 A3021 RMK AO2 SLP214 T01580068 TSNO $ KEWK 292035Z AUTO 06005KT 10SM CLR 27/18 A3018 RMK AO1 KFNL 300755Z AUTO 35007KT 10SM CLR 16/09 A3030 RMK AO1 FAJB 300800Z AUTO 33001KT //// // ////// 15/M06 Q1022 KEVV 300754Z AUTO 33003KT 10SM CLR 22/18 A3007 RMK AO2 SLP179 T02220178 KFOD 300755Z 23005KT 10SM CLR 16/13 A3014 RMK AO1 KGDV 300755Z AUTO 19007KT 10SM CLR 14/09 A3015 RMK AO1 DRRM 300700Z 22004KT CAVOK 24/22 Q1014 KFOE 300753Z AUTO 00000KT 10SM CLR 21/18 A3019 RMK AO2 SLP212 T02060183 KEVW 300753Z AUTO 15007KT 10SM CLR 12/M04 A3046 RMK AO2 SLP223 T01221039 KEWN 300754Z AUTO 00000KT 10SM CLR 24/22 A2995 RMK AO2 SLP141 T02390222 KI63 300735Z AUTO 28004KT 10SM CLR 19/16 A3013 RMK AO2 T01900156 DRRN 300700Z 27007KT 9999 FEW030 24/22 Q1014 NOSIG KFMY 300753Z AUTO 00000KT 10SM CLR 26/24 A2998 RMK AO2 SLP155 T02560244 EISG 300730Z 25007KT CAVOK 12/09 Q1021 KEWR 300751Z 19006KT 10SM SCT250 26/22 A2991 RMK AO2 SLP129 T02560222 EKAH 300750Z AUTO 30005KT 280V340 9999NDV NCD 16/10 Q1001 KI67 300755Z AUTO 00000KT 10SM SCT040 21/16 A3000 RMK AO1 KFOK 300753Z 24014KT 10SM CLR 25/23 A2994 RMK AO2 SLP138 T02500233 $ KFNT 300753Z 26007KT 10SM CLR 20/14 A2992 RMK AO2 SLP124 T02000139 KGFK 300753Z AUTO 26008KT 10SM CLR 18/14 A2993 RMK AO2 SLP134 T01780139 TSNO KI69 300725Z AUTO 33005KT 10SM BKN037 OVC055 24/22 A2999 RMK AO1 KGEU 300247Z 19006KT 20SM FEW080 SCT110 BKN180 36/16 A2992 RMK LAST DRRT 300700Z 24010KT CAVOK 24/22 Q1013 KGFL 300753Z AUTO 00000KT 8SM CLR 19/18 A2986 RMK AO2 SLP108 T01890178 KGEV 300755Z AUTO 00000KT 3SM BR SCT001 19/19 A3010 RMK AO2 T01930193 KEYE 300753Z AUTO 31008KT 10SM CLR 20/16 A3004 RMK AO2 SLP164 T02000156 KGGE 300755Z AUTO 00000KT 10SM BKN011 23/23 A2995 RMK AO2 KEYF 300755Z AUTO 00000KT 10SM CLR 23/22 A2996 RMK AO2 T02300223 KGEY 300753Z AUTO 32003KT 10SM CLR 14/02 A3025 RMK AO2 SLP214 T01390022 KGGG 300753Z AUTO 00000KT 10SM CLR 26/23 A3003 RMK AO2 SLP158 T02610228 KI75 300735Z AUTO 23004KT 10SM 18/15 A3016 RMK AO2 T01810154 KGEZ 300753Z AUTO 31003KT 10SM CLR 19/16 A3003 RMK AO2 SLP161 T01940161 KGGI 300755Z AUTO 25005KT 10SM CLR 17/15 A3013 RMK AO2 T01730152 EKBI 300750Z AUTO 29005KT 250V320 9999NDV FEW011/// BKN014/// 15/12 Q1001 FALA 300725Z VRB02KT CAVOK 13/M01 Q1022 NOSIG KFPK 300755Z AUTO 00000KT 10SM CLR 18/14 A2994 RMK AO2 T01750135 KFOT 300755Z AUTO 00000KT 10SM CLR 13/12 A2995 RMK AO1 KGHB 300755Z AUTO 34006KT 10SM SCT028 SCT035 SCT041 30/24 A3001 RMK A01 KFQD 300735Z AUTO 36003KT 7SM CLR 23/23 A3000 RMK AO2 T02300229 FAKM 300700Z 00000KT CAVOK 06/M00 Q1023 FALE 300700Z 25005KT 9999 FEW035 19/13 Q1014 NOSIG FAKN 300732Z 27003KT CAVOK 20/M00 Q1017 NOSIG KEXX 300755Z AUTO 00000KT 4SM -DZ SCT075 OVC095 24/23 A2997 RMK AO2 T02350232 KEZF 300735Z AUTO 18006KT 10SM CLR 26/25 A2993 RMK AO2 T02560252 KGGP 300755Z AUTO 25004KT 10SM CLR 16/13 A3004 RMK AO2 KGHG 300755Z AUTO 24004KT 10SM CLR 23/21 A2990 RMK AO2 WAAA 300730Z 04013KT 010V080 9999 FEW020 33/20 Q1009 NOSIG KFOZ 300753Z AUTO 24005KT 10SM CLR 15/12 A2990 RMK AO2 KFPR 300753Z AUTO 24005KT 10SM CLR 25/24 A2997 RMK AO2 SLP149 T02500239 TSNO EKCH 300750Z VRB01KT 9999 SCT020 17/12 Q1000 NOSIG PKWA 300740Z AUTO 00000KT 10SM SCT034 SCT040 BKN046 27/24 A2972 KGIC 300755Z AUTO 14003KT 10SM CLR 14/04 A3021 RMK AO1 T01400039 KEZM 300755Z AUTO 00000KT 10SM OVC110 25/25 A2996 RMK AO2 T02520252 FALM 300800Z 30010KT 7000 NSC 25/// Q1019 KEYW 300753Z AUTO 00000KT 10SM CLR 29/25 A3001 RMK AO2 SLP160 T02890250 KGGW 300753Z AUTO 16005KT 10SM BKN110 17/12 A3011 RMK AO2 SLPNO T01720117 KGIF 300753Z AUTO 24003KT 10SM CLR 25/24 A2998 RMK AO2 SLP151 T02500244 TSNO KFRG 300753Z AUTO 22007KT 10SM CLR 25/22 A2993 RMK AO2 SLP134 T02500222 URKA 300730Z 07006MPS CAVOK 30/21 Q1011 R04/010070 NOSIG RMK QFE754/1006 KFRI 300758Z AUTO 06002KT 10SM CLR 19/19 A3019 RMK AO2 SLP215 T01850185 KEZS 300755Z AUTO 25007KT 10SM CLR 20/13 A2991 RMK AO2 T02020128 EKEB 300750Z AUTO 28012KT 2700NDV -SHRA BR BKN004/// 14/13 Q1002 KFRM 300755Z AUTO 24007KT 10SM CLR 18/11 A3009 RMK AO1 KFSD 300756Z AUTO 00000KT 10SM BKN100 17/14 A3012 RMK AO2 SLP193 T01670139 VIJP 300730Z 24014KT 2500 HZ SCT020 OVC090 27/23 Q1003 NOSIG FAMM 300700Z 17007KT CAVOK 08/M04 Q1021 NOSIG KGHW 300753Z AUTO 24008KT 10SM CLR 17/14 A3004 RMK AO2 KFSE 300754Z AUTO 00000KT 10SM CLR 13/12 A2996 RMK AO2 KHAE 300735Z AUTO 29004KT 10SM CLR 20/15 A3015 RMK AO2 FALW 300700Z AUTO 33007KT //// // ////// 12/10 Q1018 PMDY 300756Z AUTO 06012KT CLR 26/21 A3000 RMK AO2 TSNO T02550211 SLP463 $ EIWF 300730Z VRB02KT 9999 BKN042 10/09 Q1022 URKK 300730Z 06003MPS 350V120 9999 FEW016 30/22 Q1012 R23C/CLRD70 NOSIG RMK QFE755 KHAI 300754Z AUTO 28007KT 10SM CLR 18/14 A2998 RMK AO2 T01830141 KFRR 300755Z AUTO 00000KT 10SM SCT120 25/22 A2991 RMK AO1 KFSI 300658Z AUTO 13006KT 10SM CLR 27/19 A3007 RMK AO2 SLP170 T02680192 USCC 300730Z 29002MPS 9999 FEW033 23/12 Q1012 R27/000060 NOSIG RMK QFE739 FAOB 300700Z AUTO 33012KT //// // ////// 11/09 Q1013 KFSM 300753Z AUTO 08004KT 10SM BKN090 28/23 A3007 RMK AO2 SLP176 T02780233 KHAO 300753Z AUTO 31006KT 10SM BKN045 OVC060 23/19 A3001 RMK AO2 SLP157 T02330194 KFSO 300755Z AUTO 16004KT 10SM SCT085 21/19 A2981 RMK AO2 T02090192 KFTG 300247Z 13008KT 50SM SCT160 BKN200 22/08 A3029 KHBG 300753Z AUTO 00000KT 10SM CLR 24/23 A2999 RMK AO2 SLP152 T02440228 VILK 300730Z 31008KT 6000 SCT018 SCT025 34/25 Q1001 NOSIG KHBI 300755Z AUTO 17004KT 10SM BKN095 BKN120 26/21 A3000 RMK AO2 T02560211 KGKJ 300753Z AUTO 31005KT 10SM -RA FEW015 SCT035 BKN045 22/19 A2993 RMK AO2 SLP123 T02220189 TSNO PNO USDD 300730Z 02002MPS 9999 FEW033 BKN100 17/08 Q1003 R04/CLRD60 NOSIG RMK QFE747/0996 WADD 300730Z 13016KT 9999 BKN016 28/22 Q1011 NOSIG USCM 300730Z 29001MPS 9999 NSC 26/03 Q1012 R01/090065 NOSIG RMK QFE721 KFST 300753Z AUTO 16009KT 10SM CLR 26/13 A3013 RMK AO2 SLP147 T02560133 KFTK 300758Z AUTO 32006KT 10SM FEW036 22/20 A3003 RMK AO2 SLP164 T02220202 KGJT 300753Z AUTO 11004KT 10SM CLR 19/M02 A3023 RMK AO2 SLP164 T01891022 KGLD 300753Z AUTO 18008KT 10SM CLR 16/14 A3029 RMK AO2 SLP218 T01610139 KHCD 300752Z AUTO 23004KT 10SM CLR 15/13 A3005 RMK AO2 T01520132 KFSW 300755Z AUTO 26005KT 10SM CLR 19/16 A3013 RMK AO2 KFTN 300755Z AUTO 15007G13KT 10SM 27/20 A3003 RMK A01 KGLE 300735Z AUTO 00000KT 10SM CLR 25/19 A3008 RMK AO2 T02530191 FAPE 300700Z 34007KT 310V030 CAVOK 13/03 Q1012 NOSIG KGLH 300753Z AUTO 00000KT 10SM CLR 27/25 A3000 RMK AO2 SLP162 T02670250 KHBR 300753Z AUTO 06003KT 9SM BKN085 26/23 A3011 RMK AO2 SLP171 T02560233 URML 300730Z 12004MPS 090V150 9999 NSC 31/19 Q1011 R14/01//70 NOSIG RMK QFE758/1011 FAOR 300800Z 22006KT 190V250 CAVOK 13/M05 Q1023 NOSIG WADL 300730Z 14012KT 9999 FEW016 29/21 Q1012 NOSIG DRZA 300700Z 30004KT CAVOK 25/21 Q1013 URMM 300730Z 11004MPS 9999 NSC 32/13 Q1013 R12/000070 NOSIG RMK QFE731/0975 KGKT 300755Z AUTO 00000KT 10SM SCT037 BKN045 23/21 A2999 RMK URMN 300730Z 02001MPS 9999 NSC 30/15 Q1013 R24/010070 NOSIG RMK QFE723 FBFT 300700Z 34010KT CAVOK 23/04 Q1020 KFUL 300753Z 00000KT 10SM CLR 23/18 A2997 RMK AO2 SLP147 T02280178 402890211 KHDC 300755Z AUTO 00000KT 10SM CLR 24/22 A3001 RMK AO2 URMO 300730Z VRB01MPS 9999 NSC 30/15 Q1014 R10/010070 NOSIG RMK QFE717/0956 KHBV 300730Z AUTO 00000KT 7SM 24/22 A3006 RMK AO2 T02360223 ZWSH 300700Z 14003MPS 100V190 9999 SCT040 31/09 Q1009 NOSIG KFVE 300753Z AUTO 12005KT 10SM CLR 13/12 A2988 RMK AO2 SLP113 T01330122 KFTW 300753Z 16003KT 10SM CLR 29/18 A3004 RMK AO2 SLP161 T02890178 KHDE 300735Z AUTO 00000KT 10SM CLR 16/11 A3024 RMK AO2 T01550107 FAPN 300700Z AUTO 19003KT //// // ////// 16/M05 Q1020 KHCO 300754Z AUTO 00000KT 10SM CLR 14/13 A2990 RMK AO2 KFTY 300753Z 00000KT 9SM CLR 25/23 A2995 RMK AO2 SLP133 T02500233 KGKY 300753Z AUTO 17003KT 10SM CLR 26/19 A3004 RMK AO2 SLP161 T02560194 FAPP 300700Z 19001KT 8000 NSC 18/08 Q1020 NOSIG URMT 300730Z 14003MPS 110V180 9999 FEW026 30/17 Q1014 R07/010070 NOSIG RMK QFE720 KGLR 300753Z AUTO 24006KT 10SM CLR 18/14 A2984 RMK AO2 SLP097 T01830139 KGLS 300752Z AUTO 26005KT 10SM CLR 28/26 A3002 RMK AO2 SLP167 T02830256 KFWA 300754Z 26006KT 10SM FEW280 18/16 A3001 RMK AO2 SLP155 T01780156 KGNA 300756Z AUTO 24008KT 220V280 09/07 A2972 RMK AO1 SLP065 T00890067 KGMJ 300755Z AUTO 00000KT 10SM CLR 25/22 A3013 RMK AO2 KFWB 300735Z AUTO 08003KT 10SM BKN048 OVC050 24/20 A3016 RMK AO2 KGNC 300755Z AUTO 00000KT 10SM CLR 23/16 A3018 RMK AO2 T02330155 KFWC 300735Z AUTO 00000KT 10SM CLR 20/16 A3007 RMK AO1 T01980159 KHDN 300755Z AUTO 10007KT 10SM CLR 11/M03 A3039 RMK AO1 KGLW 300735Z AUTO 00000KT 4SM HZ BKN022 A3002 RMK AO2 KHDO 300751Z AUTO 09005KT 10SM CLR 25/21 A3008 RMK AO2 SLP167 T02500211 KHEF 300755Z 15003KT 10SM FEW028 23/23 A2992 RMK AO1 KGLY 300755Z AUTO 02003KT 10SM CLR 19/18 A3017 RMK AO2 ZYCC 300700Z 02003MPS 330V050 9999 SCT026 27/17 Q1006 NOSIG KHEI 300753Z AUTO 33003KT 10SM CLR 09/07 A3018 RMK AO2 SLP211 T00890067 DRZR 300700Z 28008KT CAVOK 25/20 Q1013 FASB 300552Z 29009KT 9999 OVC012 04/02 Q1023 KGMU 300753Z AUTO 14003KT 10SM CLR 25/23 A2999 RMK AO2 SLP142 T02500228 KHFD 300753Z AUTO 00000KT 10SM CLR 23/22 A2989 RMK AO2 SLP123 T02330217 KFXE 300753Z AUTO 25004KT 10SM CLR 27/24 A2999 RMK AO2 SLP158 T02670239 TSNO KFWN 300753Z AUTO 00000KT 6SM BR BKN021 21/19 A2992 RMK AO2 SLP128 T02110194 KHFF 300756Z AUTO 05001KT 10SM CLR 23/21 A2996 RMK AO2 SLP157 T02340214 TSNO $ KFVX 300735Z AUTO 00000KT 2SM BR CLR 23/23 A2995 RMK AO2 VIS 3/4V4 T02250225 KHEQ 300755Z AUTO 20005KT 10SM CLR 15/11 A3028 RMK AO2 KGNR 300656Z AUTO 11004KT 18/13 A2990 RMK AO1 SLP118 T01830133 FASI 300800Z AUTO /////KT //// // ////// 12/M02 Q1022 KFWS 300735Z AUTO 00000KT 10SM CLR 24/19 A3006 RMK AO2 T02400191 KHFJ 300735Z AUTO 00000KT 10SM CLR 22/20 A3015 RMK AO2 DTKA 300700Z 24006KT CAVOK 30/21 Q1010 NOSIG EKKA 300750Z 31004KT 260V350 9999 BKN013 16/13 Q1001 NOSIG KGOK 300753Z AUTO 07008KT 10SM CLR 26/22 A3011 RMK AO2 SLP183 T02560222 KGNT 300755Z AUTO 17010KT 10SM DZ OVC090 16/15 A3043 RMK AO2 LTG DSNT SE AND S P0001 T01600148 FCBB 300700Z VRB02KT 7000 FEW010 19/18 Q1017 BECMG 4000 BR KGNV 300753Z AUTO 28003KT 8SM FEW002 23/22 A2996 RMK AO2 SLP139 T02280217 $ KGON 300756Z AUTO 24005KT 7SM CLR 24/23 A2990 RMK AO2 SLP126 T02390228 USHH 300730Z 25003MPS CAVOK 21/12 Q1004 R06/010060 NOSIG RMK QFE749 FBKE 300700Z VRB02KT CAVOK 18/05 Q1022 KGOO 300755Z AUTO 00000KT 10SM CLR 27/02 A3012 RMK AO1 KHEY 300753Z AUTO 00000KT 7SM BKN120 24/ A2993 RMK AO2 SLP022 T0244 $ KFYG 300755Z AUTO 00000KT 10SM CLR 19/17 A3012 RMK AO2 KGOP 300735Z AUTO 00000KT 10SM CLR 27/19 A3007 RMK AO2 KGPH 300755Z AUTO 00000KT 7SM SCT002 18/18 A3017 RMK AO2 KHEZ 300755Z AUTO 00000KT 10SM CLR 26/22 A3002 RMK AO1 KFWZ 300755Z AUTO 32009KT 10SM CLR 13/M06 A3047 RMK AO2 KGPI 300755Z AUTO 00000KT 10SM CLR 09/03 A3020 RMK AO2 SLP216 T00940033 KFYJ 300755Z AUTO 00000KT 10SM CLR 26/22 A2996 RMK AO2 T02550220 KGOV 300755Z AUTO 24005KT 10SM CLR 18/13 A2987 RMK AO2 T01810132 KFYM 300755Z AUTO 00000KT 10SM CLR 24/23 A3001 RMK KGPM 300755Z AUTO 00000KT 10SM CLR 29/20 A3005 RMK AO2 T02910197 KHHF 300735Z AUTO 07006KT 10SM CLR 22/20 A3018 RMK AO2 LTG DSNT N T02200202 KFXY 300735Z AUTO 00000KT 10SM CLR 15/14 A3011 RMK AO2 KFZG 300735Z AUTO 30005KT 10SM SCT120 26/25 A2996 RMK AO2 T02550247 KHHG 300735Z AUTO 27005KT 10SM CLR 18/15 A3001 RMK AO2 T01750150 UTAA 300700Z 31005MPS 260V010 9999 FEW140 38/05 Q1009 NOSIG KHGR 300753Z AUTO 20003KT 10SM CLR 25/23 A2991 RMK AO2 SLP130 T02500228 KGPT 300753Z AUTO 35004KT 10SM CLR 24/23 A2997 RMK AO2 SLP147 T02440233 KGRB 300753Z AUTO 25008KT 10SM CLR 20/13 A2991 RMK AO2 SLP126 T02000128 KHIB 300753Z AUTO 25004KT 10SM CLR 17/12 A2989 RMK AO2 SLP120 T01720117 DTMB 300730Z 22008KT CAVOK 33/23 Q1011 NOSIG KFYV 300753Z AUTO 06003KT 10SM CLR 24/23 A3014 RMK AO2 SLP187 T02440228 KGRD 300756Z AUTO 16004KT 10SM SCT047 25/23 A2998 RMK AO2 SLP145 T02500233 $ KHIE 300752Z AUTO 00000KT 7SM CLR 17/16 A2990 RMK AO2 SLP119 T01670156 TSNO KHIF 300658Z AUTO 11013KT 10SM CLR 18/00 A3027 RMK AO2 SLP196 T01830002 402840110 KGRF 300658Z AUTO 07002KT 10SM CLR 21/09 A3008 RMK AO2 SLP188 T02090089 PWINO $ URRR 300730Z 08002MPS 350V160 9999 FEW040 29/14 Q1013 R04/CLRD70 NOSIG RMK QFE753/1004 FAUP 300700Z 00000KT CAVOK 05/00 Q1024 NOSIG KGPZ 300755Z AUTO 27007KT 10SM CLR 18/12 A2992 RMK AO1 WAJJ 300700Z 26005KT 9999 FEW013CB SCT015 31/23 Q1007 UTAK 300700Z 30003MPS CAVOK 33/18 Q1010 NOSIG KGRI 300753Z AUTO 22003KT 10SM CLR 17/13 A3022 RMK AO2 SLP226 T01670128 KHHR 300753Z AUTO 00000KT 10SM CLR 21/17 A2999 RMK AO2 SLP153 T02110172 402560200 KHII 300730Z AUTO 13008KT 10SM CLR 35/15 A2991 RMK AO2 UTAM 300700Z 36006MPS CAVOK 35/08 Q1007 NOSIG KGSB 300658Z AUTO 00000KT 10SM CLR 23/22 A2995 RMK AO2 SLP144 T02270218 $ ZWWW 300730Z 32003MPS CAVOK 29/10 Q1009 NOSIG KIAB 300658Z AUTO 07005KT 10SM CLR 24/20 A3017 RMK AO2 SLP206 T02360199 KGRK 300658Z AUTO 19006KT 9SM CLR 28/20 A3006 RMK AO2 SLP166 T02790200 FAWB 300700Z AUTO 24007KT //// // ////// 13/M00 Q1020 FAUT 300732Z /////KT CAVOK 11/06 Q1016 KIAD 300752Z 17008KT 10SM FEW055 SCT130 SCT250 24/22 A2992 RMK AO2 SLP127 T02440222 KHHV 300755Z AUTO 25006KT 10SM CLR 29/24 A3003 RMK A01 KHHW 300735Z AUTO 00000KT 10SM CLR 28/23 A3005 RMK AO2 T02790227 FBMN 300700Z VRB01KT CAVOK 19/05 Q1021 KHIO 300753Z 30007KT 10SM CLR 22/08 A3000 RMK AO2 SLP155 T02170083 403670122 KIAG 300753Z AUTO 25006KT 10SM FEW046 BKN090 OVC100 24/20 A2980 RMK AO2 LTG DSNT S SLP084 T02440200 $ KFZY 300754Z AUTO 19007KT 10SM CLR 24/19 A2981 RMK AO2 SLP090 T02390194 URSS 300730Z 19003MPS 160V230 9999 NSC 29/21 Q1010 R06/090070 R02/090070 NOSIG RMK R02/21004MPS QFE757 ZYHB 300700Z 03006MPS 9999 FEW033 27/17 Q1007 NOSIG KIAH 300753Z 00000KT 10SM CLR 28/24 A3002 RMK AO2 SLP164 T02780244 KGSH 300753Z AUTO 26005KT 10SM CLR 17/14 A2999 RMK AO2 SLP151 T01720139 KHJH 300735Z AUTO 00000KT 10SM CLR 15/14 A3021 RMK AO2 T01540139 UTAT 300700Z 14004MPS CAVOK 36/16 Q1009 NOSIG KGRR 300753Z AUTO 25006KT 10SM CLR 19/15 A2995 RMK AO2 SLP136 T01890150 KHKA 300753Z AUTO 36007KT 10SM CLR 26/26 A3004 RMK AO2 SLP171 T02560256 UTAV 300700Z 02003MPS CAVOK 33/05 Q1007 NOSIG KGTB 300758Z AUTO 18008KT 10SM CLR 23/19 A2980 RMK AO2 SLP086 T02280186 FAWK 300700Z AUTO 19003KT //// // ////// 13/00 Q1022 EKOD 300750Z 26007KT 220V300 9999 BKN006 15/14 Q1001 FAVV 300800Z AUTO 23004G17KT //// // ////// 11/M04 Q1022 KGTF 300753Z 23006KT 10SM CLR 14/05 A3021 RMK AO2 SLP207 T01440050 KHJO 300753Z AUTO 13004KT 10SM CLR 26/14 A2988 RMK AO2 SLP117 T02560144 404110178 KGSO 300754Z 00000KT 10SM FEW048 BKN095 25/23 A2997 RMK AO2 SLP136 T02500233 KGSP 300753Z AUTO 00000KT 9SM CLR 24/23 A2997 RMK AO2 SLP133 T02440233 KGRY 300800Z AUTO 29004KT 10SM CLR 32/24 A3001 RMK A01 WALL 291230Z VRB03KT 9000 SCT01827/24 Q1011 NOSIG UTDD 300730Z VRB02MPS 9999 FEW066CB 33/14 Q1007 R09/CLRD// NOSIG RMK QFE688/0917 KGUC 300355Z AUTO 01004KT 10SM CLR 18/03 A3045 RMK AO1 KHLC 300753Z AUTO 07003KT 10SM BKN026 OVC032 19/17 A3025 RMK AO2 SLP221 T01940167 KIBM 300755Z AUTO 18009KT 10SM CLR 16/09 A3028 RMK AO2 T01600086 KHLG 300753Z AUTO 28005KT 6SM HZ CLR 24/22 A2993 RMK AO2 LTG DSNT SE AND S SLP125 T02440217 URWA 300730Z 27004MPS CAVOK 36/12 Q1009 R09/010070 NOSIG UTDK 300730Z 21004MPS 9999 SCT050CB BKN130 32/12 Q1006 01CLRD70 RMK QFE698/0931 KGTR 300755Z AUTO 00000KT 3SM CLR 24/22 A2999 RMK AO1 UTDL 300730Z 25006G09MPS 9999 FEW046 33/07 Q1008 NOSIG RMK QFE718/0958 88CLRD70 KIDA 300753Z AUTO 36004KT 10SM CLR 08/05 A3031 RMK AO2 SLP236 T00780050 KHKS 300753Z AUTO 00000KT 10SM CLR 27/22 A3001 RMK AO2 SLP153 T02720222 WAMM 300730Z 10006KT 9999 SCT019 30/24 Q1009 NOSIG KGUL 300755Z AUTO 00000KT 10SM CLR 31/24 A3001 RMK A01 KGTU 300755Z 21006KT 10SM CLR 27/21 A3004 RMK AO1 KICL 300735Z AUTO 00000KT 10SM CLR 17/17 A3019 RMK AO2 KHLN 300753Z AUTO 00000KT 10SM CLR 14/06 A3026 RMK AO2 SLP234 T01440056 KGVE 300733Z AUTO 00000KT 5SM BR CLR 22/22 A2994 RMK AO1 URWI 300730Z 23003MPS CAVOK 34/12 Q1011 R27/010065 KGUP 300753Z AUTO 05003KT 10SM -RA FEW070 OVC095 16/13 A3038 RMK AO2 RAE30B52 SLP135 P0002 T01610133 KHKY 300753Z AUTO 20003KT 10SM SCT120 23/21 A2999 RMK AO2 SLP129 T02330211 UTFA 292000Z 02004KT 9999 NSC 23/17 Q1006 R88/09//70 UTDT 300730Z 22003MPS 180V260 9999 FEW060CB SCT200 36/15 Q1004 35CLRD70 RMK QFE714/0952 KICR 300753Z AUTO 21009KT 10SM OVC095 23/11 A3015 RMK AO2 SLP191 T02280111 KIDI 300755Z AUTO 00000KT 5SM BR OVC034 22/22 A2995 RMK A01 KGUR 300755Z AUTO 10SM 17/11 A3026 RMK AO2 T01690113 PWINO KHLR 300758Z AUTO 20005KT 10SM CLR 28/21 A3004 RMK AO2 SLP159 T02770206 KGUS 300758Z AUTO 26004KT 10SM CLR 16/14 A3002 RMK AO2 SLP164 T01560141 KICT 300753Z 10009KT 10SM BKN055 BKN130 24/20 A3016 RMK AO2 SLP198 T02440200 KHNB 300755Z AUTO 00000KT 10SM CLR 21/17 A3006 RMK AO1 KGWB 300755Z AUTO 25003KT 10SM CLR 18/14 A3000 RMK AO2 USNN 300730Z 28005MPS 9999 OVC031 15/08 Q0999 R21/0///65 NOSIG RMK QFE745 KGVL 300753Z AUTO 10003KT 10SM CLR 24/22 A3000 RMK AO2 SLP141 T02390217 UTFF 300730Z 33008KT 300V360 9999 NSC 32/13 Q1008 R18/CLRD70 KHND 300756Z 21012KT 10SM CLR 31/13 A3002 RMK AO2 SLP129 T03060128 KHMN 300658Z AUTO 29010KT 10SM FEW090 BKN150 23/15 A3020 RMK AO2 LTG DSNT S SLP154 T02320152 403280203 $ KHLX 300755Z AUTO 19004KT 7SM CLR 20/19 A3007 RMK AO2 T01960192 KGUY 300753Z AUTO 09008KT 10SM BKN060 21/18 A3024 RMK AO2 SLP194 T02060178 KIDP 300735Z AUTO 03005KT 10SM CLR 24/18 A3014 RMK AO2 WBGB 300700Z 31006KT 250V050 9999 FEW015CB SCT016 BKN300 32/25 Q1009 KGXA 292355Z AUTO 33/11 A3002 RMK AO2 SLP113 T03340106 10365 20316 403650184 55008 PNO TSNO $ KIFA 300755Z AUTO 26004KT 10SM CLR 16/14 A3013 RMK AO2 T01580143 KHOB 300755Z AUTO 00000KT 10SM CLR 22/19 A3019 RMK AO2 KGVT 300735Z AUTO 00000KT 10SM CLR 24/20 A3004 RMK AO2 UTFN 300730Z 15005KT 100V190 9999 FEW050CB 33/11 Q1007 R28/CLRD70 NOSIG URWW 300730Z 02006MPS CAVOK 29/11 Q1012 R29/010070 NOSIG EKRK 300750Z AUTO 28003KT 9999NDV FEW019/// 16/10 Q1000 EKSB 300750Z 26013G23KT 230V290 6000 -DZ SCT007 BKN012 14/13 Q1002 WAOO 300700Z 11008KT 9999 SCT018 34/22 Q1009 NOSIG WBGG 300730Z 29005KT 9999 FEW015CB SCT020 BKN300 33/23 Q1008 NOSIG KIEN 300752Z AUTO 07004KT 10SM CLR 12/09 A3021 RMK AO2 SLP207 T01220089 KHOE 300735Z AUTO 00000KT 10SM CLR 25/25 A2993 RMK AO2 KGXF 300658Z AUTO 12005KT 10SM CLR 31/18 A2994 RMK AO2 SLP126 T03050179 403650254 EKRN 300750Z AUTO 27007KT 9999NDV BKN012/// 15/12 Q1000 KGWO 300753Z AUTO 00000KT 10SM CLR 24/23 A3001 RMK AO2 SLP158 T02440228 KGVX 300755Z AUTO 26010KT 10SM CLR 29/26 A3001 RMK A01 KHMZ 300735Z AUTO 00000KT 5SM BR CLR 21/20 A2993 RMK AO2 T02130204 KGWR 300755Z AUTO 26010KT CLR 16/12 A3005 RMK AO1 KHNR 300735Z AUTO 21003KT 10SM CLR 15/15 A3019 RMK AO2 DTTA 300730Z 21004KT 160V250 CAVOK 32/18 Q1010 NOSIG KGYB 300735Z AUTO 22003KT 10SM CLR 25/22 A3008 RMK AO2 T02530220 DTTB 300700Z 00000KT CAVOK 29/20 Q1010 FBSK 300700Z VRB02KT CAVOK 13/M05 Q1020 NOSIG USPP 300730Z 20006MPS CAVOK 27/14 Q1006 R21/090060 NOSIG RMK QFE744 DTTD 300700Z 28002KT CAVOK 30/14 Q1014 KGWW 300755Z AUTO 00000KT 10SM CLR 21/21 A2996 RMK AO2 T02080207 KHON 300755Z AUTO 24005KT 10SM CLR 17/12 A3010 RMK AO2 SLP186 T01670122 EKSN 300750Z 30006KT 9999 BKN018 16/14 Q1000 DTTF 300700Z 01005KT 350V050 CAVOK 31/16 Q1011 NOSIG WBGR 300700Z 31006KT 280V020 9999 FEW015CB SCT150 BKN300 29/24 Q1008 KIFP 300755Z AUTO 16011KT 10SM CLR 35/14 A2989 RMK AO2 KHOP 300758Z AUTO 36007KT 10SM CLR 24/23 A3003 RMK AO2 SLP165 T02400225 DTTG 300700Z 20003KT 160V240 CAVOK 32/16 Q1011 NOSIG WBGS 300700Z 25005KT 210V350 9999 BKN018 BKN300 33/24 Q1008 FBSP 300700Z 35011KT CAVOK 21/07 Q1019 EKSP 300751Z 28016KT 2800 -DZ BKN007 BKN012 FEW020CB 14/14 Q1002 BECMG 8000 -SHRA BKN012 TEMPO 28016G26KT KHNZ 300755Z AUTO 20004KT 10SM CLR 22/20 A2998 RMK AO2 T02240201 KGYH 300755Z AUTO 00000KT 10SM CLR 22/22 A2998 RMK AO2 KGYI 300755Z AUTO 17004KT 10SM CLR 28/19 A3007 RMK AO2 T02760188 DTTJ 300730Z 20003KT 140V240 CAVOK 33/20 Q1010 NOSIG KHOT 300753Z AUTO 00000KT 10SM OVC060 28/23 A3006 RMK AO2 SLP169 T02780228 DTTK 300700Z 18002KT CAVOK 31/21 Q1011 KHOU 300753Z 23004KT 10SM FEW250 27/24 A3001 RMK AO2 SLP165 T02720244 KGYL 300755Z AUTO 23004KT 10SM CLR 16/14 A3003 RMK AO2 T01620137 DTTL 300700Z 17003KT 100V230 CAVOK 29/24 Q1011 KIGM 300751Z AUTO 16007KT 10SM CLR 28/14 A3011 RMK AO2 SLP114 T02830139 WBGY 300700Z 28004KT 9999 SCT024 BKN300 34/25 Q1008 KHPN 300756Z 00000KT 10SM CLR 25/22 A2992 RMK AO2 SLP123 T02500222 DTTN 300600Z 20002KT CAVOK 26/18 Q1010 KGXY 300755Z AUTO 11006KT 10SM CLR 16/10 A3027 RMK AO1 KGZH 300753Z AUTO 00000KT 10SM CLR 24/23 A2996 RMK AO2 SLP140 T02440233 KIGQ 300755Z AUTO 27005KT 10SM CLR 19/13 A3002 RMK AO2 T01880128 KGYR 300347Z 10010G16KT 10SM SCT120 BKN180 BKN250 34/16 A2996 RMK LAST KHQI 300755Z AUTO 27006KT 10SM 30/24 A3002 RMK A01 DTTR 300700Z 10010KT CAVOK 32/11 Q1013 KIIB 300755Z AUTO 26005KT 10SM CLR 15/15 A3009 RMK AO2 KGZL 300735Z AUTO 05003KT 10SM OVC070 25/24 A3008 RMK AO2 KHQM 300753Z AUTO 05003KT 8SM CLR 16/13 A3008 RMK AO2 SLP189 T01560133 402890111 EKVD 300750Z 27007KT 240V300 9999 BKN006 BKN012 16/14 Q1001 KIGX 300756Z AUTO 00000KT 10SM FEW095 24/21 A2998 RMK AO2 SLP144 T02390206 TSNO WARR 300730Z 10012KT 9999 FEW020 30/22 Q1010 NOSIG USRR 300730Z 32007MPS 7000 BKN037 17/10 Q1002 R25/CLRD60 NOSIG RMK QFE746 DTTX 300700Z 23005KT 210V270 CAVOK 31/19 Q1011 NOSIG KGYY 300755Z AUTO 25004KT 10SM CLR 20/15 A3002 RMK AO2 T02010150 EKVG 300750Z AUTO 33004KT 290V010 9999NDV OVC023/// 08/03 Q1016 DTTZ 300700Z 09012KT CAVOK 33/16 Q1011 NOSIG KHRI 300753Z AUTO 00000KT 10SM CLR 18/05 A3003 RMK AO2 SLP164 T01780050 403560106 KHSA 300153Z 18005KT 7SM -RA FEW020 SCT040 BKN080 26/23 A3002 KHRJ 300735Z AUTO 00000KT 10SM CLR 24/22 A2997 RMK AO2 T02360218 EKVJ 300750Z 31008KT 9999 SCT014 16/12 Q1002 KHSB 300755Z AUTO 00000KT 10SM CLR 22/18 A3009 RMK AO2 T02150183 KHRL 300752Z 13003KT 7SM CLR 24/23 A3001 RMK AO2 SLP160 T02390233 KJAC 300755Z AUTO 01007KT 10SM CLR 06/03 A3045 RMK AO1 KHQU 300735Z AUTO 00000KT 10SM CLR 26/25 A3001 RMK AO1 T02580250 KIJD 300752Z AUTO 00000KT 6SM BR CLR 21/19 A2991 RMK AO2 SLP126 T02060189 KHSE 300751Z AUTO 18010KT 10SM CLR 27/24 A2994 RMK AO2 SLP139 T02670239 TSNO KHRO 300753Z AUTO 00000KT 10SM CLR 23/22 A3016 RMK AO2 SLP193 T02280217 ELLX 300750Z 24008KT 180V280 9999 SCT014 14/09 Q1016 NOSIG USSS 300730Z 29004MPS 260V330 9999 FEW035 BKN067 23/17 Q1011 R26L/010070 R26R/010060 NOSIG RMK QFE737 KHQZ 300755Z AUTO 00000KT 10SM CLR 26/18 A3004 RMK AO1 T02610175 WBKK 300730Z 30003KT 9999 TS FEW014 FEW016CB SCT040 BKN270 30/26 Q1008 TEMPO 7000 -TSRA KHSI 300753Z AUTO 00000KT 10SM CLR 16/12 A3023 RMK AO2 SLP224 T01610122 WBKL 300700Z 27002KT 9999 FEW010 FEW013CB SCT140 BKN290 29/25 Q1009 KL18 300755Z AUTO 00000KT 10SM CLR 19/17 A2999 RMK AO2 KHRT 300658Z AUTO 34006KT 10SM CLR 26/23 A2995 RMK AO2 SLP143 T02580233 $ UUBP 300730Z 17004MPS 9999 -SHRA BKN056CB 17/13 Q1010 R16/CLRD70 NOSIG RMK QFE740/0986 KJAN 300754Z AUTO 00000KT 10SM CLR 26/23 A3000 RMK AO2 SLP154 T02610228 KHRX 300735Z AUTO 10SM CLR 21/19 A3024 RMK AO2 LTG DSNT W THRU N T02100187 USTR 300730Z 27005MPS 230V300 9999 FEW043 23/11 Q1009 R30/CLRD65 NOSIG RMK QFE747/0996 KIIY 300735Z AUTO 00000KT 10SM CLR 26/26 A2998 RMK AO2 KHSP 300730Z AUTO 26007KT 10SM SCT085 BKN110 21/20 A3011 RMK AO2 T02110196 WBKS 300700Z 07008KT 9999 FEW016 FEW017CB BKN290 32/26 Q1008 WATT 300730Z 11018G28KT 9999 FEW020 30/18 Q1012 NOSIG WBKT 300700Z 03008KT 350V080 9999 SCT015 BKN280 31/26 Q1008 KJAS 300755Z AUTO 00000KT 10SM CLR 27/25 A3004 RMK AO2 T02710249 KHUA 300758Z AUTO 23003KT 10SM CLR 24/24 A2999 RMK AO2 RAB11E27 SLP150 P0000 T02420236 UUDD 300730Z 22004MPS 180V260 9999 FEW033 SCT200 22/15 Q1009 R88/010095 NOSIG KHST 300658Z AUTO 29003KT 10SM CLR 27/25 A3000 RMK AO2 SLP162 T02690248 KIKK 300735Z AUTO 27006KT 10SM CLR 18/16 A3005 RMK AO2 T01820164 UUBW 300730Z 24003MPS 210V290 CAVOK 23/12 Q1009 R30/////60 NOSIG WBKW 300700Z 16008KT 9999 FEW017 SCT140 BKN300 31/26 Q1008 KHTL 300753Z AUTO 26010KT 10SM CLR 21/14 A2987 RMK AO2 SLP109 T02060144 KJAU 300755Z AUTO 00000KT 10SM CLR 24/21 RMK KHSV 300753Z AUTO 00000KT 7SM CLR 26/23 A2999 RMK AO2 SLP148 T02560233 KILE 300755Z AUTO 21005KT 10SM CLR 27/19 A3005 RMK AO1 KHTO 292150Z 21010KT 10SM SKC 29/21 A2995 KHUF 300753Z 00000KT 10SM CLR 20/15 A3006 RMK AO2 SLP175 T02000150 KJAX 300756Z 25003KT 8SM FEW250 23/22 A2992 RMK AO2 SLP133 T02280222 KIJX 300735Z AUTO 27006KT 10SM CLR 19/17 A3012 RMK AO2 T01900168 KILG 300751Z 21004KT 10SM CLR 24/22 A2993 RMK AO2 SLP133 T02440222 $ KL35 300735Z AUTO 00000KT 10SM CLR 12/09 A3038 RMK AO2 KJBR 300753Z AUTO 02007KT 10SM CLR 26/23 A3005 RMK AO2 SLP172 T02610228 $ UUDL 300730Z 26004MPS 9999 FEW020 22/14 Q1007 R23/010095 NOSIG RMK QFE747 KHTS 300751Z 23003KT 9SM SCT055 24/22 A2995 RMK AO2 SLP132 T02390222 KL38 300735Z AUTO 00000KT 7SM CLR 26/26 A2999 RMK AO2 T02560256 KIKT 300755Z AUTO 27011G19KT 240V300 10SM FEW028 29/26 A2996 RMK A01 UUEE 300730Z 24005MPS CAVOK 21/13 Q1009 R25R/000062 R25L/000062 NOSIG KHUL 300753Z AUTO 00000KT 8SM FEW060 11/10 A2988 RMK AO2 SLP116 T01060100 KILM 300753Z AUTO 00000KT 10SM CLR 23/22 A2994 RMK AO2 SLP136 T02280217 KHUM 300755Z AUTO 31005KT 10SM SCT110 26/24 A2999 RMK AO2 T02550237 KJDD 300755Z AUTO 00000KT 10SM CLR 24/23 A3005 RMK AO2 KIKV 300735Z AUTO 27007KT 10SM CLR 19/16 A3012 RMK AO2 KIKW 300753Z AUTO 25003KT 10SM CLR 18/13 A2988 RMK AO2 T01820130 KILN 300754Z AUTO 34007KT 10SM OVC038 23/19 A2999 RMK AO2 SLP141 T02330189 KHVE 300755Z AUTO 00000KT 10SM CLR 21/M03 A3021 RMK AO2 FCPP 300700Z 21003KT 190V260 4000 BR SCT010 OVC020 21/20 Q1018 NOSIG KHUT 300752Z AUTO 09005KT 10SM BKN050 OVC070 22/19 A3018 RMK AO2 SLP199 T02220194 KJCT 300751Z AUTO VRB03KT 10SM CLR 27/19 A3010 RMK AO2 SLP150 T02720194 UTNN 300730Z 19009KT CAVOK 37/05 Q1009 R15/CLRD60 NOSIG KIML 300753Z AUTO 19007KT 10SM CLR 17/11 A3026 RMK AO2 SLP220 T01720111 EKYT 300750Z 29007KT 9999 FEW015 16/12 Q1000 KHWD 300754Z AUTO 33004KT 8SM CLR 16/14 A2997 RMK AO2 SLP157 T01610144 402940161 KIND 300754Z 29004KT 10SM BKN250 19/15 A3003 RMK AO2 SLP163 T01940150 KHVN 300753Z AUTO 22005KT 10SM CLR 25/22 A2991 RMK AO2 SLP129 T02500222 KJDN 300748Z AUTO 00000KT 12/09 A3014 RMK AO1 SLP199 T01220089 KJEF 300753Z AUTO 31003KT 10SM CLR 19/17 A3015 RMK AO2 SLP194 T01890172 TSNO KINF 300755Z AUTO 00000KT 4SM BR CLR 22/22 A2997 RMK AO2 ZYTL 300730Z 33004G09MPS 290V020 9999 SCT023 29/23 Q1004 NOSIG KHVR 300753Z AUTO 33006KT 10SM FEW120 13/10 A3017 RMK AO2 SLP207 T01330100 UTNU 300730Z 11004KT CAVOK 35/06 Q1009 R31/CLRD70 NOSIG KHVS 300755Z AUTO 00000KT 10SM BKN100 22/20 A2997 RMK AO2 KIMS 300754Z AUTO 31004KT 10SM CLR 21/16 A3005 RMK AO1 KINJ 300735Z AUTO 13004KT 10SM CLR 27/17 A3005 RMK AO2 T02720165 KINK 300753Z AUTO 13006KT 10SM CLR 28/11 A3011 RMK AO2 SLP140 T02780111 KIMT 300754Z AUTO 26007KT 10SM CLR 19/12 A2983 RMK AO2 SLP097 T01940117 KIOB 300735Z AUTO 00000KT 10SM BKN012 22/22 A3001 RMK AO2 KINL 300755Z AUTO 26006KT 10SM CLR 14/12 A2984 RMK AO2 SLP107 T01440122 KHXD 300755Z AUTO 26004KT 10SM CLR 27/26 A2994 RMK AO2 P0000 KHWO 300753Z AUTO 00000KT 10SM CLR 27/24 A3001 RMK AO2 SLP162 T02720239 TSNO KJER 300753Z AUTO 11005KT 10SM CLR 16/00 A3025 RMK AO2 SLP207 T01560000 KINS 300658Z AUTO 36004KT 10SM FEW150 29/04 A3005 RMK AO2 SLP120 T02850041 KHYA 300756Z 22007KT 5SM BR CLR 23/22 A2989 RMK AO2 SLP123 T02280217 KJES 300735Z AUTO 33003KT 10SM CLR 26/24 A2993 RMK AO2 KJFK 300751Z 21006KT 10SM SCT250 25/22 A2993 RMK AO2 SLP135 T02500222 KINT 300754Z AUTO 00000KT 6SM BR FEW045 24/23 A2999 RMK AO2 SLP142 T02440233 ZYTX 300730Z 04005MPS 9999 BKN030 24/22 Q1004 NOSIG ENAL 300750Z 02012KT 9000 RA FEW014 BKN022 10/09 Q1005 KHWV 300756Z AUTO 22006KT 10SM FEW008 25/23 A2993 RMK AO2 SLP135 T02500233 TSNO KINW 300756Z AUTO 02004KT 10SM CLR 21/15 A3027 RMK AO2 SLP167 T02060150 ENAN 300720Z 30005KT 4000 RADZ SCT001 BKN003 11/11 Q0998 TEMPO 0500 FG VV001 KJGG 300735Z AUTO 18004KT 10SM CLR 27/23 A2997 RMK AO1 KHWY 300735Z AUTO 00000KT 10SM CLR 24/23 A2992 RMK AO2 T02350230 KHYI 300755Z 22005KT 10SM CLR 26/22 A3007 RMK AO1 KIPJ 300735Z AUTO 00000KT 7SM OVC070 23/22 A2998 RMK AO2 T02260220 KIPL 300753Z AUTO 14003KT 10SM CLR 33/19 A2986 RMK AO2 SLP110 T03280189 403890283 ENAT 300750Z 33005KT 9999 SCT030 BKN074 14/11 Q1001 RMK WIND 700FT VRB05KT ENBL 300750Z 34010KT 9999 FEW/// SCT013 BKN020 12/09 Q1003 KIOW 300752Z AUTO 28005KT 10SM CLR 18/15 A3011 RMK AO2 SLP191 T01780150 KHZE 300755Z AUTO 00000KT 10SM FEW031 10/08 A3010 RMK AO2 KIPN 300755Z AUTO 27012KT 10SM CLR 29/25 A2997 RMK A01 ENBN 300750Z 33010KT 300V360 9999 -RA SCT006 BKN008 10/09 Q1001 KJFX 300755Z AUTO 00000KT 5SM BR CLR 23/23 A3000 RMK A02 P-128 ENBO 300750Z 24009KT 3500 -RADZ BR SCT002 BKN006 11/11 Q0998 TEMPO 9999 -RA BKN008 UTSA 300730Z 02017KT 9999 NSC 35/01 Q1007 R07/CLRD70 NOSIG KJFZ 300755Z AUTO 00000KT 4SM BR BKN027 21/21 A3008 RMK AO2 LTG DSNT NE T02080208 UTSB 300730Z 03021G31KT 4500 -DS NSC 35/04 Q1007 R01/CLRD70 NOSIG WBSB 300730Z 29006KT 9999 TS SCT015 FEW016CB BKN280 31/25 Q1009 NOSIG KHYR 300753Z AUTO 25003KT 10SM CLR 17/12 A2994 RMK AO2 SLP134 T01720122 ENBR 300750Z 33012KT 9999 FEW003 BKN006 12/11 Q1003 BECMG SCT006 BKN050 RMK WIND 1200FT 33021KT KHYS 300755Z AUTO 07004KT 10SM SCT055 19/13 A3023 RMK AO1 ENBS 300750Z 09029KT CAVOK 13/05 Q1006 KIPT 300754Z AUTO 00000KT 7SM CLR 22/20 A2988 RMK AO2 SLP112 T02220200 KHZL 300755Z AUTO 00000KT 7SM OVC008 23/22 A2999 RMK AO2 ENBV 300750Z 09017KT CAVOK 11/07 Q1007 KHYW 300755Z AUTO 00000KT 7SM BKN013 21/21 A2995 RMK AO2 KJHN 300755Z AUTO 09003KT 7SM SCT028 18/17 A3026 RMK AO2 T01830173 ENCN 300750Z 26003KT 200V310 9999 FEW025 18/13 Q1000 KHYX 300754Z AUTO 23005KT 10SM CLR 18/14 A2989 RMK AO2 UTSK 300730Z 33015KT CAVOK 35/05 Q1006 R34/CLRD70 KHZR 300735Z AUTO 00000KT 10SM CLR A3000 RMK AO2 KIRK 300755Z AUTO 28003KT 10SM CLR 17/16 A3017 RMK AO2 SLP213 T01720161 KJHW 300755Z AUTO 25007KT 6SM BKN012 OVC036 22/19 A2992 RMK AO1 LTG DSNT N TSB28E43 KHZX 300753Z AUTO 26006KT 10SM CLR 18/13 A2994 RMK AO2 KHZY 300753Z AUTO 29004KT 10SM CLR 21/17 A2993 RMK AO2 SLP125 T02110172 UTSS 300730Z 08013KT 050V120 9999 NSC 33/03 Q1009 R88/CLRD70 NOSIG UTST 300730Z 24006KT 200V290 CAVOK 37/12 Q1004 R88/CLRD70 NOSIG ENDR 300750Z AUTO 35016KT 10/08 KIRS 300755Z AUTO 27004KT 10SM CLR 18/15 A2998 RMK AO2 KJKA 300755Z AUTO 30003KT 10SM SCT095 25/24 A2995 RMK AO2 T02510235 FDMS 300600Z 29005KT CAVOK 15/06 Q1015 NOSIG KM19 300756Z AUTO 36007KT 10SM CLR 26/24 A3006 RMK AO2 T02550238 SLP176 ENFB 300750Z AUTO 34022KT 9999NDV BKN023/// 11/06 Q1009 W///S/ ENEK 300750Z 31035KT 9999 FEW015 BKN040 12/08 Q1008 W14/S5 KISM 300050Z 30005KT 10SM SKC 26/24 A2998 ENDU 300750Z 05003KT 9999 2000N -RA VCFG FEW005 SCT010 BKN040 15/14 Q0997 TEMPO RA BKN012 KISN 300752Z AUTO 36004KT 10SM CLR 16/11 A3013 RMK AO2 SLP196 T01560111 KISO 300735Z AUTO 00000KT 10SM CLR 22/21 A2996 RMK AO2 T02160208 FEFF 291400Z 22009KT 170V280 9999 FEW023 28/20 Q1013 NOSIG KM25 300755Z AUTO 35007KT 10SM BKN035 25/22 A3007 RMK AO2 PWINO KISP 300756Z AUTO 22007KT 10SM CLR 24/23 A2991 RMK AO2 SLP127 T02440228 LBBG 300730Z 13009KT CAVOK 28/23 Q1009 NOSIG ENFG 300720Z 04007KT 9999 FEW/// BKN044 14/07 Q1001 KITH 300756Z AUTO 18007KT 10SM FEW100 23/19 A2989 RMK AO2 T02330194 SLP111 KISQ 300754Z AUTO 27005KT 10SM CLR 20/13 A2978 RMK AO2 UTTT 300730Z 25007KT 200V310 CAVOK 34/04 Q1008 R26R/CLRD70 NOSIG KJKJ 300751Z AUTO 27007KT 10SM CLR 16/13 A2998 RMK AO2 KM30 300735Z AUTO 35004KT 10SM CLR 24/20 A3007 RMK AO2 T02350203 KJKL 300753Z AUTO 00000KT 10SM SCT019 22/20 A3002 RMK AO2 SLP146 T02220200 ENGC 300720Z 36029KT 9999 VCSH BKN018TCU 11/07 Q1008 W11/S5 ENFL 300750Z 35014KT 9999 FEW007 SCT020 BKN065 13/08 Q1004 ENEV 300750Z 02006KT 9999 -SHRA FEW005 SCT009 BKN014 13/12 Q0997 RMK WIND 1400FT 02017G28KT KISW 300754Z AUTO 26006KT 10SM CLR 18/12 A2998 RMK AO2 SLP147 T01780117 KITR 300753Z AUTO 16008KT 10SM CLR 16/13 A3031 RMK AO2 SLP220 T01560128 KM40 300755Z AUTO 00000KT 3SM BR CLR 25/25 A3001 RMK AO2 UUMO 300730Z 24003MPS CAVOK 21/12 Q1009 R26/090060 NOSIG RMK QFE741/0989 KJLN 300753Z AUTO 06005KT 10SM BKN120 24/20 A3015 RMK AO2 SLP196 T02390200 ENHD 300750Z 33019KT 9999 BKN009 12/11 Q1003 ENGM 300750Z 35008KT 320V020 9999 FEW018 BKN026 15/10 Q0999 NOSIG ENHE 300750Z 35018KT 9999 BKN025 09/05 Q1005 W///S4 ENHF 300750Z 05014KT CAVOK 17/09 Q1002 RMK WIND 1254FT 10020KT UUOB 300730Z 18003MPS 9999 -SHRA BKN046CB 21/15 Q1013 R11/090060 NOSIG KIWA 300735Z AUTO 18003KT 10SM CLR 28/16 A3001 RMK AO2 ENHK 300450Z 12012KT 9999 -VCSH BKN030 13/11 Q1001 KIWD 300755Z AUTO 25013KT 10SM CLR 18/12 A2984 RMK AO1